ENHM 240750Z 25017KT 9999 -SHRA FEW035 OVC044 06/06 Q0997 W07/S3 KM54 240755Z AUTO 00000KT 1SM BR BKN010 OVC019 12/12 A2987 RMK A01 UUOK 240800Z 21003MPS 180V310 CAVOK 11/M04 Q1015 R12/CLRD65 NOSIG RMK QFE743/0991 KIWI 240753Z AUTO 00000KT 10SM CLR 01/M01 A3038 RMK AO2 SLP287 T00061011 KJMR 240757Z AUTO 00000KT 10SM CLR 02/00 A3014 RMK AO2 PPIT 240756Z AUTO 11016KT 10SM FEW027 BKN035 OVC070 02/00 A2918 RMK AO2 RAE14 SLP881 P0000 T00220000 FZRANO TSNO KJMS 240756Z AUTO 36014KT 10SM FEW050 OVC060 06/01 A3026 RMK AO2 RAB10E54 SLP253 P0000 T00610011 KIXA 240800Z AUTO 07006KT 10SM DZ BKN050 OVC070 14/10 A3016 RMK AO2 UUOO 240800Z 27005G10MPS 230V300 9999 FEW033 10/M08 Q1015 R30/090070 NOSIG RMK QFE748 KIXD 240753Z AUTO 31003KT 10SM CLR 11/02 A3007 RMK AO2 SLP177 T01060017 ENHV 240750Z 29007KT 9999 BKN018 04/01 Q0992 PPIZ 240713Z AUTO 06027G32KT 1/4SM -SN FZFG OVC005 M17/M18 A2972 RMK AO2 PK WND 06032/0713 P0000 FZRANO TSNO KIYA 240755Z AUTO 00000KT 10SM CLR 13/13 A3000 RMK AO2 T01310131 FDSK 240800Z 02005KT CAVOK 25/18 Q1017 NOSIG ENKB 240750Z 23009KT 190V250 9999 FEW012 SCT044 BKN061 08/03 Q0991 RMK WIND 745FT 22015KT KJNX 240805Z AUTO 06003KT 7SM RA OVC020 13/13 A3009 RMK AO2 P0001 KM75 240755Z AUTO 27004KT 10SM CLR 00/M01 A3044 RMK A01 VLPS 240800Z 14004KT 6000 SCT020 37/24 Q1007 NOSIG KIZA 240755Z AUTO 00000KT 1/4SM FG OVC001 08/08 A3001 RMK AO2 ENLA 240750Z AUTO 27033KT 9999NDV BKN026/// BKN046/// 08/05 Q1001 W///S4 KJOT 240755Z AUTO 02004KT 10SM BKN023 OVC032 10/08 A3006 RMK AO2 T01040080 FDST 240700Z AUTO 08007G18KT //// // ////// 21/17 Q1018 KJQF 240250Z 07007KT 5SM BR BKN009 OVC013 13/12 A3013 ENLE 240750Z 25032KT 9999 FEW030 SCT050 07/05 Q1003 W07/S4 LBGO 240800Z AUTO 11004KT 080V160 9999 NCD 22/12 Q1015 NOSIG KIZG 240754Z AUTO 00000KT 10SM CLR M01/M03 A3034 RMK AO2 SLP277 T10061028 ENKR 240750Z 19017KT 9999 VCSH FEW009 SCT025 BKN040 04/01 Q0995 RMK WIND 731FT 19026KT LBIA 240800Z 30004KT 9999 FEW200 21/11 Q1017 KJRB 240756Z AUTO 04003KT 10SM 09/04 RMK AO2 SLPNO T00940044 $ KM91 231955Z AUTO 25004KT 10SM FEW042 18/15 A2990 RMK A01 ENLK 240750Z 16009KT 140V190 9999 VCSH SCT006 SCT009 BKN012 06/04 Q0990 KN03 240755Z AUTO 18005KT 10SM CLR 10/00 A3029 RMK AO2 VLSK 240800Z 09002KT 8000 SCT020 BKN100 38/22 Q1006 NOSIG ENMH 240750Z 17005KT 9999 BKN027 02/00 Q0992 KLAA 240753Z AUTO 06011KT 10SM FEW110 11/06 A3002 RMK AO2 RAB26E35 SLP134 P0000 T01060056 TSNO FDUS 240700Z AUTO 27001KT //// // ////// 20/12 Q0991 ENNA 240750Z 18015KT 9999 BKN032 06/00 Q0992 RMK WIND 1800FT 24010KT ENML 240750Z 26012KT 9999 FEW022 BKN052 09/03 Q0992 ENNE 240750Z 19020KT 9999 VCSH FEW010 07/05 Q0986 W///S4 KLAF 240754Z AUTO 05007KT 10SM BKN019 OVC037 11/09 A3001 RMK AO2 SLP161 T01060094 ENOA 240750Z 24018KT 9999 VCSH SCT010 BKN044 07/05 Q0995 W///S4 KLBB 240753Z 15008KT 10SM FEW260 13/03 A3004 RMK AO2 SLP140 T01280033 ENMS 240750Z 14005KT 9999 -RA FEW007 SCT020 BKN024 04/02 Q0991 RMK WIND 412FT VRB03KT PPNU 240755Z AUTO 06012KT 7SM FEW005 OVC014 M18/M19 A2986 RMK AO1 KLAL 240755Z AUTO 24004KT 7SM OVC004 22/22 A2995 RMK AO2 KJTC 240755Z AUTO 09006KT 10SM CLR 10/M11 A3024 RMK AO2 KLAM 240755Z AUTO 00000KT 10SM CLR 15/M11 A3017 RMK AO2 T01501115 KLAN 240753Z 17005KT 10SM OVC037 13/08 A3012 RMK AO2 SLP198 T01280083 ENNM 240750Z 05011KT 9999 -SHRA SCT005 SCT020 BKN027 04/04 Q0992 KLBE 240755Z AUTO 13004KT 10SM BKN085 11/04 A3021 RMK AO2 KJSO 240755Z AUTO 00000KT 10SM CLR 13/11 A3004 RMK AO2 T01300116 KLBF 240753Z AUTO 01006KT 10SM OVC065 12/08 A3017 RMK AO2 SLP203 T01170078 ENNO 240750Z 28003KT 9999 SCT035 BKN065 04/02 Q0998 LATI 240750Z VRB02KT CAVOK 21/14 Q1018 NOSIG KLAR 240753Z AUTO 36011KT 10SM OVC017 M01/M03 A3031 RMK AO2 SNE03 SLP205 P0000 T10111033 VMMC 240800Z 18004KT 150V210 9999 FEW015 SCT030 25/23 Q1008 NOSIG KLAS 240756Z 18007KT 10SM BKN250 24/M05 A2990 RMK AO2 SLP100 T02391050 403440200 KJST 240754Z AUTO 14009G16KT 10SM BKN075 OVC090 07/03 A3024 RMK AO2 RAE45 SLP240 P0002 T00670033 KLBL 240756Z AUTO 14009KT 10SM CLR 10/06 A3007 RMK AO2 SLP167 T01000061 ENOL 240720Z 16009KT 9999 FEW012 BKN050 07/05 Q0991 NOSIG KJSV 240755Z AUTO 00000KT 10SM CLR 09/06 A3002 RMK AO2 KLAW 240753Z AUTO 00000KT 10SM CLR 10/10 A3005 RMK AO2 SLP171 T01000100 KLAX 240753Z 24003KT 2 1/2SM BR FEW003 OVC005 13/12 A3002 RMK AO2 SLP164 T01280117 402000122 KLBO 240755Z AUTO 36003KT 10SM CLR 12/10 A3001 RMK AO2 KLCG 240755Z AUTO 00000KT 10SM OVC095 08/07 A3015 RMK AO2 T00810072 KLCH 240753Z 22003KT 10SM CLR 13/12 A3000 RMK AO2 SLP168 T01330122 $ KLCI 240756Z AUTO 26004KT 10SM CLR 06/M04 A3036 RMK AO2 SLP301 T00561039 KN38 240755Z AUTO 18009KT 10SM SCT036 09/03 A3028 RMK AO2 ENQA 240750Z AUTO 25021KT 9999NDV SCT010/// BKN028/// OVC056/// 07/05 Q0996 W05/S4 KLBT 240754Z AUTO 10010KT 8SM -RA OVC010 16/16 A2997 RMK AO2 CIG 007V015 SLP148 P0021 T01610156 KLCK 240755Z AUTO 08007KT 10SM -DZ BKN090 OVC110 11/09 A3005 RMK AO2 T01080094 ENQC 240750Z AUTO 22020KT 9999NDV FEW011/// BKN041/// 09/05 Q0995 W///S4 ENOV 240750Z VRB03KT 9999 -SHRA FEW017 SCT024 BKN028 06/04 Q0993 RMK WIND 2175FT 19015KT KLBX 240753Z AUTO 00000KT 10SM CLR 15/13 A3003 RMK AO2 SLP168 T01500133 KLCQ 240755Z AUTO 26008KT 10SM CLR 17/16 A2992 RMK AO2 VLVT 240800Z 14004KT 7000 SCT020 37/23 Q1004 NOSIG KLDJ 240755Z AUTO 00000KT 10SM CLR 07/04 A3041 RMK AO2 T00710041 KKLS 240756Z AUTO 00000KT 10SM CLR 09/03 A3019 RMK AO2 SLP227 T00940033 402560022 KLEB 240753Z AUTO 04003KT 10SM CLR 01/M04 A3035 RMK AO2 SLP277 T00061044 ENRA 240650Z 36004KT 9999 -RA FEW002 BKN030 03/02 Q0991 KJVL 240755Z AUTO 00000KT 10SM CLR 07/01 A3008 RMK AO2 KLDM 240755Z AUTO 00000KT 10SM CLR 06/03 A3009 RMK AO2 T00630029 KLEE 240753Z AUTO 26005KT 9SM BKN015 22/22 A2994 RMK AO2 SLP136 T02220217 KJWG 240755Z AUTO 00000KT 10SM CLR 10/10 A3007 RMK AO2 T00950095 ENQR 240750Z AUTO 26024KT 9999NDV FEW021/// 07/04 Q0992 W///S5 KN60 240752Z AUTO 36007KT 03/M01 A3037 RMK AO1 SLP295 T00281006 UUWW 240800Z 21003MPS 160V260 CAVOK 08/M09 Q1013 R24/000070 NOSIG ENSB 240750Z 14013KT 9999 DRSN FEW025 M10/M16 Q1006 NOSIG RMK WIND 1400FT 13017KT UWGG 240800Z 33005MPS 290V010 9999 FEW033 04/M06 Q1011 R36L/090060 NOSIG ENSD 240750Z VRB02KT 9999 -RA FEW010 SCT027 BKN032 06/05 Q0994 RMK WIND 1138FT 19003KT ENRM 240650Z 20014KT 9999 -RA FEW006 SCT012 BKN015 06/06 Q0991 KJVW 240755Z AUTO 25004KT 9SM BKN042 BKN049 OVC075 15/14 A2994 RMK AO2 KJWN 240755Z AUTO 00000KT 10SM OVC014 14/13 A2987 RMK A01 LCEN 240750Z 11006KT CAVOK 24/11 Q1015 NOSIG ENSE 240750Z AUTO 27023KT 9999NDV FEW019/// BKN032/// 07/04 Q0993 W///S5 ENSF 240750Z AUTO 26024KT 9999NDV BKN026/// 08/03 Q0994 W///S5 ENRO 240750Z 21008KT 180V260 CAVOK 06/M00 Q0992 ENSG 240750Z 25005KT 9999 -RA FEW013 BKN024 04/02 Q0994 RMK WIND 3806FT 21013KT KLFI 240756Z 11011KT 10SM FEW043 SCT140 13/10 A3025 RMK AO2 SLP250 T01310099 ENSH 240750Z 24003KT 200V260 9999 -RA FEW014 BKN020 05/03 Q0991 RMK WIND 150FT 15004KT KJXI 240755Z AUTO 26003KT 10SM CLR 13/11 A3001 RMK AO2 LTG DSNT N AND NE T01310113 KLGA 240751Z 13004KT 10SM CLR 09/06 A3040 RMK AO2 SLP294 T00890056 KLFK 240753Z AUTO 00000KT 10SM CLR 11/11 A3002 RMK AO2 SLP162 T01110106 KLGB 240753Z 00000KT 8SM CLR 14/11 A3002 RMK AO2 SLP165 T01390106 402390139 ENRS 240750Z 17012KT 9999 -SHRA FEW005 BKN010 06/05 Q0990 ENSK 240750Z 16003KT 140V200 9999 -SHRA FEW015 SCT025 BKN036 06/04 Q0990 KLGC 240755Z AUTO 27003KT 10SM BKN026 BKN038 BKN043 15/14 A2986 RMK AO2 T01450142 ENSL 240750Z 29026KT 8000 -DZ FEW004 BKN026 07/06 Q0999 W///S3 ENTC 240750Z 00000KT 9999 -SHRA BKN030 04/02 Q0992 NOSIG RMK WIND 2600FT 17015KT KLGD 240756Z AUTO 32007KT 270V340 10SM CLR 06/M01 A3033 RMK AO2 SLP399 T00611011 401720011 LBPD 240800Z AUTO VRB02KT 9999 NCD 21/10 Q1017 NOSIG KLEW 240756Z AUTO 00000KT 10SM CLR M01/M04 A3035 RMK AO2 SLP295 T10061044 FZRANO KJXN 240756Z AUTO 06005KT 10SM BKN047 BKN055 OVC100 12/08 A3010 RMK AO2 SLP192 T01220083 KLGF 232200Z AUTO 23009KT 10SM SKC 34/M03 A2986 KLEX 240754Z 07010KT 10SM -RA FEW060 SCT075 OVC085 12/09 A2994 RMK AO2 SLP135 P0005 T01170094 ENSO 240750Z 20004KT 160V230 2500 RADZ BR SCT002 BKN005 06/06 Q0997 KJWY 240755Z AUTO 00000KT 10SM CLR 13/12 A3004 RMK AO2 T01320124 KJYG 240755Z AUTO 00000KT 10SM OVC110 07/04 A3015 RMK AO2 LBPG 240800Z 18002KT 9999 FEW200 21/10 Q1016 ENRY 240750Z AUTO 19012KT 9999NDV -DZ OVC004/// 07/05 Q0999 REUP ENSR 240750Z 12006KT 9999 FEW040 BKN045 06/01 Q0992 WIND 1119FT 12006KT ENSS 240750Z 19019KT 9999 FEW010 02/01 Q0995 RMK WIND 500FT 21029KT KLFT 240753Z AUTO 00000KT 10SM CLR 15/13 A3000 RMK AO2 SLP157 T01500133 KLHB 240755Z AUTO 00000KT 10SM CLR 13/13 A3007 RMK AO2 T01310131 ENST 240750Z 16011KT 130V190 9999 -RADZ FEW009 SCT018 BKN022 06/03 Q0990 RMK WIND 300FT 16014KT KJYL 240758Z AUTO 00000KT 7SM SCT014 BKN023 BKN038 20/20 A2986 RMK AO2 LBPL 240800Z 18004KT 9999 FEW200 23/12 Q1015 KJYM 240755Z AUTO 12007KT 10SM BKN030 BKN035 OVC100 11/07 A3009 RMK AO2 UUYY 240800Z 01005MPS 4500 FU NSC 03/M11 Q1008 R36/CLRD61 NOSIG RMK QFE747/0996 EPCE 240800Z 26012KT 9999 BKN026 10/04 Q1012 RMK 098 068 7/7 = KJYO 240755Z AUTO 11005KT 10SM BKN049 OVC120 13/03 A3031 RMK AO2 ENTO 240750Z 22010KT 9999 -DZ SCT009 BKN013 07/07 Q0999 ENUG 240750Z AUTO 05011KT 9999NDV BKN016/// BKN100/// 05/00 Q0992 W///S3 KJZI 240755Z AUTO 19005KT 4SM BR OVC007 20/20 A2987 RMK AO2 KJYR 240755Z AUTO 00000KT 10SM 10/02 A3013 RMK AO2 EPDA 240800Z 22008KT 180V260 9999 BKN046 BKN138 11/04 Q1012 RMK 112 063 7/5 = ENVA 240750Z 10006KT 9999 FEW035 BKN110 07/05 Q0992 NOSIG RMK WIND 670FT 14005KT FGBT 240700Z 00000KT 9999 FEW010 26/26 Q1013 KLGU 240751Z AUTO 15003KT 10SM CLR 05/01 A3028 RMK AO2 SLP236 T00500006 KLIC 240755Z AUTO 35023G36KT 10SM OVC010 02/02 A3025 RMK AO2 PK WND 36042/0710 LTG DSNT NE RAE11SNB11E26 CIG 006V015 SLP209 P0006 T00220017 KLHM 240755Z AUTO 00000KT 10SM CLR 15/11 A2993 RMK AO1 ENVD 240750Z 20016KT 9999 SCT015 BKN030 03/03 Q0994 EPDE 240800Z 28010KT CAVOK 14/06 Q1015 RMK 142 059 6/4= KJZP 240755Z AUTO 28003KT 3SM BKN007 OVC015 A2988 RMK AO2 PWINO PNO KLHQ 240753Z AUTO 12006KT 10SM BKN095 OVC120 11/09 A3007 RMK AO2 RAB07E17 SLP182 P0000 T01110089 EPBY 240800Z 24009KT 210V270 CAVOK 13/08 Q1014 UWKD 240800Z 32005G10MPS 9999 -SNRA OVC020 01/M02 Q1006 R29/2/0060 NOSIG RMK QFE743/0991 UWKE 240800Z 27004MPS 9999 SHSN BKN017CB 00/M03 Q1003 R21/210355 NOSIG RMK QFE735/0980 KMAE 240753Z AUTO 32005KT 10SM CLR 17/09 A2995 RMK AO2 SLP141 T01670094 403220117 KLHW 240756Z AUTO 22005KT 10SM FEW009 19/18 A2985 RMK AO2 SLP111 T01910181 $ VOBG 240800Z 16006KT 9999 SCT015 32/18 Q1013 KLHX 240753Z AUTO 01015KT 10SM SCT110 13/06 A3005 RMK AO2 PK WND 36035/0711 SLP133 T01280061 KMAF 240753Z AUTO 15006KT 10SM CLR 17/04 A3002 RMK AO2 SLP126 T01670039 KLJF 240755Z AUTO 30004KT 10SM CLR 07/04 A3014 RMK AO2 LBSF 240800Z VRB03KT CAVOK 19/07 Q1018 NOSIG DXNG 240700Z 21010KT CAVOK 26/21 Q1015 NOSIG KLHZ 240755Z AUTO 06005KT 7SM -RA SCT025 BKN042 OVC048 11/11 A3014 RMK AO2 P0004 VOCB 240800Z VRB03KT 8000 FEW015 37/19 Q1010 NOSIG KMAI 240753Z AUTO 27004KT 10SM OVC050 16/12 A2992 RMK AO2 SLP130 T01560122 VOAT 240630Z 34006KT 6000 SCT015 32/27 Q1011 NOSIG ENVR 240650Z 18010KT 9999 SCT006 OVC024 05/04 Q0990 VOBL 240800Z 28011KT 4000 TSRA FEW015 SCT020 FEW025CB 28/20 Q1013 NOSIG KLIT 240753Z 33004KT 10SM CLR 12/12 A2997 RMK SLP149 T01170117 VOBM 240800Z 05008KT CAVOK 36/09 Q1014 KO22 240735Z AUTO 00000KT 10SM CLR 12/09 A3004 RMK AO1 KMAN 240755Z AUTO 14007KT 10SM SCT055 SCT065 05/M01 A3028 RMK A01 KMAO 240755Z AUTO 12011G23KT 090V150 7SM RA BKN010 OVC016 16/16 A2994 RMK AO2 P0013 KMBG 240752Z AUTO 02019G28KT 6SM RA SCT040 OVC048 07/04 A3019 RMK AO2 PK WND 02028/0750 SLP225 P0017 T00720044 VOCI 240800Z 25009KT 5000 HZ SCT015 SCT020 33/26 Q1007 NOSIG UWKS 240800Z 31005MPS 270V350 9999 FEW020 03/M07 Q1007 R06/010060 NOSIG RMK QFE740 VNKT 240750Z 21010KT 6000 FEW020 28/07 Q1015 NOSIG VOCL 240800Z 30010KT 7000 FEW015 SCT020 34/24 Q1008 NOSIG KMCB 240753Z AUTO 29003KT 10SM CLR 13/12 A2997 RMK AO2 SLP144 T01330117 KMBL 240756Z AUTO 10004KT 10SM CLR 06/M01 A3010 RMK AO2 SLP216 T00561006 KMCC 240755Z AUTO 15007KT 8SM CLR 14/12 A2996 RMK AO2 KMCD 240755Z AUTO 00000KT 10SM CLR 03/M01 A3012 RMK AO2 T00251010 KO32 240755Z AUTO 26003KT 10SM CLR 16/13 A2994 RMK AO2 VOCP 240800Z VRB02KT 6000 FEW020 FEE025CB 40/25 Q1005 ENWV 240750Z AUTO 26031KT 9999NDV NCD 08/05 Q1004 W///S4 KMAW 240755Z AUTO 34004KT 5SM BR CLR 13/12 A2993 RMK AO2 KMCE 240753Z AUTO 27004KT 10SM CLR 17/07 A2994 RMK AO2 SLP137 T01670072 403060106 EPGD 240800Z 26010KT 9999 FEW026 10/05 Q1011 VOBZ 240800Z 18006KT 6000 SCT020 38/22 Q1006 NOSIG KMBO 240755Z AUTO 25005KT 10SM SCT037 BKN044 OVC050 15/12 A2993 RMK AO2 PWINO KMCF 240756Z AUTO 28006KT 10SM FEW012 SCT023 23/21 A2994 RMK AO2 SLP142 T02260207 FZRANO $ KMCI 240753Z 36005KT 10SM FEW200 11/M01 A3007 RMK AO2 SLP176 T01111006 KLKR 240755Z AUTO 08010G18KT 10SM 15/15 A2994 RMK AO2 KMCJ 240755Z AUTO 00000KT 10SM CLR 19/12 A3003 RMK A01 KMBS 240753Z AUTO 19004KT 10SM OVC080 08/06 A3014 RMK AO2 SLP207 T00830056 KLLJ 240755Z AUTO 32005KT 10SM CLR 03/M04 A3038 RMK AO2 SLP276 T00331044 LCLK 240800Z 10005KT 050V130 CAVOK 23/14 Q1015 NOSIG KMCK 240753Z AUTO 33004KT 10SM BKN090 10/06 A3014 RMK AO2 SLP198 T01000056 KMBT 240755Z AUTO 00000KT 10SM BKN009 OVC013 13/13 A2986 RMK A01 UWLW 240800Z 30010MPS 8000 BKN040 03/M06 Q1008 R02/CLRD60 NOSIG RMK QFE749 KLKU 240755Z AUTO 07004KT 10SM -RA BKN100 OVC120 11/06 A3030 RMK AO2 T01130055 KLKV 240753Z AUTO 27006KT 10SM CLR 03/M08 A3023 RMK AO2 SLP698 T00281078 401830006 KMDD 240755Z AUTO 16005KT 10SM 19/04 A3003 RMK AO2 T01900038 KMCN 240753Z AUTO 26005KT 10SM CLR 15/14 A2984 RMK AO2 SLP101 T01500139 KMCO 240753Z 24004KT 10SM SCT006 SCT020 BKN220 22/21 A2993 RMK AO2 SLP132 T02170211 KMBY 240815Z AUTO 01003KT 10SM CLR 09/00 A3004 RMK AO2 KMDH 240752Z AUTO 02004KT 10SM OVC008 14/13 A2993 RMK AO2 SLP135 T01390128 KLLQ 240753Z AUTO 00000KT 6SM BR CLR 12/11 A2996 RMK AO2 SLP143 T01170106 KLNA 240755Z AUTO 25003KT 23/22 A2995 RMK AO2 LTG DSNT NE T02330222 PWINO KMDJ 240755Z AUTO 28018KT 10SM SCT038 OVC050 21/16 A3000 RMK A01 KMEB 240805Z AUTO 10012KT 4SM RA BR FEW007 BKN011 OVC027 16/16 A2998 RMK AO2 P0004 T01610156 LBWB 240800Z 19006KT 9999 FEW200 18/11 Q1015 KLNC 240755Z AUTO 00000KT 10SM CLR 13/11 A3004 RMK AO2 T01320114 KLND 240753Z AUTO 15007KT 10SM FEW026 OVC034 00/M03 A3041 RMK AO2 SLP307 T00001033 KMCW 240753Z AUTO 33003KT 10SM CLR 06/03 A3013 RMK AO2 SLP201 T00560033 KMCX 240815Z AUTO 05005KT 10SM BKN020 BKN043 OVC110 10/10 A3002 RMK AO2 T01020095 KO54 240755Z AUTO 02003KT 10SM CLR 08/02 A3005 RMK AO1 KLMO 240755Z AUTO 14005KT 10SM UP SCT018 BKN024 OVC033 05/01 A3034 RMK AO2 P0001 T00470013 KMEH 240756Z AUTO 00000KT 10SM CLR M02/M05 A3033 RMK AO2 SLP285 T10221050 401221061 KMDQ 240755Z AUTO 22003KT 5SM OVC006 14/14 A2987 RMK A01 T01420139 KMEI 240758Z AUTO 22004KT 10SM OVC026 14/12 A2993 RMK AO2 SLP134 T01440117 KKY8 240755Z AUTO 02003KT 10SM OVC016 13/13 A2992 RMK A01 KMDS 240755Z AUTO 16004KT 10SM OVC085 10/08 A3015 RMK AO2 KLMT 240753Z AUTO 08008KT 10SM CLR 09/M08 A3018 RMK AO2 SLP200 T00891078 402000006 $ KLNK 240754Z AUTO 34004KT 10SM CLR 07/01 A3014 RMK AO2 SLP205 T00670011 KMDT 240756Z 12007KT 10SM SCT200 OVC240 08/02 A3033 RMK AO2 SLP271 T00830017 KLNL 240755Z AUTO 00000KT 10SM CLR M02/M04 A3013 RMK AO2 T10161040 LDDU 240800Z VRB04KT 9999 FEW010 19/15 Q1019 NOSIG UWOO 240800Z 29009MPS 9999 OVC027CB 02/M03 Q1008 R26/190057 NOSIG RMK QFE745/0994 KMFD 240752Z AUTO 10009KT 10SM OVC080 12/06 A3010 RMK AO2 SLP189 T01220061 KMEM 240754Z 31005KT 4SM BR SCT007 BKN016 12/12 A2993 RMK AO2 SLP132 T01220122 $ KMDW 240803Z 02004KT 10SM -DZ SCT009 OVC018 11/02 A3006 RMK AO2 P0000 T01110022 KMFE 240753Z AUTO 15004KT 10SM BKN060 21/18 A3002 RMK AO2 SLP163 T02060178 ENZV 240750Z 17006KT 9999 -RA SCT006 BKN008 08/07 Q0997 TEMPO 3000 RADZ BR BKN004 KLNN 240755Z AUTO 10004KT 10SM OVC075 11/06 A3016 RMK AO1 T01110061 LBWN 240800Z VRB02KT CAVOK 22/11 Q1015 BECMG 13012KT UWOR 240800Z 28004MPS 7000 -SHSN OVC019CB 02/M01 Q1007 R25/190060 NOSIG RMK QFE732/0976 KLNP 240755Z AUTO 12005G16KT 10SM SCT120 11/07 A2997 RMK AO2 KMDZ 240755Z AUTO 00000KT 10SM CLR 01/M01 A3012 RMK AO2 T00101011 KMER 232245Z 33008KT 10SM FEW100 32/11 A2992 KMFI 240754Z AUTO 31004KT 10SM CLR 04/M02 A3010 RMK AO2 SLP199 T00441022 TSNO KLNR 240756Z AUTO 00000KT 10SM CLR 01/M01 A3011 RMK AO2 SLP194 T00111006 EPIR 240800Z 18010KT 9999 FEW040 BKN200 14/07 Q1014 RMK 143 063 6/2 = KLNS 240753Z AUTO 09005KT 10SM CLR 04/01 A3034 RMK AO2 SLP275 T00440006 KO69 240755Z AUTO VRB05KT 5SM BR OVC007 11/11 A3002 RMK A01 DXSK 240600Z 00000KT CAVOK 25/24 Q//// KLOL 240753Z AUTO 00000KT 10SM CLR 05/M08 A3018 RMK AO2 SLP208 T00501078 402220050 KLPC 240756Z AUTO 00000KT 3SM BR 10/09 A3002 RMK AO2 SLP170 T01000094 401780094 KMGC 240755Z AUTO 00000KT 10SM OVC100 11/09 A3007 RMK AO2 VOGO 240430Z 05005KT 6000 P/CLOUDY SCT018 FEW100 29/24 Q1011 KLOM 240755Z AUTO 00000KT 10SM CLR 02/M01 A3039 RMK AO1 KMEV 240755Z AUTO 13004KT 10SM CLR 01/M05 A3020 RMK AO2 KMGE 240756Z AUTO 00000KT 10SM OVC007 15/14 A2983 RMK AO2 OVC V BKN CIG 006 RWY29 SLP098 T01500144 $ KMGG 240755Z AUTO 00000KT 10SM CLR 04/03 A3013 RMK AO2 T00430033 LCPH 240800Z 16011KT 9999 FEW040 23/15 Q1015 KMEZ 240755Z AUTO 27003KT 10SM CLR 10/09 A3001 RMK AO2 KMFR 240753Z AUTO 00000KT 9SM CLR 10/02 A3005 RMK AO2 SLP173 T01000022 402780033 KLOR 240758Z AUTO 00000KT 10SM CLR 13/11 A2991 RMK AO2 SLP110 T01320112 KMGJ 240754Z AUTO 00000KT 10SM CLR 02/M01 A3037 RMK AO2 SLP287 T00171011 KLOT 240755Z AUTO 04003KT 10SM -RA BKN009 BKN027 OVC050 10/08 A3006 RMK AO2 T00960075 KLOU 240753Z AUTO 03005KT 8SM -RA SCT010 BKN030 OVC041 12/12 A2993 RMK AO2 SLP134 P0003 T01220122 EPKK 240800Z 22009KT 7000 FEW016 15/12 Q1016 EPLB 240800Z 32007KT 9999 FEW030 16/08 Q1014 KMGM 240753Z AUTO 24006KT 10SM CLR 13/12 A2991 RMK AO2 SLP127 T01280122 KMFV 240755Z AUTO 10006G15KT 10SM OVC050 13/08 A3029 RMK AO2 T01290077 KMHE 240753Z AUTO 16005KT 10SM SCT085 SCT120 11/06 A3013 RMK AO2 SLP202 T01110061 KMGN 240755Z AUTO 06005KT 10SM CLR 02/00 A3012 RMK AO2 T00211005 KLOZ 240753Z AUTO 01006KT 10SM -RA OVC050 12/11 A2992 RMK AO2 RAE12B46 SLP128 P0001 T01170111 VOHS 240800Z VRB04KT 6000 SCT020 SCT025 39/14 Q1010 NOSIG KLPR 240753Z AUTO 07010KT 10SM OVC060 12/05 A3013 RMK AO2 SLP201 T01170050 KMGR 240755Z AUTO 25005KT 10SM CLR 15/13 A2992 RMK AO2 KMIA 240753Z 00000KT 10SM FEW012 23/23 A2996 RMK AO2 SLP145 T02280228 $ LCRA 240750Z 09011KT 9999 FEW050 23/13 Q1015 NOSIG EPKS 240800Z 25010KT 9999 SCT050 BKN200 15/08 Q1014 RMK 145 065 6/3= KMIB 240656Z 34009KT 10SM CLR 02/M03 A3035 RMK AO2 SLP295 T00161035 KMHK 240752Z AUTO 00000KT 10SM CLR 06/03 A3009 RMK AO2 SLP189 T00560028 KLQK 240755Z AUTO 07005KT 5SM BR OVC005 13/13 A2989 RMK AO2 T01310131 EPLK 240800Z 19008KT 9999 FEW013 SCT045 SCT200 13/10 Q1015 RMK 134 078 4/2= KMIC 240753Z 00000KT 10SM CLR 07/03 A3012 RMK AO2 SLP201 T00670028 KMHL 240815Z AUTO 00000KT 10SM CLR 13/01 A3004 RMK AO2 EPKT 240800Z 29010KT 260V320 9999 FEW039 16/06 Q1016 KLRD 240756Z AUTO 16007KT 10SM CLR 21/14 A3001 RMK AO2 SLP162 T02110144 EPLL 240800Z 22006KT 180V250 9999 SCT044 14/08 Q1015 VOHY 240800Z 30004KT 6000 NSC 39/15 Q1010 NOSIG KMGW 240753Z AUTO VRB06KT 10SM -RA OVC080 12/05 A3018 RMK AO2 RAB20E30B51 SLP216 P0000 T01170050 KMIE 240753Z AUTO 09006KT 10SM OVC039 11/09 A3002 RMK AO2 RAB39E49 SLP160 P0000 T01110094 KLRF 240756Z AUTO 00000KT 10SM CLR 10/10 A2996 RMK AO2 SLP148 T01020102 KMGY 240753Z AUTO 09006KT 10SM -RA OVC055 11/09 A3000 RMK AO2 RAB07 SLP160 P0003 T01110089 KMHR 240550Z 11006KT 10SM SKC 16/12 A2993 EPMI 240800Z 27008KT 9999 SCT040 BKN200 12/05 Q1013 RMK 121 061 6/4= KLRJ 240755Z AUTO 36003KT 10SM OVC100 07/04 A3015 RMK AO2 KMHS 240756Z AUTO 00000KT 10SM CLR 05/00 A3011 RMK AO2 SLP202 T00500000 402390017 $ LEAB 240800Z 22003KT 150V270 CAVOK 12/08 Q1019 NOSIG KMHT 240753Z 00000KT 10SM CLR 07/M06 A3037 RMK AO2 SLP297 T00721056 KMHV 240740Z AUTO 23012KT 10SM CLR 21/M01 A3000 RMK A01 KLSE 240753Z AUTO 00000KT 10SM CLR 08/01 A3012 RMK AO2 SLP199 T00780011 KLSF 240756Z AUTO 24003KT 10SM CLR 14/12 A2987 RMK AO2 SLP119 T01370123 $ KLRO 240755Z AUTO 00000KT 3SM BR OVC008 18/18 A2988 RMK AO2 P0002 LEAG 240800Z AUTO VRB02KT 9999 SCT035 18/13 Q1014 EPMO 240800Z 30010KT 9999 BKN048 14/07 Q1014 EPLY 240800Z 21006KT CAVOK 15/09 Q1016 RMK 151 067 2/2= UWSS 240800Z 30007G12MPS CAVOK 07/M08 Q1011 R30/010095 NOSIG RMK QFE745 LEBA 240800Z 26005KT 170V300 CAVOK 19/16 Q1013 KMIS 240755Z AUTO 33011KT 10SM FEW049 19/13 A3000 RMK A01 LEBB 240800Z 12007KT 9999 SCT026 17/14 Q1020 NOSIG KNAK 240754Z AUTO 13006KT 10SM CLR 13/06 A3032 RMK AO2 SLP270 T01280061 LEAL 240800Z 06017KT CAVOK 23/08 Q1015 NOSIG KNBC 240756Z AUTO VRB03KT 6SM BR OVC004 20/19 A2986 RMK AO2 SLP112 T02000194 $ KMKC 240754Z 00000KT 10SM CLR 10/03 A3006 RMK AO2 SLP175 T01000028 KLRU 240755Z AUTO 28007KT 10SM CLR 16/M08 A3007 RMK AO2 T01581077 LEAM 240800Z 05018KT 010V080 CAVOK 24/04 Q1014 KMIV 240754Z AUTO 00000KT 10SM CLR 03/01 A3037 RMK AO2 SLP282 T00280011 KMKE 240752Z 31005KT 10SM SCT120 OVC150 09/M01 A3007 RMK AO2 SLP184 T00941011 KMIW 240753Z AUTO 34005KT 10SM CLR 05/01 A3010 RMK AO2 SLP194 T00500011 LEAO 240800Z 08009KT 040V120 CAVOK 13/08 Q1017 LEBG 240800Z 02007KT 3000 BR BKN001 11/11 Q1021 KLRY 240755Z AUTO 00000KT 10SM CLR 10/03 A3007 RMK AO2 KMKG 240755Z AUTO 00000KT 10SM BKN110 11/07 A3010 RMK AO2 SLP190 T01110072 KNBG 240755Z AUTO 00000KT 10SM OVC060 16/15 A2999 RMK AO2 SLP153 T01560150 PWINO $ KMJQ 240755Z AUTO 00000KT 10SM CLR 05/02 A3015 RMK AO2 LEAS 240800Z 00000KT 3500 BR FEW004 BKN012 13/13 Q1020 TEMPO 7000 NSW KNCA 240803Z AUTO 12014G21KT 7SM -RA FEW018 SCT028 OVC035 17/16 A3008 RMK AO2 P0001 T01720156 KP28 240756Z AUTO 00000KT 09/07 A3007 RMK AO1 SLP177 T00940067 KLUA 240755Z AUTO 13005KT 10SM 13/04 A3026 RMK AO2 KMKJ 240755Z AUTO 07009KT 3SM -RA OVC005 09/09 A3008 RMK AO2 P0001 T00930090 VOMD 240800Z 10004KT 9000 FEW020 38/21 Q1008 NOSIG KMLB 240753Z 21006KT 10SM OVC017 22/21 A2992 RMK AO2 SLP132 T02220206 EPOK 240800Z 27011KT 9999 FEW026 BKN127 10/05 Q1011 RMK 104 068 7/2 = LEBL 240800Z 33009G19KT 290V020 CAVOK 19/12 Q1020 NOSIG KMKL 240805Z AUTO 31003KT 9SM OVC003 13/13 A2991 RMK AO2 CIG 002V007 T01330133 KMLC 240753Z AUTO 00000KT 10SM FEW070 09/08 A3003 RMK AO2 SLP165 T00890083 KLSV 240657Z VRB06KT 10SM CLR 23/M04 A2991 RMK A02A SLP129 WND DATA ESTMD ALSTG/SLP ESTMD RVRNO CHINO RWY03R $ KLUD 240755Z AUTO 00000KT 10SM CLR 15/09 A3003 RMK AO2 T01450092 KMKN 240755Z AUTO 18005KT 10SM CLR 13/09 A3008 RMK AO2 T01340091 KMLE 240755Z AUTO 31003KT 10SM CLR 10/02 A3013 RMK AO2 T00990024 KMJX 240756Z AUTO 00000KT 10SM CLR M02/M03 A3040 RMK AO2 SLP302 T10171033 FZRANO KLUF 240658Z 00000KT 8SM CLR 25/M01 A2988 RMK AO2A SLP106 T02471012 403480154 VISNO RWY21 $ KMKO 240753Z AUTO 35004KT 10SM CLR 12/09 A3004 RMK AO2 SLP167 T01170094 KMLF 240752Z AUTO 10SM CLR 09/M01 A3017 RMK AO2 SLP175 T00891011 $ KLUG 240755Z AUTO 00000KT 10SM OVC005 14/13 A2987 RMK A01 LECH 240800Z AUTO VRB03KT 9000 NCD 19/08 Q1020 LEBR 240800Z AUTO VRB02KT 9999 SCT002 13/11 Q1021 KMLI 240752Z AUTO 09005KT 10SM CLR 12/03 A3006 RMK AO2 SLP176 T01170033 UWUU 240800Z 18003MPS 4000 -SHSN OVC012CB 01/M02 Q1004 R32L/250250 TEMPO 0500 +SHSNRA VV003 RMK QFE740/0987 KMKS 240755Z AUTO 09003KT 7SM SCT005 OVC012 18/17 A2988 RMK AO2 P0004 KMLJ 240755Z AUTO 00000KT 10SM OVC004 17/17 A2983 RMK AO2 KLTS 240756Z AUTO 00000KT 10SM CLR 11/08 A3004 RMK AO2 SLP166 T01080075 $ VOML 240800Z 26007KT 8000 SCT015 33/24 Q1008 NOSIG VOND 240800Z VRB03KT 6000 NSC 42/01 Q1008 NOSIG LEBT 240800Z AUTO 00000KT 9999 NCD 19/09 Q1018 KLUK 240753Z AUTO 00000KT 10SM SCT050 BKN070 OVC090 11/11 A3000 RMK AO2 RAE46 SLP158 P0002 T01110106 KMKT 240756Z AUTO 27003KT 10SM CLR 09/05 A3014 RMK AO2 SLP211 T00890050 VOMM 240800Z 15010KT 9999 FEW020 37/25 Q1007 NOSIG KLUL 240815Z AUTO 00000KT 10SM SCT048 BKN075 12/12 A2996 RMK AO2 T01200120 KLUM 240755Z AUTO 00000KT 10SM CLR 06/01 A3012 RMK AO2 T00560011 LECO 240800Z 00000KT 9999 BCFG FEW001 12/12 Q1019 NOSIG DXXX 240700Z 22007KT 9999 SCT012 SCT020 28/26 Q1012 NOSIG KMLP 240753Z AUTO 13009KT 10SM CLR 01/M06 A3040 RMK AO2 SLP257 T00061061 400831022 TSNO KMKY 240808Z AUTO 22005KT 9SM FEW014 SCT020 24/23 A2996 RMK AO2 EPPO 240800Z 27010KT 9999 FEW018 15/10 Q1014 R10/290095 LEBZ 240800Z 01005KT CAVOK 18/12 Q1014 KMMH 240755Z AUTO 27009KT 10SM CLR 05/M05 A3026 RMK AO2 T00531046 KMMI 240755Z AUTO 00000KT 5SM BR BKN006 BKN038 OVC044 14/13 A2988 RMK A01 P0023 EPPR 240800Z 26008KT 9999 BKN113 11/04 Q1012 RMK 110 062 6/6= KLVJ 240753Z AUTO 00000KT 10SM CLR 14/13 A3004 RMK AO2 SLP171 T01440133 KMLS 240753Z AUTO 24007KT 10SM FEW080 SCT110 02/02 A3047 RMK AO2 SLP339 T00220017 KLWA 240757Z AUTO 12003KT 10SM BKN110 13/08 A3007 RMK AO2 T01250080 KLVK 240753Z AUTO 30006KT 9SM CLR 12/10 A3000 RMK AO2 SLP155 T01220100 402940106 KMLT 240753Z AUTO 00000KT 10SM CLR M01/M05 A3030 RMK AO2 SLP268 T10111050 KMMK 240753Z AUTO 00000KT 10SM CLR 01/00 A3042 RMK AO2 SLP300 T00110000 KLWB 240755Z AUTO 10008G19KT 070V130 10SM -DZ SCT018 BKN023 OVC090 09/07 A3014 RMK AO2 P0001 T00900066 EPRA 240800Z 27004KT CAVOK 15/07 Q1015 LEEC 240800Z VRB03KT 9000 NSC 19/15 Q1013 KLWC 240752Z AUTO 32007KT 10SM CLR 06/02 A3007 RMK AO2 SLP181 T00560022 KMLU 240753Z AUTO 29007KT 10SM CLR 15/13 A2997 RMK AO2 SLP149 T01500128 KMML 240756Z AUTO 00000KT 10SM CLR 06/03 A3015 RMK AO2 SLP215 T00610028 KLVL 240755Z AUTO 05003KT 10SM OVC110 13/07 A3018 RMK AO1 T01270070 LECV 240800Z VRB02KT CAVOK 16/08 Q1020 KLVM 240753Z AUTO 22005KT 10SM CLR M03/M04 A3048 RMK AO2 SLP359 T10281039 KLWD 240753Z AUTO 35006KT 10SM CLR 09/M02 A3008 RMK AO2 SLP186 T00941017 VOMY 240800Z 00000KT 8000 FEW015 SCT020 35/18 Q1013 KP53 240756Z AUTO 00000KT 03/M03 A3010 RMK AO1 SLP197 T00281028 $ KMNE 240755Z AUTO 00000KT 10SM CLR 13/12 A2999 RMK AO2 T01300120 KLVN 240755Z AUTO 00000KT 10SM CLR 03/02 A3013 RMK AO2 KLUX 240755Z AUTO 07004KT 3SM BR OVC004 15/15 A2990 RMK AO2 P0001 KMNH 240750Z AUTO 34015G19KT 1/4SM FG OVC001 00/00 A3032 RMK AO2 KMNI 240755Z AUTO 09003KT 10SM SCT006 BKN013 OVC023 15/15 A2990 RMK AO2 VOPC 240800Z 12002KT 6000 SCT020 34/24 Q1010 KP58 240751Z AUTO 13003KT 08/06 A3012 RMK AO1 SLP204 T00830056 KLVS 240753Z AUTO 30003KT 10SM CLR 11/M08 A3014 RMK AO2 SLP109 T01111078 KP59 240751Z AUTO 35005KT 05/M02 A3012 RMK AO1 SLP201 T00501017 KMOB 240756Z AUTO 27003KT 10SM CLR 13/11 A2996 RMK AO2 SLP142 T01280111 $ KMMT 240806Z AUTO 07009KT 10SM OVC008 18/18 A2989 RMK AO2 SLP123 $ KP60 240756Z AUTO 00000KT M07/M09 A3041 RMK AO1 SLP320 T10671094 $ KNEL 240800Z AUTO 00000KT 10SM CLR 00/M01 A3038 RMK AO2 SLP286 T00001011 PNO UWWW 240800Z 30008MPS 9999 SCT026 04/M06 Q1007 R33/CLRD60 NOSIG RMK QFE744/0993 KMMU 240755Z AUTO 00000KT 10SM CLR 02/02 A3040 RMK AO2 KMMV 240753Z AUTO 36009KT 10SM CLR 12/M01 A3015 RMK AO2 SLP209 T01221011 402330056 KMOD 240753Z AUTO 35005KT 10SM CLR 18/11 A2995 RMK AO2 SLP140 T01830106 403060128 KLWM 240754Z AUTO 21005KT 10SM CLR 07/M04 A3040 RMK AO2 SLP295 T00671044 KMNM 240756Z AUTO 33003KT 10SM CLR 01/M02 A3012 RMK AO2 SLP222 T00061022 FZRANO $ EPSC 240800Z 22009KT 190V280 9999 SCT036 BKN041 12/06 Q1012 KMNN 240753Z AUTO 12009KT 10SM OVC070 12/08 A3008 RMK AO2 RAE15 SLP185 P0000 T01170083 KNFE 240756Z AUTO 10008KT 10SM BKN110 16/11 A3023 RMK AO2 SLP237 T01560106 KNFG 240755Z AUTO 04003KT OVC006 12/11 A3002 RMK AO2 SLP164 T01220106 402390094 $ KNDZ 240756Z AUTO 31004KT 10SM CLR 11/11 A2995 RMK AO2 SLP127 T01110111 $ LEGA 240800Z 22006KT 190V250 CAVOK 18/07 Q1014 KP68 240753Z AUTO 12003KT 01/M06 A3024 RMK AO1 SLP203 T00111056 402001017 KLWS 240756Z AUTO 13004KT 10SM CLR 08/01 A3036 RMK AO2 SLP283 T00830006 402000028 KP69 240752Z AUTO 00000KT 05/01 A3043 RMK AO1 SLP304 T00500011 402280011 KLWT 240754Z AUTO 14004KT 10SM CLR M02/M03 A3047 RMK AO2 SLP347 T10171028 KLXL 240755Z AUTO 00000KT 10SM CLR 07/M03 A3014 RMK AO2 KNFL 240756Z 00000KT 10SM CLR 09/M07 A3016 RMK AO2 SLP179 T00941067 402280039 FGSL 240700Z VRB02KT 9999 FEW012 27/23 Q1013 NOSIG KLWV 240753Z AUTO 10SM OVC049 12/11 A2995 RMK AO2 SLP140 T01220106 $ KMNV 240755Z AUTO 01005KT 5SM BR OVC024 13/13 A2986 RMK A01 P0024 LEGE 240800Z VRB01KT CAVOK 19/14 Q1020 KNEW 240753Z AUTO 23008KT 10SM BKN055 18/14 A2999 RMK AO2 SLP147 T01830139 KLXN 240755Z AUTO 00000KT 10SM OVC085 08/05 A3013 RMK AO2 T00820050 KMOP 240756Z AUTO 00000KT 10SM CLR 10/05 A3011 RMK AO2 T00990052 KLYH 240754Z AUTO 03009KT 9SM -RA BKN050 OVC060 10/08 A3020 RMK AO2 SLP224 P0004 T01000078 KMNZ 240755Z AUTO 18004KT 10SM CLR 13/10 A3008 RMK AO2 T01340095 KMOR 240755Z AUTO 08004KT 10SM SCT042 BKN065 OVC100 14/11 A2988 RMK A01 EPRZ 240800Z 36005KT 330V040 9999 BKN016 BKN043 15/12 Q1016 LDOS 240800Z /////KT CAVOK 21/12 Q1017 KLXT 240753Z AUTO 33003KT 10SM CLR 12/00 A3006 RMK AO2 SLP174 T01170000 KMOT 240754Z AUTO 31009KT 10SM CLR 01/M04 A3038 RMK AO2 SLP301 T00061039 KMQB 240755Z AUTO 06006KT 10SM SCT008 SCT025 OVC042 11/10 A3006 RMK AO2 T01120100 LEHC 240800Z 16001KT CAVOK 17/11 Q1021 LDPL 240800Z 11005KT 030V180 CAVOK 21/07 Q1017 NOSIG KLXV 240753Z AUTO 32007KT 10SM FEW080 BKN100 01/M03 A3031 RMK AO2 SLP155 T00111028 KNFW 240752Z AUTO 00000KT 10SM CLR 14/10 A3003 RMK AO2 SLP154 T01440100 $ KMQE 240756Z AUTO 21012KT 05/M01 A3038 RMK AO1 SLP301 T00501006 KMPO 240753Z AUTO 00000KT 10SM CLR 03/M04 A3035 RMK AO2 SLP282 T00281044 KMOX 240755Z AUTO 29003KT 10SM SCT100 07/03 A3015 RMK AO2 KLXY 240755Z AUTO 20005KT 10SM CLR 13/11 A3004 RMK AO2 T01250106 KNGP 240756Z AUTO 21004KT 10SM CLR 19/ A3000 RMK AO2 SLP157 T0194 $ EPSY 240800Z 27010KT 190V330 9999 FEW035 12/05 Q1013 LEGR 240800Z 00000KT 9999 FEW100 20/05 Q1014 KMQI 240755Z AUTO 14012G20KT 10SM SCT120 16/11 A3021 RMK AO2 T01570107 PWINO KMQJ 240755Z AUTO 08007KT 10SM BKN037 OVC065 10/10 A2999 RMK AO1 LEGT 240800Z 04005KT CAVOK 17/10 Q1019 LEIB 240800Z 04013KT CAVOK 20/10 Q1018 NOSIG KMRB 240753Z AUTO 00000KT 10SM FEW085 OVC100 11/02 A3029 RMK AO2 RAB08E34 SLP256 P0000 T01110022 KNHK 240752Z AUTO 12007KT 10SM BKN047 13/07 A3030 RMK AO2 SLP260 T01330072 KMRC 240755Z AUTO 00000KT 9SM OVC005 13/13 A2987 RMK A01 KNGU 240759Z 09007KT 10SM FEW047 BKN120 14/09 A3025 RMK AO2 SLP242 T01390094 KMPV 240751Z AUTO 16006KT 10SM CLR 01/M04 A3035 RMK AO2 SLP284 T00061044 KP92 240753Z AUTO 34003KT A2999 RMK AO1 SLP157 $ KLYV 240755Z AUTO 00000KT 10SM OVC100 07/04 A3016 RMK AO2 KNID 240756Z AUTO 24004KT 10SM CLR 17/M01 A2994 RMK AO2 SLP121 T01671011 403390106 PNO $ KMRF 240756Z AUTO 34008KT 10SM CLR 09/M01 A3014 RMK AO2 SLP159 T00941006 KMPZ 240755Z AUTO 02005KT 10SM CLR 07/00 A3007 RMK AO2 KMRH 240758Z AUTO 13011KT 6SM RA BR BKN090 OVC110 17/15 A3012 RMK AO2 SLP198 P0008 T01720150 LDRI 240800Z VRB02KT CAVOK 21/12 Q1017 KMQS 240755Z AUTO 00000KT 10SM CLR 05/M01 A3037 RMK AO2 KMRJ 240755Z AUTO 00000KT 10SM CLR 06/00 A3010 RMK AO2 LDSB 240800Z 33006KT 260V020 CAVOK 21/04 Q1019 VOSM 240800Z 18009KT 8000 SCT018 37/23 Q1008 EPWA 240800Z 29007KT 260V330 CAVOK 15/07 Q1014 NOSIG KLZU 240756Z AUTO 08003KT 5SM HZ OVC002 RMK AO2 SLPNO FZRANO $ KMRN 240755Z AUTO 06007KT 030V090 5SM RA OVC007 12/12 A3002 RMK AO2 P0004 T01240124 VORY 240800Z 18010KT 6000 SCT020 35/25 Q1007 NOSIG KNIP 240753Z 25006KT 10SM FEW010 SCT250 21/19 A2990 RMK AO2 SLP121 T02060194 KMQY 240756Z AUTO 33003KT 9SM FEW003 OVC015 12/12 A2989 RMK AO2 SLP040 T01220122 KLZZ 240755Z AUTO 00000KT 10SM CLR 15/09 A3005 RMK AO2 T01500091 VOTK 240730Z 12004KT 6000 FEW020 36/21 Q1008 LFBA 240800Z AUTO VRB02KT 9999 OVC037 16/14 Q1021 NOSIG KOAJ 240756Z AUTO 11008KT 6SM -RA BR SCT013 SCT023 OVC035 16/15 A3009 RMK AO2 SLP192 P0005 T01610150 KOAK 240753Z 30007KT 10SM BKN009 12/11 A3002 RMK AO2 SLP165 T01170106 402330106 $ KNJK 240756Z AUTO 33003KT 10SM CLR 21/M01 A2987 RMK AO2 SLP129 T02111006 403610167 $ KMRT 240755Z AUTO 11006KT 10SM BKN065 OVC095 11/09 A3006 RMK AO2 T01130088 KMTC 240656Z 00000KT 10SM FEW075 OVC090 09/09 A3013 RMK AO2 SLP208 T00900090 $ LFBC 240800Z AUTO 03004KT 350V060 9999 ////// 14/11 Q1021 KMSL 240753Z AUTO 29005KT 10SM FEW036 OVC090 14/12 A2990 RMK AO2 SLP120 T01390122 LFBD 240800Z AUTO 02005KT 360V060 9999 OVC033 14/10 Q1021 NOSIG KNJM 240757Z AUTO 12014G19KT 7SM -RA OVC050 17/16 A3011 RMK AO2 SLP200 P0001 T01720161 VOTP 240800Z 16006KT 7000 FEW020 37/21 Q1006 LFBE 240800Z AUTO 00000KT 9999 OVC036 14/12 Q1021 NOSIG KMSN 240753Z AUTO 00000KT 10SM CLR 05/01 A3009 RMK AO2 SLP193 T00500011 KOBE 240755Z AUTO 21004KT 7SM CLR 21/20 A2993 RMK AO2 LTG DSNT E KMSO 240753Z AUTO 00000KT 10SM CLR 00/M04 A3046 RMK AO2 SLP329 T00001044 LFBG 240800Z AUTO VRB03KT 9999 FEW032 15/08 Q1021 NOSIG KMSP 240753Z 00000KT 10SM FEW250 09/04 A3013 RMK AO2 SLP203 T00940044 KMRY 240754Z AUTO 00000KT 8SM OVC008 11/09 A3004 RMK AO2 SLP185 T01110089 401720072 LDSP 240800Z 11003KT 050V170 CAVOK 20/10 Q1018 NOSIG VOTR 240800Z 00000KT 9999 FEW016 39/19 Q1006 NOSIG LFAQ 240800Z AUTO 23010KT 9999 OVC011 10/08 Q1019 BECMG OVC030 LFBH 240800Z AUTO 26003KT 190V350 CAVOK 14/09 Q1021 NOSIG KMTH 240753Z AUTO 19003KT 10SM FEW013 26/22 A2996 RMK AO2 SLP144 T02560222 LFBI 240800Z AUTO VRB02KT CAVOK 13/12 Q1021 NOSIG LEJR 240800Z 15003KT 120V190 9000 NSC 18/16 Q1013 KMSS 240753Z AUTO 00000KT 10SM CLR 02/M01 A3023 RMK AO2 SLP238 T00221006 KMTJ 240753Z AUTO 06012KT 10SM BKN075 OVC090 13/01 A3019 RMK AO2 SLP157 T01330011 EPWR 240800Z 28009KT 240V300 CAVOK 16/09 Q1016 LFAT 240800Z AUTO 24010KT 210V270 9999 OVC003 10/10 Q1018 TEMPO 0500 FG VV/// VOTV 240800Z 31010KT 6000 SCT015 33/24 Q1007 NOSIG LELC 240800Z 03021KT CAVOK 20/12 Q1015 NOSIG LFBL 240800Z AUTO VRB02KT 9999 OVC016 14/12 Q1021 NOSIG KNLC 240756Z AUTO 32007KT 10SM CLR 18/06 A2994 RMK AO2 SLP137 T01780056 403390106 LFBM 240800Z AUTO 09004KT 040V140 9999 OVC035 17/14 Q1021 NOSIG KMSV 240756Z AUTO 00000KT 10SM CLR 03/M02 A3037 RMK AO2 SLP287 T00281022 KMTN 240700Z AUTO 08005KT 10SM CLR 11/03 A3036 RMK AO2 LFBO 240800Z AUTO 18003KT 150V220 6000 1800 R32R/1200U OVC003 13/13 Q1021 BECMG NSC KOCF 240751Z AUTO 00000KT 10SM CLR 20/19 A2994 RMK AO2 SLP139 T02000189 KMTO 240753Z AUTO 04004KT 8SM CLR 10/10 A2996 RMK AO2 SLP146 T01000100 LFBP 240800Z AUTO 09003KT 020V170 8000 OVC009 17/14 Q1020 BECMG SCT006 BKN017 BKN030 KMSY 240753Z 20005KT 10SM BKN055 17/15 A2998 RMK AO2 SLP155 T01670150 KMTP 240754Z AUTO 16003KT 06/04 A3044 RMK AO1 SLP306 T00610039 KOCH 240756Z AUTO 00000KT 10SM 09/09 A3003 RMK AO2 SLP171 T00940089 $ KMUI 240656Z 00000KT 10SM CLR 06/04 A3035 RMK AO2 SLP281 T00580040 $ LFCK 240800Z AUTO VRB02KT 9999 FEW011 18/15 Q1022 NOSIG LFBT 240800Z AUTO VRB02KT 9999 FEW010 17/14 Q1021 BECMG BKN006 BKN018 KNKT 240458Z 12010KT 7SM OVC110 18/15 A3019 RMK SLP220 T01780150 402170144 LELL 240730Z 00000KT CAVOK 16/12 Q1020 LFBU 240800Z AUTO VRB02KT CAVOK 13/11 Q1021 NOSIG LEMD 240800Z VRB01KT CAVOK 16/11 Q1019 NOSIG KMTV 240755Z AUTO 05009KT 020V080 10SM RA OVC007 10/09 A3013 RMK AO2 P0013 T00960088 LELN 240800Z 03003KT CAVOK 15/08 Q1020 KMTW 240756Z AUTO 33006KT 10SM CLR 07/M01 A3010 RMK AO2 SLP215 T00721006 KMVE 240755Z AUTO 00000KT 10SM CLR 07/02 A3015 RMK AO2 LELO 240800Z VRB01KT CAVOK 14/12 Q1021 KMUO 240658Z AUTO 11011KT 10SM CLR 09/03 A3028 RMK AO2 SLP253 T00870029 401840039 RVRNO $ KNKX 240755Z AUTO 00000KT 7SM OVC007 12/09 A3001 RMK AO2 SLP157 T01220089 402670122 $ LEMG 240800Z 29004KT 250V320 9000 NSC 18/15 Q1014 NOSIG LFBY 240800Z 08003KT 030V140 7000 SCT016 18/14 Q1020 LEMH 240800Z 08006KT 050V110 CAVOK 21/10 Q1019 LFBZ 240800Z AUTO 06003KT 360V100 9999 BKN009 17/15 Q1020 BECMG BKN016 KMVH 240755Z AUTO 29005KT 10SM BKN060 M01/M04 A3048 RMK AO2 KOCQ 240755Z AUTO 00000KT 10SM CLR 00/M02 A3011 RMK AO1 T00001017 EPZG 240800Z 24008KT CAVOK 13/08 Q1015 LFCR 240800Z AUTO VRB02KT CAVOK 14/11 Q1021 NOSIG KMWA 240755Z AUTO 00000KT 4SM HZ OVC003 A2994 RMK AO2 KMUT 240755Z AUTO 02004KT 10SM FEW031 07/01 A3007 RMK AO2 PNO KOEB 240755Z AUTO 10005KT 10SM BKN025 OVC100 11/09 A3008 RMK AO2 T01100090 KMVL 240754Z AUTO 36004KT 10SM CLR M01/M04 A3030 RMK AO2 SLP267 T10111044 KMWC 240755Z AUTO 00000KT 10SM CLR 07/M02 A3008 RMK AO2 KNMM 240756Z AUTO 26006KT 9SM BKN025 OVC033 14/12 A2993 RMK AO2 SLP144 T01390122 $ KMVN 240749Z AUTO 00000KT 4SM BR BKN028 12/12 A2994 RMK AO2 KOCW 240755Z AUTO 00000KT 10SM -RA SCT040 BKN070 OVC095 15/14 A3014 RMK AO2 P0004 T01500140 VOVZ 240700Z 23010KT 6000 FEW016 FEW025CB OVC090 35/25 Q1008 TEMPO 4000 -TSRA/RA LEMO 240800Z 00000KT 8000 NSC 18/16 Q1013 NOSIG KODO 240753Z AUTO 17006KT 10SM CLR 16/04 A3002 RMK AO2 SLP130 T01610039 $ KMWH 240752Z 36008KT 10SM CLR 06/00 A3035 RMK AO2 SLP281 T00610000 402060000 KMWK 240755Z AUTO 07013G25KT 4SM -RA OVC009 11/09 A3007 RMK AO2 T01070086 KMWL 240753Z AUTO 00000KT 10SM CLR 12/09 A3003 RMK AO2 SLP160 T01220089 KMWM 240755Z AUTO 00000KT 7SM CLR 05/M02 A3015 RMK AO2 KMWN 240757Z 28041G42KT 110SM SCT160 SCT180 M01/M08 RMK KOFF 240656Z 00000KT 10SM CLR 12/02 A3011 RMK AO2A SLP198 T01230016 $ KODX 240753Z AUTO 00000KT 10SM SCT100 07/04 A3010 RMK AO2 SLP196 T00670039 $ KMWO 240755Z AUTO 04005KT 10SM -RA BKN048 OVC060 11/09 A3002 RMK AO2 T01120095 KOEO 240755Z AUTO 00000KT 10SM CLR 03/01 A3015 RMK AO2 T00300008 KMXF 240756Z AUTO 00000KT 10SM CLR 13/11 A2990 RMK AO2 SLP127 T01270113 $ KMVY 240802Z AUTO 00000KT 1 1/4SM BR FEW002 M03/M03 A3043 RMK AO2 T10331033 KNOG 240756Z AUTO 23004KT 10SM CLR 16/13 A3002 RMK AO2 SLP143 T01610133 LEPA 240800Z 05010KT CAVOK 21/10 Q1018 NOSIG LFGA 240800Z AUTO 16004KT 130V210 CAVOK 16/13 Q1020 KNPA 240756Z AUTO 00000KT 10SM CLR 12/10 A2996 RMK AO2 SLP145 T01220100 $ PTKK 240751Z VRB05KT 15SM FEW014 SCT120 OVC280 29/26 A2972 RMK SLP067 T02860256 KOGA 240755Z AUTO 33013G27KT 10SM -RA SCT013 OVC031 07/05 A3023 RMK AO2 P0003 T00650049 KMWT 240753Z AUTO 00000KT 5SM BR CLR 10/10 A2997 RMK AO2 SLP146 T01000100 KOGB 240753Z AUTO VRB05KT 8SM -RA OVC007 18/17 A2988 RMK AO2 LTG DSNT NW RAB05 CIG 004V009 SLP116 P0001 T01830172 $ KOFK 240756Z AUTO 12006KT 10SM OVC095 11/04 A3013 RMK AO2 SLP198 T01110044 KOGD 240753Z AUTO 31008KT 10SM CLR 06/01 A3021 RMK AO2 SLP208 T00610011 KMYF 240753Z AUTO 00000KT 6SM BR OVC006 14/12 A3002 RMK AO2 SLP160 T01440122 402500128 KMXO 240755Z AUTO 00000KT 10SM CLR 04/00 A3009 RMK AO2 KOFP 240754Z AUTO 07005KT 10SM OVC100 13/06 A3027 RMK AO2 SLP250 T01280061 PTKR 240750Z 09004KT 15SM BKN017TCU BKN120 OVC300 30/25 A2971 RMK TCU ALQDS SLP060 T02970248 LFGJ 240800Z AUTO VRB03KT 0750 R05/0900D FG VV/// 13/13 Q1021 BECMG 9999 NSW FEW040 KMYJ 240755Z AUTO 36003KT 10SM OVC014 10/09 A3002 RMK AO2 KNQA 240755Z AUTO 27004KT 9SM BKN018 OVC023 12/12 A2992 RMK A01 LDZA 240800Z VRB02KT CAVOK 21/12 Q1018 BECMG 03008KT KMYL 240751Z AUTO 02006KT 10SM CLR 04/M05 A3031 RMK AO2 SLP257 T00441050 LDZD 240800Z 14005KT 110V200 CAVOK 22/08 Q1018 NOSIG KNOW 240755Z AUTO 19003KT 10SM CLR 09/05 A3026 RMK AO2 T00880046 LEPP 240800Z VRB01KT 4500 BR BKN004 12/11 Q1021 ESCF 240750Z 25012KT 9999 BKN025 09/04 Q1002 KMYP 240753Z AUTO 27020G24KT 10SM CLR 00/M07 A3047 RMK AO2 KMZG 240755Z AUTO 30009KT 10SM CLR 21/17 A3001 RMK A01 KMZH 240755Z AUTO 04003KT 10SM SCT100 01/00 A3012 RMK AO2 KNOZ 240759Z AUTO 13008KT 10SM CLR 23/00 A2988 RMK AO2 SLP066 T02280000 KMYR 240756Z AUTO 12028G36KT 5SM -RA BR BKN005 OVC090 18/17 A2992 RMK AO2 PK WND 12036/0753 LTG DSNT SE AND S SLP131 P0006 T01780167 KNQI 240756Z AUTO 00000KT 10SM CLR 14/13 A3001 RMK AO2 SLP157 T01440128 KOGS 240755Z AUTO 18006KT 10SM CLR 10/M01 A3022 RMK AO2 T01011012 GABS 240800Z 22008KT 9999 FEW030 29/17 Q1014 NOSIG KNRB 240752Z AUTO 25008KT 10SM CLR 21/19 A2989 RMK AO2 SLP121 T02060194 PWINO PNO $ KMYV 240753Z AUTO 09005KT 10SM CLR 16/11 A2994 RMK AO2 SLP141 T01560111 403000106 ESDF 240750Z 23008KT 9999 SCT013 09/07 Q1007 FJDG 240755Z 14009KT 9999 FEW023 SCT080 SCT250 30/26 A2982 RMK SLP095 T03040256 KMYZ 240755Z AUTO 35004KT 10SM CLR 06/01 A3011 RMK AO2 LERI 240800Z 05009KT 350V110 CAVOK 23/05 Q1016 NOSIG LESA 240800Z 10006KT CAVOK 16/10 Q1018 KOJA 240755Z AUTO 00000KT 10SM CLR 12/10 A3007 RMK AO2 KOJC 240753Z AUTO 35005KT 10SM CLR 14/M01 A3006 RMK AO2 SLP172 T01391006 LGAD 240750Z 32004KT 9000 FEW010 20/15 Q1017 KPAE 240753Z AUTO VRB03KT 10SM CLR 11/04 A3026 RMK AO2 SLP246 T01060039 401780050 KNSE 240756Z AUTO 31004KT 10SM CLR 11/11 A2995 RMK AO2 SLP127 T01060106 $ KNQX 240753Z AUTO 20004KT 10SM CLR A2997 RMK AO2 SLP149 $ KPAH 240803Z AUTO 00000KT 6SM BR OVC004 13/12 A2990 RMK AO2 CIG 003V006 T01280122 FIMP 240800Z 01018G32KT 2000 -SHRA FEW006 FEW///CB BKN013 BKN045 28/24 Q1007 KMZZ 240755Z AUTO 10006KT 10SM OVC034 10/09 A3003 RMK AO2 T01040088 KNSI 240757Z AUTO 29008KT OVC002 11/ A3000 RMK AO2 SLP156 T0106 401890100 $ FIMR 240800Z 02013KT 9999 FEW018 BKN250 28/22 Q1013 LERS 240800Z 00000KT CAVOK 22/12 Q1020 KNRS 240756Z AUTO 00000KT 7SM BKN008 12/10 A3001 RMK AO2 SLP163 T01170100 401940117 LERT 240800Z 13006KT 080V160 8000 NSC 18/17 Q1013 NOSIG LFKB 240800Z AUTO VRB02KT CAVOK 22/12 Q1019 NOSIG KOKB 240752Z AUTO 08003KT 7SM OVC009 14/12 A3001 RMK AO2 SLP162 T01440122 402110117 LFKC 240800Z AUTO 35006KT 320V020 CAVOK 20/11 Q1019 NOSIG LFJL 240800Z AUTO 29005KT 260V320 9999 FEW013 SCT038 13/08 Q1020 NOSIG KOKC 240752Z 05004KT 10SM CLR 14/08 A3005 RMK AO2 SLP166 T01390083 LGAL 240750Z 21004KT CAVOK 19/14 Q1016 RCFN 240800Z 04007KT 010V080 9999 FEW045 BKN120 BKN150 28/24 Q1006 NOSIG RMK A2971 KPAM 240756Z AUTO 30005KT 10SM CLR 15/12 A2994 RMK AO2 SLP142 T01480121 $ KNTD 240808Z AUTO 17010KT 4SM BR OVC002 13/12 A3002 RMK AO2 T01330117 CHINO N VISNO N $ KPAN 240755Z AUTO 00000KT 10SM CLR 15/M09 A3013 RMK AO2 KPAO 240247Z 32010KT 10SM FEW180 A2995 LESO 240800Z 36003KT 310V030 9999 BKN015 16/14 Q1020 LFKF 240800Z AUTO 21003KT 160V250 CAVOK 19/12 Q1019 NOSIG KPBF 240753Z AUTO 29005KT 10SM CLR 12/11 A2997 RMK AO2 SLP146 T01220111 KPBG 240753Z AUTO 00000KT 10SM CLR 00/M04 A3027 RMK AO2 SLP251 T00001039 KPBH 240755Z AUTO 00000KT 10SM CLR M01/M02 A3013 RMK AO2 T10091022 LFJR 240800Z AUTO 19003KT 160V220 9999 FEW031 13/10 Q1020 NOSIG KPBI 240753Z 23005KT 10SM FEW025 23/23 A2995 RMK AO2 SLP141 OCNL LTGIC DSNT NE-E CB DSNT NE-E T02280228 LFKJ 240800Z AUTO VRB03KT CAVOK 20/09 Q1019 NOSIG LEST 240800Z 01004KT 320V050 9999 VCFG FEW002 12/11 Q1019 NOSIG LFLB 240800Z AUTO VRB02KT CAVOK 17/11 Q1021 NOSIG KOKK 240756Z AUTO 08006KT 10SM OVC033 11/09 A3003 RMK AO2 SLP171 T01060094 KNUC 240056Z 25012KT 7SM BKN007 OVC250 15/11 A3000 RMK SLP157 LAST T01500106 LESU 240800Z VRB01KT CAVOK 12/08 Q1023 LETL 240800Z AUTO 15002KT 9999 NCD 14/06 Q1021 LFLC 240800Z AUTO 00000KT CAVOK 17/14 Q1020 NOSIG LGBL 240750Z 08004KT CAVOK 21/09 Q1017 LGAV 240750Z VRB02KT CAVOK 24/05 Q1017 NOSIG KOKM 240755Z AUTO 00000KT 10SM CLR 11/10 A3004 RMK AO2 T01070099 KPCD 240755Z AUTO 35006KT 5SM OVC006 13/12 A2994 RMK AO2 T01310123 PWINO PTPN 240450Z 08004KT 15SM BKN018TCU BKN130 OVC300 29/25 A2972 RMK TCU ALQDS LAST KOLE 240755Z AUTO 19008KT 160V220 10SM CLR 09/02 A3024 RMK AO2 LETO 240800Z VRB01KT CAVOK 15/10 Q1019 NOSIG KOLF 240753Z AUTO 24005KT 10SM CLR M02/M05 A3045 RMK AO2 SLP332 T10221050 TSNO KOLG 240755Z AUTO 04003KT 10SM CLR 00/M01 A3012 RMK AO1 ESGG 240750Z 21011KT 4700 DZ BKN004 OVC010 06/05 Q1002 EQYG 240757Z AUTO 18005KT 10SM CLR 19/ A3008 RMK AO2 SLP181 T0194 $ KNUI 240753Z AUTO 08010KT 9SM BKN050 13/07 A3029 RMK AO2 SLP256 T01280067 LFKS 240800Z AUTO VRB02KT CAVOK 20/13 Q1019 KOMA 240752Z 31006KT 10SM BKN110 08/02 A3012 RMK AO2 SLP199 T00830022 ESGJ 240750Z 22011KT 9999 -DZ BKN008 BKN017 07/06 Q1002 LETU 240800Z AUTO 03003KT 350V070 9999 NCD 15/11 Q1021 LEVC 240800Z 24006KT 210V290 9999 FEW060 18/09 Q1019 NOSIG LFLL 240800Z 34003KT 300V010 CAVOK 16/12 Q1020 NOSIG LFMC 240800Z VRB03KT 9999 FEW025 20/14 Q1018 KNTU 240756Z 11014KT 10SM BKN041 OVC130 13/11 A3023 RMK AO2 SLP238 T01330106 KPDC 240755Z AUTO 00000KT 10SM CLR 04/00 A3011 RMK AO2 T00441003 LEVD 240800Z 08007KT 040V110 CAVOK 14/10 Q1020 LFMD 240800Z AUTO 08004KT 020V130 9999 FEW018 OVC032 19/14 Q1018 TEMPO BKN005 KOLM 240754Z AUTO 07/ A3021 RMK AO2 SLP230 T0067 402171006 PWINO $ KOKV 240755Z AUTO 13004KT 10SM BKN045 OVC100 10/02 A3031 RMK AO2 LFLN 240800Z AUTO 00000KT 0450 R33///// FG VV/// 13/13 Q1021 BECMG 9999 FG SCT030 KPBX 240755Z AUTO 13015G21KT 10SM BKN120 15/07 A2994 RMK AO2 T01450073 LFLP 240800Z AUTO 00000KT CAVOK 17/10 Q1021 NOSIG LFMH 240800Z AUTO 30003KT 240V350 9999 SCT020 BKN026 17/12 Q1021 NOSIG KOMH 240755Z AUTO 00000KT 10SM SCT041 BKN065 OVC100 12/04 A3027 RMK AO2 KNUQ 240756Z 03005KT 9SM FEW012 12/11 A3003 RMK AO2 SLP171 T01220111 402610122 PTSA 240150Z COR 21024KT 3SM BKN007TCU OVC290 26/25 A2980 RMK TCU ALQDS LAST LFMI 240800Z AUTO 34008KT 310V010 CAVOK 20/15 Q1018 NOSIG LFLS 240800Z AUTO VRB03KT CAVOK 17/11 Q1020 NOSIG KPEA 240755Z AUTO 01003KT 10SM CLR 08/M01 A3010 RMK AO2 T00781015 ESGR 240750Z AUTO 22014KT 9999 BKN024/// BKN030/// OVC076/// 09/02 Q1001 KOLS 240754Z AUTO 08006KT 10SM CLR 15/M05 A3009 RMK AO2 SLP124 T01501050 KONA 240756Z AUTO 00000KT 10SM CLR 04/01 A3011 RMK AO2 KNY0 240755Z AUTO 11003KT 10SM CLR 04/M06 A3033 RMK AO2 LFMK 240800Z AUTO 28008KT 250V320 8000 SCT005 16/15 Q1020 NOSIG KOMK 240753Z AUTO 30005KT 10SM CLR 07/M01 A3038 RMK AO2 SLP292 T00671006 402110022 KPDK 240753Z AUTO 33003KT 10SM OVC008 15/14 A2983 RMK AO2 SLP094 T01500144 LFLU 240800Z AUTO 34009KT CAVOK 18/14 Q1019 LFML 240800Z AUTO VRB02KT CAVOK 19/13 Q1018 NOSIG ESIB 240750Z 24014KT 9999 SCT012 BKN036 08/07 Q1001 ESGT 240750Z 21008KT 9999 SCT009 BKN013 08/06 Q1001 KOLU 240756Z AUTO 08005KT 10SM OVC095 10/03 A3014 RMK AO2 SLP208 T01000028 KOLV 240050Z 00000KT 3SM -RA BR BKN0006 BKN013 OVC029 12/12 A2990 KOMN 232250Z 15009KT 7SM SCT085 23/20 A2993 RMK LAST LFLW 240800Z AUTO 00000KT CAVOK 16/11 Q1021 NOSIG LFMN 240800Z 07012KT 9999 SCT013 SCT030 18/15 Q1018 NOSIG PTRO 240750Z 00000KT 15SM SCT016CB BKN`120 BKN300 29/24 A2970 RMK CB ALQDS KNUW 240756Z 09004KT 10SM FEW250 07/04 A3030 RMK AO2 SLP258 T00720039 401610033 $ KPCW 240755Z AUTO 09006KT 10SM FEW041 BKN048 OVC060 12/07 A3010 RMK AO2 LFLX 240800Z AUTO VRB01KT 9999 OVC029 15/12 Q1021 NOSIG LFMO 240800Z AUTO 32005KT 290V350 CAVOK 20/13 Q1018 NOSIG LFLY 240800Z AUTO 00000KT CAVOK 19/12 Q1020 NOSIG LFMP 240800Z AUTO 30005KT 260V350 CAVOK 22/12 Q1019 NOSIG KOLY 240755Z AUTO 04005KT 10SM SCT048 11/10 A2995 RMK AO2 T01120101 PWINO KOLZ 240755Z AUTO 04006KT 10SM FEW120 FEW140 08/00 A3011 RMK AO2 KPCZ 240755Z AUTO 00000KT 10SM CLR 02/M01 A3012 RMK AO2 T00211010 LEVS 240800Z VRB02KT CAVOK 18/09 Q1019 LFOA 240800Z AUTO VRB01KT 9999 BKN034/// 16/11 Q1021 NOSIG KOOA 240755Z AUTO 04007KT 10SM CLR 07/M03 A3007 RMK AO2 T00701027 LEVT 240800Z 26001KT 9999 BKN012 14/11 Q1021 LFOB 240800Z AUTO 25007KT 220V290 9999 BKN016 BKN035 13/08 Q1019 TEMPO BKN013 OVC030 LFMT 240800Z AUTO 00000KT CAVOK 22/15 Q1019 NOSIG KPDT 240753Z 15010KT 10SM CLR 07/01 A3031 RMK AO2 SLP260 T00670006 401830000 LFMU 240800Z AUTO 31005KT 260V330 CAVOK 21/15 Q1019 NOSIG LFOC 240800Z AUTO 17004KT 9999 SCT033 13/08 Q1020 NOSIG LGEL 240750Z VRB02KT CAVOK 23/07 Q1017 KONL 240755Z AUTO 13007KT 10SM BKN110 13/04 A3012 RMK AO2 T01330036 LFMV 240800Z AUTO 33008KT CAVOK 20/14 Q1018 NOSIG KONM 240755Z AUTO 00000KT 10SM CLR 12/M07 A3006 RMK AO2 T01171070 LFOE 240800Z AUTO 27006KT 240V300 CAVOK 12/07 Q1020 NOSIG ETAD 240756Z AUTO 23007KT 9999 FEW210 11/06 A3009 RMK AO2 SLP180 T01080060 $ LEVX 240800Z 22003KT 180V250 CAVOK 16/12 Q1018 NOSIG KNXF 240756Z AUTO 15003KT 8SM OVC008 14/12 A3002 RMK AO2 SLP252 T01390122 401940122 $ KONO 240753Z AUTO 00000KT 10SM CLR 08/M02 A3029 RMK AO2 SLP258 T00831017 KPDX 240753Z 11015G20KT 10SM CLR 16/M02 A3017 RMK AO2 SLP217 T01611022 402330056 KPEO 240753Z AUTO 20006KT 10SM CLR 12/01 A3025 RMK AO2 SLP243 T01170006 RCKH 240800Z 29012KT 9999 FEW014 SCT050 BKN080 29/23 Q1007 NOSIG RMK 30011KT/R09 A2976 LFMY 240800Z AUTO 35007KT 310V010 CAVOK 19/13 Q1018 NOSIG KONP 240755Z AUTO 09019G24KT 10SM CLR 17/M01 A3006 RMK AO2 LFOH 240800Z AUTO 22009KT 9999 OVC010 11/08 Q1020 TEMPO 3000 DZ KPEQ 240755Z AUTO 10003KT 10SM CLR 15/04 A2998 RMK AO2 T01540040 LEXJ 240800Z 08003KT 050V130 5000 BR OVC016 16/16 Q1019 LFOJ 240800Z AUTO VRB02KT CAVOK 14/10 Q1020 NOSIG KPGA 240753Z AUTO 16003KT 10SM CLR 20/M07 A3004 RMK AO2 SLP111 T02001067 TSNO LFPB 240800Z AUTO 24007KT 200V280 CAVOK 14/07 Q1020 NOSIG LFOK 240800Z AUTO 24004KT 200V290 9999 OVC033 12/08 Q1020 NOSIG KONT 240753Z 26004KT 10SM BKN250 15/09 A3000 RMK AO2 SLP148 T01500094 403000133 KNYC 240751Z AUTO 00000KT 10SM CLR 09/05 A3042 RMK AO2 SLP294 T00890050 KPGD 240802Z AUTO 24006KT 10SM FEW010 25/22 A2995 RMK AO2 T02500222 PTTP 240753Z 00000KT 15SM BKN018 OVC130 26/25 A2977 RMK SLP080 T02620247 KOPF 240753Z AUTO 21005KT 10SM FEW023 24/23 A2996 RMK AO2 SLP147 T02390228 KPEX 240755Z AUTO 00000KT 10SM CLR 04/03 A3015 RMK AO2 T00400030 LFOP 240800Z AUTO 26004KT 230V310 9999 OVC009 10/07 Q1020 TEMPO BKN013 OVC020 LFPG 240800Z 22007KT 200V270 CAVOK 13/06 Q1020 NOSIG KNYG 240756Z AUTO 12005KT 10SM OVC050 13/07 A3031 RMK AO2 SLP264 T01330067 KNXP 240756Z AUTO 34005KT 10SM CLR 23/M05 A3002 RMK AO2 SLP130 T02281050 403390178 VQPR 240530Z 16020KT 9999 FEW030 SCT070 23/01 Q1019 KPEZ 240755Z AUTO 00000KT 10SM CLR 16/11 A3002 RMK AO2 T01610111 KONZ 240755Z AUTO 06003KT 10SM OVC049 11/07 A3012 RMK AO2 T01100073 LFQA 240800Z AUTO 26007KT 230V290 CAVOK 13/07 Q1020 ETAR 240756Z AUTO 28013KT 9999 BKN040 14/11 A3010 RMK AO2 SLP195 T01430107 $ LFOT 240800Z AUTO 14005KT 110V170 CAVOK 15/10 Q1021 NOSIG LFQB 240800Z AUTO 33003KT 300V010 CAVOK 14/09 Q1021 KNYL 240757Z AUTO 00000KT 10SM CLR 23/02 A2987 RMK AO2 SLP111 T02330017 $ KOPL 240755Z AUTO 00000KT 10SM CLR 13/12 A3000 RMK AO2 T01280123 LFPM 240800Z AUTO 20004KT 160V220 CAVOK 14/07 Q1020 LFOV 240800Z AUTO 00000KT 9999 BKN030 13/07 Q1020 KPHD 240753Z AUTO 11011KT 10SM OVC060 14/07 A3013 RMK AO2 SLP199 T01390072 LFPN 240800Z AUTO 23005KT 190V270 CAVOK 15/08 Q1020 NOSIG ESKM 240750Z AUTO 23007KT 190V280 9999 FEW022/// 08/03 Q0995 KOPN 240755Z AUTO 25006KT 10SM SCT050 15/12 A2987 RMK AO2 LFPO 240800Z 23004KT 170V330 CAVOK 13/08 Q1020 NOSIG ESKN 240750Z 28020KT 9999 BKN025 10/04 Q1001 KPHF 240754Z AUTO 10009KT 10SM FEW047 BKN110 13/09 A3025 RMK AO2 SLP242 T01330089 LFQG 240800Z AUTO 00000KT 9999 FEW004 14/14 Q1021 LEZG 240800Z 00000KT 8000 VCFG NSC 15/13 Q1021 WIII 240800Z VRB02KT 5000 -RA SCT020 26/26 Q1007 NOSIG LGHI 240750Z VRB03KT CAVOK 20/15 Q1016 KPIA 240754Z 06007KT 4SM BR OVC006 11/09 A3004 RMK AO2 SLP171 T01060094 $ LFPT 240800Z AUTO 25006KT 220V290 CAVOK 12/07 Q1020 LFRB 240800Z AUTO 21012KT 9999 BKN009 BKN014 OVC027 12/10 Q1020 BECMG BKN020 KORB 240753Z AUTO 00000KT 10SM CLR M01/M04 A3015 RMK AO2 KPIB 240756Z AUTO 00000KT 10SM CLR 12/11 A2996 RMK AO2 SLP144 T01220111 GAMB 240600Z 00000KT CAVOK 28/09 Q1009 LEZL 240800Z 23004KT 200V270 CAVOK 19/14 Q1013 NOSIG LFRC 240800Z AUTO 23011KT 9999 OVC004 11/10 Q1018 TEMPO 2000 RADZ BR KORC 240755Z AUTO 10003KT 10SM OVC100 09/05 A3015 RMK AO2 KPHL 240754Z 07005KT 10SM FEW190 SCT240 06/01 A3038 RMK AO2 SLP287 T00560011 $ LFRD 240800Z AUTO 24007KT 9999 OVC027 12/09 Q1020 TEMPO BKN012 LFPV 240800Z AUTO 25006KT CAVOK 13/07 Q1020 NOSIG KORD 240751Z 02003KT 10SM OVC019 09/01 A3005 RMK AO2 RAB15E24 SLP176 P0000 T00940011 KPGV 240800Z AUTO 08007KT 10SM -RA OVC004 15/13 A3014 RMK AO2 KORE 240752Z AUTO 00000KT 10SM CLR 01/M03 A3040 RMK AO2 SLP298 T00061028 KPIE 240753Z AUTO 28006KT 10SM CLR 23/20 A2994 RMK AO2 SLP139 T02330200 KPHN 240757Z AUTO 00000KT 10SM OVC080 10/06 A3015 RMK AO2 KORF 240751Z 10008KT 10SM CLR 14/10 A3023 RMK AO2 SLP236 T01440100 RCMQ 240800Z 03009KT 9000 -RA FEW008 BKN014 BKN040 24/23 Q1009 NOSIG RMK A2980 RA AMT 0.2MM LFRG 240800Z AUTO 25007KT 9999 OVC009 10/08 Q1020 NOSIG KPHP 240755Z AUTO 32025G33KT 10SM OVC012 06/06 A3017 RMK AO2 PK WND 32036/0716 RAE0656 SLP213 P0000 T00610056 KORG 240755Z AUTO 00000KT 10SM CLR 12/12 A3003 RMK AO2 T01240124 LFRH 240800Z AUTO VRB01KT 9999 OVC023 12/10 Q1021 BECMG 25012KT LFQQ 240800Z AUTO 24011KT 9999 OVC011 11/08 Q1018 TEMPO 4000 DZRA OVC009 KPIH 240753Z AUTO 07006KT 10SM CLR 02/M01 A3034 RMK AO2 SLP275 T00221006 KORH 240754Z AUTO 25011KT 10SM CLR 06/M03 A3037 RMK AO2 SLP289 T00561033 LFRI 240800Z AUTO 26005KT 210V290 CAVOK 12/09 Q1021 NOSIG LFRJ 240800Z AUTO 21012KT 9999 SCT013 BKN032 BKN043 12/09 Q1019 KOSA 240755Z AUTO 27004KT 10SM CLR 14/12 A3003 RMK AO1 T01350120 LFRK 240800Z AUTO 26007KT 9999 BKN023 BKN029 OVC046 12/09 Q1020 TEMPO BKN012 LFSB 240800Z VRB01KT 9999 FEW025 BKN260 18/11 Q1021 NOSIG KOQT 240753Z AUTO 00000KT 10SM -RA BKN033 OVC045 13/13 A2989 RMK AO2 RAE28B46 SLP121 P0001 T01330128 KPHT 240755Z AUTO 00000KT M1/4SM FG OVC002 11/11 A2990 RMK A01 KORL 240346Z AUTO 18005KT 10SM SCT026 22/21 A2998 RMK AO2 RAE16 P0000 T02220211 LFRL 240800Z AUTO 22010KT 9999 BKN011 BKN017 OVC027 13/10 Q1020 BECMG FEW011 BKN026 OVC034 ESMK 240750Z 21010KT 9999 FEW015 SCT019 BKN022 10/07 Q1007 KPIL 240753Z AUTO 23003KT 9SM CLR 18/16 A3001 RMK AO2 SLP161 T01780156 KOSC 240755Z AUTO 00000KT 10SM CLR 02/M02 A3013 RMK AO2 T00221024 ETEB 240756Z AUTO 23007KT 9999 SCT024 15/10 A3011 RMK AO2 SLP204 T01480102 $ RCNN 240800Z 30007KT 9999 VCSH FEW010 SCT021 BKN050 26/22 Q1007 NOSIG RMK A2976 VCSH W-NW LFSD 240800Z AUTO VRB03KT 7000 OVC002 14/13 Q1021 LFRM 240800Z AUTO VRB02KT CAVOK 13/09 Q1020 NOSIG KPIM 240755Z AUTO 26005KT 10SM CLR 13/12 A2987 RMK AO2 T01300117 PWINO LFRN 240800Z AUTO 24004KT 180V300 CAVOK 12/08 Q1021 NOSIG ESND 240750Z 25006KT 190V300 CAVOK 07/02 Q0993 LGIO 240750Z /////KT CAVOK 18/12 Q1018 LFRO 240800Z AUTO 22006KT 180V250 9999 OVC016 12/09 Q1019 TEMPO BKN004 KPHX 240751Z 30004KT 10SM BKN250 27/M03 A2989 RMK AO2 SLP101 T02721028 LFSG 240800Z AUTO 17003KT 130V250 9999 FEW006 14/12 Q1020 KNZY 240752Z 00000KT 8SM BKN011 BKN250 14/12 A3000 RMK AO2 SLP160 T01440117 402000133 $ LFRQ 240800Z AUTO 25007KT 9999 BKN014 OVC023 13/10 Q1020 BECMG BKN018 ESNG 240750Z 13007KT 6000 DZ BKN007 OVC009 02/01 Q0994 KOSH 240753Z AUTO 32004KT 10SM CLR 05/01 A3010 RMK AO2 SLP195 T00500011 LFSI 240800Z AUTO VRB02KT 9999 SCT041 14/09 Q1020 PTYA 240756Z VRB06KT 12SM SCT017 BKN300 30/25 A2971 RMK SLP062 T02970251 ESMQ 240750Z 24009KT 9999 FEW020 BKN025 10/06 Q1006 KPIR 240753Z AUTO 17010KT 10SM FEW019 SCT060 OVC090 09/08 A3008 RMK AO2 SLP185 T00940078 LGIR 240750Z 34006KT 9999 FEW020 19/15 Q1016 NOSIG LFRS 240800Z AUTO 25004KT 190V280 CAVOK 12/11 Q1020 NOSIG KORS 240755Z AUTO 00000KT 10SM CLR 07/05 A3026 RMK AO2 LFRT 240800Z AUTO 22006KT 170V260 9999 FEW021 OVC031 11/09 Q1020 KPIT 240751Z 12008KT 10SM OVC085 12/08 A3017 RMK AO2 SLP220 T01170078 ESMS 240750Z 21013KT 9999 SCT018 BKN024 BKN053 08/07 Q1007 KPKB 240753Z AUTO 11005KT 6SM -RA BR OVC085 11/10 A3012 RMK AO2 SLP198 P0004 T01110100 LFRU 240800Z AUTO 22011KT 190V250 9999 BKN014 BKN025 OVC041 13/09 Q1019 LGKC 240750Z 05007KT CAVOK 19/09 Q1018 LFSL 240800Z AUTO 11003KT 080V140 2400 BR VV/// 13/12 Q1021 BECMG 8000 NSW NSC ESNK 240750Z AUTO 15003KT 9999 BKN009/// OVC014/// 04/03 Q0992 ESMT 240750Z 21012KT 6000 DZ SCT005 BKN010 08/07 Q1005 LHBC 240545Z 30003KT 9999 FEW030TCU BKN200 16/13 Q1015 RETS LFRV 240800Z AUTO VRB02KT 9999 OVC019 11/07 Q1020 ESNL 240750Z AUTO 12004KT 6000 BR FEW002/// BKN006/// OVC009/// 01/M00 Q0991 KPKD 240753Z AUTO 35003KT 10SM CLR 04/00 A3017 RMK AO2 SLP222 T00390000 KQBD 240755Z AUTO VRB04KT 10SM OVC230 08/01 A3024 RMK AO2 SLP190 WND DATA ESTMD T00800010 LFSN 240800Z AUTO VRB03KT 9999 BKN042 15/11 Q1020 KQD3 240756Z VRB06G13KT 8000 HZ FEW029 33/24 A2993 RMK AO2A SLP101 WND DATA ESTMD T03290241 LFSO 240800Z AUTO 24006KT 210V280 9999 BKN040 14/11 Q1020 NOSIG ESOE 240750Z 24014KT 9999 BKN019 09/05 Q1000 ESNN 240750Z VRB02KT 9999 FEW004 BKN017 OVC029 05/04 Q0993 LGKF 240750Z 27004KT 9999 FEW014 20/16 Q1017 KQBF 240756Z AUTO 00000KT 9999 CLR 31/20 A2988 RMK AO2 SLPNO WND DATA ESTMD T03140197 ESNO 240750Z 17003KT 9999 -DZ OVC002 02/02 Q0992 ESMX 240750Z 22009KT 9999 BKN010 08/06 Q1005 KS25 240755Z AUTO 22003KT 10SM CLR M01/M01 A3042 RMK AO2 KOTG 240756Z AUTO 21003KT 10SM SCT090 06/03 A3016 RMK AO2 SLP219 T00560033 LFTH 240800Z AUTO 12005KT 080V170 CAVOK 19/15 Q1018 NOSIG LFRZ 240800Z AUTO VRB02KT CAVOK 13/09 Q1021 NOSIG KOTH 240756Z AUTO 14004KT 10SM CLR 14/07 A2998 RMK AO2 SLP153 T01390067 402330050 ESNQ 240750Z 19013KT 9999 OVC010 02/00 Q0992 GANR 240600Z 02002KT CAVOK 29/07 Q1012 LFST 240800Z AUTO 19003KT 160V260 9999 FEW046 17/14 Q1020 NOSIG ESPA 240750Z 14010KT 4500 -RASN BR BKN013 BKN015 01/M00 Q0996 ESNS 240750Z 12007KT 8000 -DZ BKN004 02/01 Q0994 ESOK 240750Z 24014KT 9999 BKN018 08/04 Q0999 KOSU 240753Z AUTO 10009KT 10SM SCT080 OVC095 12/09 A3006 RMK AO2 SLP179 T01170089 LGKL 240750Z 00000KT 9000 NSC 22/13 Q1017 KQBL 240756Z AUTO 00000KT 10SM CLR 13/11 A2998 RMK AO2 SLP154 WND DATA ESTMD T01260110 KOTM 240753Z AUTO 05007KT 10SM CLR 09/M02 A3006 RMK AO2 SLP179 T00891022 ESNU 240750Z 15008KT 0800 R14/0900V1300U R32/0900V1200N VV002 03/02 Q0993 R14/19//95 KS32 240815Z AUTO 35013G18KT 10SM CLR 06/01 A3028 RMK AO2 KPLD 240755Z AUTO 09004KT 10SM BKN044 OVC055 11/10 A3003 RMK AO2 ESNV 240750Z 00000KT 6000 -RASN FEW004 OVC007 03/01 Q0990 KS33 240755Z AUTO 32005KT 10SM CLR 06/M05 A3032 RMK AO2 LFSX 240800Z AUTO 00000KT 9999 OVC007/// 14/13 Q1020 BECMG FEW030 ESPE 240750Z 09006KT 6000 -SN SCT002 BKN005 01/01 Q0994 LGKO 240750Z 33006KT CAVOK 20/10 Q1016 ESNX 240750Z AUTO 10007KT 7000 -SN FEW005/// OVC007/// 01/01 Q0992 RESHUP LGKP 240750Z 30012KT CAVOK 20/13 Q1016 LHBP 240800Z 28008KT 250V320 CAVOK 19/14 Q1017 NOSIG ETGG 240720Z 26023G34KT 8000 SCT007 BKN011 10/08 Q1007 GRN KQAZ 240756Z AUTO VRB03KT 6000 HZ CLR 37/M07 A2987 RMK AO2 SLPNO WND DATA ESTMD T03691071 ESNZ 240750Z VRB02KT 0400 R12/P1500N R30/P1500N BKN002 OVC023 01/01 Q0991 LGKR 240750Z 15005KT 9999 FEW014 20/17 Q1017 NOSIG KQBR 240755Z AUTO VRB05KT 10SM CLR 08/02 A3023 RMK AO2 SLP190 WND DATA ESTMD T00810016 ETHA 240720Z 28011KT 9999 FEW018 SCT270 14/10 Q1021 BLU+BLU+ VRMM 240700Z 27010KT 9999 SCT018TCU 32/26 Q1010 NOSIG KS39 240800Z AUTO 19003KT 10SM CLR 01/M05 A3031 RMK AO2 ETHB 240739Z 24016KT 9999 BKN023 BKN120 11/06 Q1014 WHT BLU TEMPO WHT LHDC 240745Z 30003KT CAVOK 18/13 Q1015 NOSIG ETHC 240720Z 23013KT 9999 FEW022 BKN036 11/06 Q1014 BLU BLU TEMPO WHT KPMD 240753Z AUTO 23011KT 10SM CLR 21/01 A3002 RMK AO2 SLP139 T02060006 403060144 LGLM 240750Z 13003KT CAVOK 22/09 Q1017 LGKV 240750Z 17005KT CAVOK 22/12 Q1016 KPKV 240755Z AUTO 31003KT 10SM CLR 15/13 A3002 RMK AO2 T01490133 LFTW 240800Z AUTO 01010KT 330V030 CAVOK 21/13 Q1019 NOSIG KOVE 240753Z AUTO 07006KT 10SM CLR 20/08 A2995 RMK AO2 SLP142 T02000083 403060106 KPLN 240754Z AUTO 00000KT 10SM CLR M01/M03 A3013 RMK AO2 SLP207 T10061033 KOUN 240755Z AUTO 00000KT 10SM CLR 12/09 A3003 RMK AO2 T01190093 ESOW 240750Z 24011KT 200V280 9999 BKN020 09/03 Q1000 ETHF 240720Z 24008KT 9999 FEW020 SCT160 BKN200 12/06 Q1017 BLU+BLU+ KQDG 240756Z AUTO 10011KT 5000 M OVC004 07/07 A2997 RMK AO2 SLP151 P0004 T00740072 PWINO $ LGKZ 240750Z 00000KT CAVOK 21/12 Q1019 KPLR 240755Z AUTO 00000KT 10SM FEW065 13/13 A2989 RMK A01 LGLR 240650Z 00000KT CAVOK 19/09 Q1017 RMK SCT180 BLU KOWA 240751Z AUTO 00000KT 10SM CLR 04/03 A3013 RMK AO2 KPNA 240755Z AUTO 00000KT 10SM SCT037 SCT049 M02/M02 A3031 RMK AO2 LGMK 240750Z 31004KT CAVOK 19/12 Q1016 KOWB 240756Z AUTO 05005KT 10SM OVC019 14/12 A2992 RMK AO2 SLP142 T01390117 KPNC 240753Z AUTO 00000KT 10SM CLR 09/07 A3006 RMK AO2 SLP172 T00890072 KOVL 240755Z AUTO 00000KT 10SM CLR 06/03 A3014 RMK AO2 KPLU 240755Z AUTO 00000KT 10SM CLR 06/06 A3022 RMK AO2 ETHL 240720Z 25007KT 9999 FEW010 SCT050 BKN220 13/11 Q1021 BLU+BLU TEMPO BLU+ ETIC 240756Z AUTO 25009G17KT 9999 BKN025 BKN032 14/09 A3007 RMK AO2 SLP183 T01410089 $ KOWD 240753Z AUTO 00000KT 10SM CLR 04/00 A3041 RMK AO2 SLP299 T00390000 KS52 240755Z AUTO 00000KT 10SM SCT080 OVC090 03/M01 A3043 RMK AO2 T00331008 KPNE 240754Z AUTO 00000KT 10SM CLR 06/M01 A3040 RMK AO2 SLP293 T00611006 ETHN 240720Z 24011KT 9999 SCT012 SCT220 13/10 Q1019 BLU+BLU+ LFVP 240800Z 28010KT CAVOK 01/M03 Q1026 NOSIG KPMP 240753Z AUTO 20005KT 9SM CLR 24/23 A2995 RMK AO2 SLP142 T02390233 ETIH 240756Z AUTO 27012G20KT 9999 FEW033 16/09 M RMK AO2 SLPNO T01570089 $ KOWI 240800Z AUTO 33003KT 10SM FEW049 07/05 A3006 RMK AO2 KOVS 240753Z AUTO 00000KT 6SM HZ CLR 02/M01 A3012 RMK AO2 SLP201 T00221006 PWAK 240808Z AUTO 08016KT 9999 BKN015 26/26 A2995 RMK AO2 CIG 015V095 BKN V SCT SLP148 $ ETHS 240720Z 26012KT 9999 BKN017 BKN038 11/06 Q1013 WHT WHT ESSA 240750Z 24017KT 9999 BKN021 08/04 Q0999 NOSIG KPOB 240801Z AUTO 10011KT 7SM RA BR OVC008 15/14 A3003 RMK AO2 CIG 007 RWY23 SLP171 $ KQFB 240800Z AUTO 02003G15KT 9999 OVC022 14/09 A2985 RMK A02 TSNO KOXB 240753Z AUTO 11010KT 10SM CLR 11/08 A3034 RMK AO2 SLP273 T01060078 $ LGMT 240750Z 03004KT CAVOK 20/14 Q1017 KPOC 240247Z 26010KT 10SM CLR 19/01 A2999 ETIK 240800Z VRB06KT 9999 FEW023 SCT038 BKN200 16/11 A3013 RMK AO2A SLP197 WND DATA ESTMD ALSTG/SLP ESTMD $ ESSB 240750Z 23012KT 9999 BKN026 09/03 Q1000 KOXC 240751Z AUTO 00000KT 10SM CLR 04/02 A3041 RMK AO2 SLP311 T00440022 KQEL 240800Z AUTO 06003KT 9999 BKN065 14/M01 A2997 RMK A02 TSNO KPMU 240755Z AUTO RMK AO2 PWINO PNO TSNO KPNM 240755Z AUTO 01003KT 10SM CLR 03/02 A3013 RMK AO2 KPMV 240755Z AUTO 03003KT 10SM CLR 11/00 A3013 RMK AO2 T01050001 ESSD 240750Z 23013KT CAVOK 09/05 Q0996 KQEN 240800Z AUTO 04005G12KT 9999 OVC055 03/M01 A2990 RMK A02 TSNO KPOE 240758Z AUTO 00000KT 10SM CLR 13/12 A2999 RMK AO2 SLP156 T01300117 KPOF 240753Z AUTO 32004KT 6SM BR FEW010 13/13 A2993 RMK AO2 SLP134 T01280128 KQEP 240800Z AUTO 01004G12KT 9999 CLR M01/M10 / RMK A02 TSNO KOWP 240755Z AUTO 33003KT 10SM CLR 14/09 A3005 RMK AO2 T01410094 RCSS 240800Z 09009KT 6000 -SHRA FEW006 SCT020 BKN035 21/20 Q1010 NOSIG RMK A2984 KOXI 240755Z AUTO 02003KT 10SM BKN043 BKN050 OVC090 09/08 A3005 RMK AO1 LGPA 240750Z 33010KT CAVOK 19/12 Q1016 KQES 240800Z AUTO 01007KT 9999 OVC035 12/08 A2987 RMK A02 TSNO KPNS 240753Z AUTO 24006KT 10SM CLR 14/11 A2995 RMK AO2 SLP144 T01390106 KPPA 240755Z AUTO 14012KT 10SM CLR 13/07 A3006 RMK AO2 T01300067 ESTA 240750Z 18010KT 8000 BR BKN010 09/07 Q1005 KPNT 240755Z AUTO 03008KT 1 1/2SM BR OVC003 10/09 A3005 RMK AO2 T00950093 ESSL 240750Z 25011KT 9999 BKN028 10/04 Q1002 KQEV 240800Z AUTO 12004KT 9999 OVC038 13/11 A2978 RMK A02 TSNO FKKD 240700Z 13004KT 100V160 8000 BKN013 FEW016CB 27/26 Q1012 NOSIG KQEW 240800Z AUTO 02002KT 9999 FEW034 OVC050 13/10 A2981 RMK A02 TSNO KQGE 240756Z AUTO 00000KT 10SM CLR 13/10 A2995 RMK AO2 SLP146 T01270101 $ LGNX 240750Z 35008KT CAVOK 19/11 Q1017 KPPF 240752Z AUTO 00000KT 10SM CLR 07/06 A3006 RMK AO2 SLP176 T00670056 KOWX 240756Z AUTO 12006KT 10SM SCT055 OVC085 11/07 A3009 RMK AO1 RCTP 240800Z 04016KT 5000 -RA FEW005 BKN008 BKN025 20/20 Q1010 NOSIG RMK A2984 RA AMT 2.4MM KQEY 240800Z AUTO 03004G11KT 9999 OVC036 13/08 A2951 RMK A02 TSNO ESSP 240750Z 25015G28KT 9999 SCT026 09/04 Q1002 KQFR 240754Z AUTO 10028G35KT 10SM SCT075 OVC085 09/M01 A2966 RMK AO1 KOXR 240751Z AUTO 22003KT 1SM BR OVC002 12/12 A3001 RMK AO2 SLP162 T01170117 401780117 KOZA 240755Z AUTO 16003KT 10SM CLR 12/06 A3006 RMK AO2 KQFT 240800Z AUTO 05004G10KT 9999 OVC065 13/00 A2987 RMK A02 TSNO ESST 240750Z 23008KT 160V280 CAVOK 10/04 Q0997 KPOU 240753Z AUTO 00000KT 10SM CLR 03/M01 A3038 RMK AO2 SLP286 T00281006 FKKL 240700Z 24010KT CAVOK 32/22 Q1010 ESTL 240750Z 21012KT 8000 BR BKN007 BKN021 09/08 Q1006 KOXV 240755Z AUTO 01005KT 10SM CLR 10/M02 A3008 RMK AO2 KPOV 240757Z AUTO 11006KT 10SM BKN050 OVC055 12/06 A3016 RMK AO2 T01170055 KOYM 240755Z AUTO 15007KT 110V180 10SM CLR A3028 RMK AO2 ESSV 240750Z 24014KT 9999 FEW025 09/05 Q1004 KQFW 240800Z AUTO 03004KT 9999 OVC065 12/02 A2989 RMK A02 TSNO FKKN 240700Z 00000KT CAVOK 21/19 Q1018 KQFX 240800Z AUTO 06003KT 9999 OVC060 15/06 A2982 RMK A02 TSNO KPPO 240755Z AUTO 09005KT 10SM OVC042 11/09 A3007 RMK AO2 T01050090 KPOY 240755Z AUTO 30007KT 10SM OVC080 M01/M02 A3045 RMK AO2 KPPQ 240755Z AUTO 03006KT 5SM BR OVC008 13/13 A3003 RMK AO2 T01330126 LFYR 240800Z AUTO VRB01KT 9999 BKN036 BKN180 15/11 Q1021 NOSIG KPQI 240756Z AUTO 00000KT 10SM CLR M03/M05 A3026 RMK AO2 SLP292 T10331050 FZRANO FKKR 240700Z 00000KT 9999 FEW026 33/21 Q1010 NOSIG KPRB 240753Z AUTO 31004KT 10SM CLR 10/07 A3001 RMK AO2 SLP158 T01000067 403000067 KPQL 240753Z AUTO 00000KT 10SM CLR 12/10 A2996 RMK AO2 SLP146 T01170100 KPRC 240753Z AUTO 20008KT 10SM CLR 13/M05 A3013 RMK AO2 SLP131 T01331050 KPQN 240756Z 00000KT 10SM CLR A3015 RMK AO2 KPRG 240755Z AUTO 04006KT 10SM BKN032 OVC040 11/11 A2999 RMK AO2 T01130107 ESUP 240750Z AUTO 14007KT 9999 FEW007/// SCT011/// 02/01 Q0996 LGPZ 240750Z VRB03KT 9999 SCT025 20/18 Q1018 KOZR 240756Z AUTO 27004KT 10SM CLR 13/11 A2991 RMK AO2 SLP129 T01320111 LGSA 240750Z 00000KT 9999 FEW025 20/14 Q1017 KOZS 240755Z AUTO 32004KT 10SM CLR 11/09 A3001 RMK AO2 VTBD 240800Z 19009KT 160V230 9999 FEW025 36/24 Q1006 NOSIG ESUT 240750Z AUTO 16008KT 4300 -RASN NCD 01/M00 Q0990 KPSC 240753Z AUTO 32005KT 10SM CLR 06/02 A3033 RMK AO2 SLP272 T00560022 402171017 KRAC 240753Z AUTO 00000KT 10SM BKN110 08/M01 A3009 RMK AO2 SLP189 T00781006 ETML 240720Z AUTO 21012KT //// // ////// 11/07 Q1008 /// ETND 240720Z 23010KT 9999 -RA FEW012 BKN015 BKN030 10/07 Q1014 WHT WHT TEMPO GRN KOZW 240755Z AUTO 00000KT 10SM -DZ BKN043 OVC055 11/07 A3012 RMK AO2 T01110073 KPRN 240756Z AUTO 29004KT 10SM CLR 12/10 A2991 RMK AO2 SLP126 T01220100 ETMN 240720Z 24013G24KT 5000 -DZ BR SCT005 BKN008 10/08 Q1011 GRN GRN TEMPO YLO KPSF 240754Z AUTO 00000KT 10SM CLR 03/M04 A3036 RMK AO2 SLP272 T00281044 KPRO 240755Z AUTO 01005KT 10SM CLR 07/02 A3012 RMK AO2 T00660018 LGRP 240750Z 27008KT CAVOK 20/15 Q1015 NOSIG KQHY 240756Z AUTO 00000KT 10SM CLR 13/11 A2996 RMK AO2 SLP152 T01280110 $ ETNG 240750Z 25012KT 9999 BKN020 BKN045 11/06 Q1017 NOSIG ETNH 240735Z 25013KT 8000 BKN008 BKN015 10/09 Q1009 GRN GRN TEMPO YLO LIBA 240655Z VRB01KT 8000 NSC 17/13 Q1017 RMK SCT SCT200 VIS MIN 8000 WIND THR11 VRB02KT WIND THR29 /////KT BLU VTCC 240800Z 17003KT 7000 FEW025CB 38/15 Q1006 NOSIG KPRS 240755Z AUTO 03011KT 10SM CLR 23/08 A3002 RMK AO2 T02300081 LGSK 240750Z 06004KT CAVOK 19/12 Q1016 KPTB 240755Z AUTO 06006KT 10SM -RA SCT085 OVC110 13/07 A3023 RMK AO2 T01300067 KT20 240755Z AUTO 00000KT 10SM CLR 16/13 A3002 RMK AO2 T01590133 KPSK 240755Z AUTO 09013G19KT 10SM OVC010 10/09 A3010 RMK AO2 T00950086 LIBC 240750Z 30003KT CAVOK 24/10 Q1019 KRAL 240753Z AUTO 32003KT 10SM CLR 17/09 A3001 RMK AO2 SLP145 T01670094 403060128 KPSM 240256Z COR 19005KT 10SM CLR 08/M05 A3039 RMK AO2A SLP294 T00801048 50003 COR 0257 ETNL 240720Z 23011KT 9999 FEW040 BKN046 11/06 Q1011 BLU BLU VTBO 240800Z 25011KT 7000 TS FEW018CB FEW020 32/28 Q1007 CB NE KRBD 240753Z AUTO 00000KT 10SM CLR 14/11 A3002 RMK AO2 SLP162 T01390111 LGSM 240750Z 01006KT CAVOK 20/11 Q1015 LIBD 240750Z VRB03KT 260V020 CAVOK 23/13 Q1018 KPTD 240755Z AUTO 18007KT 10SM OVC032 12/M04 A3022 RMK AO2 LHKE 240745Z 27006KT 230V310 CAVOK 18/14 Q1017 NOSIG RMK BLU KPSN 240755Z AUTO 00000KT 10SM CLR 11/10 A3003 RMK AO2 T01100106 LIBF 240750Z 00000KT CAVOK 22/15 Q1018 ETNN 240720Z 28007KT 9999 SCT060 BKN140 BKN220 12/06 Q1017 BLU BLU VTCH 240800Z 20003KT 8000 SCT025 39/16 Q1003 LGRX 240750Z 00000KT CAVOK 21/16 Q1017 LGSO 240750Z VRB03KT CAVOK 21/09 Q1017 KPSO 240755Z AUTO 00000KT 10SM CLR 03/M10 A3020 RMK AO2 T00301097 KPRX 240756Z AUTO 25004KT 10SM CLR 11/10 A3002 RMK AO2 SLP181 T01110100 KQKG 240055Z AUTO RMK AO2 SLPNO WND DATA ESTMD PWINO PNO TSNO $ LIBG 240750Z 25003KT CAVOK 22/13 Q1017 KRAP 240752Z AUTO 33030G36KT 9SM -RA OVC012 02/01 A3030 RMK AO2 PK WND 32037/0700 SLP265 P0000 T00220006 KPSP 240753Z AUTO 16005KT 10SM CLR 26/04 A2989 RMK AO2 SLP116 T02560039 403720194 KRBG 240753Z AUTO 00000KT 10SM CLR 11/07 A3005 RMK AO2 SLP175 T01110072 402780039 LGTG 240750Z VRB03KT CAVOK 23/07 Q1018 BLU LIBH 240655Z 25005KT CAVOK 20/15 Q1017 RMK SKC QUK 1 QUL 0 VIS MAR 15 KM VIS MIN 9999 VTBS 240800Z 20012KT 160V250 9999 FEW020TCU 34/24 Q1006 NOSIG LGSR 240750Z 34008KT CAVOK 19/07 Q1016 VTCL 240800Z VRB02KT 7000 SCT025 39/22 Q1004 NOSIG KRCA 240756Z 32025G33KT 6SM -RA OVC006 02/02 A3029 RMK AO2A PK WND 34034/42 SLP264 P0000 T00180018 $ VTBU 240800Z 14008KT 9999 FEW020 32/24 Q1007 NOSIG LICA 240750Z 23005KT 190V260 9999 BKN020 18/14 Q1021 ETNS 240739Z 25018KT 7000 BKN009 10/09 Q1009 REDZ GRN GRN TEMPO YLO LICB 240750Z VRB03KT CAVOK 23/06 Q1020 KPTK 240753Z AUTO 00000KT 10SM FEW042 SCT080 OVC095 12/07 A3012 RMK AO2 SLP199 T01170072 KPUB 240753Z AUTO 02030G44KT 10SM CLR 09/03 A3012 RMK AO2 PK WND 01049/0722 PRESRR SLP162 T00890033 ETNT 240720Z 23011KT 9999 BKN012 11/09 Q1012 GRN WHT TEMPO GRN VTCN 240800Z 15004KT 100V210 6000 NSC 37/20 Q1004 NOSIG KPUC 240753Z AUTO 33008KT 10SM CLR 08/M07 A3018 RMK AO2 SLP179 T00781072 LICC 240750Z VRB02KT CAVOK 24/09 Q1019 KRBL 240754Z AUTO 31003KT 10SM CLR 14/06 A2995 RMK AO2 SLP140 T01440061 403060128 LICD 240750Z 23005KT CAVOK 19/15 Q1021 LIBN 240655Z VRB03KT CAVOK 17/10 Q1018 RMK FEW FEW200 VIS MIN 9999 WIND THR14 VRB03KT WIND THR32 VRB03KT BLU VTCP 240800Z 24006KT 200V280 3500 HZ FEW025 39/22 Q1004 NOSIG KRAW 240815Z AUTO 00000KT 10SM CLR A3003 RMK AO2 KRCE 240755Z AUTO 08003KT 10SM 12/08 A3005 RMK AO2 KPTN 240756Z AUTO 31004KT 10SM CLR 16/14 A3000 RMK AO2 SLP160 T01610144 KQN3 240756Z AUTO 22010G17KT 170V270 6000 HZ FEW190 33/17 A2982 RMK AO2 SLP089 WND DATA ESTMD T03250172 ETNW 240750Z 24014KT 9999 -RA FEW015 BKN020 OVC100 11/06 Q1014 WHT WHT TEMPO GRN LICF 240655Z 05008KT CAVOK 18/15 Q1019 RMK SKC QUK 2 QUL 0 VIS MAR 14 KM MON LIB NC VIS MIN 9999 KPSX 240753Z AUTO 03007KT 10SM CLR 15/15 A3002 RMK AO2 SLP165 T01500150 KRBO 240755Z AUTO 00000KT 10SM CLR 15/12 A3001 RMK AO2 T01520122 LICG 240755Z 19009KT CAVOK 21/14 Q1020 LIBP 240750Z 03006KT 290V050 CAVOK 23/14 Q1017 KT35 240755Z AUTO 00000KT 10SM CLR 16/11 A3006 RMK AO2 T01550114 LGSY 240750Z 32005KT CAVOK 23/09 Q1016 BLU LIBQ 231355Z 27003KT 9999 BKN005 14/11 Q1021 VTCT 240800Z 14004KT 7000 NSC 35/24 Q1005 NOSIG LIBR 240750Z 02005KT CAVOK 18/16 Q1018 KQKR 240756Z AUTO 30007KT 9999 CLR 33/20 A2983 RMK AO2 SLPNO WND DATA ESTMD T03310204 KPTS 240755Z AUTO 00000KT 10SM CLR 08/06 A3003 RMK AO2 T00770063 LGTS 240750Z 30004KT CAVOK 19/12 Q1017 NOSIG LICJ 240750Z 27003KT CAVOK 18/12 Q1020 KPUJ 240755Z AUTO 00000KT 10SM OVC004 17/ A2985 RMK AO2 KPTT 240755Z AUTO 00000KT 10SM CLR 10/06 A3009 RMK AO2 T00970061 KPVB 240755Z AUTO 03004KT 10SM CLR 06/00 A3010 RMK AO1 T00630002 LICL 240655Z 00000KT CAVOK 17/10 Q1018 RMK SKC QUK 0 QUL 0 VIS MAR 18 KM VIS MIN 9999 KPVC 240756Z AUTO 20008KT 10SM CLR 06/02 A3043 RMK AO2 SLP305 T00560022 LIBV 240655Z 34002KT CAVOK 18/12 Q1018 RMK SCT SCT230 VIS MIN 9999 WIND THR32 35004KT WIND THR14 01002KT BLU KRCM 240735Z AUTO 32003KT 10SM CLR 12/00 A3003 RMK AO2 LTG DSNT W KPVD 240751Z AUTO 00000KT 10SM CLR 04/02 A3043 RMK AO2 SLP304 T00390022 KRDD 240753Z AUTO 32006KT 10SM CLR 14/07 A2994 RMK AO2 SLP135 T01440067 403110128 KPTV 240756Z AUTO 17006KT 10SM CLR 16/08 A2995 RMK AO2 SLP150 T01610078 ETOU 240756Z AUTO 26010KT 9999 CLR 15/09 A3008 RMK AO2 SLP187 T01470091 GCGM 240800Z 01008G18KT 320V110 9999 SCT035 BKN045 18/11 Q1020 RMK R09/VRB05KT ARP/04006KT 320V100 GCFV 240800Z 36012KT 9999 FEW022 18/14 Q1018 KPTW 240754Z AUTO 00000KT 10SM CLR 04/M04 A3038 RMK AO2 SLP287 T00441039 KRBW 240755Z AUTO 18005KT 10SM OVC007 19/18 A2988 RMK AO2 KPVE 240755Z AUTO 27004KT 10SM OVC075 13/13 A2989 RMK A01 KPVF 240755Z AUTO 10006KT 10SM CLR 16/ A3005 RMK AO1 LIBY 240655Z 01005KT CAVOK 20/10 Q1017 RMK FEW FEW200 QUK 1 QUL 0 VIS MAR 12 KM VIS MIN 9999 KRDG 240754Z AUTO 00000KT 10SM CLR 07/M01 A3035 RMK AO2 SLP284 T00671006 KPVG 240756Z AUTO 08005KT 10SM OVC110 14/09 A3023 RMK AO2 SLP238 T01440094 TSNO LICR 240750Z 35013KT CAVOK 22/10 Q1019 KRCR 240755Z AUTO 07004KT 10SM SCT022 BKN047 BKN110 11/09 A3005 RMK AO2 GCHI 240800Z 01015KT 330V030 9999 SCT025 19/14 Q1021 KPWA 240753Z AUTO 25003KT 10SM CLR 10/08 A3006 RMK AO2 SLP172 T01000083 LIEA 240750Z VRB01KT CAVOK 18/13 Q1019 KPVJ 240755Z AUTO 00000KT 10SM CLR 12/12 A3004 RMK AO2 T01170117 LIEB 240655Z 22002KT CAVOK 21/11 Q1019 RMK SCT SCT200 QUK 1 QUL 0 VIS MAR 30 KM MON LIB VIS MIN 9999 LICT 240755Z 21005KT CAVOK 21/12 Q1020 KRDK 240755Z AUTO 00000KT 10SM CLR 07/01 A3012 RMK AO2 LIEC 240655Z 07005KT CAVOK 18/08 Q1019 RMK BKN SCT070 SCT090 BKN200 QUK 0 QUL 0 VIS MAR 18 KM VIS MIN 9999 KPWC 240755Z AUTO 00000KT 10SM CLR 03/M02 A3019 RMK AO2 LIED 240655Z 33004KT 9999 FEW010 15/11 Q1019 RMK BKN BKN200 VIS MIN 9999 WIND THR35 30003KT WIND THR17 /////KT BLU KRCV 240755Z AUTO 25011KT 10SM CLR 04/M09 A3020 RMK AO2 T00431090 KQND 240756Z AUTO 00000KT 9999 CLR 36/20 A2987 RMK AO2 SLPNO WND DATA ESTMD T03630199 KRDM 240756Z AUTO 29006KT 10SM CLR 06/M04 A3029 RMK AO2 SLP255 T00561044 401891056 KPUW 240753Z AUTO 06004KT 10SM CLR 06/M01 A3038 RMK AO2 SLP295 T00611011 401671017 LIEE 240750Z VRB02KT CAVOK 17/12 Q1020 KRCX 240755Z AUTO 00000KT 10SM CLR 02/M02 A3014 RMK AO2 T00181017 KPWG 240756Z AUTO 22003KT 10SM 13/11 A3007 RMK AO2 SLP191 T01330111 KREG 240755Z AUTO 00000KT 10SM CLR 13/12 A2999 RMK AO2 T01340122 TSNO LICZ 240655Z 28003KT CAVOK 16/11 Q1019 RMK SKC VIS MIN 9999 WIND THR28 26004KT WIND THR10 28003KT A3011 BLU KRCZ 240755Z AUTO 09009G14KT 5SM -RA OVC008 15/15 A2997 RMK AO2 P0014 T01510151 KRDR 240756Z 35011KT 10SM OVC080 07/01 A3027 RMK AO2 SLP259 T00690010 ETSA 240720Z AUTO 24009KT 9999 // ////// 15/10 Q1021 /// KPWK 240752Z AUTO 00000KT 10SM BKN090 OVC110 09/00 A3007 RMK AO2 SLP184 T00940000 ETSB 240720Z 23012KT 9999 FEW012 BKN200 09/05 Q1018 BLU+BLU+ KRDU 240751Z 08010KT 6SM -RA BR FEW007 BKN022 OVC050 12/12 A3009 RMK AO2 SLP188 P0008 T01220117 KPVU 240756Z AUTO 13005KT 10SM CLR 08/M01 A3021 RMK AO2 SLP204 T00831006 KPWM 240751Z AUTO 21004KT 10SM CLR 04/M04 A3037 RMK AO2 SLP283 T00441039 KRFD 240754Z 02006KT 10SM BKN120 OVC180 11/M03 A3010 RMK AO2 SLP191 T01061033 KPXE 240755Z AUTO 25007KT 10SM SCT049 15/13 A2986 RMK AO2 T01540134 KPVW 240755Z AUTO 14007KT 10SM CLR 10/03 A3005 RMK AO2 T01010031 KREO 240752Z AUTO 00000KT 01/M10 A3027 RMK AO1 SLP253 T00111100 $ LIEO 240750Z 20003KT 150V250 CAVOK 22/09 Q1019 KT65 240750Z AUTO 24003KT 10SM BKN110 19/16 A3002 RMK AO2 T01850160 ETSH 240720Z 20006KT 9999 FEW190 BKN250 14/08 Q1015 BLU+BLU+ KRFI 240755Z AUTO 00000KT 10SM CLR 10/10 A3003 RMK AO2 T01000098 ETSI 240720Z 27009KT 9999 FEW015 SCT045 BKN300 15/11 Q1020 BLU+BLU+ LHPA 240745Z 32012KT 290V350 9999 FEW023 SCT083 BKN200 19/13 Q1018 NOSIG RMK BLACK KRGA 240755Z AUTO 05003KT 10SM SCT038 BKN050 OVC055 11/10 A2993 RMK AO2 KPWT 240756Z AUTO 03004KT 10SM CLR 09/01 A3023 RMK AO2 SLP256 T00890011 402060028 KT70 240758Z AUTO 19004KT 10SM CLR 18/10 A2996 RMK AO2 SLP135 T01750099 ETSL 240720Z 24008KT 9999 FEW020 SCT060 14/11 Q1021 BLU+BLU+ ETSN 240720Z 28006KT 9999 FEW015 SCT050 BKN300 15/12 Q1020 BLU+ LGZA 240750Z 04004KT CAVOK 20/17 Q1018 GCLA 240800Z 03018G28KT 360V060 9999 SCT045 19/13 Q1021 KRGK 240755Z AUTO 00000KT 10SM CLR 04/M01 A3011 RMK AO2 FLKK 240800Z 09013KT 9999 FEW020 23/14 Q1024 KPYM 240752Z AUTO 20003KT 10SM CLR 04/01 A3043 RMK AO2 SLP304 T00390011 KT82 240755Z AUTO 32003KT 10SM CLR 11/08 A3006 RMK AO2 T01140075 LHPP 240745Z 02010KT 9999 FEW030 OVC200 19/12 Q1018 FMCH 240800Z 20020KT 9999 FEW020 32/21 Q1013 NOSIG KRHI 240753Z AUTO 00000KT 10SM CLR 01/M03 A3012 RMK AO2 SLP209 T00061033 LHPR 240745Z 31014KT CAVOK 19/14 Q1018 RMK BLU AGGH 240800Z 00000KT 5000M SH SCT006 FEW014 BKN025 24/24 Q1009 KRIC 240754Z 07008KT 10SM SCT045 OVC100 13/07 A3025 RMK AO2 SLP247 T01280072 KRID 240815Z AUTO 09013KT 10SM SCT043 OVC049 10/09 A3001 RMK AO2 KQRD 240758Z AUTO 00000KT 10SM CLR 13/13 A2995 RMK AO2 SLP146 KPYX 240755Z AUTO 13008KT 10SM CLR 11/07 A3006 RMK AO2 T01070065 KRHP 240755Z AUTO 00000KT 7SM RA OVC035 13/13 A2985 RMK AO2 P0004 T01260126 GCLP 240800Z 35016KT 9999 FEW025 SCT030 19/14 Q1019 NOSIG KPZQ 240755Z AUTO 00000KT 10SM CLR 01/M02 A3014 RMK AO2 T00051018 KQRH 240756Z AUTO 06007G13KT 350V110 9999 CLR 32/25 A2990 RMK AO2 SLP112 WND DATA ESTMD T03200248 KSAA 240755Z AUTO 35013KT 10SM OVC023 00/M03 A3033 RMK AO2 KRIL 240753Z AUTO 31019G25KT 10SM SCT120 12/M02 A3018 RMK AO2 SLP165 T01171017 KSAC 240753Z AUTO 21003KT 10SM CLR 14/11 A2995 RMK AO2 SLP140 T01390111 403000117 KSAD 240751Z AUTO 31009KT 10SM CLR 20/M09 A2999 RMK AO2 SLP106 T02001089 KRHV 240456Z VRB06KT 10SM SKC 16/10 A2999 FMEE 240800Z 36019KT 9999 FEW020 SCT086 BKN180 30/22 Q0999 NOSIG KSAF 240753Z AUTO 01005KT 10SM CLR 07/M08 A3011 RMK AO2 SLP116 T00721083 KQQY 240755Z AUTO 00000KT 10SM CLR 24/21 A2995 RMK AO2 SLP116 WND DATA ESTMD T02430210 KU16 232158Z AUTO 35007G18KT 10SM CLR 18/M11 A3013 RMK AO2 SLP823 T01831106 $ FMCZ 240800Z 18010KT 9999 SCT031 30/23 Q1012 NOSIG KSBA 240753Z AUTO 12008KT 1 3/4SM BR OVC003 12/11 A3000 RMK AO2 SLP157 T01170106 401780117 $ KRIV 240758Z AUTO 00000KT 10SM CLR 13/00 A3001 RMK AO2 SLP152 T01260003 403030074 KRKD 240756Z AUTO 25005KT 10SM CLR 05/01 A3037 RMK AO2 SLP285 T00500011 KSBD 240800Z AUTO 00000KT 10SM CLR 18/01 A3001 RMK AO2 T01790013 LHSM 240545Z 30006KT 9999 SCT040 BKN060 15/13 Q1017 ETWM 240720Z 23011KT 9999 OVC015 10/07 Q1014 WHT LHSN 240745Z 29006KT 250V320 CAVOK 18/13 Q1016 NOSIG RMK BLU KSAN 240806Z 36003KT 7SM BKN009 OVC250 15/12 A3002 RMK AO2 T01500122 KRIW 240753Z AUTO 03014G21KT 10SM OVC050 00/M04 A3041 RMK AO2 SLP307 T00001044 FMEP 240800Z AUTO 14010KT 110V170 //// // ////// 23/// Q1006 KSAR 240755Z AUTO 35004KT 5SM BR OVC003 13/13 A2996 RMK AO2 T01270127 KSAT 240751Z 00000KT 10SM FEW250 17/11 A3003 RMK AO2 SLP154 T01670111 KSBM 240753Z AUTO 34007KT 10SM CLR 08/00 A3007 RMK AO2 SLP186 T00780000 TSNO KSAV 240801Z AUTO 20007KT 10SM FEW005 SCT013 19/18 A2986 RMK AO2 T01890183 KSCD 240755Z AUTO 00000KT 10SM OVC047 13/13 A2990 RMK AO2 T01280128 KRLD 240755Z AUTO 00000KT 10SM CLR 05/01 A3034 RMK AO2 T00540011 LHUD 240745Z 33010KT CAVOK 22/14 Q1017 LJCE 240800Z VRB01KT 9999 FEW030 BKN070 19/12 Q1019 RMK BLU KSBN 240754Z AUTO 10006KT 10SM FEW020 OVC040 11/08 A3007 RMK AO2 SLP182 T01110083 GBYD 240800Z 32009KT CAVOK 21/15 Q1013 KSAW 240758Z AUTO 00000KT 10SM CLR 00/M05 A3011 RMK AO2 T00001047 KSCF 240755Z AUTO VRB05G11KT CLR 20/14 A3002 RMK A01 KSBO 240755Z AUTO 20004KT 10SM SCT048 17/17 A2986 RMK AO2 KRKP 240753Z AUTO 00000KT 9SM CLR 17/16 A3001 RMK AO2 SLP163 T01670156 $ KSBP 240756Z 30004KT 2 1/2SM BR OVC002 11/10 A3002 RMK AO2 SLP164 T01060100 402280094 KSCH 240149Z 18004KT 10SM CLR 15/M09 A3034 RMK LAST KSAZ 240755Z AUTO 32003KT 10SM CLR 04/M01 A3016 RMK AO2 KRKR 240800Z AUTO 00000KT 10SM CLR 10/09 A3001 RMK AO2 LIMA 240750Z VRB03KT CAVOK 20/09 Q1018 KRKS 240754Z AUTO 06016KT 10SM OVC017 00/M04 A3035 RMK AO2 SLP247 T00001044 KSDA 240755Z AUTO 04004KT 10SM CLR 06/00 A3012 RMK AO2 KSBS 240755Z AUTO 20005KT 10SM CLR 04/00 A3024 RMK AO1 T00400002 KSDB 240753Z AUTO 33017KT 10SM CLR 16/M02 A3012 RMK AO2 SLP150 T01561017 402390144 $ KSCK 240755Z AUTO 31006KT 10SM CLR 16/11 A2995 RMK AO2 SLP141 T01610111 403170106 LIMC 240750Z 11005KT 080V150 CAVOK 20/12 Q1018 NOSIG KSDC 240815Z AUTO 17006KT 10SM CLR 12/02 A3023 RMK AO2 KU42 240755Z AUTO 30010KT 10SM CLR 08/02 A3022 RMK AO1 T00790016 KRME 240753Z AUTO 10004KT 10SM CLR 09/M03 A3031 RMK AO2 SLP263 T00891028 LIME 240750Z 12003KT 070V150 CAVOK 20/13 Q1018 NOSIG KRKW 240755Z AUTO 07005KT 10SM FEW003 OVC050 12/11 A2988 RMK A01 P0009 LIMF 240750Z VRB02KT CAVOK 20/10 Q1018 KQVF 240756Z AUTO VRB06KT 9999 FEW023 SCT028 BKN170 30/27 A2995 RMK AO2 SLPNO WND DATA ESTMD T03030265 KSDF 240756Z 02006KT 10SM -RA BKN010 OVC044 13/12 A2993 RMK AO2 SLP132 P0001 T01280117 LIMG 240750Z 13007KT 9999 SCT020 SCT060 17/14 Q1019 KRMG 240753Z AUTO 00000KT 10SM OVC016 16/16 A2984 RMK AO2 SLP099 T01560156 KSBY 240754Z AUTO 10004KT 10SM CLR 08/04 A3032 RMK AO2 SLP270 T00780039 LIMH 240255Z /////KT CAVOK M05/M13 Q1024 RMK SKC MON CLD SCT VAL S FOSCHIA VIS MIN 9999 KSCR 240755Z AUTO 08010KT 7SM RA BKN009 OVC016 12/12 A3006 RMK AO2 T01180115 LIMJ 240750Z VRB02KT 9999 SCT070 18/14 Q1019 KSEA 240753Z 04010KT 10SM CLR 14/01 A3023 RMK AO2 SLP241 T01390011 402060050 LIMK 231355Z 15006KT CAVOK 23/13 Q1017 FKYS 240700Z /////KT 9000 BKN007 24/22 Q1017 BECMG BKN011 KSDL 240753Z AUTO 00000KT 10SM CLR 22/03 A2993 RMK AO2 SLP110 T02220033 LIML 240750Z VRB03KT CAVOK 20/12 Q1018 NOSIG KRNC 240755Z AUTO 00000KT 1/4SM FG OVC003 13/12 A2987 RMK A01 KSDM 240753Z AUTO 00000KT 4SM BR BKN003 BKN007 13/12 A3001 RMK AO2 SLP158 T01330122 402330122 KRND 240756Z AUTO 00000KT 10SM CLR 14/12 A3003 RMK AO2 SLP164 T01430118 LIMN 240655Z 02003KT CAVOK 16/11 Q1017 RMK SKC VIS MIN 9999 BLU KSEE 240755Z AUTO 00000KT 10SM CLR 14/12 A3000 RMK AO2 KRMN 240755Z AUTO 10007KT 10SM SCT047 SCT050 OVC110 13/07 A3033 RMK AO2 T01280070 KSCX 240755Z AUTO 36004KT 9SM SCT004 BKN034 OVC060 12/11 A2990 RMK A01 P0007 KSEF 240755Z AUTO 23005KT 7SM OVC006 24/22 A2993 RMK AO2 LTG DSNT E T02380220 LIMP 240750Z 27003KT CAVOK 19/12 Q1018 KSEG 240753Z AUTO 30004KT 10SM CLR 06/01 A3033 RMK AO2 SLP271 T00610011 KRNH 240755Z AUTO 03003KT 10SM CLR 03/01 A3013 RMK AO2 T00320010 LIMS 240755Z 01003KT CAVOK 20/17 Q1017 KROA 240754Z 09010KT 060V120 10SM -RA BKN019 BKN025 OVC044 11/08 A3019 RMK AO2 SLP219 P0011 T01060083 KSFB 240753Z AUTO 21005KT 10SM CLR 21/20 A2992 RMK AO2 SLP129 T02110200 LIMU 240655Z 01009KT 8000 BKN002 16/16 Q1018 RMK OVC QUK 3 QUL 1 E VIS MAR 8 KM VIS MIN 8000 KROC 240754Z 20009KT 10SM SCT200 OVC250 14/04 A3022 RMK AO2 SLP234 T01440039 LIMV 231355Z /////KT CAVOK 18/13 Q1019 KRNM 240753Z AUTO 00000KT 10SM CLR 10/08 A3001 RMK AO2 SLP150 T01000078 403000050 KSEM 240755Z AUTO 00000KT A2992 RMK AO2 PWINO LIMW 240750Z AUTO VRB01KT 9999 NCD 18/06 Q1020 VTPH 240800Z 15014KT 9000 FEW030 33/26 Q1006 NOSIG KSFF 240753Z AUTO 00000KT 10SM CLR 05/M01 A3039 RMK AO2 SLP294 T00501006 401941011 KRNO 240755Z 29004KT 10SM CLR 12/M03 A3018 RMK AO2 SLP184 T01171033 402330067 LIMY 240655Z VRB01KT CAVOK 15/13 Q1017 RMK FEW FEW190 VAL FOSCHIA VIS MIN 9999 KRNP 240755Z AUTO 00000KT 10SM OVC080 12/07 A3013 RMK AO2 T01220065 KSDY 240756Z AUTO 30009KT 10SM CLR 01/M04 A3044 RMK AO2 SLP332 T00111039 FZRANO KSEP 240755Z AUTO 00000KT 10SM CLR 12/09 A3009 RMK AO2 T01170086 KRMY 240755Z AUTO 08003KT 10SM SCT055 OVC100 11/09 A3009 RMK AO2 T01050091 KROG 240758Z AUTO 32003KT 10SM CLR 11/07 A3003 RMK AO2 SLP162 T01060067 LIMZ 240750Z 00000KT CAVOK 18/12 Q1018 LIPA 240655Z 21001KT 9999 FEW080 19/14 Q1017 RMK FEW VIS MIN 9999 WIND THR05 /////KT WIND THR23 /////KT A3004 BLU GCRR 240800Z 35009KT 320V020 9999 FEW025 18/14 Q1018 KU68 240755Z AUTO 27004KT 10SM OVC090 00/M02 A3047 RMK AO2 VTPM 240800Z 26012KT 230V290 9000 SCT035 37/19 Q1006 NOSIG KRNT 240753Z AUTO 33006KT 10SM CLR 11/05 A3023 RMK AO2 SLP240 T01110050 402000044 LIPB 240750Z 05003KT CAVOK 20/12 Q1018 KSET 240754Z AUTO 04009KT 7SM OVC008 13/12 A2998 RMK AO2 SLP149 T01330122 LIPC 240755Z 25002KT CAVOK 20/13 Q1016 FNBC 240700Z VRB03KT 0900 FG BKN012 23/// Q1014 VTPO 240800Z 13003KT 4000 HZ FEW025 38/23 Q1003 NOSIG KRNV 240755Z AUTO 29011KT 10SM SCT016 BKN022 OVC036 14/14 A2994 RMK AO2 T01400140 KSFM 240756Z AUTO 23008KT 10SM CLR 04/M04 A3038 RMK AO2 SLP291 T00441044 KRPD 240755Z AUTO 00000KT 10SM CLR 02/01 A3015 RMK AO2 T00170008 VTPP 240800Z 22006KT 180V280 7000 FEW025 37/22 Q1004 NOSIG LIPE 240750Z 34003KT 290V050 CAVOK 20/12 Q1018 KQWX 231955Z AUTO VRB02KT 12SM CLR 23/M02 A3015 RMK AO2 SLP202 WND DATA ESTMD T02271023 LIPF 240755Z 24003KT 6000 NSC 19/16 Q1017 KSGF 240752Z AUTO 00000KT 10SM CLR 08/05 A3000 RMK AO2 SLP157 T00780050 $ KSFO 240756Z 30004KT 10SM FEW008 SCT200 12/08 A3002 RMK AO2 SLP164 T01220083 402330111 FNBG 240800Z 00000KT CAVOK 32/24 Q1012 LIPH 240750Z 02003KT 300V080 CAVOK 19/12 Q1018 KSGH 240756Z AUTO 09011KT 10SM 11/09 A3003 RMK AO2 SLP171 T01060089 $ KSEZ 240755Z AUTO 02003KT 10SM CLR 17/M07 A3012 RMK AO2 KRPH 240755Z AUTO 00000KT 11/09 A3003 RMK AO2 T01070094 PWINO KSFQ 240755Z AUTO 07006KT 10SM OVC100 14/10 A3022 RMK AO2 T01390104 LIPI 240655Z 01003KT CAVOK 17/12 Q1017 RMK SCT SCT150 VIS MIN 9999 WIND THR06 01003KT WIND THR24 /////KT BLU KROS 240756Z AUTO 00000KT 10SM SCT110 03/01 A3013 RMK AO2 T00280013 KSGJ 240756Z AUTO 24006KT 10SM CLR 21/20 A2991 RMK AO2 SLP127 T02060200 KRPJ 240755Z AUTO 03003KT 10SM OVC080 10/00 A3007 RMK AO2 T00951002 LIPK 231550Z 08004KT CAVOK 24/15 Q1015 FNCA 240800Z 25008KT 9999 SCT010 FEW030CB BKN080 28/25 Q1013 EVLA 240750Z AUTO 24015KT 9999 BKN050/// 09/06 Q1007 KRQB 240755Z AUTO 00000KT 10SM SCT120 09/04 A3010 RMK AO2 T00900037 LIQC 240655Z 00000KT 9999 SCT020 17/15 Q1020 RMK SCT QUK 1 QUL 0 VIS MAR 10 KM VIS MIN 9999 LIPL 240655Z 14003KT 7000 FEW070 18/14 Q1017 RMK SCT SCT200 VIS MIN 7000 WIND THR31 13004KT WIND THR13 14003KT WHT KSHD 240755Z AUTO 08003KT 10SM DZ SCT034 OVC080 11/05 A3026 RMK AO2 T01090051 KROW 240751Z AUTO 23004KT 10SM CLR 15/M01 A3000 RMK AO2 SLP104 T01501006 KRQE 240753Z AUTO 00000KT 10SM CLR 07/M12 A3018 RMK AO2 SLP127 T00721122 TSNO LIPO 240750Z 09002KT 6000 NSC 20/13 Q1018 KROX 240755Z AUTO 34008KT 10SM OVC060 06/02 A3025 RMK AO2 KQZF 240755Z AUTO 32008G15KT 4SM HZ CLR 34/19 A2990 RMK AO2 SLP101 WND DATA ESTMD T03380189 $ KSFY 240755Z AUTO 35003KT 10SM CLR 10/00 A3008 RMK AO2 T01020000 LIPQ 240750Z VRB01KT CAVOK 20/09 Q1017 KSFZ 240756Z AUTO 10SM CLR 03/M01 A3041 RMK AO2 SLP245 T00281006 $ VTSB 240800Z 28003KT 9999 SCT020 36/23 Q1006 KSGR 240753Z AUTO 00000KT 10SM CLR 15/13 A3003 RMK AO2 SLP170 T01500133 LIPR 240745Z 09001KT CAVOK 21/13 Q1017 LIPS 240655Z 10002KT 7000 NSC 17/13 Q1018 RMK SCT SCT200 VIS MIN 7000 WIND THR26 00000KT WIND THR08 09002KT WHT VTSC 240800Z 02009KT 350V050 9999 FEW022 31/25 Q1006 NOSIG LIRA 240750Z VRB02KT CAVOK 18/14 Q1020 KSGS 240755Z AUTO 00000KT 10SM CLR 07/02 A3012 RMK AO2 T00700023 KSGT 240756Z AUTO 31007KT 10SM OVC030 14/13 A2996 RMK AO2 SLP145 T01390133 GCTS 240800Z 30005KT 280V340 9999 FEW038 19/14 Q1020 NOSIG LIPU 240600Z VRB03KT 5000 BR NSC 15/14 Q1017 VTSE 240800Z 14006KT 110V180 9000 FEW024 32/26 Q1006 NOSIG KSHL 240755Z AUTO 00000KT 10SM OVC095 06/05 A3014 RMK AO2 KSGU 240756Z AUTO 05007KT 10SM CLR 21/00 A2999 RMK AO2 SLP124 T02060000 VTSF 240800Z 06007KT 030V110 9999 FEW018 34/23 Q1006 NOSIG LIQN 240800Z 00000KT CAVOK 16/12 Q1020 LIRE 240655Z 12006KT 5000 BR SCT010 SCT030 17/16 Q1019 RMK OVC VIS MIN 5000 WIND THR13 13006KT WIND THR31 100005KT WHT VTSG 240800Z 22009KT 190V250 9999 FEW018TCU 31/25 Q1008 KSHN 240753Z AUTO 36005KT 10SM CLR 12/02 A3019 RMK AO2 SLP225 T01170022 402281017 LIQO 231355Z 24010KT CAVOK 21/02 Q1019 VTSH 240800Z 30004KT 9999 VCSH FEW018CB SCT020 32/25 Q1006 NOSIG LIRF 240750Z 13004KT 070V240 6000 FEW008 19/16 Q1020 NOSIG LIPX 240750Z VRB03KT 7000 NSC 19/13 Q1018 KSIF 240755Z AUTO 08005KT 7SM RA OVC006 10/10 A3011 RMK AO2 P0008 T01020101 KRQO 240755Z AUTO 00000KT 10SM CLR 10/08 A3007 RMK AO2 T01020076 LIRG 240755Z 14002KT CAVOK 19/15 Q1020 LIPY 240750Z 25004KT 200V280 CAVOK 23/11 Q1017 WMBA 240800Z 29006KT 210V350 9999 FEW017CB SCT140 BKN280 32/24 Q1007 LIRH 240755Z 00000KT 2000 BR BKN006 BKN020 15/14 Q1020 LIPZ 240750Z 36004KT 330V040 9999 FEW050 18/12 Q1018 NOSIG VTSK 240200Z 00000KT 9999 FEW025 SCT100 29/24 Q1009 LIRI 240750Z VRB03KT 7000 SCT030 19/14 Q1020 KSHR 240753Z AUTO 30009KT 9SM -SN OVC022 01/01 A3049 RMK AO2 SNE20B51 SLP357 P0000 T00110006 FMMI 240800Z 13007KT 080V190 9999 SCT017 BKN020 21/15 Q1019 NOSIG FMNA 240600Z 00000KT 9999 SCT020 30/23 Q1011 LIRK 240655Z AUTO /////KT //// ///// Q//// VTSM 240800Z 12006KT 9000 FEW020 32/24 Q1008 NOSIG KSIK 240815Z AUTO 34004KT 7SM BKN015 BKN031 13/12 A2992 RMK AO2 LIRL 240755Z 17004KT 9999 FEW030 19/17 Q1020 KSJC 240753Z AUTO 29003KT 9SM CLR 13/11 A3002 RMK AO2 SLP166 T01330106 402890122 KRRL 240755Z AUTO 00000KT 10SM CLR M01/M03 A3012 RMK AO2 T10091028 LIRM 240755Z /////KT 4000 BR BKN016 19/17 Q1019 KTAD 240807Z AUTO 34018G34KT 10SM CLR 11/02 A3010 RMK AO2 PK WND 35034/0758 WSHFT 0747 T01060022 KSHV 240756Z 25005KT 10SM CLR 13/12 A2998 RMK AO2 SLP149 T01330117 LIQW 240755Z 33003KT CAVOK 18/14 Q1019 VTSP 240800Z VRB02KT 9999 FEW020 BKN100 29/25 Q1009 NOSIG LIRN 240750Z VRB02KT 9999 FEW010 19/14 Q1020 NOSIG VTSR 240800Z 29007KT 260V330 9999 SCT025 BKN040 33/26 Q1007 NOSIG LIRP 240745Z VRB02KT CAVOK 15/15 Q1019 NOSIG VTSS 240800Z 30010KT 9999 FEW020 SCT100 31/23 Q1007 NOSIG LIRQ 240750Z VRB01KT 9999 SCT080 15/11 Q1020 VTST 240800Z 13006KT 8000 FEW020 27/25 Q1007 WMAU 240800Z VRB08KT 8000 TS FEW017CB SCT020 BKN260 30/24 Q//// QFF1007 KSKA 240658Z AUTO 00000KT 10SM CLR 08/M04 A3036 RMK AO2 SLP289 T00841041 $ LIRS 240755Z 09001KT CAVOK 18/11 Q1019 FMMS 240600Z 23014KT 9999 BKN017 27/22 Q1013 LIRT 240655Z 33006KT CAVOK 15/10 Q1021 RMK SCT SCT170 MON W INVIS VAL W NW MAR CLD VIS MIN 9999 VTUD 240800Z 18007KT 150V250 8000 FEW020CB 37/22 Q1005 NOSIG KRRT 240755Z AUTO 32006KT 10SM OVC060 06/01 A3025 RMK AO2 LIRU 240750Z 00000KT 8000 NSC 18/16 Q1020 KRSL 240753Z AUTO 36005KT 10SM CLR 09/06 A3011 RMK AO2 SLP193 T00940056 FMMT 240800Z 24009KT 200V260 9999 SCT017TCU SCT033 28/22 Q1012 NOSIG FNDU 240700Z 00000KT CAVOK 25/// Q1016 LIRV 240755Z /////KT CAVOK 16/11 Q1019 FMNM 240800Z 24006KT 9999 FEW20 31/22 Q1010 NOSIG KTAN 240752Z AUTO 00000KT 10SM CLR M01/M02 A3042 RMK AO2 SLP302 T10061022 KSJN 240754Z AUTO VRB03KT 10SM CLR 13/M08 A3015 RMK AO2 SLP129 T01281078 TSNO KRSN 240755Z AUTO 00000KT 10SM CLR 14/12 A3001 RMK AO2 T01350120 FMNN 240800Z 22004KT 9999 BKN020 31/// Q1011 LIRX 240655Z 14010KT CAVOK 15/11 Q1019 RMK SCT FEW070 SCT200 VIS MIN 9999 VIS MAR 30 KM KSKF 240756Z AUTO 00000KT 10SM CLR 14/11 A3001 RMK AO2 SLP157 T01410111 $ VVCI 240800Z 15006KT 110V170 9999 OVC035 28/24 Q1006 NOSIG VTUI 240800Z 23006KT 190V270 7000 SCT030 38/21 Q1004 NOSIG KSIY 240753Z AUTO 03007KT 10SM CLR 12/M03 A3011 RMK AO2 SLP194 T01171033 402390033 KRSP 240754Z AUTO 16009KT 10SM SCT110 08/M03 A3030 RMK AO2 SLP267 T00781028 $ LIRZ 240750Z VRB01KT CAVOK 16/11 Q1020 VTUK 240800Z VRB06KT 9999 FEW025 40/24 Q1005 NOSIG VTUL 240800Z 22003KT 110V280 5000 HZ FEW025 37/23 Q1005 NOSIG KSJS 240755Z AUTO 11006KT 10SM -RA SCT100 BKN120 15/08 A2996 RMK AO2 T01450081 KSJT 240751Z AUTO 00000KT 10SM CLR 14/05 A3002 RMK AO2 SLP151 T01440050 KRST 240754Z AUTO 12003KT 10SM CLR 06/02 A3013 RMK AO2 SLP205 T00560017 KSLB 240755Z AUTO 05006KT 10SM CLR 09/04 A3014 RMK AO2 KTCC 240753Z AUTO 17010KT 10SM CLR 16/03 A2999 RMK AO2 SLP104 T01560028 KSLC 240754Z 35003KT 10SM CLR 08/02 A3021 RMK AO2 SLP208 T00780022 VTUO 240800Z 22008KT 170V280 8000 SCT030 39/23 Q1005 A2970 NOSIG KRSV 240755Z AUTO 03005KT 10SM OVC055 10/10 A2996 RMK AO2 T01010100 KRSW 240753Z 25006KT 6SM BR CLR 22/22 A2994 RMK AO2 SLP135 T02220222 KRTN 240753Z AUTO 01007KT 10SM CLR 07/M01 A3011 RMK AO2 SLP132 T00721006 KRUE 240753Z AUTO 00000KT 8SM CLR 09/09 A2997 RMK AO2 SLP146 T00940089 KSLE 240756Z AUTO 00000KT 10SM CLR 09/00 A3013 RMK AO2 SLP201 T00890000 402560039 KTBN 240756Z AUTO 33004KT 10SM FEW050 12/10 A2998 RMK AO2 SLP153 T01220099 $ VTUQ 240800Z 22006KT 190V270 9999 SCT025 39/21 Q1006 NOSIG KSJX 240755Z AUTO 00000KT 10SM CLR 01/M02 A3011 RMK AO2 T00051017 VVCR 240800Z 17013KT 9999 FEW017 35/23 Q1007 NOSIG GCXO 240800Z 32016G27KT 280V350 3500 1200NW R12/1400D PRFG BKN003 13/13 Q1021 RERA NOSIG KRUG 240755Z AUTO 33008KT 10SM CLR 04/M02 A3034 RMK AO2 KSLG 240756Z AUTO 01003KT 10SM CLR 11/07 A3003 RMK AO2 SLP164 T01060067 KSLH 240755Z AUTO 00000KT 10SM CLR M01/M02 A3011 RMK AO2 T10081021 KTAZ 240755Z AUTO 04007KT 2 1/2SM RA OVC004 12/12 A2999 RMK AO2 P0002 T01200120 VVCT 240800Z VRB03KT 9999 BKN017 32/24 Q1006 NOSIG KSLI 240742Z AUTO 19003KT 7SM BKN005 12/11 A3002 RMK AO2 SLP169 KTBR 240755Z AUTO 21005KT 10SM SCT010 BKN031 OVC037 21/ A2985 RMK AO2 T0206 FNGI 231600Z VRB02KT 9999 FEW015 31/10 Q1017 VTUU 240800Z 24005KT 190V300 9999 FEW025 SCT100 37/24 Q1005 NOSIG LJLJ 240800Z 27004KT 240V300 9999 BKN065 16/10 Q1019 NOSIG KRTS 240755Z AUTO 00000KT 10SM CLR 04/M05 A3021 RMK AO2 VTUV 240800Z 22006KT 180V240 7000 SCT030 38/20 Q1005 NOSIG LJMB 240800Z VRB02KT 9999 FEW040 BKN110 20/10 Q1019 KSLK 240751Z AUTO 21003KT 10SM CLR M03/M07 A3026 RMK AO2 SLP257 T10281067 LIVC 231355Z 24004G14KT 9999 SCT010 11/02 Q1025 VVDN 240800Z 09007KT 050V120 8000 FEW015 FEW017CB 30/25 Q1005 NOSIG VTUW 240800Z 26008KT 6000 -TSRA FEW018CB SCT030 BKN060 29/21 Q1005 TEMPO TL0900 3000 TSRA KTCL 240800Z AUTO 23003KT 10SM OVC031 14/13 A2991 RMK AO2 T01440133 LIVD 240655Z /////KT 9999 BKN006 11/09 Q1022 RMK BKN VIS MIN 9999 KTCM 240658Z AUTO 00000KT 10SM CLR 07/05 A3021 RMK AO2 SLP235 T00680053 $ LIVE 240655Z 05006KT 9999 FEW025 08/07 Q1021 RMK FEW VIS MIN 9999 KSLN 240753Z AUTO 32004KT 10SM CLR 10/06 A3010 RMK AO2 SLP187 T01000056 KSME 240755Z AUTO 09004KT 10SM -RA BKN080 OVC090 11/11 A2993 RMK AO2 P0006 LIVF 231355Z 24006KT 9999 FEW032 26/06 Q1017 KSMF 240753Z 17007KT 10SM CLR 14/12 A2993 RMK AO2 SLP135 T01440122 403000106 KSLO 240755Z AUTO 01003KT 4SM BR OVC004 14/13 A2995 RMK AO2 T01360126 KSKX 240756Z AUTO 36004KT 10SM CLR 04/M11 A3019 RMK AO2 SLP179 T00391106 $ KTDF 240755Z AUTO 07010KT 10SM -RA SCT007 BKN012 OVC024 11/10 A3013 RMK AO2 P0007 KRUQ 240755Z AUTO 07009G15KT 5SM -RA BKN007 OVC011 12/12 A3000 RMK AO2 P0007 T01200120 KSLR 240755Z AUTO 00000KT 10SM CLR 13/12 A3004 RMK AO2 T01250118 KSNA 240753Z AUTO 00000KT 9SM OVC008 13/12 A3002 RMK AO2 SLP164 T01330117 402170133 KTCS 240753Z AUTO 32006KT 10SM 21/M08 A3007 RMK AO2 SLP094 T02111078 $ KTEB 240751Z 00000KT 10SM MIFG CLR 07/04 A3040 RMK AO2 SLP292 T00720039 EVRA 240750Z 23009KT 200V260 9999 SCT025CB 13/08 Q1005 NOSIG KRUT 240756Z AUTO 11008KT 10SM CLR 04/M04 A3034 RMK AO2 SLP297 T00391044 $ KSNC 240755Z AUTO 20004KT 10SM CLR 05/04 A3041 RMK AO2 LKCV 240800Z 24005KT 200V260 9999 SCT025 18/13 Q1017 NOSIG KSMN 240756Z AUTO 00000KT 10SM CLR 01/M03 A3043 RMK AO2 SLP319 T00111028 FZRANO LIVO 240655Z 00000KT 9999 -RA BKN035 11/11 Q1020 RMK BKN VIS MIN 9999 KSMO 240751Z AUTO 00000KT 7SM OVC005 12/11 A3002 RMK AO2 SLP165 T01220111 401890117 KRWF 240753Z AUTO 00000KT CLR 08/05 A3013 RMK AO2 SLP206 T00830050 $ KSMP 240656Z AUTO VRB03KT 10SM CLR 05/M04 A3035 RMK AO2 SLP278 T00501039 401280000 LIVP 240555Z 01008KT CAVOK 05/04 Q1021 RMK FEW FEW200 MON LIB VAL FOSCHIA SKC SUP VIS MIN 9999 KSMQ 240753Z AUTO 00000KT 10SM CLR 02/01 A3038 RMK AO2 SLP288 T00170011 KSNH 240755Z AUTO 00000KT 10SM OVC014 13/13 A2990 RMK A01 LIVR 240655Z 09002KT CAVOK 06/03 Q1021 RMK BKN FEW080 SCT200 MON LIB VIS MIN 9999 KRWI 240753Z AUTO 06007KT 10SM -RA OVC048 14/12 A3013 RMK AO2 RAB02 SLP200 P0000 T01440117 KTDR 240756Z AUTO 30003KT 10SM CLR 17/12 A2993 RMK AO2 SLP139 T01650121 $ KRVS 240753Z AUTO 00000KT 10SM CLR 10/08 A3004 RMK AO2 SLP181 T01000083 KSMS 240755Z AUTO VRB03G10KT 7SM -DZ FEW008 SCT012 OVC024 18/17 A2992 RMK AO2 KSOA 240755Z AUTO 00000KT 10SM CLR 17/09 A3007 RMK AO2 LIVT 240655Z 00000KT CAVOK 17/14 Q1017 RMK SKC QUK 0 QUL 0 VIS MAR 20 KM VIS MIN 9999 KSNK 240755Z AUTO 10004KT 10SM CLR 15/04 A3005 RMK AO2 T01460038 KRWL 240753Z AUTO 04014KT 10SM BKN011 BKN015 OVC037 M01/M04 A3035 RMK AO2 CIG 009V013 SLP249 T10111039 KSNL 240755Z AUTO 00000KT 10SM CLR 11/09 A3005 RMK AO2 T01050094 FNHU 240800Z 09005KT CAVOK 22/14 Q1025 FMSD 240800Z 120//KT 9999 VCSH SCT016CB SCT033 24/22 Q1015 KRXE 240753Z AUTO 02009KT 10SM CLR 01/M03 A3036 RMK AO2 SLP294 T00111028 KSMX 240751Z AUTO 30004KT 1/2SM R12/3500VP6000FT FG VV002 11/11 A3002 RMK AO2 SLP169 T01110106 402060100 $ KTDZ 240753Z AUTO 05008KT 10SM OVC055 13/07 A3011 RMK AO2 SLP195 T01280067 $ KSNS 240753Z AUTO VRB03KT 7SM OVC009 11/09 A3004 RMK AO2 SLP180 T01110089 402110094 KSPA 240755Z AUTO 10006KT 4SM DZ OVC004 13/13 A2992 RMK AO2 P0003 KSNT 240751Z AUTO 00000KT M02/M04 A3036 RMK AO1 SLP255 T10221044 KSPB 240753Z AUTO 30006KT 10SM CLR 08/02 A3018 RMK AO2 SLP220 T00780022 402280028 KSPD 240756Z AUTO 19005KT 08/06 A3005 RMK AO1 SLP136 T00780056 KRWV 240755Z AUTO 02003KT 10SM CLR 14/12 A3005 RMK AO2 T01370117 KTEW 240755Z AUTO 00000KT 10SM BKN040 BKN070 OVC080 12/07 A3011 RMK AO2 T01210074 KSPF 240815Z AUTO 30012G19KT 2SM +UP OVC004 M00/00 A3038 RMK AO2 KTEX 240755Z AUTO 26003KT 10SM SCT080 SCT110 07/M02 A3030 RMK AO2 T00721023 KSNY 240753Z AUTO 34019G24KT 10SM BKN047 OVC060 03/01 A3028 RMK AO2 PK WND 33027/0712 RAB01E44UPB02E03 SLP237 P0000 T00280011 KSPG 240753Z AUTO VRB03KT 10SM FEW021 23/21 A2993 RMK AO2 SLP134 T02330211 KTFP 240755Z AUTO 00000KT 10SM CLR 17/16 A3000 RMK AO2 T01740162 PNO KSOP 240756Z AUTO 08015G19KT 6SM RA BR BKN005 OVC010 14/14 A3003 RMK AO2 CIG 003V008 SLP184 P0019 T01440144 KSPI 240752Z AUTO 01007KT 3SM -RA BR OVC005 13/13 A3000 RMK AO2 RAE0659B46 SLP158 P0000 T01330128 KTGI 240751Z AUTO 09012G17KT 10SM SCT050 13/09 A3028 RMK AO1 KTHA 240755Z AUTO 00000KT 3/4SM BR OVC002 13/13 A2986 RMK A01 KRYM 231756Z AUTO 27008KT 10SM CLR 18/03 A3020 RMK AO2 SLP236 T01790029 10181 21012 57012 $ KRYN 240245Z 33004KT 10SM CLR 27/M06 A2995 RMK LAST KSOW 240755Z AUTO 16006KT 10SM CLR 09/M10 A3022 RMK AO2 KSQI 240756Z AUTO 03005KT 10SM SCT110 11/M01 A3007 RMK AO2 SLP200 T01111011 $ KSPR 240755Z AUTO 30017KT 10SM SCT050 SCT060 20/15 A2999 RMK A01 KSPS 240752Z AUTO 08005KT 10SM CLR 13/09 A3003 RMK AO2 SLP163 T01280089 FNMA 240700Z 08006KT 9999 SCT020 20/18 Q1018 EVVA 240750Z AUTO 23011KT CAVOK 08/06 Q1005 KSRB 240755Z AUTO 00000KT 2SM BR FEW014 SCT055 BKN080 12/12 A2986 RMK A01 VIS 1V5 KSQL 240800Z AUTO 31004KT 10SM CLR 12/09 A3002 RMK AO2 KRZL 240755Z AUTO 04007KT 10SM OVC026 11/08 A3004 RMK AO2 KSRC 240756Z AUTO 8SM CLR 11/11 RMK AO2 SLPNO T01110111 $ FNKU 240700Z 17010KT CAVOK 20/13 Q1024 KRYV 240755Z AUTO 00000KT 10SM CLR 06/01 A3008 RMK AO2 T00620010 KSPW 240753Z AUTO 28003KT 7SM CLR 03/02 A3014 RMK AO2 SLP211 T00330017 KRYW 240755Z AUTO 09005KT 10SM CLR 17/10 A3005 RMK AO2 T01680100 KRZN 240755Z AUTO 00000KT 10SM CLR 02/00 A3013 RMK AO2 T00201005 KSRE 240755Z AUTO 34003KT 6SM HZ SCT050 BKN055 13/09 A3005 RMK AO2 KTIF 240755Z AUTO 32013G18KT 10SM OVC010 09/08 A3019 RMK AO2 T00940080 KRYY 240748Z AUTO 30004KT 10SM BKN009 OVC012 14/14 A2984 RMK AO2 SLPNO T01440139 WMKA 240800Z 24012KT 160V300 9999 FEW010 SCT020 BKN280 30/27 Q1007 LJPZ 240800Z 30003KT CAVOK 20/08 Q1018 WMKB 240800Z 34004KT 280V020 6000 -TSRA FEW010 FEW017CB SCT140 BKN260 27/25 Q1007 NOSIG KRZR 240755Z AUTO 00000KT 4SM BR OVC004 14/14 A2984 RMK A01 P0021 WMKC 240800Z 04010KT 010V090 9999 FEW017CB SCT018 BKN280 32/26 Q1006 WMKD 240800Z 27005KT 220V300 9999 FEW017CB BKN280 33/26 Q1005 NOSIG KRZT 240756Z AUTO 08005KT 10SM BKN075 OVC100 11/08 A3003 RMK AO2 KTIK 240756Z AUTO 05005KT 10SM CLR 15/09 A3005 RMK AO2 SLP175 T01490086 WMKE 240800Z 15006KT 100V210 9999 SCT018 SCT140 BKN270 31/25 Q1006 KSSC 240756Z AUTO 08006KT 10SM OVC008 17/17 A2988 RMK AO2 OVC V BKN SLP119 T01740167 $ GEML 240800Z VRB02KT 4600 -RA BR SCT013 BKN015 BKN022 17/15 Q1014 FNLU 240800Z 16006KT 8000 BKN022 29/25 Q1012 KTHV 240753Z AUTO 00000KT 10SM CLR 06/02 A3033 RMK AO2 SLP274 T00560017 KW13 240755Z AUTO 12009G16KT 10SM SCT033 SCT040 BKN085 11/05 A3023 RMK AO1 T01100051 KSSF 240753Z AUTO 00000KT 10SM CLR 16/13 A3001 RMK AO2 SLP154 T01560128 $ FNMO 240800Z 00000KT 9999 BKN012 28/24 Q1012 WMKI 240800Z 19005KT 130V240 9999 FEW017CB SCT140 BKN280 31/25 Q1007 KTIP 240755Z AUTO 04009KT 10SM SCT015 OVC026 12/12 A3001 RMK AO2 T01220121 WMKJ 240800Z VRB06KT 9999 FEW017CB BKN130 31/25 Q1006 KSRQ 240806Z AUTO 32006KT 10SM SCT014 BKN035 OVC049 23/22 A2993 RMK AO2 T02280217 WMKK 240800Z VRB04KT 9999 FEW017CB SCT140 BKN280 31/25 Q1006 NOSIG KSSI 240753Z AUTO 24007KT 9SM BKN008 19/19 A2987 RMK AO2 CIG 006V011 SLP116 T01940194 KSRR 240715Z AUTO 27007KT 10SM CLR 14/M07 A3021 RMK AO2 WMKL 240800Z 21004KT 130V270 9999 SCT022 SCT140 BKN270 29/26 Q1008 WMKM 240800Z VRB05KT 9999 FEW020 SCT140 BKN270 32/23 Q1006 LKKB 240800Z 24010KT 180V270 9999 SCT021 16/11 Q1017 NOSIG WMKN 240800Z 06006KT 010V150 9999 FEW017CB SCT024 BKN150 32/25 Q1006 RETS KSTC 240753Z AUTO 34005KT 10SM CLR 06/02 A3012 RMK AO2 SLP210 T00610022 KTKC 240755Z AUTO 22006KT 10SM CLR 09/04 A3014 RMK AO2 T00850039 KW22 240755Z AUTO 07006KT 10SM FEW003 SCT033 OVC070 10/08 A3012 RMK AO2 WMKP 240800Z VRB04KT 9000 FEW017CB BKN140 BKN270 29/25 Q1007 NOSIG KTIW 240753Z AUTO 01008KT 10SM CLR 13/01 A3021 RMK AO2 SLP229 T01330011 401940067 KUBE 240755Z AUTO 00000KT 10SM CLR 01/M01 A3012 RMK AO2 KSTE 240755Z AUTO 00000KT 10SM CLR M01/M04 A3013 RMK AO2 T10071039 KTIX 240047Z 18005KT 7SM SCT050 23/22 A2996 RMK LAST KSTF 240815Z AUTO 27003KT 10SM SCT006 BKN026 13/12 A2992 RMK AO2 KUAO 240753Z AUTO 05007KT 10SM CLR 17/M06 A3015 RMK AO2 SLP209 T01671061 402500072 $ LLBG 240750Z 31005KT 280V340 CAVOK 24/13 Q1013 NOSIG KTKI 240753Z AUTO 00000KT 10SM CLR 11/11 A3003 RMK AO2 SLP173 T01110111 KSTJ 240753Z AUTO 03006KT 10SM CLR 04/00 A3009 RMK AO2 SLP187 T00390000 KSUA 240755Z AUTO 21004KT 10SM CLR 23/22 A2995 RMK AO2 LTG DSNT E AND SE KW29 240755Z AUTO 11007KT 10SM CLR 11/03 A3033 RMK AO2 KSTL 240751Z 01006KT 7SM OVC007 13/13 A2998 RMK AO2 RAE19 SLP150 P0000 T01330128 KW31 240755Z AUTO 03004KT 10SM BKN040 BKN048 OVC070 11/09 A3018 RMK AO1 T01050091 KSUE 240756Z AUTO 00000KT 10SM CLR 05/M02 A3012 RMK AO2 SLP227 T00501017 KSTP 240753Z AUTO 00000KT 10SM CLR 08/04 A3013 RMK AO2 SLP202 T00780039 KTLH 240753Z AUTO 00000KT 10SM FEW042 14/12 A2992 RMK AO2 SLP132 T01440122 VVNB 240800Z 12007KT 9000 SCT020 BKN030 29/23 Q1006 NOSIG KSTS 240753Z AUTO 15005KT 7SM OVC006 12/11 A3000 RMK AO2 SLP152 T01170106 402780089 KTMA 240750Z AUTO 23004KT 10SM CLR 15/13 A2989 RMK AO2 T01460131 KTMB 240753Z AUTO 00000KT 10SM CLR 23/22 A2996 RMK AO2 SLP145 T02330217 LKKU 240800Z 18003KT 120V270 9999 FEW026 18/12 Q1017 KSVC 240755Z AUTO 35009KT 10SM CLR 12/M08 A3012 RMK AO2 T01241076 LKKV 240800Z 24006G17KT 200V280 9999 SCT016 13/10 Q1017 KTKV 240755Z AUTO 00000KT 10SM CLR M02/M04 A3013 RMK AO2 T10201043 FOGM 240800Z /////KT 9999 FEW011 BKN026 27/25 Q//// LKLN 240800Z AUTO 23011KT 9999 FEW029 16/09 Q1018 KSUN 240755Z AUTO 29003KT 10SM CLR 02/01 A3035 RMK AO2 KSVE 240755Z AUTO 29006KT 10SM CLR 06/00 A3018 RMK AO2 KTME 240755Z AUTO 00000KT 10SM CLR 14/13 A3005 RMK AO2 KW43 240755Z AUTO 35011KT 7SM OVC007 00/00 A3041 RMK AO2 KTKX 240755Z AUTO 33004KT 4SM BR BKN010 14/14 A2991 RMK AO2 FOGO 231400Z 00000KT 9999 FEW015 BKN033 26/21 Q//// KUCP 240756Z AUTO 10006KT 10SM -RA OVC055 12/09 A3020 RMK AO2 RAB01 SLP238 P0000 T01170089 KUDG 240756Z AUTO 09009KT 3SM +RA BR OVC007 17/16 A2994 RMK AO2 CIG 006V010 SLP145 P0020 T01670161 KSVH 240755Z AUTO 07010G15KT 3SM -RA OVC005 A2999 RMK AO2 P0006 FOGR 231500Z /////KT 8000 SCT010 BKN027 28/25 Q//// LKNA 240800Z 29009KT 9999 SCT020 16/11 Q1018 NOSIG KSUS 240754Z AUTO 01005KT 10SM OVC009 14/13 A2998 RMK AO2 SLP150 T01390128 KTNB 240755Z AUTO 11009G18KT 070V130 4SM RA BKN006 OVC011 08/08 A3002 RMK AO2 P0006 T00800080 400900073 KTMK 240755Z AUTO 03007KT 10SM CLR 16/M04 A3011 RMK AO2 KSUT 240755Z AUTO 12008G15KT 4SM RA BKN014 BKN021 OVC032 17/16 A3002 RMK AO2 P0013 T01670163 KSUU 240658Z AUTO 23017KT 10SM CLR 13/10 A2993 RMK AO2 SLP142 T01280103 $ KSUW 240755Z AUTO 17003KT 10SM CLR 02/00 A3014 RMK AO2 T00191002 KSVN 240756Z AUTO 23004KT 10SM SCT003 BKN007 OVC013 19/18 A2984 RMK AO2 CIG 003V007 BKN V OVC SLP108 T01940182 $ KSUX 240752Z AUTO 00000KT 10SM OVC100 08/05 A3015 RMK AO2 SLP210 T00830050 KSWF 240645Z 00000KT 10 SKC 07/01 A3039 KUCY 240755Z AUTO 00000KT M1/4SM FG OVC002 12/12 A2991 RMK A01 VVPB 240800Z 02006KT CAVOK 32/24 Q1005 NOSIG KTOA 240250Z 27012KT 10SM SCT180 12/11 A2996 RMK STRATUS S-N LAST FNSA 240800Z 06005KT CAVOK 26/16 Q1017 LKMT 240800Z VRB02KT 9999 FEW025 18/09 Q1017 NOSIG KTOB 240756Z AUTO 32003KT 10SM CLR 08/02 A3012 RMK AO2 KTMT 240755Z AUTO 00000KT 10SM CLR 01/M06 A3025 RMK AO2 T00061064 401971034 KTOC 240755Z AUTO 07004KT 3SM -RA OVC002 15/15 A2988 RMK AO2 T01520150 KW63 240755Z AUTO 05006KT 020V080 7SM BKN032 BKN043 OVC048 10/10 A3016 RMK AO1 P0011 KSWO 240753Z AUTO 00000KT 4SM BR CLR 11/08 A3005 RMK AO2 SLP168 T01060083 KTOI 240753Z AUTO 00000KT 10SM CLR 12/11 A2992 RMK AO2 SLP127 T01170106 KTPA 240753Z 28005KT 10SM BKN013 BKN024 23/20 A2995 RMK AO2 SLP140 T02280200 KUES 240755Z AUTO 00000KT 10SM BKN110 07/M02 A3008 RMK AO2 LLET 240750Z 03015KT CAVOK 26/09 Q1011 KTOL 240752Z 10006KT 10SM OVC055 13/08 A3010 RMK AO2 SLP191 T01330078 KTNU 240755Z AUTO 01008KT 10SM CLR 08/M01 A3010 RMK AO2 LKPD 240800Z 27004KT 9999 SCT015 BKN220 17/13 Q1017 NOSIG KSWW 240755Z AUTO 11010KT 10SM CLR 16/06 A3007 RMK AO2 T01630064 VVPQ 240800Z 22006KT 9999 FEW015 30/25 Q1007 NOSIG KTPF 240755Z AUTO 30004KT 10SM BKN014 OVC025 A2995 RMK AO2 KSYF 240755Z AUTO 33011KT 10SM -RA SCT006 OVC070 10/08 A3019 RMK AO2 T00950083 FNSO 240700Z 13004KT 9000 TSRA BKN015 FEW016CB ///// Q1012 KTOP 240753Z AUTO 00000KT 10SM CLR 08/05 A3008 RMK AO2 SLP182 T00830050 KW75 240755Z AUTO 10007KT 10SM OVC042 13/10 A3027 RMK AO1 T01250104 KTPH 240756Z AUTO 02010KT 10SM CLR 12/M07 A3016 RMK AO2 SLP156 T01171067 402390067 KTOR 240806Z AUTO 32020G24KT 10SM BKN023 OVC120 03/M01 A3032 RMK AO2 PK WND 32026/0755 T00281006 KSYI 240755Z AUTO 00000KT 1/2SM FG OVC002 13/12 A2987 RMK A01 LLHA 240750Z 36011KT CAVOK 22/13 Q1013 KSXS 240758Z AUTO 30004KT 10SM CLR 13/11 A2991 RMK AO2 SLP128 T01290110 KW78 240750Z AUTO 04007KT 5SM SCT034 BKN047 OVC050 10/10 A3016 RMK AO1 T01020095 KSXT 240756Z AUTO 10008G20KT 10SM CLR 13/M06 A3010 RMK AO2 PK WND 14026/0739 SLP156 T01281061 402060050 FNUB 240700Z VRB03KT 9999 FEW030 22/// Q1027 KTPL 240751Z AUTO 00000KT 10SM CLR 14/11 A3007 RMK AO2 SLP192 T01390106 TSNO KSXU 240755Z AUTO 00000KT 10SM CLR 12/M02 A3003 RMK AO2 T01201023 KW81 240755Z AUTO 05004KT 10SM SCT085 OVC100 11/11 A3020 RMK AO1 P0001 T01110105 FNSU 240800Z 00000KT 9999 SCT014 31/// Q1015 KSYM 240755Z AUTO VRB06KT 10SM -RA FEW027 BKN070 OVC090 12/08 A2997 RMK AO2 KSYN 240755Z AUTO 20003KT 10SM CLR 04/03 A3012 RMK AO2 T00430025 KTQE 240754Z AUTO 33006KT 10SM OVC110 05/02 A3014 RMK AO2 SLP201 T00500022 KUGN 240755Z AUTO 00000KT 10SM OVC095 08/01 A3006 RMK AO2 SLP180 T00780006 FNUE 240800Z 23007KT CAVOK 24/18 Q1021 FNUG 240800Z 21006KT 9000 FEW005 OVC014 23/21 Q1016 WMSA 240800Z 29006KT 250V030 9999 FEW019 BKN270 32/24 Q1007 KTQH 240755Z AUTO 00000KT 10SM CLR 07/05 A3003 RMK AO2 LKPR 240800Z 24014KT 9999 FEW023 16/11 Q1017 NOSIG KSYR 240754Z 15003KT 10SM FEW200 OVC250 11/M01 A3027 RMK AO2 SLP246 T01111006 LLIB 240750Z 12006KT 060V180 CAVOK 27/06 Q1014 KSZL 240756Z 00000KT 10SM CLR 10/02 A2999 RMK AO2A SLP156 T00960015 $ MBPV 232200Z 11010KT 9999 SCT012 28/19 Q1014 GFLL 240800Z 30004KT 9999 BKN011 27/22 Q1012 KW96 240755Z AUTO 06005KT 10SM SCT041 OVC046 12/07 A3025 RMK AO1 T01230067 KTRI 240753Z 09007KT 10SM FEW041 BKN055 14/09 A2994 RMK AO2 SLP120 T01440089 $ MDAB 232200Z 09006KT 9999 BKN018 28/24 Q1015 KSZT 240755Z AUTO 00000KT 10SM CLR 02/00 A3042 RMK AO2 KTRK 240755Z AUTO 00000KT 10SM CLR 01/M01 A3023 RMK AO2 KW99 240750Z AUTO 14006KT 10SM -RA BKN090 OVC100 11/05 A3024 RMK AO2 T01130046 KTRL 240753Z AUTO 00000KT 10SM CLR 12/10 A3003 RMK AO2 SLP166 T01170100 KUIL 240753Z AUTO 00000KT 10SM CLR 09/02 A3019 RMK AO2 SLP224 T00940022 402110000 KTRM 240752Z AUTO 33009KT 10SM CLR 28/04 A2983 RMK AO2 SLP103 T02780044 403780139 KVAD 240756Z AUTO 20006KT 10SM CLR 16/13 A2989 RMK AO2 SLP122 T01560131 $ KUIN 240754Z AUTO 03005KT 10SM OVC010 13/11 A3002 RMK AO2 SLP163 T01280111 KVAF 240755Z AUTO 28004KT 10SM CLR 22/15 A3003 RMK A01 KSZY 240755Z AUTO 00000KT 9SM OVC004 13/13 A2989 RMK A01 KTTA 240755Z AUTO 05006G14KT 10SM -RA SCT003 SCT010 OVC016 13/12 A3005 RMK AO2 T01250117 LKTB 240800Z 29008KT 9999 SCT023 18/12 Q1017 NOSIG FOOB 231500Z /////KT 9999 SCT010 30/21 Q1005 KTTD 240753Z AUTO 10015G22KT 10SM CLR 16/M03 A3018 RMK AO2 SLP220 T01611028 402280033 KTTF 240757Z AUTO 00000KT 10SM DZ SCT033 BKN039 OVC045 12/07 A3013 RMK AO2 T01150065 KUKF 240755Z AUTO 07010G14KT 5SM -RA OVC005 10/10 A3009 RMK AO2 P0009 KVBG 240748Z AUTO 01005KT 3/8SM R30/3000FT FG VV001 10/09 A3002 RMK AO2 SLP169 KTSP 240755Z AUTO 28009KT 10SM CLR 14/01 A3010 RMK AO2 MDBH 240000Z 13010KT 9999 FEW020CB FEW022 27/22 Q1015 CB/NE/NW FOOG 240800Z VRB03KT 9999 SCT010 FEW020CB 27/26 Q1013 VVTS 240800Z 16008KT 130V210 9999 SCT017 35/25 Q1005 NOSIG KUKI 240756Z AUTO 00000KT 10SM CLR 12/08 A2999 RMK AO2 SLP150 T01220083 403000083 KVCB 240753Z AUTO 21005KT 10SM CLR 16/11 A2995 RMK AO2 SLP140 T01610106 403060100 FOOK 240800Z /////KT 9999 SCT010 FEW018CB 26/23 Q//// FOOL 240800Z 08004KT 9999 FEW012 29/25 Q1013 NOSIG KTTN 240753Z AUTO 05004KT 10SM CLR 06/00 A3038 RMK AO2 SLP282 T00560000 FOON 240800Z 27004KT 190V360 9999 BKN010 27/24 Q1016 KVAY 240754Z AUTO 00000KT 10SM CLR 02/01 A3039 RMK AO2 SLP289 T00220006 FOOR 240800Z /////KT 9999 SCT004 BKN006 26/24 Q//// KTTS 240756Z AUTO 20005KT 9SM OVC010 22/22 A2992 RMK AO2 SLP136 T02170217 $ KVBS 240755Z AUTO 01007KT 10SM CLR 20/14 A3001 RMK A01 KUKT 240755Z AUTO 00000KT 10SM CLR 03/M02 A3037 RMK A01 KVBT 240756Z AUTO 00000KT 10SM CLR 11/07 A3004 RMK AO2 SLP170 T01060072 FOOT 240800Z 28004KT 8000 SCT008 OVC023 28/26 Q1014 KTUL 240753Z 00000KT 10SM CLR 12/08 A3003 RMK AO2 SLP166 T01170078 KTVC 240753Z AUTO 00000KT 10SM CLR 04/00 A3010 RMK AO2 SLP197 T00390000 KULM 240755Z AUTO 28004KT 10SM CLR 08/04 A3014 RMK AO2 KVBW 240755Z AUTO 10SM SCT042 SCT055 OVC080 11/05 A3024 RMK AO2 T01100051 KVDF 240755Z AUTO 00000KT 10SM SCT011 22/21 A2995 RMK AO2 KTVF 240756Z AUTO 01013KT 10SM OVC095 08/01 A3024 RMK AO2 SLP246 T00780006 KTUP 240753Z AUTO 29005KT 10SM OVC005 14/12 A2989 RMK AO2 SLP120 T01390122 $ RJAA 240800Z 18006KT 9999 -SHRA FEW020 BKN100 19/15 Q1010 NOSIG RMK 2CU020 7AC100 A2984 KVDI 240755Z AUTO 23004KT 10SM CLR 18/17 A2986 RMK AO2 KTVI 240755Z AUTO 27006KT 10SM BKN042 A2992 RMK AO2 KTUS 240753Z 12005KT 10SM CLR 20/M04 A3003 RMK AO2 SLP125 T02001044 KVCT 240751Z AUTO 00000KT 10SM CLR 15/13 A3002 RMK AO2 SLP165 T01500128 KTVK 240755Z AUTO 00000KT 10SM 09/M02 A3008 RMK AO2 KTVL 240753Z AUTO 18006KT 10SM CLR 03/M01 A3023 RMK AO2 SLP206 T00281006 401781017 KVCV 240755Z AUTO 17007KT 10SM CLR 17/00 A3004 RMK AO2 RJAF 240700Z 14011KT 9999 -SHRA FEW020 SCT030 BKN050 16/10 Q1010 LKVO 240800Z 25012KT 9999 SCT022 16/11 Q1017 KTWF 240753Z AUTO 08007KT 10SM CLR 03/01 A3032 RMK AO2 SLP249 T00280006 MDCY 240000Z 09006KT 9999 SCT017 25/23 Q1016 RJAH 240800Z 20010KT 9999 -RA FEW030 BKN100 OVC180 19/14 Q1010 KTVR 240753Z AUTO VRB03KT 10SM FEW045 BKN055 OVC070 16/14 A2995 RMK AO2 SLP148 T01560139 KUNI 240755Z AUTO 07009KT 10SM RA OVC090 12/12 A3006 RMK AO2 T01150115 RJAK 240549Z 20011KT 9999 -SHRA SCT030 BKN100 BKN180 21/14 Q1011 RMK 3CU030 5AC100 7AC180 A2987 RJBB 240800Z 08005KT 9999 -SHRA FEW005 BKN035 BKN045 17/17 Q1007 NOSIG KX60 240755Z AUTO 00000KT 7SM 19/19 A2992 RMK A01 RJBD 240800Z 15015KT 9999 FEW020 SCT040 BKN070 20/17 Q1008 KVEL 240753Z AUTO 07010KT 10SM CLR 08/M04 A3022 RMK AO2 SLP190 T00781044 SABE 240800Z 14008KT 9999 OVC028 19/15 Q1020 NOSIG RJBE 240800Z 07008KT 7000 -SHRA FEW008 SCT020 BKN030 18/17 Q1007 KTWM 240755Z AUTO 01006KT 10SM CLR 11/00 A3011 RMK AO2 KUNO 240753Z AUTO 02005KT 10SM OVC046 12/11 A2997 RMK AO2 SLP146 T01220106 KTVY 240755Z AUTO 00000KT 10SM CLR 07/03 A3024 RMK AO2 SAAR 240800Z 11010KT 9999 SCT004 BKN006 OVC008 20/18 Q1018 KVER 240755Z AUTO 00000KT 10SM CLR 11/01 A3002 RMK AO2 T01090011 RJAT 240305Z 22012G23KT 190V260 9999 SCT012 SCT025 BKN040 16/11 Q1017 RMK 3CU012 4CU025 5SC040 A3005 RJCB 240800Z 12004KT 9999 FEW015 BKN030 09/04 Q1016 KVES 240750Z AUTO 11010KT 10SM SCT050 BKN075 10/09 A3003 RMK AO2 RJCC 240800Z 27007KT 9999 FEW010 BKN050 11/06 Q1015 RMK 1ST010 7CU050 A2997 EYKA 240750Z 26010KT CAVOK 12/07 Q1009 KTXK 240753Z AUTO 24004KT 10SM CLR 12/12 A2999 RMK AO2 SLP151 T01220117 KUNU 240755Z AUTO 00000KT 10SM CLR 07/M01 A3009 RMK AO2 T00681014 RJAW 240800Z 11011KT 9999 FEW012 BKN015 25/21 Q1013 RMK 1CU012 6CU015 A2993 KUNV 240755Z AUTO 17005KT 10SM CLR 11/M01 A3029 RMK AO2 T01101006 RJCH 240800Z 09006KT 9999 -SHRA FEW006 BKN009 BKN012 08/06 Q1014 RJBT 240800Z 18014KT 9999 -RA FEW000 SCT020 BKN070 17/15 Q1003 RJCK 240800Z 17007KT 9999 FEW030 BKN160 07/04 Q1017 RJDC 240800Z 32006KT 250V010 6000 -SHRA FEW003 SCT006 BKN015 17/17 Q1003 RJCM 240800Z 15008KT 9999 FEW060 BKN/// 14/M00 Q1015 RJCN 240800Z 16007KT 9999 FEW035 BKN/// 10/04 Q1017 RJCO 240010Z 15017KT 9999 FEW015 BKN030 11/07 Q1020 RMK 2ST015 6SC030 A3013 MAX WIND 24KT SACO 240800Z 19004KT 9999 SCT035 16/16 Q1018 SADF 240800Z 15005KT 9999 OVC020 18/14 Q1020 KUOX 240755Z AUTO 29004KT 10SM BKN006 OVC010 12/11 A2993 RMK AO2 KTYQ 240755Z AUTO 09006KT 10SM BKN016 BKN021 OVC037 10/09 A3000 RMK AO2 T01000092 FQCH 240800Z 22004KT 9999 BKN015 22/18 Q1022 KTYR 240753Z AUTO 00000KT 10SM CLR 12/11 A3002 RMK AO2 SLP161 T01220111 RJCT 232318Z VRB01KT 9999 SCT008 BKN010 BKN015 06/02 Q1023 RMK 4ST008 5ST010 7ST015 A3021 FQBR 240800Z /////KT 9999 BKN018 27/22 Q1017 RJEB 240700Z VRB02KT 9999 FEW050 BKN/// 11/02 Q1016 KTYS 240753Z 33003KT 10SM BKN047 OVC085 13/12 A2985 RMK AO2 RAE00 SLP104 P0000 T01280122 $ RJEC 240800Z 19007KT 160V220 9999 FEW050 BKN/// 13/03 Q1014 KVGT 240753Z AUTO 01006KT 10SM CLR 23/M08 A2990 RMK AO2 SLP119 T02331083 403390161 RJDM 240449Z 20009KT 4000 -SHRA BR FEW003 SCT005 BKN015 20/19 Q1004 RMK 1ST003 4ST005 5CU015 A2966 RJCW 240800Z 03008KT CAVOK 09/04 Q1016 SADO 231835Z 14007KT 9999 BKN015 19/19 Q1017 REDZ KVIH 240753Z AUTO 36004KT 10SM BKN015 BKN075 12/11 A2999 RMK AO2 SLP154 T01220106 KTZR 240755Z AUTO 10011KT 10SM SCT070 OVC095 11/09 A3006 RMK AO2 T01140091 RJDT 240800Z 01012KT 330V070 9999 FEW009 BKN010 13/11 Q1006 MDJB 232300Z 12006KT 9999 SCT018 27/23 Q1015 RJFE 240720Z 04013KT 7000 -SHRA FEW001 BKN002 BKN003 17/16 Q1002 RMK 2ST001 5ST002 6ST003 A2961 LLSD 240750Z 33008KT CAVOK 22/14 Q1014 RJFF 240800Z 34009KT 310V020 6000 -SHRA FEW005 SCT008 BKN010 16/14 Q1005 KUSE 240805Z AUTO 11007KT 10SM BKN043 BKN049 OVC055 12/10 A3010 RMK AO2 RJFG 240800Z 18014G26KT 140V210 5000 -SHRA BR FEW001 SCT007 BKN010 21/20 Q1005 KVJI 240755Z AUTO 09013G17KT 10SM BKN031 12/09 A2997 RMK AO2 T01230090 RJFK 240800Z 17016KT 3000 R34/1200VP2000U SHRA BR FEW001 BKN003 BKN007 20/20 Q1003 RMK 1ST001 5ST003 6ST007 A2964 KUTA 240755Z AUTO 31006KT 10SM 12/11 A2995 RMK AO2 TSNO KVIS 240756Z AUTO 00000KT 10SM CLR 17/12 A2994 RMK AO2 SLP144 T01720122 403220128 KY19 240755Z AUTO 02017G27KT 5SM BR CLR 03/04 A3034 RMK AO2 PWINO RJFM 240800Z 17012KT 8000 -SHRA FEW010 BKN025 BKN030 22/21 Q1003 KWAL 240754Z AUTO 10013G20KT 10SM CLR 13/08 A3031 RMK AO2 SLP261 T01330078 RJFO 240800Z VRB01KT 8000 -SHRA FEW003 SCT040 BKN050 20/20 Q1003 KY23 240755Z AUTO 00000KT 10SM CLR 01/00 A3013 RMK AO2 T00120000 RJGG 240800Z 13012KT 4500 -SHRA BR FEW008 BKN030 BKN040 18/17 Q1009 NOSIG KWBF 240755Z AUTO 00000KT 10SM CLR 22/14 A3001 RMK A01 SAEZ 240800Z 15005KT 9999 OVC025 16/14 Q1020 BECMG 5000 BR SCT025 RJFR 240800Z 29012KT 9999 -SHRA FEW005 SCT012 BKN030 16/14 Q1004 RJFS 240800Z 35011KT 3000 SHRA BR FEW005 SCT010 BKN015 16/16 Q1003 RJFT 240800Z 04003KT 3000 SHRA BR BCFG FEW001 SCT010 BKN025 20/20 Q1002 RJFU 240800Z 34012KT 3000 SHRA BR FEW003 BKN010 BKN015 17/16 Q1002 EYPA 240750Z 24006KT 190V320 9999 SCT045 BKN110 07/05 Q1009 KY31 240755Z AUTO 00000KT 10SM CLR 05/01 A3012 RMK AO2 T00470009 KVLD 240753Z AUTO 00000KT 10SM CLR 14/13 A2991 RMK AO2 SLP134 T01440133 RJFY 240645Z 22004KT 170V290 5000 -SHRA BR FEW005 BKN015 OVC030 FEW030TCU 22/20 Q1005 RMK 1ST005 5CU015 8CU030 1TCU030 A2969 TCU 20KM NW MOV NE KUTS 240753Z AUTO 21003KT 10SM CLR 14/12 A3003 RMK AO2 SLP165 T01440122 KUVA 240755Z AUTO 03004KT 10SM CLR 15/10 A3003 RMK AO2 T01490099 KVKS 240755Z AUTO 23005KT 10SM FEW043 SCT048 OVC080 16/13 A2996 RMK A01 KVLL 240755Z AUTO 00000KT 10SM SCT044 BKN080 OVC120 14/06 A3015 RMK AO2 T01360061 GGOV 240800Z 24005KT 9000 NSC 23/17 Q1013 NOSIG KVKY 240755Z AUTO 33012KT 10SM OVC036 19/12 A3000 RMK A01 KWDG 240755Z AUTO 00000KT 10SM CLR 10/08 A3004 RMK AO2 SBAA 232000Z 14005KT 9999 SCT020 33/23 Q1010 MDLR 240300Z 00000KT 9999 FEW016 23/21 Q1017 KY50 240756Z AUTO 00000KT 10SM CLR 01/M02 A3012 RMK AO2 SLP231 T00111017 FZRANO $ KY49 240755Z AUTO 00000KT 10SM CLR 04/M02 A3017 RMK AO2 T00381016 KVNC 240755Z AUTO 22010KT 3SM BR BKN004 BKN018 OVC060 25/25 A2995 RMK AO2 LMML 240745Z VRB02KT CAVOK 23/13 Q1020 NOSIG KUUU 240753Z AUTO 00000KT 10SM CLR 03/03 A3042 RMK AO2 SLP302 T00330028 KY51 240755Z AUTO 00000KT 10SM CLR 09/M01 A3011 RMK AO1 T00871015 SBAF 232300Z 12003KT 9999 FEW040 BKN090 25/19 Q1019 RJKA 240800Z 19023KT 9999 -SHRA FEW009 BKN010 BKN015 24/22 Q1005 KWDR 240755Z AUTO 00000KT 1 1/2SM BR OVC002 17/16 A2986 RMK AO1 KVOA 240755Z AUTO 32014KT 10SM BKN041 19/12 A2997 RMK A01 EYSA 240750Z 24010KT 210V270 9999 FEW010 SCT013 BKN064 11/08 Q1008 GRN NOSIG SBAN 240700Z 11006KT 9999 FEW030 BKN100 18/17 Q1020 SBBE 240800Z 10008KT CAVOK 24/23 Q1011 KY63 240756Z AUTO 01005KT 10SM OVC110 08/03 A3017 RMK AO2 T00840026 SBBG 232330Z 26001KT CAVOK 19/18 Q1017 FQIN 240700Z 00000KT 9999 FEW020 24/21 Q1018 SBAQ 240200Z 12006KT CAVOK 22/14 Q1020 SBBH 240700Z 09004KT CAVOK 17/14 Q1021 SBBI 240100Z 04003KT 8000 BKN006 17/16 Q1024 SBAR 240800Z 16003KT 9999 SCT018 27/23 Q1014 SBCA 240700Z 08005KT CAVOK 20/15 Q1020 SBAT 232100Z 23003KT 9999 SCT045 FEW050TCU 28/22 Q1010 SBCB 232100Z 09008KT 9999 BKN040 27/24 Q1018 SBAU 230900Z 11010KT CAVOK ///// Q1016 SBCC 232100Z 32004KT 300V360 9999 4000SW -SHRA FEW033 FEW035TCU 27/22 Q1012 KVOK 240756Z 00000KT 10SM CLR 00/M01 A3011 RMK AO2 SLP204 T00031009 KY70 240755Z AUTO 14005KT 10SM OVC034 12/08 A3011 RMK AO2 T01170075 MDPC 240800Z 00000KT 9999 FEW018 24/22 Q1015 NOSIG KVPC 240753Z AUTO 00000KT 10SM OVC008 14/14 A2985 RMK AO2 SLP101 T01440144 KUXL 240755Z AUTO 00000KT 10SM CLR 13/12 A3002 RMK AO2 T01330123 SBAX 232200Z 18006KT 9999 SCT025 21/17 Q1021 SBCF 240800Z 11006KT CAVOK 16/14 Q1021 KUYF 240755Z AUTO 09010KT 10SM SCT065 OVC095 11/10 A3004 RMK AO2 SBCG 240800Z 11010KT CAVOK 22/16 Q1016 SBCH 240300Z 10008KT CAVOK 22/18 Q1020 SBBQ 232300Z 13003KT 9999 FEW047 15/14 Q1025 KVNY 240751Z 08003KT 10SM CLR 14/10 A3001 RMK AO2 SLP154 T01440100 403000139 SBCI 232000Z 11006KT 9999 FEW020 33/22 Q1010 SBBR 240800Z 12004KT CAVOK 18/15 Q1021 SBCJ 240510Z 00000KT CAVOK 21/20 Q1016 KUZA 240802Z AUTO VRB06KT 5SM BR OVC004 14/14 A2994 RMK AO2 T01440139 SBBU 240600Z 05006KT CAVOK 20/19 Q1019 SBBV 240800Z 35003KT 9999 BKN005 SCT035 BKN080 24/23 Q1013 SBBW 232100Z 22002KT 9999 FEW020 31/18 Q1014 FQLC 240800Z 12008KT 090V160 9999 FEW010 SCT015 19/13 Q1023 SAME 240800Z 00000KT CAVOK 13/10 Q1017 SBCO 240300Z 10005KT 9999 FEW020 BKN070 23/21 Q1017 SBCP 232300Z 00000KT 9999 SCT025 OVC090 23/21 Q1020 MDPP 240600Z 00000KT 9999 FEW016 SCT070 22/21 Q1016 SBCR 240000Z 13008KT CAVOK 29/17 Q1013 SBCT 240800Z 12002KT 0400 R15/0400 R33/0400 FG OVC001 15/15 Q10 22 KVPS 240755Z 27003KT 10SM CLR 13/11 A2994 RMK AO2A SLP145 T01330106 $ FQMA 240800Z 36011KT CAVOK 27/19 Q1017 NOSIG KVRB 240753Z AUTO 20006KT 10SM CLR 22/21 A2993 RMK AO2 SLP133 T02170206 SANE 232120Z 14004KT 5000 -DZ SCT010 BKN015 22/20 Q1014 SBDN 240700Z 12009KT CAVOK 21/14 Q1017 SBCX 232000Z 33006KT CAVOK 24/20 Q1019 RJNG 240720Z 10009KT 7000 -SHRA FEW010 SCT015 BKN025 17/16 Q1009 RMK 2CU010 3CU015 5CU025 A2982 SBEG 240800Z 00000KT CAVOK 23/22 Q1011 SBCY 240800Z 00000KT CAVOK 22/21 Q1014 KWHP 240255Z 09010KT 10SM SKC 20/09 A2999 SBCZ 240645Z 00000KT 8000 SCT020 BKN100 24/23 Q1014 KVPZ 240756Z AUTO 08006KT 10SM BKN020 OVC030 11/10 A3006 RMK AO2 SLP178 T01110100 KVQQ 240755Z AUTO 23005KT 7SM CLR 19/19 A2991 RMK AO2 RJOA 240800Z 12004KT 100V170 0400 R10/0300V0500U -SHRA FG VV001 16/16 Q1004 SBEK 232100Z 00000KT CAVOK 26/26 Q1009 RJOB 240800Z 11008KT 9000 -SHRA PRFG FEW000 SCT005 BKN020 16/16 Q1004 RJNK 240800Z VRB02KT 3000 RA BR FEW030 BKN040 OVC060 17/16 Q1006 EYVI 240750Z 29011KT 250V320 9999 SCT020 BKN180 13/08 Q1009 NOSIG KVQT 240215Z AUTO 27011KT 10SM CLR 21/13 A3002 RMK A01 RJOC 240800Z 33006KT 4500 SHRA BR FEW005 SCT010 BKN020 18/17 Q1003 SAOC 240700Z 02010KT CAVOK 16/14 Q1018 RJOE 240607Z 16007KT 9999 -SHRA FEW015 BKN025 BKN050 19/15 Q1010 RMK 1CU015 5CU025 5SC050 A2983 FQNC 240800Z 23014KT 9999 SCT020 29/20 Q1015 MDSD 240800Z VRB03KT 9999 FEW016CB SCT018 22/21 Q1014 CB/SE RJOF 240628Z VRB01KT 2000 -SHRA BR FEW002 BKN004 OVC006 19/18 Q1004 RMK 1ST002 6ST004 8ST006 A2965 VIS NE 3000M KVSF 240754Z AUTO 00000KT 10SM CLR M01/M03 A3037 RMK AO2 SLP289 T10061028 KWJF 240756Z AUTO 25010KT 10SM CLR 18/01 A3001 RMK AO2 SLP143 T01780011 403110150 RJOH 240800Z 17005KT 6000 -RA FEW010 BKN035 BKN060 18/15 Q1003 SANR 232320Z 09004KT 5000 RA OVC010 21/20 Q1017 SBFI 240800Z 14003KT CAVOK 22/21 Q1016 RJOI 240755Z 18014KT 4000 SHRA BR FEW010 BKN025 OVC045 21/19 A2962 RMK PK WND 18028/13 SLP029 T02060189 SBES 232100Z 06007KT 9999 FEW030 24/23 Q1018 RJNS 240800Z 32006KT 9999 VCSH FEW008 SCT025 BKN040 16/16 Q1011 SANT 240700Z 05010KT 9999 BKN005 OVC035 20/19 Q1017 RJOK 240800Z 17013KT 2500 SHRA BR FEW007 SCT010 BKN015 20/18 Q1006 RJNT 240800Z VRB01KT 8000 -RA FEW002 SCT040 OVC070 16/15 Q1006 KVTA 240754Z AUTO 08008KT 9SM -RA OVC075 12/09 A3008 RMK AO2 RAE02B35 SLP184 P0001 T01220089 SBFL 240800Z 32005KT 9999 FEW023 21/19 Q1018 RJOM 240800Z 16006KT 9999 -SHRA FEW010 SCT025 BKN050 21/20 Q1003 SBFN 240800Z 13010KT 9999 SCT020 26/22 Q1012 RJNW 240800Z 11007KT 070V140 0800 R25/0900V1300N -RA FG FEW000 BKN001 BKN002 13/13 Q1007 LOAN 240800Z 27010KT 35KM FEW030CU SCT055SC BKN090AC RJOO 240800Z 09006KT 050V120 6000 -SHRA BR FEW005 SCT025 BKN045 18/17 Q1007 RMK 1ST005 3CU025 6SC045 A2975 RJOP 240525Z 16020G31KT 9999 -SHRA FEW015 SCT025 BKN050 21/17 Q1007 RMK 1CU015 3CU025 7SC050 A2975 RJNY 240508Z 19007KT 9999 -SHRA FEW012 BKN040 BKN070 20/15 Q1012 RMK 1CU012 6SC040 7AC070 A2991 FQNP 240800Z /////KT 9999 SCT020 26/19 Q1017 RJOR 240800Z 17011KT 9999 -SHRA FEW008 SCT020 BKN040 19/15 Q1003 SBFS 231700Z /////KT 9999 FEW030 SCT080 ///// Q//// RJOS 240631Z 17018KT 9999 FEW020 BKN035 BKN100 20/17 Q1006 RMK 2CU020 5CU035 7AC100 A2973 PEAK GUST 21KT KVTI 240755Z AUTO 30004KT 10SM CLR 06/00 A3009 RMK AO2 T00630000 RJOT 240800Z 07003KT 010V120 9999 -SHRA FEW002 SCT030 BKN090 18/18 Q1004 VYMD 240730Z 32009KT 7000 FEW025 38/16 Q1004 SBGL 240800Z 03002KT 9999 FEW008 BKN100 23/21 Q1018 MDST 240800Z 10005KT 9999 FEW016 22/22 Q1015 SBGM 231900Z 32012KT 9999 BKN034 28/24 Q1010 FQPB 240800Z 22011KT 9999 FEW020 29/19 Q1015 LOAV 240800Z 27008G18KT 35KM FEW030CU BKN050SC 17/10 RJOW 240800Z 30010KT 3000 -SHRA BR FEW001 SCT003 BKN006 15/15 Q1005 KWLD 240754Z AUTO 35003KT 10SM CLR 09/08 A3007 RMK AO2 SLP179 T00890083 TSNO KVTN 240752Z AUTO 29018G27KT 10SM OVC012 07/05 A3018 RMK AO2 PK WND 29027/0751 RAE12 SLP219 P0001 T00670050 SBGO 240800Z 14006KT 9999 SCT045 OVC080 21/19 Q1019 RJOY 240800Z 06002KT 9000 -SHRA FEW005 SCT030 BKN050 19/17 Q1007 KVTP 240812Z AUTO 03006KT 10SM CLR 05/M06 A3042 RMK AO2 SBFZ 240800Z 15005KT 9999 SCT020 BKN080 24/24 Q1012 KXBP 240755Z AUTO 00000KT 10SM CLR 10/10 A3005 RMK AO2 T00970097 RJOZ 240731Z 34009KT 6000 -SHRA FEW005 BKN010 BKN020 17/17 Q1004 RMK 1ST005 5ST010 7CU020 A2966 SBGR 240800Z 10003KT CAVOK 17/17 Q1021 KVUJ 240750Z AUTO 07008G14KT 10SM DZ OVC007 14/13 A3005 RMK AO2 P0001 T01360130 SBIC 232100Z 00000KT 9999 SCT008 BKN100 24/24 Q1010 SARC 240800Z 09007KT 9999 FEW006 BKN200 20/19 Q1016 KWMC 240756Z AUTO 04018KT 10SM CLR 09/M07 A3022 RMK AO2 SLP212 T00891072 401941006 SBGW 232300Z 03002KT 9999 SCT030 20/16 Q1021 SARE 240800Z 10004KT 9999 SCT008 BKN290 20/19 Q1016 SARF 240800Z 14007KT CAVOK 22/21 Q1015 KVUO 240753Z AUTO 09013G21KT 10SM CLR 18/M03 A3017 RMK AO2 SLP217 T01781033 402280033 SBIH 232100Z /////KT 9999 TS FEW025 FEW028CB 27/25 Q1008 SARI 240800Z 00000KT CAVOK 21/20 Q1016 RJSA 240800Z 34004KT 8000 -RA FEW001 SCT010 BKN040 08/07 Q1011 SASA 240800Z 27003KT 8000 -RA FEW010 SCT015 OVC030 18/17 Q1019 SBHT 240100Z 00000KT 9999 FEW015 BKN080 24/24 Q1013 RKJB 240800Z 34008KT 4200 BR FEW010 BKN025 OVC080 14/13 Q1008 NOSIG SARL 240800Z 14004KT 9999 FEW015 SCT100 19/19 Q1016 SBIL 240600Z 23003KT 9999 SCT020 FEW030TCU SCT070 24/23 Q1016 RJSC 240800Z 30002KT 8000 -RA FEW005 SCT015 BKN060 13/12 Q1010 FQQL 240800Z 20009KT 9999 FEW020 28/21 Q1016 RJSF 240800Z 16004KT 2500 -SHRA BR FEW008 BKN020 BKN030 14/14 Q1010 SBIP 240100Z 27001KT 9999 SCT035 20/19 Q1020 SARP 240800Z 05005KT CAVOK 20/19 Q1016 RJSH 240635Z 08009KT 3100 -RA BR FEW002 SCT003 OVC004 08/07 Q1014 RMK 1ST002 4ST003 8ST004 A2995 RJSI 240800Z VRB01KT 6000 -RA FEW002 SCT008 BKN020 12/12 Q1011 SASJ 240800Z 00000KT 8000 SCT020 FEW040CB OVC045 20/19 Q1018 SCBA 240800Z AUTO 32013KT CAVOK 05/02 Q1018 RJSK 240800Z 13005KT 8000 -RA FEW001 BKN035 BKN060 13/11 Q1010 RKJK 240755Z 04007KT 7SM FEW010 BKN015 OVC025 14/14 A2978 RMK AO2A SLPNO ALSTG ESTMD WND ESTMD $ RJTC 240651Z 36005KT 330V030 9999 FEW030 BKN060 BKN100 17/12 Q1010 RMK 1CU030 5SC060 7AC100 A2983 HAAB 240800Z 16006KT 9999 BKN025 21/11 Q1028 RJSN 240800Z 08006KT 7000 -RA FEW010 SCT050 OVC070 16/15 Q1008 KVVV 240755Z AUTO 35005KT 10SM BKN110 09/05 A3016 RMK AO2 RJSO 231918Z 05005KT 8000 -RADZ FEW003 BKN005 OVC010 08/08 Q1019 RMK 2ST003 5ST005 8ST010 A3010 RJTF 240800Z 19009KT 9999 -RA FEW030 BKN060 BKN100 19/13 Q1009 SBKG 240700Z 11003KT 3000 BR BKN012 21/21 Q1015 SBJP 240800Z 17005KT 9999 BKN028 23/22 Q1013 SCAP 240800Z AUTO VRB01KT //// // NSC M01/M01 Q1028 SBIZ 240700Z 00000KT 9999 FEW020 25/25 Q1012 SBJR 240000Z 04002KT 9999 SCT040 SCT090 24/21 Q1019 RJTI 240700Z 18010KT 9999 -RA FEW020 SCT050 BKN120 19/16 Q1010 RJSR 240800Z 03005KT 360V060 8000 -RA FEW003 SCT010 BKN040 11/11 Q1010 SCAR 240800Z 06005KT CAVOK 17/12 Q1015 SCAS 232000Z 26011KT 9999 BKN036 11/07 Q1021 RJSS 240800Z 05003KT 5000 -RA BR FEW001 SCT003 BKN008 12/12 Q1011 RJTK 240238Z 20017G27KT 9999 FEW030 SCT060 BKN200 21/14 Q1014 RMK 2CU030 4SC060 7CI200 A2995 SBLB 232000Z /////KT 9999 SCT012 BKN070 30/22 Q1018 W///S2 SCAT 240800Z AUTO 33007KT 9999 // ///007 14/11 Q1018 RJSU 232313Z VRB02KT 7000 -RA FEW003 SCT006 BKN008 12/10 Q1017 RMK 1ST003 3ST006 5ST008 A3004 RJTL 232313Z 11003KT 040V160 7000 SCT008 BKN020 BKN180 17/15 Q1017 RMK 4ST008 5SC020 7AC180 A3003 SCCC 232000Z 33013KT 9999 BKN040 SCT200 13/01 Q1017 SBJU 240600Z 00000KT CAVOK 23/18 Q1016 SBJV 240200Z 00000KT 9999 SCT040 21/20 Q1020 KVWU 240755Z AUTO 27003KT 10SM BKN110 02/M01 A3020 RMK AO2 SBLE 232100Z 08004KT 9999 BKN030 26/20 Q1017 RJTO 240800Z 22008KT 9999 -SHRA FEW015 SCT025 BKN050 20/16 Q1011 HABD 240700Z 36004KT 9999 FEW025 FEW026 FEW057 24/12 Q1023 SCCF 240800Z 10011KT CAVOK 08/M05 Q1028 RJSY 240800Z 10009KT 7000 -RA FEW007 SCT030 BKN050 13/11 Q1009 SBKP 240800Z 11004KT CAVOK 17/15 Q1020 SCCH 240800Z AUTO 22005KT 9999 NCD 05/04 Q1018 RJTR 240028Z 19004KT 4SM BR SCT009 BKN300 18/16 A2999 RMK AO2A SLP157 SCCI 240800Z 32018KT CAVOK 07/00 Q1004 NOSIG SCDA 240800Z 20007KT 9999 OVC029 20/15 Q1016 SBMA 240800Z 34002KT 9999 SCT015 BKN100 25/24 Q1012 RJTT 240800Z 20017KT 9999 -SHRA FEW015 SCT025 BKN100 20/15 Q1009 NOSIG RMK 1CU015 4CU025 7AC100 A2982 RJTU 240723Z 09005KT 4500 -RA BR FEW007 BKN015 BKN025 16/14 Q1011 RMK 1ST007 5SC015 6SC025 A2986 SAVC 240800Z 14002KT CAVOK 08/02 Q1019 SBMD 231900Z 10001KT 9999 SCT020 FEW030TCU 26/25 Q1010 SBME 240600Z 04003KT 9999 BKN020 OVC080 21/20 Q1019 SBLO 240800Z 00000KT CAVOK 19/16 Q1019 SBLP 232000Z /////KT 9999 SCT030 32/19 Q1013 SBMG 240600Z 15005KT CAVOK 18/15 Q1017 RJTY 240756Z 03007KT 3SM BR SCT030 BKN050 15/13 A2986 RMK AO2A TWR VIS 2 SLP115 T01530133 FZRANO $ SBLS 240100Z 15010KT CAVOK 19/15 Q1022 SBMK 240400Z 00000KT CAVOK 19/15 Q1020 KVYS 240755Z AUTO 08007KT 10SM BKN010 BKN017 OVC070 12/01 A3005 RMK AO2 T01210012 SBML 231900Z 03005KT 9999 SCT040 30/17 Q1018 KWRB 240756Z 26005KT 10SM CLR 17/14 A2984 RMK AO2A SLP105 T01660139 SAWE 240500Z 29016KT CAVOK 05/03 Q1005 SBMN 240800Z 35002KT CAVOK 25/23 Q1011 SBNF 240300Z 25005KT 9999 SCT020 21/20 Q1020 SBMO 240800Z 21002KT 9999 FEW009 SCT018 BKN070 23/22 Q1014 KXIF 240256Z AUTO 00000KT 10SM CLR 12/M03 A3030 RMK AO2 LTG DSNT SW SLPNO WND DATA ESTMD T01221026 51005 SAWG 240800Z 00000KT 9999 SCT035 BKN050 04/M00 Q1008 SCCY 240800Z AUTO 03007KT 350V050 9999 BKN047 06/04 Q1019 SAWH 240800Z 02015KT 9999 SCT030 BKN080 09/M02 Q1000 SBMQ 240800Z 30001KT 9999 -RA FEW006 SCT022 OVC070 24/24 Q1012 KXIH 240755Z AUTO 00000KT 10SM CLR 21/15 A3001 RMK A01 SBMS 232100Z 06006KT 9999 TS BKN020 FEW030CB SCT090 25/23 Q1012 KWRI 240756Z AUTO 00000KT 10SM CLR 03/02 A3037 RMK AO2 SLP284 T00280018 SCFA 240800Z 36008KT 9999 OVC021 18/12 Q1017 NOSIG SBMT 240200Z 10005KT CAVOK 20/16 Q1023 SCEL 240800Z VRB01KT 8000 NSC 12/08 Q1017 NOSIG SBNM 232000Z 36006KT 9999 SCT030 BKN070 26/19 Q1016 KWRL 240753Z AUTO 06004KT 10SM FEW020 BKN060 01/M01 A3044 RMK AO2 SLP333 T00111011 FQVL 240800Z 14005KT 090V180 9999 FEW020 27/20 Q1018 SBMY 232100Z 00000KT CAVOK 27/24 Q1011 SBOI 232000Z 06006KT 5000 -RA BKN008 BKN015 OVC100 24/23 Q1012 SBPA 240800Z 20003KT CAVOK 22/21 Q1016 SBPB 232145Z 06003KT 9999 FEW017 27/25 Q1011 HADR 240800Z 12007KT 080V180 9999 FEW025 33/03 Q1019 SBNT 240800Z 22004KT 9999 SCT027 24/22 Q1012 SBPC 232000Z 04002KT CAVOK 20/14 Q1022 RKPC 240800Z 07007KT 8000 FEW010 BKN025 OVC100 14/12 Q1008 NOSIG SCFM 232000Z 28015KT 9999 FEW030 BKN100 08/03 Q1006 SCGE 232100Z 18010KT CAVOK 16/06 Q1018 SBPF 232100Z 31008KT 9999 SCT030 FEW035TCU SCT045 24/18 Q1019 RKNY 240800Z 36007KT 9999 BKN030 OVC100 10/07 Q1014 NOSIG LPAR 240800Z /////KT CAVOK 22/12 Q1014 SBPJ 240600Z VRB02KT 9999 FEW012 FEW035TCU SCT070 23/23 Q1013 SBPK 232145Z 15006KT 9999 BKN030 24/22 Q1015 LPBJ 240800Z 11008KT 9999 SCT045 18/15 Q1013 RKPK 240800Z 02019KT 9999 SCT020 OVC030 14/10 Q1008 NOSIG SCFT 240800Z AUTO 00000KT 0500 R/////// FG VV000 M00/M01 Q1023 MGCB 240000Z 02006KT 9999 SCT016 FEW022CB 23/18 QFE 870.5 CB N/SE KWST 240753Z AUTO 00000KT 9SM CLR 01/00 A3044 RMK AO2 SLP307 T00110000 $ SBPL 240800Z 17005KT CAVOK 23/19 Q1016 SBPP 232200Z 00000KT CAVOK 25/14 Q1017 SBPR 232000Z 09008KT 9999 SCT035 23/15 Q1021 LPAZ 240000Z 35007KT 9999 SCT008 15/14 Q1030 SBPS 240800Z 24003KT 9999 FEW020 22/21 Q1017 SBRB 240800Z 21002KT 9999 SCT015 23/21 Q1012 SCIC 240800Z AUTO 20006KT 160V220 9000 OVC006 09/09 Q1018 SAZM 240800Z 14005KT 9999 SCT024 13/10 Q1023 SBPV 240800Z 23001KT 9999 TS FEW007 BKN020 FEW025CB BKN080 24/2 3 Q1012 KXLL 240755Z AUTO 00000KT 10SM CLR 07/M04 A3038 RMK AO2 SAZN 240800Z 14005KT 9999 FEW045 BKN100 12/09 Q1019 SCIE 240800Z 19005KT CAVOK 06/05 Q1019 SBRF 240800Z VRB02KT 9999 SCT023 BKN060 24/23 Q1013 SCGZ 232000Z 25008KT 9999 BKN043 08/02 Q1000 SCHR 232000Z 23009KT 9999 BKN040 11/02 Q1013 SAZR 231017Z 16008KT 0900 FG VV/// 12/12 Q1019 SAZS 240800Z 16005KT CAVOK M02/M05 Q1020 KWVI 240804Z AUTO 00000KT 6SM BR OVC005 11/10 A3004 RMK AO2 T01060100 SBRJ 240800Z 02004KT CAVOK 23/21 Q1017 LPCS 240800Z 01016KT 9999 FEW004 17/14 Q1014 KXNA 240753Z AUTO 33003KT 10SM CLR 10/06 A3002 RMK AO2 SLP160 T01000061 SBSC 240700Z 06002KT 9999 FEW025 BKN100 21/20 Q1018 FSIA 240800Z 25006KT 200V320 9999 // FEW014CB 30/22 Q1011 NOSIG SBQV 240100Z 14014KT 9999 SCT007 18/16 Q1021 KWVL 240756Z AUTO 19004KT 10SM CLR 02/M03 A3031 RMK AO2 SLP294 T00221028 FZRANO $ KWWD 240755Z AUTO 13009KT 10SM CLR 10/06 A3038 RMK AO2 SLP288 T01000061 RKSG 240756Z AUTO 07011KT 10SM OVC038 16/12 A2981 RMK AO2 SLPNO T01580118 PWINO TSNO $ SBSG 240800Z 24004KT 9999 SCT015 23/22 Q1013 SBRP 240800Z 00000KT CAVOK 16/14 Q1019 SCIP 240800Z 15003KT 9999 SCT025 19/17 Q1021 NOSIG SCIR 232000Z 12018KT 9999 BKN020 16/07 Q1023 RKSI 240800Z 04015KT 9999 SCT040 BKN150 15/04 Q1011 NOSIG SBTA 240300Z 00000KT 9000 FEW030 16/13 Q1021 SBSJ 240800Z 17003KT 6000 BKN020 17/16 Q1021 KXMR 240756Z AUTO 21004KT 10SM FEW015 22/20 A2991 RMK AO2 SLP132 T02170201 FZRANO $ SBTC 232000Z 16006KT 9999 SCT020 28/23 Q1016 SBSL 240800Z 08002KT 9999 FEW017 25/24 Q1011 SBSM 240300Z VRB01KT 5000 0600W R11/1900 R29/P2000 BCFG SCT002 SCT020 20/20 Q1017 RKSM 240700Z 03010KT 9999 FEW025 BKN050 15/07 A2986 SBSN 240800Z 05007KT 5000 -RA SCT010 BKN015 OVC100 25/24 Q1012 SBTE 240800Z 00000KT CAVOK 25/23 Q1012 SBTF 232245Z 13007KT 9999 FEW010 SCT070 25/25 Q1011 SCJO 232100Z 19007KT CAVOK 14/05 Q1021 RKSO 240758Z 06012KT 7SM OVC037 15/07 A2982 RMK AO2A SLP101 T01500072 $ SBSP 240800Z AUTO 13002KT 6000 NCD 17/15 Q1021 KXNO 240808Z AUTO 33005KT 10SM OVC005 M A2990 RMK AO2 RAE02DZB02E03 SLPNO ALSTG ESTMD $ SBSR 240700Z 13003KT CAVOK 21/13 Q1019 SBUA 232000Z 35008KT 9999 TS SCT025 FEW030CB 30/25 Q1008 RKSS 240800Z 03011KT 9999 FEW040 BKN060 15/05 Q1011 NOSIG KWWR 240755Z AUTO 13007KT 10SM CLR 12/06 A3010 RMK AO2 SBTK 232200Z 17003KT 9999 FEW030 30/25 Q1010 MGES 240000Z 03008KT 9999 SCT018 27/18 QFE 908.4 SBST 232300Z 10002KT 8000 BKN031 BKN080 23/21 Q1019 HBBA 230900Z 17004KT 9999 FEW030 BKN100 27/21 Q1015 NOSIG LPFL 231800Z VRB05G16KT 9999 BKN016 19/14 Q1027 SBSV 240800Z 07008G22KT 010V160 8000 VCSH BKN017 BKN060 25/24 Q 1015 RKTN 240800Z 13006KT 9999 SCT005 BKN010 OVC020 13/11 Q1008 NOSIG SBUF 231900Z 13009KT 9999 SCT020 BKN070 29/19 Q1013 SBUG 232200Z 31004KT 9999 SCT027 SCT100 21/20 Q1016 SBSY 240600Z AUTO VRB01KT CAVOK 15/13 Q1020 LPFR 240800Z 32005KT 9999 FEW030 18/15 Q1012 SBTT 232300Z 00000KT 9999 VCTS FEW020 FEW025CB 25/23 Q1010 SBTU 232100Z /////KT 9999 SCT025 FEW026TCU ///// Q1011 SBUL 240600Z 07006KT CAVOK 18/14 Q1021 RKTU 240800Z 08007KT 9999 SCT025 BKN040 15/09 Q1009 NOSIG VYYY 240800Z 17004KT 8000 SCT018 38/25 Q1005 SBVH 232300Z 07003KT 040V100 9999 SCT030 FEW035TCU BKN100 22/21 Q1015 RETS SBUR 240700Z 04004KT CAVOK 20/14 Q1020 SCMK 232100Z 01008KT 9999 SCT043 11/08 Q1022 KWYS 240750Z AUTO 03004KT 10SM CLR M04/M06 A3039 RMK AO2 MGGT 240800Z 36010KT 9999 BKN015 18/16 Q1025 A3027 KXPY 240755Z AUTO 28008KT 10SM OVC050 20/17 A3000 RMK A01 YABA 240800Z AUTO 25011KT 9999 // BKN043 BKN050 BKN064 18/// Q1019 LPHR 240800Z 27010KT 9999 SCT008 SCT015 17/15 Q1029 SBVT 240800Z 29003KT 9999 -TSRA SCT020 FEW025CB BKN050 22/22 Q1 019 KXSA 240755Z AUTO 05003KT 10SM BKN043 BKN049 13/07 A3028 RMK AO2 T01320070 MGHT 240800Z 00000KT 9999 SCT018 13/11 QFE 822.0 WSAP 240800Z 26006KT 9999 FEW020 BKN270 32/24 Q1006 KYIP 240753Z 05003KT 10SM OVC046 12/08 A3013 RMK AO2 SLP200 T01220078 SCNT 240200Z 29012KT 9999 FEW040 07/M00 Q1008 MHAM 240000Z 18010KT 9999 FEW015 30/26 SCON 232000Z VRB03KT 9999 OVC020 ///// Q1023 LPLA 240800Z /////KT 9999 FEW020 12/11 Q1029 MHCA 240600Z 09002KT 9999 SCT028 25/23 Q1017 FU LQBK 240800Z 36003KT 290V100 CAVOK 21/13 Q1018 NOSIG KYKM 240753Z AUTO 27007KT 10SM CLR 06/M02 A3036 RMK AO2 SLP282 T00561017 402171011 KYKN 240756Z AUTO 09003KT 10SM SCT090 BKN110 09/05 A3014 RMK AO2 SLP219 T00940050 SCPQ 240800Z AUTO 21005KT //// R35/P2000N NCD 03/03 Q1021 MHCH 240000Z 24006KT 9999 SCT034TCU 34/23 TCU ALL FU SBYS 240200Z 15002KT CAVOK 17/15 Q1021 LPMA 240800Z 34015G25KT 270V020 9999 FEW015 16/12 Q1021 SCRD 232200Z 19005KT CAVOK 17/11 Q1016 SCRG 232000Z 20004KT CAVOK 20/11 Q1016 SCQP 240800Z 00000KT 0400 FG VV001 01/01 Q1020 KXVG 240753Z AUTO 00000KT 10SM CLR 01/M02 A3016 RMK AO2 SCRM 240800Z VRB01KT 9999 FEW004 OVC020 M01/M02 Q0995 SCSE 240800Z 06003KT 5000 BR OVC004 12/12 Q1016 MGMM 240800Z 00000KT CAVOK 25/22 Q1014 A2994 LOWG 240750Z VRB03KT 9999 FEW060 SCT080 BKN110 18/11 Q1019 NOSIG KYNG 240751Z 14008KT 10SM -RA FEW047 SCT065 OVC085 13/08 A3018 RMK AO2 RAB12 SLP217 P0000 T01280078 LPMR 240800Z 03003KT 360V070 0500 FG VV002 14/14 Q1016 LOWI 240750Z VRB02KT 9999 FEW010 SCT015 16/11 Q1021 NOSIG SCTB 232200Z 22003KT 9999 SCT180 BKN210 19/06 Q1017 MGMT 232300Z 18004KT CAVOK 32/24 QFE 1006.8 LPMT 240800Z 02006KT CAVOK 17/16 Q1014 LOWK 240750Z 29004KT 210V320 9999 FEW060 SCT070 BKN120 16/10 Q1020 NOSIG SEAM 232100Z 12006KT 9999 VCSH SCT026 BKN100 18/13 Q1026 LOWL 240750Z 26009KT 9999 FEW012 SCT019 BKN070 16/12 Q1020 NOSIG SCTE 240800Z VRB02KT 7000 3000N VCFG NSC 04/03 Q1021 NOSIG SCSN 240800Z AUTO 00000KT 9999 FEW006 07/07 Q1018 SECA 232300Z 17011KT 9999 FEW040 BKN100 24/16 Q1016 LOWS 240750Z 14003KT 120V180 9999 FEW004 SCT030 BKN060 14/12 Q1021 NOSIG MGPB 240800Z 00000KT 9999 SCT018 SCT090 23/23 Q1013 A2991 LPPD 240800Z 33005KT 9999 FEW015 16/13 Q1029 SCTN 240800Z AUTO 00000KT CAVOK 04/03 Q1021 LOWW 240750Z 28012KT 9999 FEW044 BKN100 19/13 Q1018 NOSIG LOXT 240750Z 25017KT 30KM FEW030CU SCT100SC 18/13 Q1018 TEMPO 25015G25KT RMK SCT SCVD 240800Z AUTO 00000KT 3800 BR VV001 M00/M00 Q1021 LPOV 240800Z VRB01KT 7000 NSC 15/14 Q1016 SECO 232300Z 12002KT 9999 FEW030 SCT100 28/24 Q1010 RMK A2984 LOXZ 240750Z 00000KT 15KM FEW003ST SCT008ST BKN080SC 13/11 Q1020 NOSIG LPPR 240800Z 29003KT 260V320 8000 NSC 17/15 Q1016 LPPS 240800Z 34020KT 9999 SCT014 BKN030 16/11 Q1022 LPPT 240800Z 34009KT CAVOK 18/14 Q1014 SECU 240800Z AUTO 07003KT 040V140 ////NDV BKN055 OVC065 10/09 Q1026 SCVM 240800Z 00000KT 9999 SCT070 10/09 Q1017 YBAF 240800Z AUTO 21005KT 9999 // BKN093 OVC110 21/13 Q1013 MGQZ 240000Z 05004KT 9999 FEW020 21/11 QFE 772.5 YBAS 240800Z AUTO 13006KT 9999 // NCD 30/M01 Q1016 MGSJ 240000Z METAR MGRT 240000Z VOL. STA. MARIA Y SANTIAGUITO EN ACTIVIDAD MGRT 240000Z 24006KT 9000 SKC 30/23 Q1012 A2988 HZ VOL. STA. MARIA Y SANTIAGUITO EN ACTIVIDAD YBBN 240800Z 17007KT CAVOK 22/13 Q1013 LRBC 240800Z 06003KT 330V100 9999 FEW050 22/12 Q1014 YBCG 240800Z AUTO 22005KT 9999 // OVC072 20/14 Q1013 YBCK 240800Z AUTO 17006KT //// // ////// 26/01 Q1014 RMK YAMB 240800Z 14006KT 9999 SCT040 BKN088 22/12 Q1013 NOSIG LRAR 240800Z 02007KT 350V050 9999 FEW040TCU 22/12 Q1015 LPST 240800Z 34009KT 3000 BR SCT002 BKN004 15/14 Q1015 MHLC 240600Z 00000KT 9999 FEW028 24/23 Q1013 A2992 NOSIG LRBM 240800Z /////KT 9999 FEW050 ///// Q1016 YBDG 240800Z AUTO 00000KT 9999 // SCT079 SCT120 19/11 Q1015 MHLE 240000Z 05002KT 9999 FEW024CB 23/13 CB TCU S FU LRBO 240800Z 08003KT 9999 SCT200 21/13 Q1014 BLU BLU YBCS 240800Z 13013KT 9999 FEW028 26/18 Q1011 NOSIG SEGS 240000Z 09011KT 9999 BKN020 26/23 Q1010 A2982 LRBS 240800Z 24003KT 190V320 CAVOK 23/10 Q1014 NOSIG YBCV 240800Z AUTO 17005KT 9999 // NCD 25/02 Q1015 LRCK 240800Z 18010KT 160V220 CAVOK 20/13 Q1015 NOSIG SEGU 240800Z 21009KT 9999 FEW010 25/20 Q1009 NOSIG RMK A2982 MGTU 240000Z 1804KT CAVOK 32/22 FEW200 LRCL 240800Z 25007KT 9999 FEW046CB SCT067 17/12 Q1016 R07/29//95 MHLM 240600Z 32002KT 9999 FEW024 26/26 Q1014 A2995 NOSIG YANG 240800Z AUTO 28002KT 9999 // NCD 33/07 Q1014 RMK YBDV 240800Z AUTO 24005KT //// // ////// 32/04 Q1013 LRCT 240800Z 03004KT 9999 SCT050CB BKN080 18/11 Q1017 BLU WHT SEJD 232100Z 10004KT 9999 SCT016 SCT100 30/22 Q1012 LRCV 240800Z VRB02KT CAVOK 23/09 Q1015 LQMO 240800Z 05003KT 310V100 CAVOK 19/10 Q1017 ROAH 240800Z 18014KT 9999 FEW005 BKN010 BKN030 25/23 Q1007 RMK 2ST005 5CU010 7CU030 A2975 BGBW 240750Z 22004KT 3000 -SN VV013 00/M02 Q1005 YBGD 240800Z AUTO 18004KT 150V220 9999 // NCD 33/07 Q1013 RMK GMAD 240800Z 20005KT 160V260 9999 SCT016 SCT026 16/14 Q1015 NOSIG MHNO 240000Z 36006KT 9999 FEW040TCU 29/22 TCU E SE HZ GMAG 240800Z 30008KT 8000 FEW006 SCT016 FEW020CB 14/13 Q1015 NOSIG FTTA 240600Z 22006KT CAVOK 29/23 Q1011 FTTC 240700Z 10014KT 8000 SKC 36/// Q1012 FTTD 240700Z 22006KT CAVOK 29/23 Q1011 HDAM 240700Z 07008KT 9999 SCT023 32/25 Q1013 YBHI 240800Z AUTO 24009KT 9999 // NCD 27/01 Q1017 RMK KZPH 240815Z AUTO 00000KT 10SM SCT012 21/20 A2994 RMK AO2 T02140202 MGZA 240000Z 07010KT 9999 FEW035 32/16 QFE 984.8 FEW200 SEMC 232300Z 18004KT 9999 SCT030 SCT130 22/22 Q1015 FTTJ 240700Z 17009KT 170V280 7000 NSC 35/20 Q1009 NOSIG YBHM 240800Z AUTO 12012KT 9999 // NCD 24/20 Q1013 LRFT 240800Z 22006KT 9999 SCT200 21/12 Q1015 BLU BLU MHPL 240000Z 07005KT 9999 SCT028TCU BKN250 28/24 Q1011 TCU ALL HZ FU GMAT 240800Z 30010KT 9999 BKN013 16/13 Q1016 NOSIG YARG 240800Z AUTO 12008KT 9999 // NCD 36/M01 Q1009 LRIA 240800Z 29006KT 9999 SCT048 18/09 Q1014 BGGH 240750Z AUTO 18012KT 9999NDV -FZDZ OVC015/// M02/M04 Q1003 SELT 240800Z 30002KT 9999 SCT030 10/09 Q1030 FVBU 240300Z 08005KT CAVOK 14/10 Q1023 NOSIG RODN 240756Z AUTO 18012G22KT 10SM BKN027 26/22 A2976 RMK AO2 SLP083 T02600220 $ HCMF 240700Z 16018KT CAVOK 33/22 Q1010 NOSIG FTTY 240700Z 00000KT CAVOK 33/15 Q1012 YCBA 240800Z AUTO 18004KT 9999 // NCD 26/03 Q1016 HCMH 240700Z 15013KT 9999 BKN030 26/18 Q1021 NOSIG YCBB 240800Z AUTO 17006KT //// // ////// 19/05 Q1018 LQSA 240800Z VRB01KT CAVOK 17/09 Q1018 NOSIG SEMT 240800Z 20003KT 9999 FEW020 24/22 Q1010 WSSL 240800Z 25006KT 9999 FEW020 BKN270 32/22 Q1006 RMK 0730Z Q1007 SENL 232300Z 10003KT 9999 FEW023 28/22 Q1010 RMK A2985 YBKE 240800Z AUTO 16005KT //// // ////// 26/01 Q1015 RMK MHSC 240658Z AUTO 00000KT 9999 BKN075 22/19 A3001 RMK AO2 SLP116 T02230194 $ HCMM 240700Z 22010KT 9999 BKN021 30/27 Q1012 NOSIG MHRO 240600Z 06018KT 9999 FEW025 27/25 Q1014 A2995 NOSIG YCAR 240800Z AUTO 19014KT 9999 // NCD 24/17 Q1014 YCAS 240800Z AUTO 31006KT //// // ////// 18/16 Q1014 WSSS 240800Z 24003KT 180V300 9999 FEW020 BKN280 31/25 Q1007 NOSIG FVFA 231400Z 16005KT 120V190 CAVOK 29/11 Q1018 NOSIG MHTE 240000Z 08004KT 9999 SCT026TCU 30/25 Q1011 TCU S SW HZ YCBP 240800Z AUTO 03009KT 9999 // NCD 31/00 Q1014 MHTG 240600Z 05004KT 9999 SCT028 SCT230 23/16 Q1019 A3009 NOSIG GMFF 240800Z 00000KT 7000 FEW020 BKN030 16/14 Q1015 BECMG YBMA 240800Z AUTO 16005KT 9999 // NCD 29/03 Q1013 YBKT 240800Z AUTO 17008KT //// // ////// 32/09 Q1010 MHSR 232300Z 36010KT 8000 FEW030TCU 26/16 TCU NE E SE S 8 KM ALL FU YBLN 240800Z AUTO 22010KT //// // ////// 19/11 Q1020 RMK GMFK 240800Z 07004KT 010V110 CAVOK 17/00 Q1015 NOSIG GMFM 240800Z 00000KT 5000 BKN020 SCT100 16/13 Q1014 NOSIG BGJN 240750Z AUTO 09001KT 9999NDV BKN060/// BKN080/// M04/M07 Q1002 GMFO 240800Z 21011KT 9999 FEW026 18/13 Q1013 NOSIG YBNA 240800Z AUTO 25007KT 9999 // BKN023 BKN030 BKN050 18/16 YBLT 240800Z AUTO 33006KT 9999 // SCT100 17/11 Q1016 RMK MHTR 240000Z 09010KT 9999 FEW022CB SCT023TCU 28/25 CB S NW TCU ALL VCSH NW HZ YBMK 240800Z AUTO 10005KT 9999 // NCD 24/19 Q1012 RMK SERB 232100Z 05012KT 9999 BKN040 SCT100 18/10 Q1027 FVHA 240700Z 14007KT 100V190 CAVOK 20/06 Q1026 NOSIG YCEE 240800Z AUTO 11010KT //// // ////// 19/14 Q1017 RMK SEQM 240800Z 10003KT 9999 BCFG BKN007 OVC013 12/12 Q1026 NOSIG RMK A3030 YCDO 240800Z AUTO 00000KT //// // ////// 24/02 Q1016 RMK BGKK 240750Z AUTO 12002KT 9999NDV NCD M05/M08 Q1005 YCCY 240800Z AUTO 14009KT //// // ////// 31/00 Q1012 ROIG 240800Z 20009KT 9999 -TSRA FEW009 SCT020 FEW025CB BKN030 26/26 Q1007 LQTZ 240800Z 28006KT 260V320 CAVOK 20/11 Q1018 SESA 240000Z 24006KT CAVOK 25/23 Q1009 YCDU 240800Z AUTO 17009KT 9999 // NCD 20/17 Q1017 RMK YCEM 240800Z AUTO 00000KT //// // ////// 18/15 Q1016 RMK GLRB 240800Z 00000KT 9000 SCT011 SCT100 25/24 Q1013 RMK BRVC SERO 240200Z 22002KT CAVOK 27/23 Q1010 SESG 240800Z 27010KT 9999 FEW035 20/07 Q1018 YBNS 240800Z AUTO 19010KT //// // SCT105 23/09 Q1015 RMK YBOK 240800Z AUTO 14009KT 9999 // BKN097 21/09 Q1014 YCFL 240800Z AUTO 16019KT //// // ////// 26/20 Q1010 RMK SESM 232300Z 30010KT 9999 SCT023 BKN100 21/18 Q1015 A2999 YAYE 240800Z AUTO 34004KT 310V020 9999 // SCT125 33/04 Q1015 LROD 240800Z 21004KT 180V240 9999 FEW045CB 18/14 Q1016 R01/29//95 YCFS 240800Z AUTO 22014KT 9999 // BKN023 19/16 Q1014 RF00.0/009.4 SGAS 240800Z 22010KT CAVOK 21/19 Q1015 SEST 240000Z 12008KT 9999 FEW020 26/23 Q1009 RMK A2980 HEBA 240500Z 00000KT 9999 SCT020 16/11 Q1015 NOSIG YBPN 240800Z AUTO 10006KT 9999 // NCD 23/20 Q1012 RMK LSGC 240750Z AUTO 20004KT 170V240 CAVOK 12/09 Q1022 SETN 240100Z 19004KT 170V230 9999 +TSRA FEW026CB BKN100 26/23 Q1011 A2986 LROP 240800Z 21003KT 130V260 CAVOK 24/13 Q1014 NOSIG LSGG 240750Z 06004KT 030V170 CAVOK 15/10 Q1021 NOSIG YCHK 240800Z AUTO 08001KT 9999 // NCD 35/10 Q1012 RMK YAYT 240800Z 31006KT 8000 SCT035 24/13 Q1016 HEAR 232300Z 00000KT CAVOK 14/08 Q1016 NOSIG SETU 232100Z 08010KT 9999 BKN023 16/10 Q1030 HECA 240700Z 01005KT CAVOK 22/12 Q1015 HEAT 240500Z 34006KT CAVOK 17/05 Q1015 NOSIG HEBL 240500Z 01007KT CAVOK 20/02 Q1013 NOSIG HEAX 240500Z 16002KT 9999 SCT020 17/12 Q1014 NOSIG MHYR 240000Z 09008KT 9999 FEW024CB SCT025TCU 28/20 CB SE TCU ALL HZ YBRK 240800Z AUTO 02006KT 9999 // SCT100 24/17 Q1012 YBRL 240800Z AUTO 10007KT //// // ////// 33/07 Q1009 RMK LSGS 240750Z 08003KT 030V120 9999 FEW070 15/08 Q1021 YBRM 240800Z AUTO 30009KT 9999 // NCD 32/21 Q1008 GMMB 240800Z 19008KT 3000 BR SCT010 BKN020 16/16 Q1014 NOSIG YCIN 240800Z AUTO 09006KT 9999 // NCD 36/11 Q1007 GMMC 240800Z 20008KT 9999 BKN016 SCT026 17/14 Q1013 FWCL 240700Z 16007KT 9999 FEW018 23/14 Q1021 NOSIG YBSG 240800Z AUTO 13005KT //// // ////// 29/18 Q1008 RMK GMMD 240800Z 18002KT 6000 SCT016 BKN100 14/14 Q1014 NOSIG GMME 240800Z 22006KT 4000 BR SCT010 BKN030 BKN070 17/15 Q1013 TEMPO DZ GMMH 240800Z 06011KT 9999 SCT020 18/14 Q1019 NOSIG GMMI 240800Z VRB01KT 7000 SCT010 OVC016 16/15 Q1015 NOSIG LRSB 240800Z 09005KT 9999 FEW030CB BKN080 16/13 Q1016 R27/29//95 LTAC 240750Z VRB03KT CAVOK 18/00 Q1019 NOSIG SGEN 232100Z 03010KT 9999 SCT020 OVC200 25/20 Q1013 GMML 240800Z 32007KT 8000 SCT020 SCT030 17/15 Q1018 NOSIG KZZV 240753Z AUTO 10008KT 10SM OVC085 13/08 A3010 RMK AO2 RAB27E40 SLP190 P0000 T01280083 YBRY 240800Z AUTO 13004KT 110V180 9999 // NCD 34/08 Q1013 RMK YBTH 240800Z AUTO 08007KT 9999 // NCD 19/03 Q1019 RMK ROMY 240800Z 20009KT 9999 VCSH FEW004 SCT012 BKN050 25/24 Q1008 LTAF 240750Z 35004KT 270V060 CAVOK 25/10 Q1015 NOSIG GMMN 240800Z 21010KT 9999 BKN016 16/16 Q1014 NOSIG LTAG 240750Z VRB02KT CAVOK 23/10 Q1015 NOSIG LTAI 240750Z 15009KT CAVOK 21/09 Q1015 NOSIG SGES 240800Z 00000KT 9000 NSC 21/20 Q1015 YBSU 240800Z AUTO 04004KT 9999 // NCD 21/14 Q1013 RMK YBTL 240800Z AUTO 07010KT 9999 // NCD 26/19 Q1012 LTAJ 240750Z 17006KT 140V210 CAVOK 23/08 Q1017 NOSIG LTBA 240750Z 20005KT 150V260 CAVOK 20/09 Q1018 NOSIG YBUD 240800Z AUTO 28006KT 9999 // NCD 21/11 Q1013 YCKN 240800Z AUTO 14009KT 9999 // NCD 25/19 Q1011 LRTC 240800Z 19008KT 150V230 CAVOK 21/13 Q1014 LTAL 240750Z VRB02KT CAVOK 17/M02 Q1019 LRSM 240800Z 11003KT 070V130 CAVOK 21/14 Q1015 R01/CLRD// LTBD 240750Z 09004KT 050V140 CAVOK 22/10 Q1016 FVMV 231300Z 14010KT CAVOK 26/12 Q1020 NOSIG LTAN 240750Z 02014KT 9999 FEW040 20/02 Q1019 NOSIG LTBF 240750Z 00000KT CAVOK 19/10 Q1018 NOSIG GMMW 240800Z 28004KT 6000 SCT017 BKN030 16/14 Q1014 NOSIG LTAP 240750Z VRB02KT CAVOK 19/08 Q1018 NOSIG GMMX 240800Z 27002KT 9999 FEW016 BKN023 14/11 Q1014 NOSIG BGSF 240750Z AUTO 06006KT 9999NDV SCT070/// BKN085/// M06/M07 Q1002 LTBH 240750Z 35004KT 290V030 CAVOK 22/11 Q1017 LTAR 240750Z VRB03KT 9999 FEW040 14/02 Q1021 GMMZ 240800Z 10002KT 9999 FEW040 15/06 Q1012 NOSIG LTAS 240750Z VRB05KT CAVOK 21/08 Q1018 LTBJ 240750Z 36007KT CAVOK 21/09 Q1016 NOSIG LTCA 240750Z VRB05KT 9999 FEW035 20/03 Q1018 NOSIG LTAT 240750Z 10005KT 040V170 9999 FEW040 21/03 Q1018 NOSIG LTCB 240750Z 36004KT CAVOK 15/11 Q1020 LTAU 240750Z VRB03KT 9999 FEW040 18/01 Q1019 NOSIG LTCC 240750Z 07005KT 360V110 CAVOK 20/05 Q1018 NOSIG LRSV 240800Z 23003KT CAVOK 17/10 Q1015 LRTM 240800Z 36004KT 310V050 9999 SCT037CB 19/10 Q1016 LTCD 240750Z VRB04KT 9999 SCT045 18/00 Q1019 NOSIG YDBY 240800Z AUTO 30008KT 9999 // NCD 35/20 Q1007 RMK LTCE 240750Z VRB08KT 9999 SCT030 12/M03 Q1020 NOSIG LTAW 240750Z 34002KT CAVOK 19/08 Q1018 BIBD 231543Z 05011KT 9999 BKN050 06/M01 Q0999 LTBO 240750Z 10012KT CAVOK 21/03 Q1018 LTCF 240750Z 29013KT 250V330 9999 SCT035 11/M05 Q1019 LTCG 240750Z VRB04KT 9999 FEW035 16/13 Q1020 NOSIG LTAY 240750Z 08004KT 010V160 CAVOK 19/05 Q1018 LTAZ 240750Z VRB02KT CAVOK 20/02 Q1019 LTBQ 240750Z VRB01KT CAVOK 22/12 Q1017 NOSIG LRTR 240800Z 04004KT 360V090 CAVOK 21/12 Q1015 LTBR 240750Z VRB01KT CAVOK 21/10 Q1018 NOSIG LTCI 240750Z 31005KT 240V350 9999 FEW040 12/M00 Q1021 NOSIG LSMA 240750Z VRB02G13KT 9999 FEW040 14/11 Q1021 RMK BLU+ LTBS 240750Z 21007KT CAVOK 21/11 Q1015 NOSIG LTCJ 240750Z VRB04KT CAVOK 23/09 Q1017 LTDA 240750Z VRB02KT CAVOK 23/10 Q1016 NOSIG YCMM 240800Z AUTO 26009KT //// // ////// 20/11 Q1017 RMK BIAR 240800Z 28004KT 240V360 9999 -SN BKN025 OVC030 00/M03 Q1001 LTCK 240750Z 33005KT 290V020 9999 SCT040 16/M00 Q1020 LTCL 240750Z 29002KT 9999 FEW040 22/06 Q1018 LTBU 240750Z 13005KT 090V180 CAVOK 23/13 Q1017 LSMD 240750Z VRB02KT CAVOK 16/11 Q1021 RMK BLU LTCM 240750Z 13007KT CAVOK 18/08 Q1018 BGTL 240656Z AUTO 28005KT 9999 BKN043 BKN060 M08/M09 A2953 RMK AO2 SLP987 T10831091 TSNO $ LSME 240550Z VRB02KT 7000 SCT006 11/10 Q1021 RMK WHT LTCN 240750Z 24003KT 140V290 9999 FEW040 21/11 Q1017 NOSIG HEGN 240500Z 30013KT CAVOK 21/04 Q1012 NOSIG LTCO 240750Z VRB07KT 9999 SCT050 13/M00 Q1020 LTCP 240750Z 14007KT 100V180 CAVOK 24/01 Q1017 LTBY 240750Z VRB03KT CAVOK 21/03 Q1019 LTBZ 231250Z 29007KT 250V330 9999 FEW040 24/00 Q1016 LRTZ 240800Z 15014KT 9999 BKN200 16/12 Q1015 BLU BLU YCMT 240800Z AUTO 14002KT //// // ////// 26/05 Q1013 RMK YCNK 240800Z AUTO 16005KT //// // ////// 18/13 Q1016 RMK LTCR 240750Z 12008KT 040V190 CAVOK 24/08 Q1017 LTCS 240750Z VRB05KT CAVOK 23/02 Q1019 YCNM 240800Z AUTO 20007KT //// // ////// 24/02 Q1015 RMK LTCT 240750Z VRB05KT 9999 FEW100 18/M01 Q1018 YCOE 240800Z AUTO 07006KT //// // ////// 26/19 Q1010 RMK LTCU 240750Z 17006KT 9999 FEW035 18/01 Q1019 LSMM 240750Z 00000KT 9999 FEW009 14/10 Q1022 RMK BLU+ LTCV 240750Z 11008KT CAVOK 21/11 Q1018 YBWP 240800Z AUTO 14005KT 9999 // NCD 29/20 Q1008 LTCW 240750Z VRB02KT 9999 FEW040 10/01 Q1022 LSMP 240750Z VRB01KT 4000 BCFG SCT002 12/10 Q1022 RMK GRN RORS 240800Z 18008KT 9999 TS FEW007 FEW020CB BKN070 25/24 Q1008 LTFA 240520Z 00000KT CAVOK 15/12 Q1016 RMK RWY17 00000KT LSMS 240750Z 08003KT 030V120 9999 FEW070 15/08 Q1021 RMK BLU+ YCOM 240800Z AUTO 25006KT 9999 // NCD 15/04 Q1019 RMK YBWW 240800Z AUTO 14009KT 9999 // OVC097 21/11 Q1014 RMK LTFC 240750Z VRB01KT CAVOK 18/04 Q1018 YBWX 240800Z AUTO 23014KT //// // ////// 31/22 Q1009 LTFD 240750Z 24004KT 200V270 CAVOK 22/12 Q1016 YCNY 240800Z AUTO 12009KT //// // ////// 32/01 Q1011 RMK LTFE 240750Z 25006KT 200V290 CAVOK 22/13 Q1016 NOSIG RORY 240800Z AUTO VRB01KT 7000 -RA SCT009 BKN011 OVC027 22/21 Q1008 LTFG 240750Z 27005KT 190V360 9999 FEW030 24/15 Q1015 LTFH 240750Z 30006KT 270V330 CAVOK 18/11 Q1019 NOSIG BIEG 240800Z VRB02KT 9999 SCT031 BKN060 01/M04 Q0999 RPLB 240800Z 20006KT 9999 FEW020 SCT080 BKN300 34/24 Q1005 NOSIG RMK A2968 LTFJ 240750Z 21004KT 160V260 CAVOK 22/08 Q1017 NOSIG HEIS 240700Z 08008KT 9999 FEW025 22/15 Q1014 RPLC 240800Z 20006KT 9999 FEW015CB FEW020 BKN300 35/21 Q1007 RMK A2974 CB N LTFK 240750Z 02005KT CAVOK 22/09 Q1016 GMTA 240800Z 06008KT 6000 FEW020 OVC030 19/14 Q1014 NOSIG ROTM 240756Z 21014G20KT 9999 SCT015 BKN020 OVC070 26/23 A2978 RMK SLP069 STNPR29485 WND WRNG T2 XWND T02560228 GOBD 240800Z 36017KT CAVOK 19/16 Q1014 NOSIG RPLI 240800Z 35008KT 9999 FEW018CB FEW019 32/25 Q1007 NOSIG RMK A2974 CB NE AND E YBYU 240800Z AUTO 11003KT 9999 // SCT125 30/24 Q1008 YDGU 240800Z AUTO 18004KT 150V210 9999 // SCT100 33/08 Q1013 FWKI 240800Z 19012KT 9999 FEW020 20/10 Q1023 NOSIG RPLL 240800Z 14010KT 080V220 9999 FEW025 35/22 Q1006 NOSIG RMK A2971 RPMD 240800Z 01004KT 330V060 9999 FEW016 34/23 Q1005 RMK A2968 GMTN 240800Z 16010KT 120V190 7000 SCT020 SCT200 21/11 Q1013 NOSIG HEMA 240500Z 30009KT CAVOK 24/17 Q1012 NOSIG GMTT 240800Z VRB05KT 3500 BR SCT010 SCT200 17/16 Q1013 NOSIG RPMR 240800Z 00000KT 9999 SCT020TCU 34/25 Q1006 NOSIG RMK A2971 CB NW SW W/ VCSH HEMM 240500Z 24005KT 9999 SCT020 15/12 Q1017 NOSIG BIHN 231900Z 36008KT 9999 FEW028 BKN050 07/M01 Q0996 HELX 240500Z 00000KT 4000 HZ NSC 21/06 Q1013 NOSIG RPMZ 240800Z 27012KT 9999 FEW017CB FEW018 32/26 Q1006 RMK A2971 CB N MKJP 240800Z 34005KT 9999 FEW020 27/24 Q1013 MKJS 240800Z 27004KT 9999 FEW022 25/23 Q1013 YCUN 240800Z AUTO 18008KT 9999 // NCD 22/06 Q1019 RMK BIIS 240800Z 04015KT 9999 SCT035 BKN045 01/M05 Q1000 LUBM 240400Z 05003KT 9999 FEW026CB 12/07 Q1012 R25/CLRD65 ROYN 240800Z AUTO 01020KT 4100 -RA BR SCT009 BKN016 BKN019 //////CB 23/22 Q1008 YDLQ 240800Z AUTO 19007KT 170V230 //// // ////// 23/03 Q1016 YCWA 240800Z AUTO 29003KT 9999 // NCD 33/07 Q1014 RMK GOGG 240700Z 32004KT CAVOK 21/18 Q1012 BIKF 240800Z 06011KT 9999 FEW025 SCT039 BKN050 05/03 Q0995 GOGK 240700Z 00000KT CAVOK 26/15 Q1011 HEPS 240500Z 07003KT CAVOK 18/14 Q1015 NOSIG GOGS 240700Z 36006KT CAVOK 20/18 Q1012 YCWR 240800Z AUTO 17004KT //// // ////// 23/05 Q1017 HESC 240500Z 00000KT CAVOK 13/M05 Q1019 NOSIG HESG 240500Z 32008KT CAVOK 17/04 Q1014 NOSIG HESH 240500Z 36012KT CAVOK 24/13 Q1011 NOSIG YDPO 232300Z AUTO 19009KT //// // ////// 13/11 Q1015 RMK HESN 240500Z VRB02KT CAVOK 21/M03 Q1013 NOSIG LSZA 240750Z 19004KT 150V220 CAVOK 19/09 Q1018 NOSIG LSZB 240750Z 11004KT 070V150 9999 FEW003 14/10 Q1021 NOSIG RPVD 240700Z 04010KT 9999 FEW015 31/26 Q1006 RMK A2971 LSZC 240750Z VRB01KT 9999 FEW030 15/11 Q1021 LSZG 240750Z VRB01KT 1200 BR VCFG BKN002 12/11 Q1022 BECMG 5000 SCT005 LSZH 240750Z 19003KT 120V240 9999 FEW013 SCT025 16/12 Q1021 NOSIG HETR 240700Z 30017KT CAVOK 23/15 Q1012 RPVM 240800Z 06008KT 9999 FEW018CB 33/23 Q1006 NOSIG RMK A2971 CB S LSZL 240750Z 09005KT CAVOK 20/08 Q1018 RMK BLU RPVP 240800Z 18040KT 9999 FEW017CB 32/25 Q1006 RMK A2971 CB NNE LSZR 240750Z AUTO VRB02KT 9999 NCD 16/14 Q1021 MMAA 240744Z 28005KT 5SM BKN300 26/24 A2988 RMK 8/002 HZY LSZS 240750Z VRB01KT 9999 FEW045 07/04 Q1023 RMK E FXMM 240700Z 27003KT CAVOK 13/09 Q1026 NOSIG YELD 240800Z AUTO 09006KT //// // ////// 30/21 Q1008 RMK CAHR 240800Z AUTO 21008KT 04/M03 RMK AO1 SLP256 T00381033 56000 BIRK 240800Z 08011KT 9999 -SHRA FEW022 BKN032 BKN050 06/00 Q0995 MMAN 240440Z 00000KT 6SM FEW015 OVC025 19/18 A3009 RMK 8/5// HZY ST S W GOOD 240700Z 36006KT CAVOK 19/17 Q1014 YFBS 240800Z AUTO 19005KT //// // ////// 23/04 Q1016 RMK GOOG 240700Z 32004KT CAVOK 21/12 Q//// MMAS 240540Z 04008KT 9SM OVC200 20/M02 A3022 RMK SLP070 8/007 HZY MMCB 232341Z 07002KT 10SM FEW030 BKN220 30/09 A3000 RMK 8/508 HZY LUKK 240800Z 25004KT 200V310 9999 FEW049 20/08 Q1013 R26/CLRD// TEMPO SCT040CB GOOK 240700Z 32008KT CAVOK 21/16 Q1013 YFDF 240700Z AUTO 09005KT 060V130 9999 // NCD 35/10 Q1012 RMK MMCE 232348Z 34006KT 7SM FEW300 28/24 A2987 RMK SLP112 57007 918 8/008 CBBC 240800Z AUTO 00000KT 9SM FEW140 06/04 A3031 RMK SLP267 FYGF 240800Z 18003KT CAVOK 25/10 Q//// YEML 240800Z AUTO 12007KT 9999 // NCD 25/06 Q1013 MMBT 232345Z 23012KT 6SM SCT020 BKN220 31/// A29854 RMK 8/101 HZY MMCL 240440Z 00000KT 10SM SCT250 24/10 A2988 RMK 8/004 HZY MMCM 240344Z 11011KT 7SM SCT020 27/24 A2997 RMK 8/100 MMCN 240140Z 25002KT 10SM OVC200 29/01 A2982 RMK 8/007 HZY MMCP 240541Z 36010KT 7SM SKC 26/23 A2993 GOOY 240700Z 36008KT 8000 NSC 18/18 Q1014 NOSIG MMCS 240341Z 00000KT 10SM SCT250 23/M04 A3004 RMK 8/005 FU SSE MMCT 232046Z 18004KT 8SM BKN050 34/22 A2989 RMK 8/400 HZY MSGTX MMMD MMCU 240246Z 00000KT 10SM SKC 21/M02 A3007 RMK SLP102 52010 903 MMCV 240346Z 00000KT 3SM -RA FEW005 SCT010 OVC015 22/22 A3006 RMK 60045 8/4// -DZE35 -RAB36 MMDO 240245Z 21009KT 7SM SCT030 BKN070 23/00 A3018 RMK SLP075 52013 906 8/530 MMCZ 240741Z 00000KT 7SM SCT015 23/22 A2995 RMK 8/500 BIVM 240800Z 10012KT 9999 SCT020 06/04 Q0994 RERA MMEP 240145Z 01005KT 12SM OVC250 23/16 A3002 RMK 8/007 GOSM 240700Z 36002KT CAVOK 27/07 Q1011 GOSP 240700Z 28002KT CAVOK 22/12 Q1012 GOSS 240700Z 36004KT CAVOK 18/16 Q1013 GOTK 240600Z 28004KT CAVOK 30/11 Q1011 MMGL 240742Z 00000KT 8SM FEW300 19/07 A3015 RMK 8/001 MMGM 240141Z 20008KT 10SM OVC180 29/09 A2979 RMK 8/01/ FYKM 240800Z 03003KT CAVOK 25/17 Q1022 MMIA 240140Z 27010KT 8SM BKN200 24/17 A2999 RMK 8/001 YERN 240800Z AUTO 13008KT //// // ////// 27/07 Q1016 RMK GOTT 240700Z 32006KT CAVOK 30/10 Q1009 FYKT 240800Z 00000KT CAVOK 22/01 Q1021 MMHO 240740Z 13003KT 10SM BKN200 24/01 A2994 RMK 8/008 HZY NCRG 240800Z 17003KT 9999 FEW025 SCT100 23/22 Q1010 FYML 231400Z AUTO 29005KT //// // ////// 36/00 Q1020 YESP 240800Z AUTO 20010KT 9999 // SCT023 OVC070 18/12 Q1019 MMIO 240740Z 00000KT 1 1/2SM BR SCT003 OVC007 12/11 A3019 RMK 8/5// YGBI 240800Z AUTO 08008KT //// // ////// 30/21 Q1008 RMK YEST 240800Z AUTO 20009KT 9999 // OVC074 18/13 Q1019 RMK FYOA 240800Z 06007KT CAVOK 26/10 Q1022 YGAY 240800Z AUTO 14003KT //// // ////// 20/14 Q1012 RMK YFLI 240800Z AUTO 31011KT 9999 // SCT096 BKN110 19/14 Q1014 MNBL 232100Z 05004KT 9999 SCT019 30/26 Q1011 YGDH 240800Z AUTO 16012KT //// // ////// 22/01 Q1015 RMK FYOO 240800Z AUTO 00000KT //// // ////// 25/09 Q//// MNCH 232100Z 26004KT 9999 SCT025 35/22 Q1008 MMMA 240041Z 08011KT 8SM SCT080 BKN200 24/16 A3001 RMK 8/38 MMLM 240241Z 27004KT 10SM SCT250 23/07 A2987 RMK SLP116 8/004 MMMD 240748Z 03007KT 7SM SCT020 26/23 A2994 RMK 8/500 AC MMLO 240442Z 12007KT 8SM SCT030 BKN090 23/11 A3027 RMK 8/530 FYOW 240800Z AUTO 04005KT //// // ////// 25/07 Q1023 MMLP 240456Z 19006KT 10SM SCT220 22/11 A2995 RMK 8/008 ISPL AS YGEL 240800Z AUTO 20018KT 9999 // NCD 23/13 Q1017 RF00.0/000.0 MMLT 240044Z 00000KT 10SM BKN220 30/15 A2983 RMK 8/002 MMML 240641Z 34003KT 8SM SKC 22/07 A2987 MMMM 240740Z 00000KT 6SM SCT100 18/12 A3023 RMK 8/030 MMMT 240452Z 00000KT 10SM FEW020 26/25 A2995 RMK 8/100 MMNL 240040Z 17006KT 10SM SCT080 28/13 A2997 RMK 8/070 YGFN 240800Z AUTO 21004KT 9999 // NCD 19/15 Q1013 RMK MMMV 231740Z 04007KT 10SM HZ SCT200 27/10 A3007 RMK8/002 SKBG 240500Z 33007KT 6000 TSRA SCT008CB BKN070 17/17 A3002 RMK CB/NW MMMX 240742Z 14004KT 6SM SCT020 BKN080 BKN200 17/12 A3035 TEMPO 6SM -RA RMK 8/463 HZY MMMY 240740Z 06004KT 5SM SCT010 OVC020 20/18 A3002 RMK 8/6// DZ INTMT LWR ST SKAR 240600Z 00000KT 9999 SCT023 SCT100 20/19 A3006 MMMZ 240744Z 00000KT 10SM FEW230 18/17 A2989 RMK 8/002 MMPA 232340Z 12006KT 4SM BKN020 OVC030 26/23 A2998 RMK SLP152 54000 919 8/8// HZY MMPB 240144Z 24005KT 8SM -RA BKN020CB OVC080 14/11 A3034 RMK 8/96/ OCNL LTICC SE SKCC 240500Z 16004KT 9999 SCT018 BKN080 27/22 A2996 MMPE 231444Z 00000KT 10SM SKC 21/01 A2992 SKBO 240800Z 03003KT 9999 BKN020 11/09 A3032 SKCG 240700Z 03006KT 360V080 9999 SCT018 SCT200 26/24 A2980 MMPG 231940Z 12008KT 10SM SKC 28/13 A3005 RMK SKBQ 240800Z 01008KT 9999 SCT010 BKN200 26/25 A2979 SKBS 231700Z /////KT 5000 -DZ FEW015 BKN030 XX/XX A//// SKBU 231700Z 25005KT 200V290 9999 SCT030 SCT040 30/26 A2986 SKCL 240700Z 00000KT 5000 BR FEW025 SCT150 19/18 A2999 SKCO 231700Z 25003KT 9999 SCT015 SCT040 29/XX A2985 MMPN 232349Z 20008KT 7SM BKN270 26/14 A3010 RMK SLP/// 5//// 9// 8/001 FU HZ ISOL CBS MMOX 240141Z 00000KT 7SM OVC120 24/10 A3018 RMK 8/02/ MMPQ 232340Z 00000KT 4SM BKN040 BKN200 32/23 A2976 RMK 8/508 HZY MSGTX MMMD MMPR 240745Z 00000KT 12SM SKC 21/19 A2991 RMK CI MMPS 240240Z 23006KT 6SM SCT230 29/23 A2998 RMK 8/007 HZY SKCZ 231700Z 17006KT 9000 SCT015 SCT060 32/XX A//// RMK HZ YHBA 240800Z AUTO 09008KT 9999 // NCD 22/17 Q1013 RMK SKEJ 240000Z 00000KT 9999 SCT020 30/25 A2976 YFRT 240800Z AUTO 15009KT //// // ////// 26/12 Q1016 MMQT 240350Z 12010KT 6SM BKN020CB BKN120 BKN250 19/13 A3035 RMK 8/362 HZY CBS S BKPR 240800Z VRB02KT 9999 FEW040 SCT200 18/07 Q1018 NOSIG FYWB 240800Z 00000KT CAVOK 18/12 Q1018 MMSD 240544Z 00000KT 12SM SKC 24/03 A2992 RMK SLP119 52006 900 CI FYWE 240800Z 00000KT CAVOK 23/05 Q1027 MNJG 232100Z 36008KT 9999 SCT020 28/18 Q1010 YGLA 240800Z AUTO 07006KT 9999 // NCD 24/17 Q1013 RF00.0/000.0 YGLB 240800Z AUTO 00000KT 9999 // NCD 16/05 Q1018 RMK FYWH 240800Z 00000KT CAVOK 21/02 Q1027 NOSIG TAPA 240800Z 08007KT 9999 FEW018 25/21 Q1015 NOSIG SKFL 231700Z 00000KT 9999 -DZ BKN020 28/24 A2998 MMTC 240342Z 0012KT 10SM SKC 28/14 A2999 MMSL 240242Z 28005KT 6SM SKC 28/04 A2995 RMK AC YHAY 240800Z AUTO 27003KT //// // ////// 24/01 Q1015 RMK MMRX 240045Z 10010KT 7SM FEW070 BKN220 25/13 A3000 RMK 8/032 HZY YGLI 240800Z AUTO 17005KT 9999 // OVC021 14/11 Q1017 RMK MMSP 240748Z 13005KT 8SM SCT025 17/11 A3025 RMK 8/500 GQNO 240800Z 36014KT 8000 NSC 19/10 Q1015 NOSIG MMTG 240447Z 30011KT 6SM SCT300 27/20 A2996 RMK 8/008 FU HZ ARND ISOLD AC SKGI 231700Z 18010KT 9000 FEW030 BKN100 31/20 A2986 RMK HZ MMTJ 240740Z 00000KT 5SM BKN200 13/12 A3004 RMK 8/008 HZ GQPA 231500Z 03009KT 330V080 8000 NSC 33/06 Q1014 MNJU 232100Z 09004KT 9999 FEW020 35/23 Q1010 MMTM 240343Z E06006KT 7SM SCT008 BKN070 25/24 A3004 RK 8/130 HZY SKGO 231700Z 27008KT 9999 SCT060 FEW080 X/XX A3000 YFTZ 240800Z AUTO 11008KT //// // ////// 38/01 Q1008 RMK SKGP 231700Z 15004KT 9999 BKN020 31/26 A2987 FYWW 240800Z 33004KT CAVOK 23/05 Q1026 MMTO 240746Z 00000KT 6SM SCT015 BKN070 12/09 A3040 RMK 8/530 HZY MMTP 240740Z 00000KT 10SM SKC 27/25 A2986 YGLS 240800Z 24008KT CAVOK 31/M01 Q1016 RMK RF00.0/000.0 MMVA 240246Z 00000KT 6SM SCT060 25/24 A2996 RMK SLP143 52021 921 8/020 HZY SKIB 240200Z 32003KT 9999 FEW030 BKN100 23/21 A3005 K06C 240755Z AUTO 00000KT 10SM OVC080 10/00 A3006 RMK AO2 T00951002 MMUN 240743Z 12005KT 7SM FEW200 25/23 A2997 RMK 8/008 SC K06D 240755Z AUTO 33010KT 10SM CLR 01/M02 A3033 RMK AO2 SKGY 231700Z 19008KT 140V230 9000 SCT039 OVC056 21/12 A3035 K04W 240755Z AUTO 00000KT 10SM CLR 02/00 A3013 RMK AO2 MNMG 240400Z 11012KT 9999 FEW021 29/21 Q1012 A2988 NOSIG GQPP 240800Z 03018KT 8000 BKN006 18/15 Q1019 NOSIG K05U 240755Z AUTO 00000KT 10SM CLR 00/M06 A3026 RMK A01 SKIP 232300Z 08004KT 9999 SCT016 SCT200 12/09 A3039 MMVR 240341Z 00000KT 6SM FEW008 SCT070 BKN200 26/24 A3000 RMK 8/138 HZY SLAL 240200Z 36008KT 9999 FEW070 SCT200 12/09 Q1032 K08D 240755Z AUTO 36005KT 7SM 00/M04 A3042 RMK AO2 LWOH 240800Z 16003KT CAVOK 17/10 Q1020 SLCA 232300Z 00000KT 9999 BKN033 25/22 Q1015 SLCB 240800Z 00000KT 9999 FEW030 BKN200 13/08 Q1026 SKLC 240200Z 00000KT 9999 SCT016 27/24 A2985 LXGB 240750Z 10005KT 9999 6000E HZ FEW025 19/14 Q1014 BECMG 8000 MNPC 232100Z 09004KT 8000 BKN016 30/26 Q1010 NFFN 240800Z 09003KT 9999 FEW030 26/23 Q1011 NOSIG YHID 240800Z AUTO 12014KT 9999 // NCD 28/22 Q1008 SKMD 232300Z 03008KT 9999 SCT035 BKN200 27/13 A3000 MMZC 240542Z 00000KT 8SM SCT200 16/06 A3028 RMK 8/001 SLCO 232300Z 00000KT 9999 FEW025 30/25 Q1010 SLCP 232200Z 00000KT 9999 FEW017 SCT200 29/24 Q1015 MMZH 240141Z 00000KT 5SM BKN250 27/23 A2987 RMK 8/002 HZY SKLT 240700Z 240700Z 00000KT 9999 SCT015 SCT080 24/24 A2988 MMZO 240153Z 00000KT 8SM FEW210 25/22 A2985 RMK 8/001 HZY SKMR 240300Z 00000KT 9999 FEW018 SCT090 26/25 A2985 K11R 240755Z AUTO 00000KT 10SM CLR 14/13 A3006 RMK AO2 T01380132 SKMU 231700Z /////KT 8000 HZ SCT015 30/24 A2992 YGTE 240800Z AUTO 17003KT 9999 // OVC072 27/23 Q1009 RMK YGTH 240800Z AUTO 00000KT 9999 // NCD 22/02 Q1016 RMK K12N 240754Z AUTO 00000KT 03/02 A3038 RMK AO1 SLP290 T00330017 SKMZ 232300Z 00000KT 9999 SCT015 BKN080 19/15 A3024 YHLC 240800Z AUTO 10008KT 9999 // NCD 35/M01 Q1011 RMK MNRS 232100Z 10006KT 9999 FEW018CB BKN250 33/23 Q1008 CB/S SLET 232300Z 32005KT 9999 FEW017 28/23 Q1011 TBPB 240800Z 12013KT 9999 SCT016 SCT036 25/22 Q1013 NOSIG SKPC 240000Z 09005KT 9999 FEW017 BKN070 27/24 A2985 LWSK 240800Z VRB01KT CAVOK 18/09 Q1018 NOSIG YGTN 240800Z AUTO 11003KT 9999 // ////// 27/11 Q1012 SKPD 231700Z /////KT 9999 SCT012 SCT080 30/24 A2993 SKNV 240300Z 17003KT 9999 FEW027 SCT110 27/20 A2988 NFKD 230900Z AUTO 10010KT //// 24/24 Q1015 SKPE 240700Z 11006KT 9999 SCT014 BKN080 21/18 A3007 LYBE 240800Z 24004KT CAVOK 20/14 Q1016 NOSIG MPBO 240100Z 28004KT 9999 FEW020 SCT100 Q1013 SKPS 232300Z 00000KT 9999 BKN023 SCT080 19/17 A3011 YHML 240800Z AUTO 24008KT 9999 // ////// 17/12 Q1016 RMK MPDA 240300Z VRB01KT CAVOK 26/25 Q1009 LYBT 240800Z VRB05KT CAVOK 22/13 Q1016 NOSIG SKPV 240000Z 05006KT 350V180 9999 FEW017 BKN080 28/25 A2989 SKRG 240800Z VRB02KT 5000 -DZ BKN008 BKN070 15/15 A3027 SKRH 232300Z 05010KT 9999 FEW030 BKN200 28/24 A2979 K14Y 240757Z AUTO 33005KT 10SM CLR 07/00 A3015 RMK AO2 SKSA 231700Z 00000KT 9999 NSC 32/XX A2995 RMK HZ TCU/SW NFNA 240700Z 13003KT 9999 FEW020 26/24 Q1012 SKQU 231700Z 21008KT 9000 SCT020 XX/XX A2986 RMK HZ K0A9 240755Z AUTO 11009G17KT 10SM FEW020 SCT028 BKN034 14/09 A2994 RMK AO2 SLJE 232200Z 00000KT 9999 SCT017 BKN200 27/23 Q1014 SKSJ 231700Z 00000KT 9999 SCT010 SCT090 XX/XX A2993 YIFL 240800Z AUTO 16005KT 9999 // NCD 23/21 Q1012 RMK K18A 240755Z AUTO 09006KT 7SM +RA OVC003 A2987 RMK AO2 TSNO K17J 240755Z AUTO 29003KT 10SM OVC049 15/13 A2992 RMK AO2 T01480132 SKSM 240400Z 03006KT 9999 FEW020 BKN200 29/23 A2986 YHOO 240800Z AUTO 10010KT //// // ////// 34/04 Q1011 RMK SLJO 232200Z 00000KT 9999 FEW017 BKN200 31/25 Q1011 SKSP 240800Z 07012KT 9999 FEW017 28/24 A2987 YHOT 240800Z AUTO 29003KT 9999 // ////// 12/04 Q1021 NFNR 230900Z AUTO 14002KT //// 26/25 Q//// K18H 240755Z AUTO 33014KT 10SM CLR 23/14 A3000 RMK A01 SKUC 240200Z 07003KT 9000 BKN015 25/25 A2990 RMK HZ TDCF 232200Z 36004KT 9999 FEW019 27/18 Q1014 SKUI 240200Z 11006KT 5000 -TSRA BKN015CB OVC080 25/24 A2986 RMK CB/SE NGFU 240800Z VRB02KT 9999 SCT020 29/25 Q1008 K0E0 240755Z AUTO 17003KT 10SM CLR 11/M04 A3013 RMK AO2 T01071045 K21D 240755Z AUTO 00000KT 10SM CLR 04/02 A3013 RMK AO2 SLMG 232300Z 00000KT 9999 FEW017 BKN200 28/26 Q1011 SLLP 240800Z 09008KT 4000E VCFG FEW003 SCT013 FEW017CB BKN200 04/03 Q1038 YJAB 240800Z AUTO 11006KT //// // ////// 32/14 Q1007 RMK K19S 240755Z AUTO 11008KT 10SM CLR 09/05 A3009 RMK AO2 T00850055 K20U 240815Z AUTO 28010KT 10SM FEW100 SCT120 02/02 A3045 RMK AO2 K20V 240753Z AUTO 00000KT 10SM BKN049 OVC060 08/03 A3024 RMK AO2 K0F2 240755Z AUTO 00000KT 10SM CLR 10/09 A3004 RMK AO2 T01040090 SKVP 240300Z 08009KT 9999 FEW020 SCT080 29/21 A2990 K0CO 240754Z AUTO 26006G18KT OVC002 M05/M10 A3038 RMK AO2 PWINO YHSM 240800Z AUTO 27008KT 9999 // BKN105 20/14 Q1016 RMK SKVV 232300Z 09003KT 9999 FEW023 27/22 A2987 K22N 240755Z AUTO 00000KT 10SM CLR 01/00 A3038 RMK AO2 K24A 240755Z AUTO 00000KT 4SM RA BR SCT012 OVC032 11/10 A2992 RMK AO2 T01070097 HKEL 240800Z 21007KT 9999 SCT020 BKN080 21/14 Q1026 YHUG 240800Z AUTO 15007KT //// // NCD 28/01 Q1012 RMK NFTF 240800Z 00000KT 9999 FEW016 24/21 Q1015 SLOR 2331800Z 36012KT 9999 SCT070 20/04 Q1034 K24J 240755Z AUTO 00000KT 10SM BKN024 17/16 A2993 RMK A01 NFTL 240600Z 12012KT 9999 FEW010 SCT017 26/24 Q1012 SLPO 231700Z 06012KT 9999 NSC 16/M01 Q1038 SKYP 231700Z 07006KT 9999 FEW040 31/20 A2994 SLPS 232300Z 00000KT 9999 NSC 27/24 Q1012 SLRB 232300Z 00000KT 9999 FEW025CB 28/26 Q1014 LYKV 240800Z VRB01KT 9999 FEW050 21/10 Q1017 NOSIG NFTV 240600Z 11008KT 9999 SCT008 BKN016TCU 26/23 Q1011 MPMG 240300Z 33006KT 9999 SCT018 SCT090 27/25 Q1011 NOSIG K0J4 240758Z AUTO 00000KT 10SM CLR 12/10 A2995 RMK AO2 SLP139 T01220100 $ SLRI 232300Z 00000KT 8000 VCSH SCT015 FEW020CB BKN200 29/24 Q1011 K1A5 240755Z AUTO 00000KT 5SM RA SCT002 BKN027 OVC033 12/11 A2989 RMK AO2 P0003 T01170111 SLSA 232300Z 00000KT 9999 FEW017 FEW023CB BKN200 29/24 Q1009 K1A6 240755Z AUTO 00000KT 10SM RA OVC060 12/12 A2991 RMK AO2 P0001 T01160115 K1A9 240755Z AUTO 28004KT 10SM CLR 12/12 A2991 RMK AO2 T01200120 SLRQ 232200Z 00000KT 9999 FEW020CB BKN200 31/26 Q1007 SLSI 232300Z 18006KT 9999 SCT017 FEW025CB 27/23 Q1013 LYNI 240800Z 19003KT 130V290 CAVOK 19/10 Q1017 NOSIG K27K 240755Z AUTO 07006KT 7SM SCT050 SCT065 OVC090 10/09 A2995 RMK AO1 SLRY 232200Z 00000KT 9999 FEW020 31/25 Q1006 SMJP 240800Z VRB01KT CAVOK 23/23 Q1012 NOSIG SLTJ 240300Z 00000KT 9999 FEW027 FEW030CB 18/16 Q1022 MPPA 240300Z 35005KT 9999 SCT016 SCT080 26/// Q1011 K28J 240755Z AUTO 26004KT 5SM BR BKN018 19/19 A2992 RMK AO2 HKJK 240800Z 08009KT 9999 -RA BKN005 OVC080 17/17 Q1024 K1AM 240658Z AUTO 00000KT 10SM CLR M01/M03 A3047 RMK AO2 SLP304 T10121033 400781012 $ K1AN 231756Z AUTO 35009KT 10SM FEW130 12/02 A3020 RMK AO2 SLP256 T01200015 10122 20019 53005 $ LYPG 240800Z 17001KT CAVOK 21/13 Q1018 NOSIG SLTR 232300Z 00000KT 9999 FEW017 SCT200 29/25 Q1010 HKKI 240800Z 17003KT 9999 FEW021 SCT090 27/19 Q1018 K1BM 240658Z AUTO 23011KT 10SM CLR 00/M03 A3046 RMK AO2 SLP353 T10021033 400741007 $ K1BN 231756Z AUTO 01011KT 10SM FEW120 11/03 A3025 RMK AO2 SLP257 T01120030 10112 20034 50005 $ K1AW 240658Z AUTO 34026G31KT 10SM BKN008 BKN090 00/M01 A3026 RMK AO2 PK WND 33032/40 LTG DSNT SE SLP232 T00001015 401960000 ZBAA 240800Z 31003G08MPS 250V360 CAVOK 24/M02 Q1017 NOSIG LZIB 240800Z 30011KT 9999 FEW026 18/12 Q1018 NOSIG SLVM 232000Z 00000KT 9999 SCT023 31/25 Q1010 K1F0 240755Z AUTO 00000KT 10SM CLR 11/09 A3003 RMK AO2 K1CM 240658Z AUTO 28005KT 10SM CLR 01/M04 A3045 RMK AO2 SLP348 T00111041 400600001 $ K1CN 231756Z AUTO 01011KT 10SM CLR 12/02 A3025 RMK AO2 SLP257 T01160019 10117 20041 50010 $ K1BW 240658Z AUTO 34022G29KT 10SM OVC010 00/M02 A3031 RMK AO2 PK WND 35030/01 LTG DSNT S SLP245 T00031016 401930003 $ SLVR 240800Z VRB02KT 9999 FEW017 FEW030CB 22/21 Q1014 HKML 240700Z 22010KT 9999 FEW023CB SCT024TCU 29/25 Q1014 K1DN 240256Z AUTO 36007KT 10SM BKN046 06/02 A3029 RMK AO2 SHRAE13RAB13E34SHRAB34E50 SLP277 P0001 60002 T00610017 52017 $ HKMO 240800Z 21008KT 9999 FEW024CB SCT025 31/23 Q1014 NOSIG GUCY 240700Z 00000KT 9999 BKN110 26/22 Q1012 NOSIG SLYA 232300Z 00000KT 9999 SCT023 FEW025CB 25/25 Q1013 YJLC 240800Z AUTO 16008KT 9999 // NCD 29/01 Q1011 RMK NGTA 240700Z 09012KT 9999 FEW018TCU 28/25 Q1007 TDPD 240000Z 15005KT 9999 BKN016 25/21 Q1016 MPSM 240300Z 35011KT 9999 FEW020 27/23 Q1011 K1H2 240755Z AUTO 00000KT 10SM BKN046 BKN055 OVC080 12/12 A2997 RMK AO2 T01220122 K1EN 231756Z AUTO 01012KT 10SM SCT160 09/02 A3023 RMK AO2 SLP261 T00890019 10095 20023 50008 $ CERM 240800Z AUTO 30011KT M05/M07 RMK AO1 SOG 33 6000 SLP237 T10451066 K1DW 240658Z AUTO 34025G30KT 10SM OVC010 01/00 A3032 RMK AO2 PK WND 35030/49 LTG DSNT SE-S SLP248 T00101005 401811005 $ K0R0 240755Z AUTO 00000KT 10SM CLR 10/09 A3000 RMK AO2 K1FM 240658Z AUTO 30004KT 10SM CLR 00/M06 A3045 RMK AO2 SLP345 T10021065 400871021 $ K33V 240755Z AUTO 34010KT 10SM SCT024 BKN031 OVC050 00/M02 A3029 RMK AO1 K1FN 231756Z AUTO 36013KT 10SM CLR 08/02 A3016 RMK AO2 SLP267 T00810023 10081 20017 50008 $ HKNW 240800Z 09008KT 9999 -RA BKN019 OVC080 17/16 Q1023 MPTO 240800Z VRB02KT 7000 SCT018 BKN100 25/24 Q1009 NOSIG K0R4 240755Z AUTO 00000KT 10SM CLR 13/12 A2997 RMK AO2 T01300120 K2A0 240755Z AUTO 00000KT 4SM BR SCT006 BKN020 OVC065 13/13 A2986 RMK A01 P0005 K1J0 240758Z AUTO VRB03KT 10SM CLR 14/13 A2994 RMK AO2 SLP096 T01390128 $ YIVO 240800Z AUTO 35004KT //// // ////// 27/01 Q1015 RMK LYTV 240800Z 29003KT 250V060 9999 FEW023 21/15 Q1018 NOSIG K1GM 240658Z AUTO 25005KT 10SM CLR 01/M07 A3044 RMK AO2 SLP335 T00061066 400810006 $ K1GN 231756Z AUTO 35012KT 10SM FEW075 09/01 A3025 RMK AO2 SLP268 T00860014 10088 20014 50007 $ K1FW 240658Z AUTO 33023G29KT 10SM -SHRA OVC050 02/00 A3028 RMK AO2 PK WND 33033/36 LTG DSNT S SHRAB02E32SHRAB35 SLP234 T00171005 401911009 $ LZKZ 240800Z 04006KT 360V070 CAVOK 19/12 Q1016 NOSIG K0S9 240755Z AUTO 00000KT 10SM CLR 04/03 A3027 RMK AO2 K1K1 240755Z AUTO 00000KT 10SM CLR 09/06 A3008 RMK AO2 T00880055 K1HM 240658Z AUTO 28003KT 10SM CLR 01/M07 A3045 RMK AO2 SLP332 T00121067 401050007 $ K1HN 240256Z AUTO 36009KT 10SM OVC095 06/M02 A3031 RMK AO2 SLP285 60001 T00631021 53007 PWINO $ LYUZ 240800Z 31012KT CAVOK 16/08 Q1019 LYVR 240800Z 22006KT 180V250 9999 FEW033 22/13 Q1016 NOSIG GVAC 240800Z 06013KT 9999 BKN014 21/15 Q1018 NOSIG K1IM 240658Z AUTO 13003KT 10SM CLR 00/M04 A3047 RMK AO2 SLP354 T00001037 401001017 $ K1IN 231756Z AUTO 33013KT 10SM BKN030 09/02 A3028 RMK AO2 SLP275 T00850015 10086 20010 50008 $ SOCA 240800Z AUTO 18002KT 9999 BKN002 BKN022 OVC062 23/23 Q1012 GVBA 240800Z 03013KT 9999 BKN015 21/15 Q1018 NOSIG K2C8 240755Z AUTO 33010KT 06/00 A3030 RMK AO2 TSNO K40B 240716Z AUTO 00000KT M04/M06 A3024 RMK AO1 SLP256 T10441057 57006 K1JM 240758Z AUTO 00000KT 10SM CLR 00/M06 A3044 RMK AO2 SLP342 T00021065 $ K1JN 231756Z AUTO 35010KT 10SM SCT029 09/02 A3027 RMK AO2 SLP268 T00850019 10086 20024 52008 $ K1IW 240658Z AUTO 34022G29KT 10SM SHRA OVC037 03/01 A3024 RMK AO2 PK WND 32031/36 LTG DSNT S SLP234 P0003 T00250007 401850021 $ ZBHH 240800Z 32001MPS 9999 FEW040 16/M03 Q1020 NOSIG K1M4 240756Z AUTO 24003KT 10SM OVC075 12/12 A2991 RMK AO2 SLP146 T01220122 K0V4 240755Z AUTO 04006KT 7SM BKN034 OVC046 11/11 A3019 RMK AO1 P0008 T01060105 K2D5 240755Z AUTO 02015KT 10SM 09/05 A3021 RMK AO2 PWINO K1M5 240755Z AUTO 00000KT 10SM OVC004 12/12 A2988 RMK A01 K40J 240755Z AUTO 23003KT 10SM SCT025 15/14 A2994 RMK AO2 T01530140 HLLB 240800Z 31015KT 9999 FEW025 21/11 Q1020 K1KM 240758Z AUTO 30008KT 10SM CLR M02/M03 A3048 RMK AO2 SLP363 T10201029 $ K1JW 240258Z AUTO 20005KT 10SM BKN002 03/02 A3019 RMK AO2 SLPNO T00250024 $ K1KN 231756Z AUTO 34015KT 10SM FEW029 08/02 A3027 RMK AO2 SLP271 T00820017 10086 20023 50003 $ YKII 240800Z AUTO 29011KT 9999 // BKN019 BKN025 15/13 Q1014 LZPP 240800Z 35005KT 320V020 9999 FEW030 20/12 Q1017 HLLM 240750Z 08008KT 8000 NSC 21/12 Q1021 K1LN 240256Z AUTO 36008KT 10SM SCT140 03/M03 A3034 RMK AO2 SLP293 T00321033 52020 $ K2F5 240755Z AUTO 11009KT 10SM OVC110 14/04 A3005 RMK AO2 K0VG 240755Z AUTO 06006KT 10SM OVC050 14/09 A2993 RMK AO2 YLBD 240800Z AUTO 31005KT 9999 // NCD 31/24 Q1008 RMK K42J 240755Z AUTO 24004KT 6SM CLR 19/19 A2992 RMK AO1 TSNO MSAC 232250Z 26004KT 9999 FEW036 32/25 Q1007 A2975 K1P1 240755Z AUTO 00000KT 10SM CLR M02/M03 A3037 RMK AO2 T10181027 K1MM 240658Z AUTO 18007KT 10SM CLR 00/M02 A3046 RMK AO2 SLP350 T10021023 400531002 $ TFFF 240800Z AUTO 07003KT 9999 FEW031 SCT074 BKN180 25/22 Q1014 K1MN 231756Z AUTO 32010G16KT 10SM BKN032 10/02 A3028 RMK AO2 SLP272 T00970018 10100 20011 51005 $ K1LW 240758Z AUTO 34017G29KT 6SM -SHSN FEW012 OVC043 01/00 A3029 RMK AO2 PK WND 34035/01 SHRAB0658E04SHSNB23 SLP236 P0002 T00111001 $ K2G4 240800Z AUTO 13018G25KT 10SM CLR 05/01 A3017 RMK AO1 K2DP 240756Z AUTO 11012KT 10SM OVC110 17/13 A3018 RMK AO2 SLPNO T01660126 $ HKWJ 240700Z 18005KT 9999 BKN026TCU 28/23 Q1015 LZSL 240800Z 00000KT 9999 FEW033 20/10 Q1016 K2G9 240755Z AUTO 12004KT 10SM BKN080 OVC120 07/01 A3023 RMK AO2 K1NM 231458Z AUTO 34003KT 3SM -SN OVC009 01/01 A3030 RMK AO2 SNB51 CIG 009V017 SLP292 P0003 60013 T00140011 52017 $ K1NN 231756Z AUTO 32011KT 10SM SCT035 11/02 A3028 RMK AO2 SLP266 T01060021 10108 20002 52006 $ TFFR 240800Z AUTO VRB02KT 9999 FEW024 SCT220 24/21 Q1015 MRLB 240600Z 06004KT CAVOK 26/19 A2985 NOSIG K1ON 240256Z AUTO 34011KT 10SM FEW140 07/M03 A3031 RMK AO2 SLP281 T00691027 52021 $ YLEC 240800Z AUTO 21001KT //// // ////// 27/02 Q1017 RMK LZTT 240800Z 25010KT 9999 FEW020 16/11 Q1017 NOSIG MRLM 240000Z 01006KT CAVOK 28/23 A2981 YKMP 240800Z AUTO 21008KT //// // ////// 18/15 Q1015 RMK SMZO 240000Z 04005KT 9999 FEW010 27/23 Q1013 NOSIG K46D 240755Z AUTO 35007G15KT 10SM FEW015 FEW022 BKN040 06/01 A3032 RMK AO2 K1OW 240658Z AUTO 35027G31KT 10SM FEW009 SCT033 BKN043 01/M01 A3025 RMK AO2 PK WND 36038/35 LTG DSNT SE SHRAE0558 SLP227 T00051009 401950005 PWINO FZRANO $ K2J3 240755Z AUTO 14004KT 1 1/2SM BR SCT005 BKN010 BKN055 16/15 A2985 RMK AO2 T01560155 K1S5 240815Z AUTO 00000KT 10SM CLR 03/M01 A3034 RMK AO2 T00281010 K2J9 240755Z AUTO 28004KT 10SM BKN045 15/14 A2993 RMK AO2 YLEO 240800Z AUTO 12003KT 9999 // NCD 28/05 Q1016 RMK YKNT 240800Z AUTO 14007KT //// // ////// 33/M01 Q1014 AYMH 240700Z 27010KT 9999 SCT050 22/18 Q1014 MROC 240800Z VRB02KT CAVOK 22/16 A2997 NOSIG K46U 240740Z AUTO 00000KT 10SM CLR M01/M01 A3031 RMK A01 K49A 240755Z AUTO 34003KT 7SM -RA BKN014 OVC019 15/14 A2988 RMK AO2 T01450135 YKOW 240800Z AUTO 12004KT 9999 // NCD 31/13 Q1009 RMK K3D2 240755Z AUTO 35005KT 10SM CLR 04/M02 A3011 RMK AO2 T00401025 YLHI 240800Z AUTO 07011KT 9999 // SCT018 23/20 Q1015 K1V4 240754Z AUTO M01/M04 A3032 RMK AO1 SLP272 T10111039 K1V6 240750Z AUTO 21007KT 10SM CLR 11/06 A3013 RMK AO2 SPCL 240800Z 34002KT 9999 SCT015 24/24 Q1013 RMK PP000 K3AU 240755Z AUTO 00000KT 10SM CLR 09/06 A3007 RMK AO2 LZZI 240800Z VRB01KT 9999 SCT010 16/13 Q1017 YKSC 240800Z AUTO 21006KT 9999 // SCT038 SCT045 20/12 Q1017 AYNZ 240700Z 080015KT 9999 SCT035 SCT120 30/21 Q1004 MRPV 240000Z 08010KT 9999 FEW040 SCT100 23/15 A3001 NOSIG K3F3 240755Z AUTO 24003KT 10SM CLR 13/12 A3003 RMK AO2 T01270120 YMBA 240800Z AUTO 14008KT //// // ////// 23/12 Q1013 YLIS 240800Z AUTO 35001KT 9999 // OVC031 OVC049 18/16 Q1013 ZBSJ 240800Z 12003MPS CAVOK 22/03 Q1018 NOSIG OAHR 240755Z 33010KT 9999 FEW080 26/14 Q1018 RMK A3007 BLU YMBD 240800Z AUTO 17007KT 9999 // NCD 19/13 Q1017 RMK K2LS 240755Z AUTO 00000KT 10SM OVC050 18/15 A3001 RMK AO2 YKRY 240800Z AUTO 14004KT 9999 // SCT072 BKN120 20/09 Q1014 K2P2 240755Z AUTO 03003KT 10SM CLR 00/M02 A3011 RMK AO2 T10021023 ZBTJ 240800Z VRB01MPS CAVOK 22/M03 Q1017 NOSIG AYPY 240600Z 15010G25KT 9999 HZ SCT030 SCT050 30/25 Q1005 OAKB 240750Z 22003KT 150V280 9999 FEW100 SCT160 26/01 Q1019 NOSIG RMK A3012 BLU BLU YMAV 240800Z AUTO 19007KT 9999 // BKN100 18/16 Q1015 YLLE 240800Z AUTO 16001KT 9999 // NCD 30/M01 Q1014 RMK OAJL 240756Z 16004KT 9999 SCT150 BKN220 33/07 A2983 RMK AO2A SLP066 T03250069 YMAY 240800Z AUTO 00000KT 9999 // NCD 22/09 Q1016 OAIX 240758Z 33004KT 9999 SCT140 BKN270 26/02 A3004 RMK AO2A SLP086 T02620016 $ GVNP 240800Z 02015KT 9999 FEW019 20/15 Q1018 NOSIG OBBI 240800Z 34019KT CAVOK 29/11 Q1014 NOSIG K54J 240755Z AUTO 00000KT 10SM CLR 12/11 A2995 RMK AO2 T01160107 SPGM 232100Z 22003KT 9999 FEW040 29/21 Q1012 RMK BIRD HAZARD RWY19 TX30.8 PP000 YMCO 240800Z AUTO 33008KT //// // ////// 21/14 Q1014 RMK NIUE 240800Z AUTO 12009KT //// ////// 24/24 Q1012 YMDG 240800Z AUTO 10005KT 9999 // NCD 21/06 Q1017 K3I2 240755Z AUTO 05011G14KT 10SM OVC100 12/10 A3006 RMK AO2 T01240102 OAKN 240755Z 28008KT 8000 HZ FEW250 32/00 A2996 RMK AO2A SLP092 Q1015 PA3268 DA6036 MTCH 232000Z 03011KT 9000 SCT025CB 27/20 Q1015 A2999 RMK SPHI 240800Z 18006KT 9999 OVC040 21/18 Q1011 RMK PP000 SPHO 232300Z 01005KT 9999 VCSH SCT030 BKN090 20/12 Q1023 RMK PP000 MSLP 240750Z 06003KT 020V090 9999 SCT075 26/24 Q1010 A2984 NOSIG YMEK 240800Z AUTO 22008KT 9999 // NCD 29/07 Q1015 K4A6 240755Z AUTO 00000KT 7SM OVC004 14/14 A2987 RMK AO2 K3J7 240755Z AUTO 00000KT 7SM OVC005 17/17 A2981 RMK AO2 SPJC 240800Z 16004KT CAVOK 19/18 Q1012 NOSIG RMK PP000 MSLU 232250Z 10004KT CAVOK 34/23 Q1006 A2971 YMEN 240800Z AUTO 04005KT 9999 -RA SCT087 OVC110 OVC125 19/16 Q1014 K4A9 240755Z AUTO 00000KT 1/4SM FG OVC001 12/11 A2985 RMK AO2 K1YT 240756Z AUTO 19004KT 10SM CLR 03/M03 A3034 RMK AO2 SLPNO T00301033 401931003 $ K57C 240755Z AUTO 00000KT 10SM SCT120 08/00 A3007 RMK AO2 T00791004 SPHY 231900Z /////KT 9999 FEW015 SCT050 14/07 Q1034 RMK BIRD HAZARD RWY03/21 PP000 K3K3 240755Z AUTO 10009KT 10SM CLR 08/05 A3007 RMK AO2 YMER 240800Z AUTO 02004KT 9999 // NCD 18/15 Q1016 YMES 240800Z AUTO 25007KT 9999 // NCD 24/11 Q1015 SPJI 232100Z 00000KT 9999 BKN030 27/24 Q1019 RMK TX30.0 PP000 YMGB 240800Z AUTO 09005KT //// // ////// 32/17 Q1008 OAMS 240650Z 27021KT 1600 +BLDU BKN020 OVC120 24/09 Q1014 YLO GRN TEMPO AMB YMGD 240800Z AUTO 14005KT 9999 // NCD 31/16 Q1007 RMK SPJL 240200Z 25009KT 9000 RA FEW010 BKN080 06/04 Q1038 RMK RWY 12/30 MOJADA PPTRZ K3L4 240755Z AUTO 31004KT 10SM FEW034 18/14 A3000 RMK A01 SPJR 232300Z 15008KT 9999 VCSH SCT025 BKN040 14/12 Q1026 RMK PP000 YMHB 240800Z 29005KT 270V330 CAVOK 19/11 Q1008 ZBYN 240800Z 19003MPS 160V220 CAVOK 18/06 Q1018 NOSIG YMIA 240800Z AUTO 26006KT 9999 // NCD 26/09 Q1016 K2V5 240755Z AUTO 35018G24KT 10SM OVC014 06/03 A3023 RMK AO2 K2V6 240754Z AUTO 36016G20KT 10SM OVC023 03/02 A3023 RMK AO2 K59K 231930Z 29004KT 5SM OVC005 16/11 A3005 YLRE 240800Z AUTO 17009KT 9999 // NCD 28/01 Q1013 SPME 240300Z 29003KT 9999 BKN030 25/22 Q1011 RMK BIRD HAZARD RWY 32/14 PP000 SPLO 232100Z 14010KT CAVOK 22/17 Q1012 RMK TX 23.4 PP000 K4BM 240754Z AUTO 09004KT M1/4SM +SN OVC001 00/M01 A3037 RMK AO2 GVSV 240800Z 06017KT 9999 FEW023 SCT200 21/13 Q1018 NOSIG K3LF 240755Z AUTO 36006KT 2SM DZ OVC004 12/12 A2998 RMK AO2 T01180117 K2W6 240757Z AUTO 09006KT 10SM BKN044 BKN050 12/05 A3031 RMK AO1 YMHU 240800Z AUTO 10007KT 9999 // NCD 33/04 Q1009 RMK K3N8 240755Z AUTO 01008KT 10SM OVC090 07/02 A3019 RMK AO2 T00660018 YMIN 240800Z AUTO 28008KT //// // ////// 19/11 Q1017 RMK SPMS 232300Z 22003KT 9999 FEW015 SCT120 27/23 Q1010 RMK BIRD HAZARD RWY09/27 PP000 MSSA 232150Z 08004KT 9999 FEW037 33/16 Q1015 A2998 YNAR 240800Z AUTO 00000KT //// // ////// 22/06 Q1016 RMK YLST 240800Z AUTO 20007KT 160V220 9999 // NCD 29/07 Q1015 RMK YLTN 240800Z AUTO 20009KT //// // ////// 28/08 Q1016 RMK MSSM 240050Z 23007KT 9999 SCT033 FEW037CB 28/26 Q1008 A2977 DAAD 240800Z 10005KT 8000 NSC 23/10 Q1018 YNBR 240800Z AUTO 15006KT 9999 // NCD 22/02 Q1015 RMK DAAE 240800Z 22010KT 7000 NSC 21/15 Q1015 YMMB 240800Z AUTO 36007KT 9999 // SCT110 20/16 Q1014 RMK DAAG 240800Z 02006KT 9999 FEW026 BKN100 22/17 Q1015 MSSS 240550Z 21002KT 9999 SCT033 22/21 Q1016 A3001 YLTV 240800Z AUTO 25004KT 9999 // NCD 19/12 Q1015 RMK DAAJ 240800Z 34002KT 4000 HZ NSC 27/10 Q1019 MUCC 240750Z 13005KT 100V170 9000 FEW020 25/22 Q1015 DABB 240800Z 00000KT 7000 FEW023 SCT200 19/16 Q1015 DABC 240800Z 09003KT CAVOK 20/16 Q1019 K4I3 240757Z AUTO 10007KT 10SM SCT060 SCT090 12/09 A3010 RMK AO2 MUCF 240759Z AUTO 07002KT 21/21 Q1015 K2WX 240756Z AUTO 36020KT 02/01 A3031 RMK AO1 PK WND 02032/0737 SLP271 T00220006 $ DAAP 240800Z 11006KT 8000 NSC 30/05 Q1016 YMLT 240800Z AUTO 34013KT 9000 // NCD 15/14 Q1011 YMML 240800Z 02014KT 9999 -RA NSC 19/13 Q1015 K3R7 240755Z AUTO 00000KT 10SM CLR 13/12 A3000 RMK AO2 T01310117 YMNE 240800Z AUTO 08003KT 9999 // NCD 29/07 Q1015 RMK MUCL 240705Z AUTO VRB02KT 25/23 Q1015 DAAS 240800Z 16004KT CAVOK 21/07 Q1021 DAAT 240800Z 06018KT 7000 NSC 30/M05 Q1021 MUCM 240750Z 10003KT 070V130 7000 NSC 22/20 Q1016 YMNG 240800Z AUTO 32004KT 300V360 9999 // OVC098 20/08 Q1016 TGPY 240800Z 09010KT 9999 SCT018 25/23 Q1013 NOSIG DAAV 240800Z 00000KT 8000 FEW023 20/17 Q1015 DAAY 240800Z 33008KT CAVOK 18/05 Q1018 K5A6 240755Z AUTO 00000KT 10SM OVC023 13/13 A2993 RMK AO2 T01250125 AZUH 240750Z 36008KT 9999 FEW035TCU 18/06 Q1018 SPQT 240800Z 07003KT 9999 VCSH BKN020 FEW030TCU 25/24 Q1012 RMK PP000 K3S8 240755Z AUTO 00000KT 10SM CLR 10/03 A3006 RMK AO2 SPQU 240800Z 00000KT 9999 FEW100 SCT120 12/06 Q1027 RMK PP000 K65S 240755Z AUTO 00000KT 10SM CLR 03/M02 A3042 RMK AO2 DABS 240800Z 12008KT CAVOK 23/11 Q1021 MUCU 240750Z 36003KT 9000 FEW020 22/19 Q1015 DABT 240800Z 00000KT CAVOK 19/12 Q1020 YMOG 240800Z AUTO 21006KT //// // ////// 27/03 Q1016 RMK K3T5 240755Z AUTO 00000KT 10SM CLR 15/14 A3003 RMK AO2 T01470136 K66R 240215Z AUTO 00000KT 10SM CLR 18/14 A3002 RMK AO2 T01810135 SPRU 240800Z 20003KT 4000 BR FEW170 19/18 Q1011 RMK PP000 K5C1 240755Z AUTO 00000KT 10SM CLR 12/08 A3005 RMK AO1 SPSO 240800Z 19004KT 8000 NSC 20/17 Q1011 RMK HZ PP000 YMOR 240800Z AUTO 17011KT 9999 // NCD 23/02 Q1014 SPST 240300Z 08002KT 2000 BR BKN004 BKN008 23/22 Q1014 RMK BIRD HAZARD RWY 17/35 PPOO0 SPTN 240800Z 20002KT 9999 SCT030 18/16 Q1017 RMK PP000 YMRB 240800Z AUTO 12007KT 9999 // SCT094 26/08 Q1013 RMK YNHL 240800Z AUTO 27007KT //// // ////// 20/13 Q1016 RMK DAFH 240800Z 16010KT CAVOK 23/03 Q1017 MUHA 240755Z 00000KT 9000 FEW030 20/20 Q1015 SPTU 232300Z 00000KT 9999 SCT045 26/25 Q1008 RMK BIRD HAZARD RWY 01/19 PP000 K4M9 240755Z AUTO 34005KT 10SM BKN022 OVC029 14/14 A2993 RMK AO2 PWINO MUGM 240756Z 34005KT 9999 FEW030 FEW280 23/21 A2997 RMK SLP147 T02280211 MTPP 240000Z 27004KT 9000 FEW022 SCT060 28/22 Q1013 A2993 MUHG 240751Z 08005KT 8000 VCFG SKC 22/21 Q1014 K4O4 240755Z AUTO 00000KT 10SM CLR 10/09 A3000 RMK AO2 YMRY 240800Z AUTO 02008KT 9999 // NCD 18/15 Q1016 RMK YMTG 240800Z AUTO 28007KT 9999 // NCD 15/12 Q1016 RMK YMTI 240800Z AUTO 10006KT //// // ////// 29/16 Q1010 RMK K4MR 240658Z AUTO 11009KT 10SM CLR 12/02 A3006 RMK AO2 SLP136 T01160015 402690041 $ K5H4 240755Z AUTO 34008KT 10SM SCT060 OVC075 05/00 A3035 RMK AO2 SPYL 232100Z 23006KT CAVOK 30/20 Q1009 RMK TX33.8 BIRD HAZARD RWY 17/35 PP000 DBBB 240700Z 23012KT 9999 SCT011 28/25 Q1011 NOSIG K4R5 240755Z AUTO 36004KT 10SM CLR 08/00 A3012 RMK AO2 T00761005 K6A1 240755Z AUTO 25007KT 10SM 16/12 A2987 RMK AO2 T01560115 K74V 240755Z AUTO 00000KT 10SM CLR 08/M07 A3023 RMK AO2 K4S2 240755Z AUTO 00000KT 10SM CLR 05/01 A3032 RMK AO2 K6A2 240755Z AUTO 24006KT 10SM BKN007 OVC010 16/15 A2985 RMK AO2 SPZO 240800Z 00000KT 9999 NSC 09/05 Q1032 RMK BIRD HAZARD RWY 28 PP000 UAAA 240800Z 07008MPS 9999 SCT100 BKN200 27/08 Q1007 R88/CLRD65 NOSIG K6B0 240755Z AUTO 16005G08KT 10SM CLR 11/M06 A3032 RMK AO2 T01061064 UAAH 240800Z 13011MPS CAVOK 23/06 Q1006 R05/0///60 NOSIG RMK QFE718/0957 YMYB 240800Z AUTO 00000KT 9999 // NCD 21/16 Q1013 K6B9 240755Z AUTO 18008G15KT 140V200 10SM CLR 12/00 A3026 RMK AO2 UACC 240800Z 27003MPS 4800 -SHRA SCT010 OVC030CB 10/09 Q1006 R22/250355 NOSIG RMK QFE724/0965 K4V0 240755Z AUTO 06019G26KT 10SM CLR 06/M02 A3024 RMK AO2 T00601017 DAOB 240800Z 13018KT 9999 FEW026 21/08 Q1017 TJBQ 240050Z 11005KT 10SM BKN070 24/21 A3004 DAOF 240800Z 27018KT CAVOK 15/09 Q1014 YNRC 240800Z AUTO 22008KT //// // ////// 17/12 Q1016 RMK UACK 240800Z 27007MPS 9999 SCT049CB OVC075 14/02 Q1004 R20/010070 NOSIG RMK QFE730/0973 DAOI 240800Z 00000KT 9999 FEW026 24/17 Q1013 K79J 240756Z AUTO 26003KT 10SM CLR 14/11 A2992 RMK AO2 SLP129 T01390111 UADD 240800Z 10003MPS 060V130 9999 SCT046 OVC100 32/06 Q1002 R13/0///65 NOSIG RMK QFE696/0928 K5M9 240755Z AUTO 00000KT 10SM BKN012 OVC022 13/13 A2991 RMK AO2 T01260126 DAOL 240800Z 31002KT 6000 FEW030 SCT200 19/18 Q1014 UACP 240800Z 21008MPS 9999 SCT034CB 12/05 Q1003 R23/0/0060 NOSIG RMK QFE740/0987 DAON 240800Z 22004KT CAVOK 19/14 Q1013 DAOO 240800Z 24003KT CAVOK 18/15 Q1013 YPAD 240800Z 22005KT 9999 FEW045 SCT330 19/13 Q1017 NOSIG DAOR 240800Z 15003KT CAVOK 21/02 Q1014 K82C 240755Z AUTO 00000KT 10SM CLR 02/00 A3011 RMK AO2 T00160000 DAOV 240800Z 14006KT CAVOK 24/08 Q1013 DAOY 240800Z 12007KT CAVOK 20/M01 Q1018 YNSM 240800Z AUTO 34004KT 300V010 //// // ////// 22/08 Q1018 OEAB 240800Z 18009KT 9999 BKN020 22/13 Q1026 NOSIG MUSC 240750Z VRB02KT 8000 FEW020 19/18 Q1015 OEAH 240800Z 35021KT 9999 FEW050 BKN100 29/05 Q1014 NOSIG OEBA 240800Z 18010KT 9999 FEW029 SCT030 29/18 Q1021 NOSIG YPCC 240800Z 14007KT CAVOK 27/24 Q1009 YOLD 240800Z AUTO 14007KT 9999 // BKN120 29/07 Q1016 RMK YNTN 240800Z AUTO 15006KT 9999 // NCD 30/09 Q1010 YPBO 240800Z AUTO 23008KT 9999 // NCD 35/05 Q1011 RMK K82V 240755Z AUTO 35017G26KT 10SM BKN014 BKN049 OVC075 00/00 A3031 RMK AO2 PWINO OEAO 240800Z 24004KT 6000 NSC 29/03 Q1014 OEBH 240800Z 16007KT 9999 SCT030 31/16 Q1017 NOSIG OEAR 240800Z 13003KT CAVOK 33/18 Q1011 MWCB 240000Z 09003KT 9999 FEW018 28/24 Q1015 YPEA 240800Z 21013KT 9999 SCT049 SCT057 23/11 Q1019 NOSIG YPED 240800Z AUTO 20006KT 9999 // SCT125 20/13 Q1017 RMK K5R8 240755Z AUTO 00000KT 10SM CLR 11/10 A3001 RMK AO2 T01100102 YOLW 240800Z AUTO 20009KT //// // ////// 36/08 Q1010 RMK YPDN 240800Z 09010KT CAVOK 33/14 Q1007 DAUA 240800Z 32009KT 9999 SCT046 SCT133 26/07 Q1012 DAUB 240800Z 12017KT 8000 NSC 26/10 Q1018 TJIG 232245Z 09010KT 10SM SCT030 BKN100 26/22 A3003 RMK VCSH SE MOV W DATM 240800Z 07010KT 8000 NSC 30/M04 Q1011 OEDF 240800Z 36019KT 7000 NSC 30/04 Q1014 NOSIG DAUE 240800Z 12003KT CAVOK 29/12 Q1015 UAII 240800Z 20013G18MPS 8000 BKN050CB OVC100 31/08 Q1003 R28/0///70 TEMPO 21018G23MPS 1000 DS RMK QFE716/0954 MWCR 240300Z 09003KT 9999 FEW018 27/25 Q1016 DAUG 240800Z 36007KT CAVOK 24/M01 Q1016 DAUH 240800Z 10009KT 8000 FEW040 BKN100 29/03 Q1014 YOOD 240800Z AUTO 07009KT //// // ////// 31/03 Q1014 RMK DAUI 240800Z 07023KT 3000 DRSA NSC 32/06 Q1012 YNWN 240800Z AUTO 29005KT 250V330 9999 // NCD 35/06 Q1012 RMK DAUK 240800Z 09010KT 5000 NSC 25/08 Q1015 OEDM 240700Z 06020KT 6000 BLDU NSC 27/04 Q1017 DAUL 240800Z 08020KT 6000 DRSA FEW040 22/04 Q1018 DAUO 240800Z 10010KT CAVOK 23/12 Q1016 OEDR 240800Z 35015KT 8000 FEW040 SCT080 30/04 Q1012 NOSIG MUVR 240750Z 16003KT 8000 NSC 20/20 Q1015 UBBB 240800Z 35019KT 9999 FEW023 SCT100 14/08 Q1020 R88/CLRD// NOSIG YOOM 240800Z AUTO 19005KT 9999 // NCD 29/00 Q1014 RMK UAKD 240800Z 33005MPS 8000 -SHRA OVC015CB 09/09 Q1005 R04/2///62 NOSIG RMK QFE721/0961 K5T9 240755Z AUTO RMK A01 PNO DAUT 240800Z 20013KT 9999 SCT046 27/08 Q1012 DAUU 240800Z 12014KT 7000 FEW046 29/M03 Q1014 ZGGG 240800Z 03005MPS 9999 OVC033 25/19 Q1009 NOSIG UBBG 240800Z 24004KT 9999 FEW100 19/03 Q1018 R30/CLRD// NOSIG K6L4 240755Z AUTO 14016G22KT 10SM BKN050 BKN120 13/07 A2998 RMK AO2 ZGHA 240800Z 36005MPS 9000 BKN020 OVC050 18/13 Q1016 NOSIG DAUZ 240800Z 10013KT 8000 NSC 27/00 Q1017 UAKK 240800Z 19007MPS 9999 BKN041CB 19/10 Q1005 R23/0///70 NOSIG RMK QFE707/0943 TIST 240753Z 08006KT 10SM +RA FEW034 25/23 A3000 RMK AO2 SLP158 P0000 T02500228 UBBL 240800Z 06007KT 9000 BKN012 15/11 Q1021 R33/CLRD// NOSIG RMK MT OP UBBN 240800Z 22004KT 9999 FEW050 18/02 Q1017 R14R/CLRD// NOSIG RMK MT OP QFE688 TISX 240653Z AUTO 05006KT 10SM CLR 25/22 A3000 RMK AO2 SLP158 T02500222 K5SM 240749Z AUTO 27005KT 10SM SCT060 BKN065 OVC075 00/M05 A3038 RMK AO2 UBBQ 240800Z 18005KT 9999 SCT037 17/08 Q1018 R16/////// NOSIG RMK MT OBSC YPGV 240800Z AUTO 12011KT 9999 // NCD 29/21 Q1009 YORG 240800Z AUTO 21007KT 9999 // NCD 17/05 Q1020 RMK OEGN 240800Z 23012KT 8000 FEW030 SCT100 35/23 Q1011 NOSIG K7BM 240748Z AUTO 31004KT 10SM CLR 07/M03 A3029 RMK AO2 UBBY 240800Z 30006KT 9999 FEW050 SCT100 18/06 Q1020 R33/////// NOSIG RMK MT OP OEGS 240800Z 07015KT 2000 DU NSC 27/10 Q1017 OEGT 240800Z 12006KT CAVOK 23/01 Q1016 OEHL 240800Z 12008KT 9000 NSC 25/02 Q1018 UBEE 240800Z 05004KT CAVOK 19/08 Q1018 R30/CLRD// NOSIG YPKA 240800Z AUTO 27015KT 9999 // NCD 36/18 Q1008 RMK YPKG 240800Z AUTO 16002KT 9999 // NCD 23/06 Q1018 TJNR 240753Z AUTO 07006KT 10SM OVC043 A3003 RMK AO2 SLP171 YPJT 240800Z AUTO 23013KT 9999 // NCD 21/12 Q1019 RF00.0/000.0 YPLC 240800Z AUTO 03007KT 9999 // SCT043 19/14 Q1017 RMK ZHCC 240800Z 35004MPS 320V020 7000 NSC 19/06 Q1019 NOSIG ZGKL 240800Z 08007MPS 040V100 9999 FEW040 24/16 Q1012 NOSIG K6P9 240755Z AUTO 21005KT 10SM CLR 13/08 A3007 RMK AO2 T01270081 UAOO 240800Z 34007MPS 9000 -SHRA SCT013 OVC033CB 11/10 Q1009 R05/290060 NOSIG RMK QFE745/0994 OEJN 240800Z 30008KT CAVOK 32/16 Q1009 NOSIG YPKS 240800Z AUTO 20004KT 9999 // NCD 21/04 Q1017 RMK YPKT 240800Z AUTO 27005KT 240V300 //// // ////// 33/19 Q1007 OEKJ 240800Z 04017KT 6000 SCT050 29/03 Q1018 YPKU 240800Z AUTO 08008KT 9999 // NCD 36/08 Q1008 YPLM 240800Z AUTO 21017KT 9999 // NCD 33/10 Q1011 OEKM 240800Z 24014KT 9999 SCT022 24/12 Q1025 NOSIG K6R3 240755Z AUTO 00000KT 7SM CLR 12/11 A3004 RMK AO2 T01180107 K6R6 240753Z AUTO 02007KT 18/10 A3000 RMK AO1 SLP126 T01780100 OEMA 240800Z 00000KT 8000 SKC 31/M06 Q1014 K8A0 240755Z AUTO 29005KT 10SM SCT014 SCT038 BKN055 13/13 A2986 RMK AO2 K6S0 240755Z AUTO 25005KT 1SM BR OVC060 M02/M02 A3050 RMK A01 K96D 240755Z AUTO 33008KT 10SM CLR 05/00 A3031 RMK AO2 K6S2 240755Z AUTO 09006KT 10SM CLR 18/00 A3000 RMK AO2 YPMQ 240800Z AUTO 26006KT 9999 // SCT034 BKN110 17/16 Q1015 K8A3 240755Z AUTO 04006KT 1 3/4SM BR BKN002 BKN012 OVC055 12/12 A2986 RMK A01 P0003 SUAA 232200Z 18010KT 9999 BKN009 20/18 Q1018 YPOD 240800Z AUTO 29008KT 9999 // NCD 15/12 Q1016 RMK OEMK 240800Z 33002KT CAVOK 34/17 Q1010 ZGNN 240800Z 08004MPS 050V110 9999 FEW023 BKN040 28/21 Q1008 NOSIG K8B0 240755Z AUTO 00000KT 10SM CLR 00/M07 A3031 RMK AO2 OENG 240800Z 24004KT 9999 SCT030 SCT080 30/13 Q1018 NOSIG UARR 240800Z 30008MPS 9999 BKN047CB OVC100 06/M06 Q1010 R22/CLRD70 TEMPO 5000 -SHSN SCT050CB RMK QFE754/1006 TJSJ 240756Z 00000KT 10SM SCT030 SCT042 24/23 A3001 RMK AO2 RAE05 SLP161 VCSH N P0000 T02390228 UASK 240800Z VRB01MPS 9999 BKN200 21/13 Q1012 R12/090060 NOSIG RMK QFE734/0978 YPPD 240800Z AUTO 36013KT 9999 // NCD 35/18 Q1007 YPPF 240800Z AUTO 22005KT 9999 // NCD 19/13 Q1017 RMK UATE 240800Z 35007MPS 9999 SCT023 12/06 Q1019 R30/0///70 NOSIG RMK QFE763/1017 K7L2 240755Z AUTO 01014G23KT 10SM -UP A3031 RMK AO2 YPPH 240800Z 23012KT 9999 FEW045 22/10 Q1019 NOSIG UATG 240800Z 31009MPS 9999 BKN035CB 10/M03 Q1016 R32/CLRD70 NOSIG RMK QFE764/1019 UASP 240800Z 15008MPS 9999 FEW051CB OVC074 19/08 Q1008 R21/0///70 NOSIG RMK QFE745/0993 SUCA 232200Z 12014KT 9999 FEW015 20/17 Q1016 UASS 240800Z 11006MPS CAVOK 18/09 Q1012 NOSIG RMK QFE741/0988 OEPA 240800Z 36011KT CAVOK 29/07 Q1017 NOSIG ZGOW 240800Z 25003MPS 220V290 9999 BKN050 30/21 Q1007 NOSIG ZHHH 240800Z 03005MPS 340V070 5000 HZ SCT030 20/13 Q1016 NOSIG K8D3 240756Z AUTO 34005KT 10/06 A3018 RMK AO1 SLP214 T01000056 UATT 240800Z 28005MPS 9999 SCT022CB 04/01 Q1008 R31/29//50 NOSIG RMK QFE736/0982 K7N0 240756Z AUTO 18003KT 10SM OVC055 19/13 A3000 RMK AO2 SLP157 T01890133 CMGB 240800Z AUTO 23001KT 03/M06 RMK AO1 SLP242 T00251061 55000 CMFM 240800Z AUTO 01001KT M06/M07 RMK AO1 SOG 101 6010 SLP241 T10561071 UAUU 240800Z 24008MPS 210V270 9999 FEW022 10/M02 Q1004 R33/CLRD70 NOSIG RMK QFE738/0984 OERF 240800Z 12006KT CAVOK 27/M03 Q1018 SUDU 231500Z 14005KT 9999 SCT013 BKN070 23/20 Q1015 OERK 240800Z 08006KT 6000 SCT040 BKN080 25/03 Q1018 NOSIG OESH 240800Z 03012KT 3000 BLDU SKC 36/11 Q1015 NOSIG OERR 240800Z 15005KT CAVOK 28/08 Q1017 NOSIG OETB 240800Z 09018KT CAVOK 28/M03 Q1014 NOSIG OESK 240800Z 12010KT CAVOK 27/M04 Q1019 UCFL 240800Z 13003MPS 100V160 9999 BKN130 17/M05 Q1017 R07/CLRD70 RMK G/O YPTN 240800Z AUTO 12009KT 9999 // SCT083 32/13 Q1009 UCFM 240800Z 11003MPS CAVOK 30/08 Q1004 R08/CLRD70 NOSIG UCFO 240800Z 34003MPS 300V050 9999 NSC 28/10 Q1008 R12/CLRD70 NOSIG OETF 240800Z 19018KT 9999 FEW040 29/10 Q1020 NOSIG ZGSZ 240800Z 04005MPS 9999 SCT018 BKN033 26/22 Q1009 NOSIG OERY 240700Z 07009KT 5000 DU 25/04 Q1018 TKPK 240100Z 08012KT 9999 FEW018 26/22 Q1017 TKPN 232200Z 10010KT 9999 SCT019 SCT048 26/21 Q1016 OETR 240800Z 16010KT CAVOK 24/00 Q1018 K9A5 240755Z AUTO 03003KT 10SM OVC003 A2986 RMK AO2 SVAC 232300Z /////KT 9999 SCT017 26/24 Q1013 YREN 240800Z AUTO 26006KT 9999 // BKN120 23/13 Q1016 RMK OEWD 240800Z 08019KT 1400 BLDU NSC 30/22 Q1014 NOSIG YPWR 240800Z AUTO 19017KT 9999 // NCD 23/13 Q1017 RF00.0/000.0 OEWJ 240800Z 27008KT CAVOK 28/21 Q1011 NOSIG YPXM 240800Z AUTO 10012KT 9999 // BKN017 BKN023 OVC057 27/23 Q1010 SVBI 231900Z /////KT 9999 BKN020 32/26 Q1011 SVBM 240300Z 11004KT 9999 FEW016 SCT070 23/22 Q1017 MYGF 232200Z 14008KT 9999 VCSH SCT012CB BKN100 26/24 A3000 RMK CB/VCSH N/NE/E SVBS 240300Z 00000KT 9999 OVC070 24/23 Q1014 HTAR 240300Z 14010KT 9999 BKN020 SCT080 19/19 Q1017 K9D7 240755Z AUTO 35008KT 10SM CLR 04/M02 A3034 RMK AO2 OEYN 240800Z 20008KT CAVOK 29/09 Q1010 NOSIG K7W4 240755Z AUTO 08006KT 10SM SCT041 BKN110 11/05 A3026 RMK AO1 T01120048 SVCR 231900Z /////KT 9999 FEW016 36/22 Q1010 K7W6 240755Z AUTO 10011G17KT 10SM OVC110 17/14 A3017 RMK AO2 T01660137 SULS 240800Z 14010KT 9000 OVC010 19/18 Q1019 HTDA 240700Z 15005KT 9999 SCT017 29/25 Q1014 NOSIG HTBU 240300Z 27003KT 8000 TSRA SCT015 FEW017CB OVC080 19/19 Q1017 SUMU 240800Z 17010KT 9999 SCT020 0VC070 20/16 Q1020 TEMPO -RABR HTDO 240300Z 08004KT 9999 FEW017 SCT240 19/18 Q1017 NOSIG YSBK 240800Z AUTO 12006KT 9999 // NCD 20/14 Q1017 RMK YSCB 240800Z 04005KT CAVOK 18/08 Q1018 TLPC 240000Z 09007KT 9999 FEW024 26/22 Q1015 NOSIG SVGD 240600Z /////KT 9999 FEW020 24/23 Q//// HSOB 240500Z 02013KT CAVOK 28/M06 Q1012 HSNN 240500Z 36007KT 3000 HZ 27/M05 Q1012 YRMD 240800Z AUTO 11007KT 9999 // NCD 29/06 Q1012 RMK TLPL 240800Z 08015KT 9999 FEW024 26/21 Q1014 NOSIG YSCN 240800Z AUTO 00000KT 9999 // NCD 19/08 Q1017 RMK YSCO 240800Z AUTO 16007KT //// // ////// 19/08 Q1016 RMK YSCR 240800Z AUTO 29009KT //// // ////// 24/05 Q1018 RMK SVGU 240100Z /////KT 9999 BKN017 27/26 Q1012 HSPN 240500Z 32010KT CAVOK 28/15 Q1012 MZBZ 240000Z 10007KT 9999 SCT022 29/25 A2992 Q1013 NOSIG HRYR 240730Z 30003KT 240V350 9999 SCT023 BKN100 20/18 Q1023 RERA YSDU 240800Z AUTO 17004KT 9999 // NCD 22/02 Q1016 YROM 240800Z AUTO 18006KT 9999 // NCD 23/05 Q1014 RMK YSGE 240800Z AUTO 18005KT 9999 // NCD 24/04 Q1014 SUSO 232000Z 24005KT 9999 SCT013 OVC067 22/19 Q1015 K9L2 240658Z AUTO 20010KT 10SM CLR 20/01 A2998 RMK AO2 SLP129 T02030014 MYNN 240800Z 16009KT 9999 SCT022 26/23 A2999 TNCA 240700Z 09013KT 9999 FEW018 27/24 Q1011 NOSIG HTIR 240300Z 00000KT 9999 FEW018 SCT080 19/15 Q1020 TNCB 232255Z 09015KT 9999 FEW017 27/23 Q1012 HTKA 240300Z 00000KT 9999 FEW019 FEW020CB 20/20 Q1017 TNCC 240800Z AUTO 11010KT 9999 NCD 26/23 Q1012 TNCE 240755Z AUTO 07010KT //// // ///////// 25/21 Q1015 RE// DFFD 240700Z 26009KT 230V290 6000 NSC 31/22 Q1011 NOSIG YSHK 240800Z AUTO 18015KT //// // ////// 25/12 Q1015 RMK ZJHK 240800Z 03003MPS 340V060 9999 FEW033CB FEW033 32/24 Q1006 NOSIG HTKJ 240700Z 09005KT 9999 BKN024 BKN080 23/21 Q1019 NOSIG HSSS 240600Z 01013KT CAVOK 28/M07 Q1013 NOSIG SVMD 240000Z /////KT 5000 BR BKN020 20/18 Q1019 TNCM 240800Z 07010KT 030V100 9999 FEW018 25/20 Q1016 RMK A3001 LGT HZ ALSEC K8W2 240755Z AUTO 16003KT 10SM SCT048 OVC090 12/03 A3025 RMK AO1 T01200033 SVMI 240800Z 09003KT 9999 SCT016 25/23 Q1008 YSHT 240800Z AUTO 25005KT //// // SCT096 21/07 Q1016 RMK YSHW 240800Z AUTO 11005KT 9999 // NCD 19/13 Q1017 RMK SVMN 231200Z /////KT 9999 OVC013 25/24 Q1012 UEEE 240800Z 33005MPS 300V010 9999 SCT020CB 01/M11 Q1006 R23L/09//60 NOSIG RMK QFE746 HTMG 240300Z 00000KT 9999 BKN020 22/22 Q1015 OIAA 240800Z 32008KT CAVOK 29/07 Q1015 K9MN 240755Z AUTO 00000KT 10SM CLR 09/02 A3012 RMK AO1 T00890021 YTAR 240800Z AUTO 13012KT //// // ////// 28/09 Q1016 RMK YRTI 240800Z AUTO 19011KT //// // ////// 20/11 Q1019 RMK OIAG 240800Z 32014KT CAVOK 29/06 Q1014 OIAH 240800Z 19006KT 3000 DU NSC 27/08 Q1017 OIAI 240800Z 27004KT 8000 NSC 25/11 Q1015 OIBA 240800Z 08010KT 6000 NSC 32/21 Q1010 OIBB 240753Z 32014KT CAVOK 27/11 Q1013 A2994 HTMT 240300Z 18014KT 9999 FEW08 23/24 Q1012 DGAA 240700Z 27008KT 9999 FEW019 27/25 Q1011 NOSIG HTMU 240300Z 00000KT 9999 LT FEW019 FEW020B BKN100 20/19 Q1017 OIAM 240800Z 28004KT CAVOK 28/11 Q1014 HTMW 240700Z 00000KT 9999 FEW021 FEW022CB BKN090 22/19 Q1018 NOSIG HUEN 240500Z 32003KT 9999 FEW020 FEW022CB BKN110 22/21 Q1018 OIBJ 240800Z 22010KT 5000 DU NSC 31/13 Q1016 OIBK 240800Z 18010KT 5000 HZ NSC 31/19 Q1011 OICC 240800Z 17004KT 9999 FEW040 17/03 Q1020 A3012 NOSIG OIBL 240800Z 12012KT 7000 NSC 31/21 Q1012 OIAW 240800Z 34004KT CAVOK 28/06 Q1014 YSMH 240800Z AUTO 09004KT 9999 // NCD 22/18 Q1013 RMK YSMI 240800Z AUTO 28009KT //// // ////// 15/14 Q1013 OIBP 240800Z 29014KT 3000 SA NSC 30/20 Q1009 A2981 OIBQ 240800Z 35014KT CAVOK 26/17 Q1014 OICI 240800Z 23004KT 9999 FEW035 18/07 Q1021 OICJ 240751Z 00000KT CAVOK 15/06 Q1021 OIBS 240800Z 06008KT 6000 NSC 29/26 Q1012 OICK 240800Z 00000KT CAVOK 18/03 Q1019 YTEE 240800Z AUTO 15008KT 9999 // NCD 29/01 Q1013 RMK KMG 240800Z AUTO 36013KT //// // OVC096 18/09 Q1017 RMK YTEF 240800Z AUTO 32006KT 9999 // NCD 37/07 Q1010 OICM 240800Z 02006KT CAVOK 27/07 Q1014 OIBV 240800Z 33006KT 6000 NSC 32/14 Q1011 YSNF 240800Z AUTO 07013KT 9999 // BKN009 BKN012 OVC110 21/20 Q1017 SVSA 232100Z /////KT 9999 SCT020 SCT300 30/19 Q1012 OICS 240800Z 21004KT 9999 FEW040 16/02 Q1019 YTEM 240800Z AUTO 00000KT //// // ////// 22/04 Q1017 RMK CPBT 242300Z AUTO 22006KT 12/M07 RMK AO1 T01241072 UDSG 240800Z 21005KT 110V280 9999 NSC 13/M03 Q1018 R02/CLRD70 NOSIG YSOL 240800Z AUTO 20006KT 9999 // NCD 34/08 Q1013 RMK YSNW 240800Z AUTO 15004KT 9999 // NCD 15/11 Q1017 CPEH 240700Z AUTO 20009KT 03/M02 RMK AO1 T00281016 YTGM 240800Z AUTO 14004KT //// // ////// 29/M01 Q1015 OIFK 240800Z 03006KT 9999 FEW040 19/07 Q1018 HTTB 240300Z 00000KT 9999 SCT014 BKN070 20/20 Q1018 OIFM 240800Z 00000KT 8000 NSC 17/03 Q1020 A3012 HTSO 240300Z 00000KT 9999 FEW018 FEW020CB 17/16 Q1019 OIGG 240800Z 10004KT CAVOK 21/11 Q1017 YTIB 240800Z AUTO 08005KT //// // ////// 27/M04 Q1016 RMK SVVA 240600Z 34004KT 9999 SCT016 23/22 Q1014 OIFS 240800Z 20006KT 5000 DU NSC 16/01 Q1021 CPFI 240700Z AUTO 19008KT 02/M01 RMK AO1 T00221009 OIGK 240750Z 24006KT 9999 SCT040 11/01 Q1020 K9V9 240755Z AUTO 08005KT 10SM BKN070 OVC100 12/10 A3012 RMK AO2 T01160095 HTSU 240300Z 16005KT 9999 FEW016 FEW018CB 14/13 Q1020 YSRI 240800Z AUTO 10005KT 9999 // NCD 21/10 Q1017 DFOO 240700Z 26008KT CAVOK 28/22 Q1013 OIHH 240800Z 04004KT 9999 FEW040 14/04 Q1020 YSRN 240800Z AUTO 31012KT 8000 // SCT010 SCT013 BKN025 15/14 OIHM 240751Z 31004KT 9999 FEW035 15/04 Q1021 OIIE 240800Z 31013KT 9999 FEW045 19/04 Q1018 OIHR 240800Z 35008KT 8000 FEW035 13/05 Q1021 OIII 240800Z 21010KT 9999 FEW035 18/01 Q1018 A3007 OIIK 240800Z 27004KT 9999 FEW035TCU 18/05 Q1018 PAAD 240755Z AUTO 08017KT 4SM -SN OVC010 M16/M18 A2983 RMK AO2 T11571176 YSTH 240800Z AUTO 32010KT 9999 // NCD 20/12 Q1011 OIIP 240800Z 32012KT 9999 FEW040 14/02 Q1018 OJAI 240800Z 12016KT 7000 NSC 24/01 Q1017 NOSIG OIIS 240800Z 24008KT 9999 FEW035 19/05 Q1018 PABA 240752Z 08017KT 4SM -SN BR OVC009 M16/M17 A2987 RMK AO2 SLP102 P0000 T11561172 FZRANO OIKB 240800Z 17004KT 7000 NSC 35/11 Q1013 PAAK 240808Z AUTO 26021G29KT 10SM SCT024 SCT031 BKN100 03/M02 A2887 RMK AO2 PK WND 25029/0801 OJAM 240800Z 11010KT 6000 NSC 23/00 Q1016 NOSIG YSSY 240800Z 12007KT CAVOK 20/15 Q1017 ZJSY 240800Z 20002MPS 140V250 9999 FEW021 31/24 Q1007 NOSIG PABE 240753Z 08009KT 10SM FEW028 BKN065 OVC085 03/M01 A2920 RMK AO2 RAB06E33UPB33E34 SLP890 P0000 T00281011 OJAQ 240800Z 01009KT CAVOK 25/11 Q1011 NOSIG PAAQ 240753Z AUTO 16012G15KT 110V180 10SM OVC100 07/M01 A2972 RMK AO2 PK WND 15029/0722 SLP068 T00721006 TSNO PABI 240753Z AUTO 20017G33KT 10SM CLR 07/M02 A2963 RMK AO2 PK WND 19033/0744 SLP046 T00721022 TSNO CPIR 240700Z AUTO 23011KT 04/M04 RMK AO1 T00361035 OIKK 240800Z 23020G30KT 5000 SA FEW035CB BKN040 25/M05 Q1020 A3014 YSTW 240800Z AUTO 17010KT 9999 // NCD 21/07 Q1016 PABL 240756Z AUTO 11014G22KT 10SM -RA OVC041 02/M03 A2946 RMK AO2 RAB29 SLP979 P0000 T00221033 FZRANO PACD 240753Z AUTO 15008KT 10SM -RA FEW036 OVC050 06/04 A2899 RMK AO2 PK WND 15026/0711 RAE0656B13 SLP817 P0000 T00560044 TSNO OIKO 240750Z 19004KT 8000 NSC 37/06 Q1011 OIKQ 240800Z 09010KT 7000 NSC 31/26 Q1011 OIKR 240100Z 11006KT CAVOK 14/04 Q1019 PABR 240753Z AUTO 07014KT 10SM CLR A2993 RMK AO2 SLP137 TSNO $ HTZA 240700Z 18008 KT 9999 SCT022 30/24 Q1014 NOSIG OIMB 240800Z 29006KT 9999 FEW040 23/05 Q1019 PABT 240753Z 03005KT 10SM SCT080 SCT120 BKN200 01/M05 A2965 RMK AO2 SLP053 T00061050 OIMC 240800Z 33006KT 9999 SCT030 OVC090 19/12 Q1020 YTMO 240800Z AUTO 13006KT 9999 // NCD 29/02 Q1014 RMK OIMD 240800Z 00000KT 9999 FEW025TCU SCT025 21/13 Q1015 PABV 240756Z AUTO 00000KT 10SM BKN065 OVC095 06/01 A2971 RMK AO2 SLP070 T00610011 401110017 $ PACM 240756Z AUTO 09013KT 10SM -RA OVC009 01/00 A2920 RMK AO2 UPB22E26RAB35SNE22B26E35 SLP885 P0000 T00060000 FZRANO YTNG 240800Z AUTO 13002KT 9999 // BKN097 24/06 Q1013 YSWG 240800Z AUTO 10005KT 9999 // NCD 23/05 Q1016 PADE 240753Z AUTO 09014KT 10SM FEW050 OVC065 01/M02 A2941 RMK AO2 SLP958 T00111017 TSNO $ YSWH 240800Z AUTO 29005KT 9999 // NCD 24/06 Q1015 RMK PADG 240052Z 05011KT 15SM SKC 01/M07 A2956 UDYZ 240800Z 21006KT 9999 NSC 19/M03 Q1017 R09/010070 NOSIG YTNK 240800Z AUTO 12009KT 9999 // NCD 32/M00 Q1013 OINB 240800Z 09004KT 9999 FEW025 20/10 Q1017 PADK 240756Z AUTO 25021G31KT 10SM SCT020 BKN029 OVC050 03/00 A2888 RMK AO2 PK WND 25031/0752 SLP781 T00280000 PAEC 240254Z 17005KT 10SM SCT018 BKN025 06/M01 A2959 RMK NOSPECI LAST PADL 240756Z AUTO 13018G25KT 10SM -RA SCT013 BKN020 OVC041 04/02 A2929 RMK AO2 PK WND 12026/0712 RAB01 SLP924 P0000 T00390022 OIMM 240800Z 10012KT 9999 SCT030CB FEW070 20/11 Q1018 A3006 PACV 240753Z 12007KT 9SM -RA SCT025 BKN033 OVC060 04/03 A2996 RMK AO2 SLP145 P0001 T00440033 $ PAED 240756Z AUTO 21003G19KT 10SM OVC090 09/M02 A2968 RMK AO2 SLP047 T00891024 $ PADM 240756Z AUTO 09017KT 10SM FEW030 SCT075 BKN090 03/M02 A2932 RMK AO2 SLP939 T00281017 400561006 OINE 240800Z 24004KT 9999 SCT025 19/11 Q1019 OIMN 240800Z 31006KT 9999 FEW015 BKN030 BKN080 14/08 Q1020 OING 240800Z 00000KT 9999 FEW025 21/11 Q1020 PAEG 240753Z AUTO 11005KT 10SM CLR 02/M01 A2969 RMK AO2 SLP060 T00221011 TSNO OIMQ 240800Z 25012KT 9999 FEW035 19/11 Q1018 PACZ 240755Z AUTO 13017G25KT 4SM -RA BKN003 00/00 A2914 RMK AO2 SNB0703E0708RAB0708 SLP874 P0003 T00031001 PADQ 240753Z AUTO 14012KT 10SM -RA OVC019 06/03 A2962 RMK AO2 RAB0658 SLP030 P0000 T00610033 TSNO PAEH 240755Z AUTO 13017G31KT 110V230 5SM -RA BKN013 04/02 A2908 RMK AO2 RAB0620 SLP855 P0016 T00370016 PAEI 240756Z AUTO 14003KT 10SM OVC085 04/M02 A2960 RMK AO2 SLP031 T00411021 $ NSFA 240700Z 15004KT 9999 FEW024 26/25 Q1010 PAFA 240753Z 10005KT 10SM SCT080 BKN100 BKN200 04/M02 A2959 RMK AO2 SLP027 T00391022 OINK 240800Z 00000KT 9999 FEW025 21/11 Q1017 OIMT 240500Z 00000KT 7000 SCT035 20/14 Q1016 PAFB 240758Z AUTO 07004KT 10SM BKN085 OVC110 04/M03 A2961 RMK AO2 SLP032 T00391032 PAEL 240247Z 00000KT 7SM -RA FEW010 OVC030 05/05 A3006 RMK SEA 0 SWELL 2 SW NOSPECI LAST PADU 240756Z AUTO 19008KT 160V220 10SM FEW013 SCT020 SCT025 02/M01 A2902 RMK AO2 RAB20E54 SLP830 P0000 T00221006 FZRANO PAEM 240756Z AUTO 08009KT 10SM FEW045 OVC055 01/M01 A2926 RMK AO2 RAB02E15 SLP965 P0000 T00111011 400280000 FZRANO OINN 240800Z 10006KT 9999 FEW025 17/12 Q1017 PAFE 240756Z AUTO 10007KT 10SM -RA BKN012 BKN017 OVC038 05/04 A3025 RMK AO2 SLP256 P0000 T00500044 $ PAEN 240753Z AUTO 04006KT 10SM SCT070 BKN090 OVC100 03/03 A2968 RMK AO2 SLP053 T00330033 TSNO OINR 240800Z 08006KT 9999 FEW030 17/11 Q1017 PAGA 240756Z AUTO 09008KT 10SM OVC100 03/M04 A2949 RMK AO2 SLP989 T00331044 PAFM 240756Z AUTO 03009KT 10SM CLR A2960 RMK AO2 SLPNO FZRANO $ YTRA 240800Z AUTO 13006KT 9999 // NCD 27/11 Q1016 RMK OINZ 240700Z VRB02KT CAVOK 20/12 Q1018 PAGH 240756Z AUTO 11015G21KT 10SM CLR 02/M06 A2958 RMK AO2 SLP022 T00221061 FZRANO PAFR 240758Z AUTO 12018G33KT 10SM FEW070 OVC090 08/M01 A2964 RMK AO2 PK WND 11033/53 SLP044 T00821013 $ SYCJ 240800Z 06006KT CAVOK 22/22 Q1012 NOSIG PAFS 240801Z AUTO 05004KT 10SM OVC085 04/M02 A2950 RMK AO2 SLP010 T00391017 400390039 PAGK 240753Z AUTO 16017G24KT 10SM BKN100 04/M03 A2980 RMK AO2 PK WND 17028/0719 SLP105 T00391028 TSNO $ YTRE 240800Z AUTO 30005KT //// // SCT053 SCT085 BKN115 17/16 Q1015 PAGL 240656Z AUTO 11014KT 10SM -RA OVC019 02/01 A2936 RMK AO2 UPB05E11 SLP939 P0000 T00220006 FZRANO PAGN 240756Z AUTO 00000KT 10SM OVC028 06/04 A3021 RMK AO2 SLP219 T00560039 PAGS 240756Z AUTO 15006KT 10SM -RA BKN030 OVC037 06/03 A3018 RMK AO2 RAB53 SLP219 P0000 T00610033 SYEC 240100Z 03012KT 9999 FEW018 27/23 Q1014 NOSIG PAHL 240756Z AUTO 06010KT 10SM BKN070 OVC080 01/M06 A2953 RMK AO2 SLP010 T00111056 FZRANO PAHN 240754Z AUTO 08013G22KT 10SM BKN011 OVC022 05/03 A3012 RMK AO2 SLP200 T00500033 TSNO PAHO 240753Z AUTO 14012G18KT 10SM FEW065 OVC095 07/01 A2969 RMK AO2 PK WND 14026/0719 SLP055 T00670006 TSNO PAGY 240753Z AUTO 20018G29KT 10SM FEW047 SCT085 BKN120 06/02 A3009 RMK AO2 PK WND 20029/0744 SLP188 T00610022 TSNO PAHP 240756Z AUTO 11018KT 9SM -RA BKN004 BKN021 01/00 A2915 RMK AO2 UPB0657E00RAB00E23B47 SLP907 P0000 T00060000 FZRANO PAIG 240756Z AUTO 05007KT 10SM OVC065 04/M01 A2940 RMK AO2 SLP965 T00391006 $ PAII 240756Z AUTO 13019G30KT 10SM -RA OVC060 04/03 A2929 RMK AO2 PK WND 13033/0718 RAB56 SLP923 P0000 T00440028 400891006 OISA 240800Z 24006KT 5000 DU NSC 20/M06 Q1020 NTAA 240800Z 36009KT 9999 FEW020 SCT050 27/24 Q1010 TEMPO 32015G25KT 3000 SHRA FEW010 FEW013CB BKN015 BKN035 PAIK 240756Z AUTO 09003KT 10SM BKN045 BKN055 OVC070 02/M04 A2955 RMK AO2 SLP011 T00171044 FZRANO PAIL 240753Z AUTO 09020G27KT 10SM FEW028 BKN095 04/01 A2948 RMK AO2 PK WND 09031/0738 SLP986 T00440011 TSNO PAJC 240757Z AUTO 17009G24KT 140V220 10SM -RA BKN028 BKN034 OVC048 08/03 A2924 RMK AO2 PK WND 22034/0700 SLP902 P0000 T00780028 400890017 PAIM 240755Z AUTO VRB03KT 10SM SCT095 01/M08 A2958 RMK AO2 SLP034 T00061082 PAIN 240756Z AUTO VRB05KT 10SM -RA OVC055 04/M02 A2961 RMK AO2 RAE16B38 SLP050 P0000 T00441022 OISF 240800Z 20010KT 2000 DU VV/// 27/06 Q1017 PAHX 240756Z AUTO 13009KT 10SM CLR 03/M01 A2938 RMK AO2 SLP950 T00281006 YTTI 240800Z AUTO 21005KT 170V250 //// // ////// 33/23 Q1008 PAHY 240742Z AUTO 10SM SCT011 OVC035 07/07 A3027 RMK AO2 RAB0659E21 P0001 $ YTST 240800Z AUTO 35006KT 9999 // NCD 32/22 Q1007 RMK OISL 240800Z 00000KT CAVOK 32/11 Q1015 PAJN 240753Z 06008KT 10SM -RA FEW017 BKN025 OVC037 05/04 A3018 RMK AO2 SLP220 P0001 T00500039 PAIW 240756Z AUTO 06011KT 1 1/4SM -SN BR BKN012 OVC020 M03/M04 A2937 RMK AO2 SLP947 P0000 T10331044 FZRANO PAKF 240756Z AUTO 20011G24KT 5SM RA BKN023 OVC029 05/02 A2901 RMK AO2 SLP822 P0014 T00500017 CPRO 240800Z AUTO 20006KT M00/M02 RMK AO1 T10041019 PAKH 240756Z AUTO 7SM -RA BKN009 OVC012 06/05 A2959 RMK AO2 CIG 007V011 SLP021 P0005 T00560050 $ OISR 240800Z 05004KT 4000 DU NSC 35/16 Q1013 PAKI 240756Z AUTO 10011KT 9SM SCT005 BKN025 OVC030 02/01 A2909 RMK AO2 SLP851 T00170011 FZRANO ZLLL 240800Z 17003MPS 140V210 9999 FEW023 BKN040 12/04 Q1023 NOSIG OISS 240800Z 26012KT 9999 FEW040 26/M07 Q1019 A3010 OKBK 240800Z 34015KT CAVOK 29/03 Q1015 NOSIG PAKK 240756Z AUTO 09009KT 10SM OVC034 03/M01 A2936 RMK AO2 SLP957 T00281011 OITL 240800Z 07012KT 9999 FEW035TCU FEW040CB 14/07 Q1018 OITM 240800Z VRB02KT 9999 FEW035 16/04 Q1019 PAKN 240754Z 13022G33KT 10SM OVC070 06/01 A2933 RMK AO2 PK WND 14033/0746 SLP931 T00610006 OITP 240800Z 06004KT CAVOK 19/04 Q1016 OISY 240800Z 16006KT 3500 DU FEW040 19/04 Q1022 PAKP 240756Z AUTO 00000KT 10SM CLR M11/M14 A2961 RMK AO2 SLP080 T11061139 FZRANO PALG 240756Z AUTO 08010G16KT 10SM SCT090 03/M01 A2929 RMK AO2 SLP922 T00281006 PALH 240753Z 16010G18KT 10SM OVC090 09/M02 A2970 RMK AO2 SLP057 T00891017 PAJZ 240756Z AUTO 12012KT 9SM UP FEW028 OVC037 03/01 A2942 RMK AO2 RAE53UPB53 SLP970 P0001 T00280011 400610000 $ YTWB 240800Z AUTO 15008KT 9999 // OVC083 19/09 Q1017 RMK CPRY 240700Z AUTO 19011KT 06/M05 RMK AO1 T00591050 OITR 240800Z 18006KT 9999 FEW035 16/05 Q1019 NOSIG DIAP 240730Z 23009KT 9999 SCT012 29/25 Q1012 NOSIG PALJ 240257Z 00000KT 30SM BKN060 09/02 A2949 RMK LAST EST PASS OPEN NOSPECI OITT 240800Z 25008KT 9999 FEW030 15/04 Q1020 A3014 NOSIG PAKT 240753Z AUTO 14008KT 2SM -RA BR OVC007 07/06 A3030 RMK AO2 CIG 004V009 SLP259 P0006 T00670061 TSNO PAMB 240756Z AUTO 12016G22KT 10SM -RA OVC036 03/02 A2926 RMK AO2 SLP915 P0000 T00330022 $ PAKU 240245Z 07019KT 10SM R06/P6000FT DRSN SKC M14/M16 A2991 OITU 240750Z 24006KT 9999 FEW035TCU 15/M00 Q1018 PAMC 240753Z AUTO 10006KT 10SM BKN065 OVC080 03/02 A2949 RMK AO2 SLP991 T00330017 TSNO $ DIBK 240700Z 22010KT 8000 SCT005 OVC010 24/24 Q1014 NOSIG CPST 240700Z AUTO 19009KT 03/M03 RMK AO1 T00281029 PAMD 240809Z AUTO 13011KT 8SM -RA OVC005 06/05 A2990 RMK AO2 RAB0759 CIG 002V007 P0000 PAKV 240753Z AUTO 00000KT 10SM -RA OVC017 03/02 A2949 RMK AO2 SLP989 P0005 T00330022 TSNO PAKW 240753Z AUTO 00000KT 10SM FEW027 OVC033 07/07 A3026 RMK AO2 RAE05B17E29 SLP246 P0001 T00670067 TSNO CPSV 240700Z AUTO 24006KT 01/M03 RMK AO1 T00091026 PALP 240145Z 07022KT 10SM DRSN SKC M13/M17 A2994 RMK LAST OITZ 240800Z 25004KT 9999 FEW035 13/02 Q1020 PAMH 240756Z AUTO 00000KT 10SM OVC110 02/M06 A2955 RMK AO2 SLP856 T00221056 400671072 FZRANO PANA 240756Z AUTO 08007KT 10SM FEW034 BKN043 BKN055 03/00 A2919 RMK AO2 RAB03E34 SLP883 P0000 T00280000 PAMK 240756Z AUTO 00000KT 10SM CLR 00/M01 A2933 RMK AO2 SLP936 T00001006 FZRANO $ PANC 240753Z 15012G22KT 10SM FEW055 SCT070 BKN085 08/M01 A2969 RMK AO2 PK WND 16027/0742 SLP054 T00831006 PALU 240755Z AUTO 14010KT 10SM -SN BKN004 M13/M14 A2963 RMK AO2 SNB0656 SLP034 P0000 T11261142 $ PAMM 240756Z AUTO 17008KT 4SM -RA BR OVC006 07/07 A3031 RMK AO2 SLP253 P0001 T00720067 400890056 PAMO 240701Z AUTO 10012KT 10SM OVC036 01/M01 A2924 RMK AO2 RAB0615E0644 SLP909 P0000 T00111006 FZRANO PAMR 240753Z 30006KT 10SM FEW060 OVC090 08/00 A2969 RMK AO2 SLP053 T00780000 PANI 240756Z AUTO 11009KT 10SM BKN033 BKN085 03/M01 A2933 RMK AO2 SLP901 T00281011 UHBB 240800Z 29005MPS 9999 FEW033 25/M11 Q1006 R36/090060 NOSIG RMK QFE737/0983 PANN 240753Z AUTO 00000KT 10SM FEW080 00/M04 A2953 RMK AO2 SLP006 T00001039 TSNO PAOH 240756Z AUTO 00000KT 10SM -RA BKN032 OVC046 04/04 A3017 RMK AO2 SLP217 P0000 T00390039 400670039 PAPB 240802Z AUTO 18011KT 9SM BKN010 BKN017 OVC060 02/01 A2885 RMK AO2 CIG 008V012 T00170011 TSNO PANT 240753Z AUTO 16007KT 4SM -RA BR OVC004 07/07 A3029 RMK RAB05 SLP258 P0001 T00720072 TSNO VIA AUTODIAL SYKM 232100Z 00000KT 8000 BKN012 SCT030 BKN100 22/22 Q//// NOSIG PANV 240344Z AUTO 12009G17KT 10SM FEW025 BKN032 OVC044 04/01 A2935 RMK AO2 RAE08 P0000 PAOM 240808Z AUTO 09008KT 10SM OVC005 00/00 A2931 RMK AO2 T00000000 TSNO PANW 240756Z AUTO 12014KT 10SM -RA OVC020 03/02 A2937 RMK AO2 SLP962 P0000 T00330022 UGKO 240800Z 29008KT 9999 SCT046 18/09 Q1019 R25/09//70 NOSIG PAOO 240756Z AUTO 09014KT 10SM SCT003 OVC075 01/00 A2911 RMK AO2 SLP869 T00060000 FZRANO PAPG 240756Z AUTO 22003KT 10SM -RA BKN019 OVC028 04/04 A3028 RMK AO2 SLP257 P0001 T00440039 PAPH 240756Z AUTO 14032G41KT 10SM CLR 07/03 A2913 RMK AO2 PK WND 14044/0746 SLP867 T00670033 401001006 PAOR 240753Z 00000KT 10SM FEW150 M02/M04 A2971 RMK AO2 SLP085 T10221044 OIZB 240800Z 05006KT 3500 DU NSC 36/09 Q1009 PAOT 240753Z 10018KT 10SM SCT029 BKN039 OVC060 01/M02 A2947 RMK AO2 PK WND 10026/0728 SLP980 T00061022 PAOU 240756Z AUTO 15023KT 4SM -RA BR SCT019 BKN030 OVC055 06/04 A2905 RMK AO2 PK WND 14026/0756 SLP837 P0002 T00610044 CPXL 240800Z AUTO 17005KT 02/M02 RMK AO1 T00211021 PAPN 240756Z AUTO 15018G24KT 10SM OVC065 07/03 A2926 RMK AO2 PK WND 14029/0733 SLP910 T00670028 401060000 PAPO 240756Z AUTO 08008KT 10SM CLR M07/M11 A2955 RMK AO2 SLP006 T10671106 FZRANO OIZH 240800Z 32010KT 7000 SCT035 SCT200 32/01 Q1018 A3008 NOSIG PAQH 240756Z AUTO 07010KT 10SM OVC024 03/02 A2914 RMK AO2 SLP869 T00330017 PWINO $ OIZI 240800Z 29004KT 8000 NSC 36/05 Q1014 SYLT 232100Z 09008KT 9999 BKN028 27/23 Q//// NOSIG OIZJ 240800Z 16008KT 6000 NSC 30/27 Q1011 PAPT 240245Z 16009KT 15SM OVC025 03/M02 A2953 RMK NO SPECI LAST PARC 240756Z AUTO 00000KT 10SM BKN055 BKN075 OVC090 M06/M13 A2968 RMK AO2 SLP107 T10611128 410061183 FZRANO OIYY 240800Z 01004KT 8000 FEW035 22/10 Q1019 PASA 240803Z AUTO 08010KT 5SM -SN OVC007 A2926 RMK AO2 P0000 FZRANO $ PAQT 240753Z AUTO 04013KT 4SM BR OVC013 M18/M19 A2987 RMK AO2 SLP116 T11831194 TSNO PASC 240753Z 06019KT 2 1/2SM BR BKN009 OVC014 M16/M17 A2983 RMK AO2 SLP104 T11561172 PASD 240756Z AUTO 17017G24KT 3SM -RA BR OVC003 05/04 A2912 RMK AO2 PK WND 19027/0714 SLPNO P0000 T00500044 YWCA 240800Z AUTO 10003KT //// // ////// 28/M01 Q1015 RMK PASI 240753Z 20006KT 7SM -RA OVC006 07/07 A3020 RMK AO2 RAB01 SLP226 P0004 T00670067 YWBL 240800Z AUTO 25010KT 9999 // BKN034 16/12 Q1016 RMK OLBA 240800Z 29005KT 260V320 8000 NSC 22/14 Q1016 NOSIG PATA 240752Z AUTO 06005KT 10SM CLR 01/M07 A2960 RMK AO2 SLP029 T00061072 TSNO PNO PARS 240756Z AUTO 09005KT 10SM SCT050 OVC070 02/M01 A2928 RMK AO2 SLP918 T00221011 400500000 FZRANO $ PASK 240756Z AUTO 06013KT 10SM OVC060 01/M03 A2953 RMK AO2 SLP997 T00111028 FZRANO $ PASL 240552Z AUTO 13004KT 10SM SCT009 BKN014 OVC050 03/02 A2950 RMK AO2 PATC 240802Z AUTO 03013KT 2SM -SN BKN018 OVC037 M04/M04 A2933 RMK AO2 SLP939 $ PASM 240756Z AUTO 10013KT 10SM -RA FEW028 BKN036 OVC050 02/M01 A2924 RMK AO2 RAB49 SLP919 P0000 T00171006 400331011 FZRANO PASN 240753Z AUTO 15011KT 9SM FEW011 SCT018 BKN028 01/01 A2884 RMK AO2 UPB0655E0657SNE0655B0657E12 SLP768 P0000 T00110006 TSNO PATE 240756Z AUTO 08008KT 10SM OVC009 00/M02 A2934 RMK AO2 SLP942 T00001017 FZRANO PASO 240753Z AUTO VRB03KT 9SM -RA FEW024 OVC031 04/02 A2967 RMK AO2 RAB09 SLP046 P0002 T00440022 TSNO YWBR 240800Z AUTO 03002KT //// // ////// 31/09 Q1015 PATG 240756Z AUTO 10SM -RA OVC023 04/03 A2919 RMK AO2 RAB42 SLP977 P0000 T00440028 $ PARY 240756Z AUTO 09009KT 10SM BKN080 BKN100 OVC110 03/M07 A2951 RMK AO2 SLP022 T00281072 400501039 MSV 240800Z AUTO 05005KT 9999 // NCD 15/11 Q1019 RMK PATK 240753Z AUTO 03004KT 10SM -RA OVC055 04/03 A2972 RMK AO2 SLP069 P0001 T00440033 TSNO PATL 240755Z AUTO 00000KT 10SM BKN070 03/02 A2950 RMK AO2 SLP000 T00320015 PASV 240755Z AUTO 16009G21KT 10SM BKN055 04/M02 A2941 RMK AO2 SLP971 T00441018 MUI 240800Z AUTO 12011KT 9999 // NCD 17/06 Q1017 RMK PATO 240753Z AUTO 12013G38KT 3SM RA OVC026 06/01 A2983 RMK AO2 PK WND 13038/0750 SLP102 P0008 T00560011 TSNO $ PASX 240756Z AUTO 00000KT 10SM FEW070 OVC095 04/03 A2970 RMK AO2 SLP067 T00390028 UHHH 240800Z 24009MPS CAVOK 21/M02 Q1010 R23L/090060 NOSIG RMK QFE751/1002 PASY 240758Z AUTO 28028G36KT 7SM -RA SCT005 BKN011 OVC028 01/M01 A2912 RMK AO2 PK WND 27041/40 CIG 006V011 BKN V OVC SLP865 P0000 T00061007 FZRANO PAVA 240756Z AUTO 12016KT 10SM OVC005 01/00 A2916 RMK AO2 UPE01B28E31RAB05E28 SLP959 P0000 T00060000 400281017 FZRANO NSTU 240750Z VRB03KT 10SM FEW022 26/25 A2984 RMK SLP105 T02620249 PAVC 240756Z AUTO VRB06G23KT 8SM RA OVC015 06/04 A2907 RMK AO2 SLP847 P0015 T00610039 $ PAVD 240756Z AUTO 00000KT 10SM -RA BKN044 OVC060 04/03 A2993 RMK AO2 SLP161 P0001 T00390033 400670028 PAUN 240756Z AUTO 08013KT 10SM OVC048 03/01 A2938 RMK AO2 RAE28 SLP952 P0000 T00280006 UIAA 240800Z 27008G13MPS 9999 NSC 24/M07 Q1007 R29/CLRD70 NOSIG RMK QFE697/0929 UGSB 240800Z 26005KT 230V290 9999 SCT079 16/12 Q1022 R13/CLRD70 NOSIG PAUT 240755Z AUTO 21017G25KT 10SM SCT020 SCT024 OVC060 04/00 A2902 RMK AO2 T00390000 PAVL 240753Z AUTO 07017KT 10SM OVC100 M01/M07 A2950 RMK AO2 SLP990 T10111072 TSNO PNO $ PAWD 240753Z AUTO 20014KT 10SM -RA FEW028 BKN035 OVC045 06/04 A2980 RMK AO2 SLP092 P0000 T00610039 TSNO PAWG 240756Z AUTO 07009KT 10SM -RA BKN028 OVC042 06/03 A3029 RMK AO2 SLP259 P0000 T00560033 TSNO PAWI 240808Z AUTO 06018KT 2 1/2SM BR OVC003 M17/M19 A2984 RMK AO2 T11671189 TSNO UIBB 240800Z 25003MPS 200V280 9999 -SHRA BKN048CB 12/07 Q1008 R30/290150 NOSIG RMK QFE713/0951 UGTB 240800Z 32018KT CAVOK 18/03 Q1019 R31L/CLRD70 NOSIG PAWM 240756Z AUTO 10011KT 9SM -RA OVC012 02/01 A2935 RMK AO2 UPB05E12 SLP943 P0002 T00170006 FZRANO PAWN 240756Z AUTO 03005KT 10SM OVC050 M02/M07 A2953 RMK AO2 SLP015 T10171067 400281139 FZRANO $ YWHA 240800Z AUTO 31004KT 250V320 9999 // BKN081 21/16 Q1017 PAYA 240753Z AUTO 08005KT 10SM BKN012 OVC020 04/03 A3009 RMK AO2 RAE0654 SLP188 P0000 T00390028 TSNO PAWS 240756Z AUTO 08008G16KT 10SM OVC075 07/M02 A2972 RMK AO2 SLP079 T00721017 ZLXY 240800Z 23004MPS 9999 OVC060 18/12 Q1020 NOSIG UHMA 240800Z 27005MPS CAVOK M06/M10 Q0998 RMK END R01/36002G07MPS QFE745/0993 YWGT 240800Z AUTO 12005KT 9999 // NCD 21/06 Q1016 YVRD 240800Z AUTO 09005KT //// // ////// 33/08 Q1008 UHMD 240500Z 35010G16MPS 9999 DRSN BKN024 OVC100 M02/M07 Q0993 RMK QBB730 MT OBSC QFE744/0992 PAZK 240756Z AUTO 23003KT 10SM CLR M01/M05 A2967 RMK AO2 SLP091 T10111050 FZRANO UHMM 240800Z 27005MPS 9999 NSC 03/M03 Q1005 R28/CLRD70 NOSIG RMK QFE738 YWIS 240800Z AUTO 01003KT //// // ////// 24/17 Q1012 RMK OMAA 240800Z 19010KT 150V220 CAVOK 38/09 Q1011 BECMG 25010KT OMAD 240800Z 21005KT 130V260 CAVOK 37/06 Q1011 NOSIG ZMUB 240800Z 19005MPS 140V260 CAVOK 20/M11 Q1016 NOSIG RMK QFE654.6 11 OMAL 240800Z 20009KT 160V230 CAVOK 36/11 Q1014 NOSIG YWLG 240800Z AUTO 23006KT 9999 // NCD 24/06 Q1015 RMK TQPF 232200Z 09012KT 9999 FEW019 26/20 Q1017 YWLM 240800Z 19007KT 9999 FEW025 SCT045 BKN055 20/17 Q1017 UHPP 240800Z 32003MPS 280V350 9999 NSC 03/M06 Q1003 R34L/CLRD70 NOSIG RMK QFE749/0999 EBBE 240755Z 23012KT 9999 FEW015 SCT021 BKN032 10/06 Q1018 WHT WHT TEMPO GRN YWLU 240800Z AUTO 15007KT 9999 // NCD 31/08 Q1014 RMK OMDB 240800Z 22008KT 190V260 CAVOK 38/09 Q1011 NOSIG EBBL 240803Z 22010KT 9999 BKN013 BKN040 10/07 Q1017 GRN WHT TEMPO GRN EBAW 240750Z 21009KT 9999 BKN011 11/07 Q1017 TEMPO BKN008 UIII 240800Z 31003MPS 240V010 CAVOK 28/M06 Q1005 R30/CLRD60 NOSIG RMK QFE710/0946 EBCI 240750Z 23012KT 9999 BKN014 BKN040 10/06 Q1018 TEMPO BKN008 EBBR 240750Z 24009KT 9999 BKN015 10/07 Q1018 TEMPO BKN012 CTCK 240800Z AUTO 08001KT 01/M01 RMK AO1 SLP229 T00121013 56000 VAAH 240800Z 27006KT 6000 NSC 42/M01 Q1008 NOSIG YWOL 240800Z AUTO 28004KT //// // NCD 16/13 Q1017 RMK VABB 240800Z 28010G20KT 4000 FU NSC 35/20 Q1008 BECMG 5000 FU KA08 240755Z AUTO 27006KT 10SM OVC026 12/12 A2992 RMK AO2 T01220122 OMDW 240800Z 21013KT 170V240 8000 NSC 38/10 Q1012 TEMPO 4000 DU EBCV 240755Z AUTO 22010KT 9999 OVC014/// 10/07 Q1019 GRN UHSS 240800Z 19004MPS 9999 NSC 12/M01 Q1015 R19/CLRD70 NOSIG RMK QFE760/1013 OMFJ 240800Z 11008KT 080V140 7000 NSC 30/24 Q1012 A2989 VAAU 240700Z 18004KT 6000 NSC 38/16 Q1012 NOSIG EBDT 240755Z 22005KT 9999 BKN015 10/08 Q1018 WHT WHT TEMPO GRN VABO 240800Z 28005KT 6000 NSC 40/08 Q1008 NOSIG VABP 240800Z 04006KT CAVOK 38/M01 Q1011 NOSIG VABV 240400Z 35003KT 4000 FU NSC 33/07 Q1011 EBFN 240755Z 24012KT 9999 BKN009 BKN080 11/10 Q1017 GRN GRN EBFS 240755Z 22011KT 9999 BKN011 09/06 Q1019 GRN GRN KA39 240755Z AUTO 00000KT 10SM SCT110 21/M03 A2997 RMK AO2 DIYO 240700Z 24004KT 9999 FEW010 BKN260 25/24 Q1013 NOSIG YWUD 240800Z AUTO 22006KT //// // ////// 24/09 Q1017 RMK YWTN 240800Z AUTO 15007KT //// // ////// 29/00 Q1013 RMK UHWW 240800Z 26004MPS 9999 NSC 12/M03 Q1013 R25L/0///70 NOSIG RMK QFE759 TRPG 232200Z 12014KT 9999 FEW017 BKN040 25/22 Q1016 VAID 240600Z 09007KT 6000 NSC 35/03 Q1014 NOSIG EBLB 240755Z AUTO 24009KT 9999 SCT022/// BKN230/// 08/05 Q1018 WHT EBLG 240750Z 21009KT 9999 BKN015 10/06 Q1018 NOSIG YWWL 240800Z AUTO 16003KT //// // ////// 23/05 Q1017 RMK VAJB 240600Z 32003KT 5000 HZ NSC 37/M01 Q1012 VAJJ 240800Z 31015KT 5000 FU NSC 35/22 Q1008 NOSIG UKBB 240800Z 21002MPS 140V280 9999 -RA SCT040 13/04 Q1012 R88/CLRD// NOSIG YWYM 240800Z AUTO 10009KT //// // ////// 37/// Q1007 RMK CTNK 240800Z AUTO 08001KT M02/M06 RMK AO1 SOG 18 6010 SLP227 T10221057 UKDD 240800Z 17004MPS 120V220 CAVOK 18/03 Q1015 R08/090070 NOSIG UKDE 240800Z 17005MPS 140V210 CAVOK 17/05 Q1015 R20/CLRD70 NOSIG TTCP 240800Z 07005KT 9999 VCSH FEW016 25/21 Q1013 NOSIG RMK VCSH-NE UIUU 240800Z 23004MPS 180V270 9999 NSC 26/M08 Q1007 R26/CLRD60 NOSIG RMK QFE711/0948 EBOS 240750Z 22012KT 7000 -RA BKN008 BKN018 11/09 Q1017 TEMPO 3500 -RADZ UKDR 240800Z 21004MPS 120V250 CAVOK 19/04 Q1014 R18/09//70 NOSIG OMRK 240800Z 23010KT CAVOK 41/07 Q1011 A2986 NVSC 240000Z 0000KT 9999 BKN020 FEW025CB 30/26 Q1010 RMK RESH CTRA 240800Z AUTO 34005KT 04/M02 RMK AO1 SLP232 T00351020 51010 VANP 240800Z 01004KT 5000 HZ NSC 40/01 Q1008 NOSIG OMSJ 240800Z 22010KT 9999 NSC 39/09 Q1011 EDAC 240750Z 24013G24KT CAVOK 15/09 Q1016 EDAH 240750Z 23011KT 9999 -RA BKN037 13/06 Q1011 UKHH 240800Z 26004MPS 220V310 CAVOK 13/M05 Q1016 R25/0///66 NOSIG VAPR 240700Z 27008KT 6000 NSC 38/09 Q1010 NVVA 240600Z 13004KT 9999 SCT018 FEW025 OVC110 26/25 Q1012 RMK RESH PFCL 240756Z AUTO 10SM BKN045 OVC055 04/02 A2926 RMK AO2 RAB0659E11 SLP901 P0000 T00390022 TSNO $ YYNG 240800Z AUTO 24002KT 9999 // NCD 18/05 Q1017 RMK ULAA 240800Z 19002MPS 130V300 CAVOK 04/M11 Q1012 R26/CLRD70 NOSIG RMK QFE757/1010 VARK 240100Z 00000KT 6000 NSC 25/14 Q1009 VASD 240800Z VRB03KT CAVOK 38/09 Q1012 NOSIG EDDB 240750Z 20008KT 170V240 CAVOK 14/09 Q1014 NOSIG EDDC 240750Z 21008KT CAVOK 14/10 Q1016 NOSIG EDDE 240750Z 24012KT 9999 FEW036 BKN300 14/07 Q1016 TEMPO 24015G25KT EDDF 240750Z 22010KT 9999 FEW025 BKN300 15/09 Q1019 NOSIG EDDG 240750Z 23009KT 9999 -RA BKN018 10/06 Q1015 NOSIG EDDH 240750Z 24012KT 210V270 9999 FEW015 BKN016 11/07 Q1011 BECMG BKN014 KC07 240748Z AUTO 28007KT 10SM SCT003 SCT065 SCT120 M01/M02 A3031 RMK AO2 KAAA 240755Z AUTO 01006KT 3SM BR BKN004 OVC009 12/12 A3001 RMK AO2 T01200120 PFEL 240756Z AUTO 08006KT 10SM BKN024 OVC031 02/00 A2938 RMK AO2 RAE55 SLP951 P0000 T00220000 FZRANO KC09 240755Z AUTO 02004KT 10SM BKN020 BKN035 OVC060 10/07 A3004 RMK AO2 T00960070 EDDK 240750Z 22006KT 190V250 9999 FEW041 BKN080 BKN280 12/06 Q1018 NOSIG NVVW 240300Z VRB02KT 9999 SCT018 OVC110 29/25 Q1010 RMK DZ EDDL 240750Z 23012KT 9999 FEW022 BKN033 11/06 Q1017 NOSIG EDDM 240750Z 27006KT 240V300 9999 SCT017 15/11 Q1020 NOSIG KAAF 240753Z AUTO 33003KT 10SM FEW029 16/16 A2993 RMK AO2 SLP135 T01610156 EDDN 240750Z 25008KT 220V290 9999 FEW033 BKN300 16/08 Q1019 NOSIG VCBI 240710Z 27007KT 220V340 9999 FEW018 32/24 Q1010 NOSIG EDDP 240750Z 23013KT 9999 FEW022 BKN250 15/09 Q1015 TEMPO 23015G25KT UKKK 240800Z VRB01MPS 9999 -SHRA SCT033CB 11/06 Q1011 R26/290156 TEMPO 2100 -SHRA SCT007 BKN020CB EDDR 240750Z 26007KT 230V290 9999 FEW012 BKN036 13/09 Q1020 NOSIG VASU 240800Z 36004KT 6000 NSC 40/15 Q1008 VAUD 240800Z 28004KT 6000 37/M04 Q1011 NOSIG UKKM 240800Z 20003MPS 9999 -SHRA SCT034CB 10/06 Q1011 R15/19//65 TEMPO 2100 -SHRA BKN007 SCT015CB EDDS 240750Z 21006KT 170V270 9999 FEW030 BKN300 16/10 Q1019 NOSIG EDDT 240750Z 22013KT 190V250 9999 FEW044 BKN280 15/07 Q1013 NOSIG ZPPP 240800Z 20007MPS 9999 FEW026 27/02 Q1016 NOSIG KABE 240751Z 04004KT 10SM CLR 06/M03 A3037 RMK AO2 SLP285 T00561033 $ EDDV 240750Z 24014KT 220V280 9999 FEW023 BKN036 BKN120 12/07 Q1014 NOSIG EDDW 240750Z 23014KT 9999 BKN016 10/07 Q1013 TEMPO 25015G25KT KAAO 240754Z AUTO 35005KT 10SM CLR 12/05 A3007 RMK AO2 SLP177 T01220050 UKLI 240800Z 30003MPS 9999 -SHRA SCT023CB BKN040 16/13 Q1015 R10/090070 NOSIG KABH 240756Z AUTO 01030G37KT OVC007 A3018 RMK AO2 PK WND 01037/0754 SLPNO $ KABI 240752Z 15007KT 10SM CLR 12/08 A3006 RMK AO2 SLP162 T01170078 EDFH 240750Z 26014KT CAVOK 10/05 Q1018 UKLL 240800Z 32004MPS 280V340 9999 BKN025 15/12 Q1015 R31/290060 NOSIG KACB 232300Z AUTO 36004KT 10SM CLR 14/M04 A3017 RMK AO2 T01391040 KAAT 240755Z AUTO 00000KT 10SM CLR 04/M06 A3019 RMK AO2 SLP210 T00441061 402000006 KC29 240755Z AUTO 00000KT 10SM CLR 03/02 A3010 RMK AO1 UKLN 240730Z 30004MPS 250V340 CAVOK 17/13 Q1014 R33/29//60 NOSIG EDFM 240750Z 19005KT 150V260 9999 FEW012 15/12 Q1020 UKLR 240800Z 28008MPS 9999 BKN007 BKN019CB 13/12 Q1013 R29/190060 NOSIG KC35 240755Z AUTO 00000KT 10SM CLR 03/00 A3011 RMK AO2 T00340002 KABQ 240752Z 13005KT 10SM FEW230 13/M04 A3008 RMK AO2 SLP117 T01331044 KABR 240753Z AUTO 36007KT 10SM -RA OVC070 11/06 A3020 RMK AO2 RAB43 SLP227 P0000 T01060056 UKLU 240800Z 00000MPS 9999 SCT040 BKN100 18/12 Q1016 R10/090070 NOSIG KACJ 240750Z AUTO 27006KT 10SM BKN050 16/08 A2990 RMK AO2 KACK 240753Z AUTO 18005KT 10SM CLR 03/03 A3045 RMK AO2 SLP309 T00280028 $ KADC 240755Z AUTO 34004KT 10SM CLR 06/00 A3017 RMK AO2 KADF 240756Z AUTO 00000KT 8SM CLR 12/12 A2999 RMK AO2 SLP159 T01220117 KADG 240753Z AUTO 13004KT 10SM BKN033 OVC045 12/07 A3012 RMK AO2 SLP198 T01220072 TSNO KABY 240753Z AUTO 25005KT 10SM BKN055 16/12 A2991 RMK AO2 SLP127 T01610122 KACP 240755Z AUTO 00000KT 10SM CLR 10/09 A2999 RMK AO2 T01000091 KACQ 240755Z AUTO 25004KT 10SM CLR 05/03 A3014 RMK AO2 KADH 240755Z AUTO 26004KT 10SM CLR 11/10 A3005 RMK AO2 EDHI 240750Z 24017KT 9999 BKN016 OVC030 11/08 Q1012 EDGS 240750Z 27011KT 9999 FEW016 08/04 Q1017 KACT 240751Z AUTO 23008KT 10SM CLR 13/12 A3006 RMK AO2 SLP173 T01330117 EDHK 240750Z 23011KT 200V260 6000 -DZ BKN004 OVC006 09/09 Q1009 KACV 240753Z AUTO 09004KT 10SM CLR 12/08 A2999 RMK AO2 SLP159 T01170083 402330067 EDHL 240750Z 21014KT 9999 BKN018 12/08 Q1011 KADM 240755Z AUTO 00000KT 4SM BR CLR 09/09 A3003 RMK AO2 T00920091 UKOH 240800Z 21008MPS 180V260 CAVOK 20/03 Q1016 R21/CLRD// NOSIG KACY 240754Z AUTO 00000KT 10SM CLR 03/02 A3038 RMK AO2 SLP288 T00330017 KAEG 240755Z AUTO 00000KT 10SM CLR 13/M10 A3011 RMK AO2 T01251103 KAEJ 240755Z AUTO 32012KT 10SM CLR 08/M02 A3022 RMK AO2 T00801025 KADS 240755Z AUTO 00000KT 10SM CLR 15/11 A3004 RMK AO2 T01540112 DNAA 231900Z 18009KT 9999 FEW011 FEW020CB 31/21 Q1011 TEMPO TS EDJA 240750Z 23009KT 9999 FEW014 15/11 Q1021 UKON 240800Z 22008MPS CAVOK 20/07 Q1015 NOSIG KADU 240755Z AUTO 00000KT 10SM CLR 06/03 A3014 RMK AO2 KAEL 240755Z AUTO 00000KT 10SM CLR 05/03 A3013 RMK AO2 KC62 240215Z AUTO 14010G17KT 10SM 12/06 A3016 RMK AO2 T01200060 UKOO 240800Z 18007MPS CAVOK 18/11 Q1014 R16/090060 NOSIG KADW 240656Z 09005KT 10SM OVC150 11/03 A3031 RMK AO2 SLP271 T01120025 $ CWAE 240100Z 36002KT 15SM FEW240 17/M05 A3028 RMK CI1 LAST OBS/NEXT 241300UTC WND ESTD SLP263 DENSITY ALT 2600FT KAFF 240748Z AUTO 34020G28KT 10SM BKN008 OVC012 04/02 A3025 RMK AO2 SLP200 CWAF 240800Z AUTO 19018KT 04/M00 RMK AO1 PK WND 19020/0758 T00431002 KC65 240755Z AUTO 07006KT 10SM OVC036 11/11 A3005 RMK A01 KAFJ 240756Z AUTO 13010G16KT 10SM SCT065 OVC085 12/06 A3019 RMK AO2 RAB11E29 SLP219 P0000 T01170061 CWBA 240800Z AUTO 16004KT 00/M02 RMK AO1 SOG 24 T00001016 CWAJ 240800Z AUTO RMK AO1 KAFK 240755Z AUTO 01005KT 10SM CLR 10/00 A3012 RMK AO2 T01001002 KAGC 240753Z 12007KT 10SM OVC090 11/08 A3018 RMK AO2 RAB01E22 SLP222 P0000 T01060078 TTPP 240800Z 00000KT 9999 FEW016 24/22 Q1013 NOSIG KAFN 240752Z AUTO 16004KT 10SM CLR 01/M02 A3038 RMK AO2 SLP297 T00061022 CWBE 240800Z AUTO 00000KT 06/M05 RMK AO1 SLP225 T00571046 56000 KAEX 240753Z 00000KT 9SM CLR 13/12 A2997 RMK AO2 SLP153 T01280117 KAFO 240755Z AUTO 00000KT 10SM CLR M02/M02 A3030 RMK AO2 KC75 240755Z AUTO 05006KT 10SM OVC014 11/07 A3004 RMK AO2 T01050065 KAFP 240755Z AUTO 05003KT 4SM -RA SCT005 BKN011 OVC027 15/14 A2998 RMK AO2 P0013 T01500140 CWAQ 240800Z AUTO 31004KT M04/M08 RMK AO1 SLP323 T10371077 52010 PFKT 240756Z AUTO 08011KT 10SM OVC014 01/M01 A2935 RMK AO2 SLP941 T00111011 FZRANO CWCA 240800Z 20005KT 15SM BKN200 M04/M05 A2995 RMK CS7 SLP143 CWBK 240800Z AUTO 23006KT 04/M02 RMK AO1 SOG 03 5000 SLP266 T00351015 PFKW 240756Z AUTO 08008KT 10SM FEW065 BKN080 02/M02 A2920 RMK AO2 RAE12 SLP889 P0000 T00221017 FZRANO CWAV 240800Z AUTO 25002KT M03/M05 RMK AO1 SLP292 T10311046 51000 KAFW 240753Z 00000KT 10SM CLR 11/10 A3002 RMK AO2 SLP161 T01110100 KC83 240755Z AUTO 22009KT 10SM CLR 17/08 A2994 RMK AO2 CWBO 240800Z AUTO 17006KT M00/M03 RMK AO1 SOG 01 8000 SLP292 T10041029 CWCF 240800Z AUTO 32010G15KT M04/M09 RMK AO1 SOG 01 3010 PK WND 35019/0723 SLP281 T10361086 CWCI 240700Z AUTO 03/M00 RMK AO1 SLP199 T00281001 58000 KAIA 240753Z AUTO 33020G26KT 10SM OVC018 03/01 A3026 RMK AO2 PK WND 32028/0702 SLP235 T00280011 $ KAGS 240753Z AUTO 16003KT 10SM SCT014 BKN027 18/18 A2984 RMK AO2 SLP105 T01830178 CWDA 240700Z AUTO 27012G17KT 03/M02 RMK AO1 PK WND 29022/0613 SLP180 T00251015 50000 CWCJ 240800Z AUTO 04003KT M01/M04 RMK AO1 SOG 27 1000 SLP201 T10051039 CWBS 240800Z AUTO 17012KT 09/M05 RMK AO1 T00881050 EDMA 240750Z 26006KT 230V290 9999 SCT037 15/11 Q1020 KAIB 240755Z AUTO 34005KT 10SM CLR 15/M04 A3020 RMK AO2 KAID 231948Z 11010KT 10-RASM SCT012OVC029 13/12 A3012 CWDC 240800Z AUTO 04002KT M03/M05 RMK AO1 SOG 18 8010 SLP228 T10331049 CWBU 240800Z AUTO 16005KT M00/M03 RMK AO1 SOG 01 1000 SLP305 T10011029 KAHN 240751Z AUTO 07006KT 2 1/2SM BR OVC002 16/16 A2985 RMK AO2 SLP103 T01610161 EDLN 240750Z 25007KT 170V310 9999 -DZ BKN020 11/07 Q1017 CWCO 240800Z AUTO 13005KT 11/M04 RMK AO1 SLP203 T01061040 56000 KAIG 240755Z AUTO 00000KT 10SM CLR 00/M01 A3012 RMK AO2 T00021007 CWBY 240800Z AUTO 08005KT 00/M04 RMK AO1 SOG 67 6020 SLP184 T00001037 EDLP 240750Z 23012KT 9999 FEW022 SCT041 11/06 Q1016 KAHQ 240755Z AUTO 35004KT 10SM CLR 10/M01 A3013 RMK AO2 T01011012 CWBZ 240700Z AUTO 35002KT 03/M02 RMK AO1 SLP236 T00261022 58000 UMBB 240800Z 31007G10MPS 9999 SCT013 SCT100 15/09 Q1013 NOSIG KD07 240756Z AUTO 35024G32KT 01/01 A3024 RMK AO1 PK WND 35032/0706 SLP252 P0007 T00060006 OOMS 240750Z 05010KT CAVOK 31/21 Q1012 NOSIG CWDJ 240800Z AUTO 23003KT M02/M06 RMK AO1 SOG 01 1000 SLP316 T10201060 KBAB 240758Z AUTO 07005KT 10SM CLR 17/10 A2992 RMK AO2 SLP134 T01680097 402910107 $ KAIK 240755Z AUTO 00000KT 10SM BKN003 BKN042 OVC048 17/17 A2990 RMK AO2 LTG DSNT NE CWDK 240800Z AUTO 15003KT M02/M06 RMK AO1 SLP301 T10221057 57000 CWEB 240800Z AUTO 02004KT 09/06 RMK AO1 PRESFR SLP190 T00860057 58040 CWCT 240800Z AUTO 20005KT 01/M01 RMK AO1 SOG 03 7000 SLP292 T00101009 KBAC 240755Z AUTO 35011KT 10SM -DZ OVC060 07/04 A3027 RMK AO2 KBAD 240756Z AUTO 35005KT 10SM CLR 13/12 A2998 RMK AO2 SLP155 T01280115 CWDM 240700Z AUTO 24011KT 01/M02 RMK AO1 SOG 52 8000 SLP189 T00121023 EDLV 240750Z 22010KT 190V260 9999 BKN023 11/08 Q1016 PFNO 240756Z AUTO 07018KT 10SM FEW027 SCT037 OVC060 02/M02 A2951 RMK AO2 RAE34UPB36E46 SLP993 P0000 T00171017 FZRANO CWEE 240700Z AUTO M01/M04 RMK AO1 SLP181 T10131040 56010 KBAF 240753Z AUTO 00000KT 10SM CLR 02/M03 A3040 RMK AO2 SLP296 T00171028 EDLW 240750Z 22011KT 190V250 9999 FEW020 BKN032 10/05 Q1016 KAIO 240755Z AUTO 00000KT 10SM BKN110 07/04 A3013 RMK AO2 CWEF 240700Z AUTO 21010KT 08/M10 RMK AO1 SLP249 T00811103 58000 CWDO 240700Z AUTO 23016G23KT 01/M05 RMK AO1 SOG 52 5000 PK WND 22023/0655 SLP201 T00121048 EDMO 240750Z 26007KT 9999 FEW018 15/11 Q1021 KAJG 240755Z AUTO 04007KT 10SM BKN060 BKN100 12/11 A2994 RMK AO2 T01180108 CWEH 240800Z AUTO 25004KT 01/ RMK AO1 SOG 02 2000 SLP320 T0007 CWDQ 240700Z AUTO 10001KT M03/M05 RMK AO1 SOG 17 6000 SLP233 T10291048 EEEI 240750Z 19009KT 160V220 9000 -RA OVC008 08/07 Q1002 R24/290095 NOSIG KBAK 240145Z 11012KT 10SM OVC040 12/ A3004 RMK LAST KBBB 240755Z AUTO 07003KT 10SM CLR 09/02 A3017 RMK AO2 KAIT 240755Z AUTO 00000KT 10SM CLR 00/M02 A3013 RMK AO2 CWDT 240600Z AUTO 04001KT 03/M06 RMK AO1 SLP194 T00281063 58000 CWEK 240700Z AUTO 17015KT 08/06 RMK AO1 6PAST HR 1010 PK WND 19019/0606 SLP258 P0006 T00760058 50016 KAJL 240755Z AUTO M1/4SM +SN OVC001 A3031 RMK AO2 CWEL 240800Z AUTO 29006KT 12/04 RMK AO1 SLP246 T01160038 54000 KBAM 240755Z AUTO 32008KT 10SM CLR 07/M09 A3023 RMK AO1 KBBD 240755Z AUTO 09006KT 10SM FEW039 SCT049 15/06 A3005 RMK AO2 NWWW 240800Z AUTO 06001KT CAVOK 25/23 Q1013 NOSIG CWDV 240800Z AUTO 34001KT M02/M04 RMK AO1 SOG 02 0000 SLP227 T10171037 CWFD 240800Z AUTO 36012KT ////SM //// BKN015 OVC065 ///// A//// KBAN 240752Z AUTO 00000KT 10SM CLR 03/M06 A3024 RMK AO2 SLP177 T00281061 402061028 $ DNEN 240700Z 24003KT 9999 FEW009 29/21 Q1013 KAJO 240756Z AUTO 25005KT 9SM CLR 14/11 A3001 RMK AO2 SLP170 T01390111 402940067 $ KBBF 240755Z AUTO 24008KT 10SM CLR 22/17 A3002 RMK A01 ULLI 240800Z 13006MPS 110V170 9999 SCT046 07/M05 Q1006 R88/090060 NOSIG CWFF 240800Z AUTO 13004KT 01/M03 RMK AO1 SOG 09 1000 SLP303 T00051027 KBBG 240755Z AUTO 00000KT 10SM CLR 12/09 A3001 RMK AO2 KD25 240755Z AUTO 00000KT 10SM CLR M01/M03 A3012 RMK AO2 T10101030 KAIZ 240756Z AUTO 00000KT 10SM CLR 10/09 A3001 RMK AO2 SLP158 T01000089 CWEP 240800Z AUTO 21008KT 02/M02 RMK AO1 SLP257 T00191017 57000 KAKH 240754Z AUTO 06008KT 4SM BR OVC005 14/13 A2994 RMK AO2 RAE41 SLP138 P0001 T01440133 CWDZ 240800Z AUTO 16005KT 03/M03 RMK AO1 T00331028 CWEQ 240800Z AUTO 24002KT M03/M05 RMK AO1 SOG 01 1010 SLP310 T10321046 KAJR 240755Z AUTO 09008G15KT 4SM -RA OVC006 13/13 A2986 RMK AO2 T01300130 CWER 240800Z AUTO 24008KT RMK AO1 CWFJ 240800Z AUTO 19003KT 02/M07 RMK AO1 T00151066 KALB 240751Z 18006KT 10SM FEW260 09/M04 A3036 RMK AO2 SLP281 T00891044 KBCB 240755Z AUTO 08016G25KT 10SM -RA OVC007 09/08 A3015 RMK AO2 P0009 T00860080 CWGB 240800Z AUTO 26005KT 10/05 RMK AO1 SLP246 T01030053 55000 CWEU 240800Z VRB03KT 15SM FEW250 M24/M27 A2976 RMK CI1 CI TR SLP081 CWGD 240800Z AUTO 16005KT 11/03 RMK AO1 SLP207 T01130033 56010 KBCE 240753Z AUTO 26003KT 10SM CLR 02/M03 A3025 RMK AO2 SLP154 T00171033 CWEW 240800Z AUTO 32001KT 02/M01 RMK AO1 SLP244 T00241007 58000 KAKO 240753Z AUTO 35022G33KT 10SM FEW010 OVC026 03/01 A3025 RMK AO2 PK WND 36034/0707 LTG DSNT S RAB0655E10 SLP228 P0000 T00280011 KBAX 240756Z AUTO 21003KT 10SM SCT085 11/04 A3015 RMK AO2 T01050040 KBBP 240755Z AUTO 09006KT 5SM RA BKN008 OVC011 17/17 A2995 RMK AO2 P0016 KAJZ 240755Z AUTO 07010KT 10SM OVC080 16/02 A3017 RMK AO2 T01580017 KBAZ 240751Z AUTO 00000KT 10SM CLR 13/11 A3003 RMK AO2 SLP162 T01280106 $ EDNY 240750Z 22003KT 170V290 9999 FEW010 SCT014 16/13 Q1021 KAKQ 240754Z AUTO VRB06KT 10SM OVC095 13/09 A3022 RMK AO2 SLP234 T01330089 CWEZ 240700Z AUTO 29004KT 13/02 RMK AO1 SLP241 T01260019 51000 CWFQ 240800Z AUTO 17005KT 10/M07 RMK AO1 SLP242 T00971071 56000 KALI 240753Z AUTO 21004KT 10SM CLR 14/12 A3000 RMK AO2 SLP158 T01390122 $ KAKR 240754Z AUTO VRB04KT 10SM OVC055 14/06 A3014 RMK AO2 SLP202 T01440056 KAMA 240753Z AUTO 15012KT 10SM CLR 11/06 A3005 RMK AO2 SLP144 T01110056 ULMM 240800Z 18005MPS 150V230 CAVOK 06/M04 Q0999 R13/190065 NOSIG RMK QFE743 KD39 240755Z AUTO 00000KT 10SM CLR 07/01 A3014 RMK AO2 T00710011 KALK 240756Z AUTO 26009KT 10SM CLR 13/M08 A3015 RMK AO2 SLP122 T01331083 KBCK 240755Z AUTO 00000KT 10SM CLR M02/M02 A3012 RMK AO2 T10171017 CWGL 240800Z AUTO 07001KT 06/01 RMK AO1 SLP216 T00570012 56000 KALM 240755Z AUTO 14006KT 10SM CLR 18/M05 A3004 RMK AO2 CWGM 240700Z AUTO 21012G17KT 05/M07 RMK AO1 PK WND 21019/0627 T00461070 KBDE 240753Z AUTO 34008KT 10SM OVC060 04/M01 A3021 RMK AO2 SLP236 T00441006 KBBW 240753Z AUTO 00000KT 10SM SCT070 BKN085 12/05 A3012 RMK AO2 SLP192 T01170050 KALN 240755Z AUTO 35003KT 5SM BR OVC007 12/12 A2998 RMK AO2 T01230123 KALO 240754Z AUTO 00000KT 10SM CLR 06/02 A3011 RMK AO2 SLP197 T00560022 DNGO 240700Z 24018KT CAVOK 28/20 Q1011 KAMG 240753Z AUTO 24005KT 10SM CLR 18/16 A2987 RMK AO2 SLP113 T01780161 KBDG 240755Z AUTO 00000KT 10SM 13/M04 A3018 RMK AO1 T01271038 KBDH 240755Z AUTO 32003KT 10SM CLR 06/03 A3017 RMK AO2 NZAA 240800Z AUTO 25008KT 9999 SCT045/// OVC060/// 16/11 Q1020 NOSIG OOSA 240750Z 16011KT 9999 SCT025 31/24 Q1013 NOSIG CWHI 240700Z AUTO 20008KT 03/M02 RMK AO1 T00321020 CWGR 240800Z AUTO 21009KT 04/M03 RMK AO1 SLP239 T00401030 58000 ZSAM 240800Z 08008MPS 9999 FEW009 BKN033 FEW033TCU 25/21 Q1008 NOSIG KALS 240752Z AUTO 21005KT 10SM CLR 04/M07 A3017 RMK AO2 SLP149 T00441072 KBEA 240755Z AUTO 00000KT 10SM CLR 15/12 A3001 RMK AO2 T01450120 KBCT 240247Z 20005KT 10SM FEW031 25/23 A3001 KANB 240800Z AUTO 23008KT 10SM BKN014 BKN034 OVC048 14/13 A2987 RMK AO2 T01440128 KD50 240755Z AUTO 28008KT 10SM CLR M02/M03 A3043 RMK AO2 CWGT 240800Z AUTO 29001KT 10/07 RMK AO1 SLP249 T01020066 55000 KBDL 240751Z 18004KT 10SM SCT250 04/00 A3040 RMK AO2 SLP294 T00440000 KBEC 240755Z AUTO 36004KT 10SM CLR 13/05 A3007 RMK AO2 T01250050 CWHL 240800Z AUTO 20008KT 08/04 RMK AO1 2PAST HR 2010 PK WND 13017/0700 SLP262 P0001 T00830041 50002 KAND 240756Z AUTO 06010KT 10SM OVC004 15/14 A2988 RMK AO2 SLP112 T01500144 KBED 240756Z AUTO 20006KT 10SM CLR 04/M04 A3039 RMK AO2 SLP304 T00441039 CWID 240800Z AUTO 22003KT 06/M05 RMK AO1 SLP113 T00611047 56020 EDQM 240750Z 24012KT 9999 SCT012 12/08 Q1018 KALW 240753Z AUTO 10005KT 10SM CLR 09/01 A3032 RMK AO2 SLP268 T00940011 401890022 $ KBDN 240755Z AUTO 30006KT 10SM CLR 06/M06 A3031 RMK AO2 KAMN 240756Z AUTO 19008KT 10SM BKN085 12/09 A3013 RMK AO2 T01240090 KANE 240756Z AUTO 00000KT 10SM CLR 06/03 A3012 RMK AO2 CWHN 240700Z AUTO 21005KT 160V230 9SM CLR 03/M09 A3024 RMK SLP264 CWGW 240800Z AUTO 01005KT M01/M04 RMK AO1 SOG 33 2010 SLP339 T10101041 KALX 240755Z AUTO 27005KT 10SM SCT055 13/13 A2988 RMK AO2 T01260126 OOSH 240650Z AUTO 05006KT //// 32/21 Q1012 RMK 1008 CWGX 240800Z AUTO 33006KT M09/M11 RMK AO1 SOG 03 1010 SLP281 T10881109 CWHO 240700Z AUTO 34003KT M02/M05 RMK AO1 SLP115 T10231052 58010 KD55 240755Z AUTO 35007KT 10SM FEW050 SCT120 03/02 A3031 RMK AO2 PFSH 240756Z AUTO 12010KT 10SM BKN041 BKN080 02/00 A2939 RMK AO2 SLP951 T00220000 PWINO FZRANO $ CWHP 240700Z AUTO 21010KT M00/M01 RMK AO1 SLP216 T10041010 CWIG 240800Z AUTO 23010KT RMK AO1 CWGY 240800Z AUTO 18011KT 05/M04 RMK AO1 SLP297 T00501035 58000 KBEH 240753Z AUTO 10005KT 10SM OVC100 12/08 A3007 RMK AO2 SLP181 T01220078 $ ULPB 240800Z 09002MPS CAVOK 06/M08 Q1010 R19/09//60 NOSIG RMK QFE753/1005 CWHQ 240600Z AUTO 03001KT M03/M05 RMK AO1 T10291050 KBDR 240752Z AUTO 00000KT 9SM CLR 04/03 A3042 RMK AO2 SLP300 T00440033 KD57 240755Z AUTO 02015G22KT 7SM -RA SCT010 BKN013 OVC024 04/M00 A3037 RMK AO2 P0002 CWII 240800Z AUTO 33004KT M01/M03 RMK AO1 T10071029 KANJ 240755Z AUTO 07004KT 10SM CLR 04/M04 A3013 RMK AO2 SLP204 T00391039 CWIJ 240800Z AUTO 13004KT M19/M21 RMK AO1 SOG 60 8010 SLP206 T11871207 KANK 240755Z AUTO 27004KT 10SM CLR 10/M04 A3027 RMK AO1 T00951042 KD60 240755Z AUTO 00000KT 10SM CLR M01/M04 A3042 RMK AO2 OPKC 240755Z 26012KT 7000 NSC 36/08 Q1010 NOSIG CWHT 231700Z AUTO 27004KT 04/M02 RMK AO1 SLP108 T00351016 52000 CWJB 240800Z AUTO 22002KT 03/ RMK AO1 T0026 CWIK 240700Z AUTO 28003KT M03/M05 RMK AO1 SLP306 T10331052 53000 UKWW 240800Z 27004MPS 9999 -SHRA BKN030CB OVC100 12/07 Q1012 R13/0///65 NOSIG EDSB 240750Z 28004KT 240V330 9999 FEW011 16/14 Q1019 KBDU 240754Z AUTO 12004KT 4SM -SN SCT006 OVC013 01/01 A3032 RMK AO2 P0005 DNIL 240700Z 22012KT 9999 BKN010 26/23 Q1013 ULOO 240800Z 17003MPS 140V200 P5000 -RA OVC011 07/04 Q1005 R19/190060 NOSIG RMK QFE750 CWJC 240800Z AUTO 25014KT M05/M06 RMK AO1 SLP225 T10471064 58000 CWIL 240800Z AUTO 28014KT ////SM NCD ///// A//// KBFD 240753Z AUTO 14006KT 10SM CLR 10/03 A3025 RMK AO2 SLP238 T01000028 CWHV 240800Z AUTO 18004KT M02/M05 RMK AO1 SLP251 T10181052 58000 CWJD 240800Z AUTO 35002KT M06/M08 RMK AO1 SOG 01 3020 SLP315 T10601084 UMGG 240800Z 15003MPS CAVOK 11/02 Q1011 R28/CLRD// NOSIG KAMW 240753Z AUTO 33005KT 10SM CLR 08/03 A3011 RMK AO2 SLP192 T00780033 NZAP 240800Z 24014KT 20KM FEW027 BKN048 12/08 Q1019 RMK AUTO VATSIM USE ONLY KBFF 240753Z AUTO 30021G27KT 10SM BKN090 OVC110 03/01 A3031 RMK AO2 PK WND 31028/0709 SLP249 T00330011 $ CXAF 240700Z AUTO 16005KT 03/M02 RMK AO1 T00271023 TUPJ 232300Z 11009KTKT 10SM SCT018 26/20 A3003 RMK Q1017 CXAG 240700Z AUTO 18007KT 03/M00 RMK AO1 T00331003 CWIP 240800Z AUTO 28002KT 04/ RMK AO1 T0037 KAOH 240753Z AUTO 11007KT 10SM OVC065 11/09 A3006 RMK AO2 SLP179 T01110089 KANQ 240755Z AUTO 11006KT 10SM BKN018 OVC048 11/08 A3007 RMK AO2 TSNO CWJH 240800Z AUTO 00000KT M04/ RMK AO1 SOG 12 8000 SLP286 T1035 KBFI 240753Z 00000KT 10SM CLR 12/04 A3023 RMK AO2 SLP238 T01170039 402000056 OPLA 240755Z 24005KT 6000 NSC 38/13 Q1007 A29.75 BECMG 8000 CWJI 240800Z AUTO 35002KT M01/M06 RMK AO1 SLP324 T10101056 53000 KAPA 240753Z 02007KT 10SM SCT009 BKN014 OVC033 03/02 A3032 RMK AO2 SLP238 T00280017 PHBK 240756Z AUTO 09003KT 10SM CLR 20/16 A3011 RMK AO2 SLP197 T02000156 CXBA 240700Z AUTO 19010KT 04/M03 RMK AO1 T00371032 CXAJ 240700Z AUTO 22005KT 04/M03 RMK AO1 T00421026 CWIS 240800Z AUTO 25004KT 05/M08 RMK AO1 SOG 122 7000 SLP224 T00481081 EEKA 240750Z 23009KT 9999 SCT013 10/06 Q1002 CXAK 240700Z AUTO 19009KT 05/M01 RMK AO1 T00451010 KBFL 240754Z AUTO 20004KT 10SM CLR 21/M02 A2995 RMK AO2 SLP137 T02111022 403440172 KAPC 240754Z AUTO 21003KT 9SM CLR A3000 RMK AO2 SLP152 $ KBFM 240753Z AUTO 26004KT 10SM CLR 14/12 A2997 RMK AO2 SLP147 T01440122 KBGD 240751Z AUTO 13004KT 10SM CLR 13/06 A3005 RMK AO2 SLP150 T01330061 CWKD 240700Z AUTO 19006KT 06/M04 RMK AO1 SLP161 T00611044 56010 KANW 240755Z AUTO 31012G15KT 10SM SCT008 SCT060 OVC075 10/09 A3015 RMK AO2 P0002 T00970091 KBGE 240755Z AUTO 27004KT 10SM 17/15 A2992 RMK AO2 KD73 240750Z AUTO 00000KT 10SM OVC004 17/16 A2984 RMK AO2 T01690165 CWIW 240800Z AUTO 25007KT 01/M03 RMK AO1 SLP306 T00091032 51000 KAPF 240753Z AUTO 22008KT 9SM SCT012 25/24 A2994 RMK AO2 SLP138 T02500244 KAOO 240753Z AUTO 18011KT 10SM -RA OVC080 10/01 A3029 RMK AO2 SLP256 P0000 T01000011 EEKE 240750Z 23006KT 200V270 9999 FEW038 08/06 Q1004 KBGF 240755Z AUTO 00000KT 4SM BR OVC003 13/13 A2986 RMK A01 DNJO 231100Z 24010KT 9999 SCT009 27/20 Q1019 KAPG 231758Z 13006KT 10SM BKN200 20/01 A3042 RMK AO2A SLP304 T01980007 10199 20097 57010 $ CWJO 240700Z AUTO 07002KT 03/M06 RMK AO1 SLP213 T00321059 57010 NZCH 240800Z AUTO 07010KT 9999 NCD 13/09 Q1016 NOSIG NZCI 240800Z 28007KT 20KM BKN230 13/05 Q1017 RMK AUTO NZNR VATSIM USE ONLY CWKG 240800Z AUTO 30002KT M00/M04 RMK AO1 SLP295 T10021044 56000 CWIZ 240800Z AUTO 17007KT 05/M02 RMK AO1 T00451022 CWKH 240800Z AUTO 11/M04 RMK AO1 SLP236 T01111043 53000 CWJR 240800Z AUTO 26002KT 06/M03 RMK AO1 SLP321 T00621034 52010 CXBI 240800Z AUTO 30002KT 03/M01 RMK AO1 SLP221 T00261014 57000 CXCA 240800Z AUTO 02002KT M01/M02 RMK AO1 SLP213 T10081021 50010 KBHB 240756Z AUTO 21008KT 10SM CLR 04/01 A3036 RMK AO2 SLP284 T00440011 $ NZCM 240555Z 00000KT 9999 SKC M22/M36 A2905 RMK SLP843 CWKK 240700Z AUTO 31005KT 01/M00 RMK AO1 SOG 26 1010 SLP214 T00121003 CXAT 240700Z AUTO 14009KT M23/M26 RMK AO1 SOG 05 4000 SLP087 T12261256 CXBK 240800Z AUTO 25009KT M03/M06 RMK AO1 SLP306 T10261063 52000 CWJT 240800Z AUTO 00000KT M02/M03 RMK AO1 SLP239 T10221034 58010 CWLB 240800Z AUTO 22005KT 06/M04 RMK AO1 SOG 02 7000 SLP247 T00591042 KBHC 240755Z AUTO 00000KT 10SM CLR 17/17 A2987 RMK AO2 EDTL 240750Z 19008KT 150V220 CAVOK 17/13 Q1020 KBGM 240753Z AUTO 17006KT 10SM CLR 07/M02 A3030 RMK AO2 SLP263 T00721022 CXCD 240700Z AUTO 21008KT 06/M04 RMK AO1 T00601044 CWJV 240800Z AUTO 09007KT 06/M02 RMK AO1 SLP292 T00621015 53000 CWKM 240800Z AUTO 09027KT M17/ A2983 RMK SLP109 KAPN 240754Z AUTO 00000KT 10SM CLR 01/M02 A3013 RMK AO2 SLP207 T00111017 KBFW 240755Z AUTO 02004KT 10SM CLR 09/M02 A3011 RMK AO2 DNKN 240700Z 23018KT CAVOK 31/22 Q1014 NOSIG CWLE 240800Z AUTO 00000KT M00/M03 RMK AO1 SLP314 T10011030 51000 CWJW 240800Z AUTO 18003KT M03/M08 RMK AO1 SOG 03 1000 SLP309 T10301078 VCRI 240710Z 19006KT 130V220 9999 BKN018TCU FEW020CB 33/26 Q1009 NOSIG NE/W CXBO 240800Z AUTO 24003KT RMK AO1 CWJX 240800Z AUTO 18007KT M00/M05 RMK AO1 SOG 02 0000 SLP305 T10041046 CWKO 240800Z AUTO 27003KT 01/M06 RMK AO1 SLP328 T00071059 51000 UMII 240800Z 15005MPS 9000 SCT046 OVC100 07/00 Q1009 R23/290050 TEMPO 2000 RA BKN005 UNAA 240800Z 26007MPS 200V300 CAVOK 22/01 Q1014 R20/190060 NOSIG RMK QFE738 CWKP 240800Z AUTO 11008KT M16/ A2998 RMK SLP197 CXCH 240700Z AUTO M01/M05 RMK AO1 T10071054 KBGR 240753Z 19009KT 10SM FEW200 06/M03 A3033 RMK AO2 SLP268 T00561028 CXBR 240700Z AUTO 31009KT 01/M06 RMK AO1 T00051057 CWLI 240800Z AUTO 06010KT ////SM //// NCD M19/M20 A2995 KARA 240753Z AUTO 00000KT 10SM CLR 14/12 A3001 RMK AO2 SLP160 T01390117 KAPS 240755Z AUTO 00000KT 10SM CLR 16/11 A2999 RMK AO2 T01550113 KARB 240753Z AUTO 10005KT 10SM BKN039 OVC049 13/07 A3012 RMK AO2 SLP198 T01330072 KBHK 240751Z AUTO VRB03KT 10SM FEW006 SCT055 OVC070 01/01 A3044 RMK AO2 UPB19E29 SLP322 P0002 T00110006 CXDB 240700Z AUTO 20009KT M00/M06 RMK AO1 T10011060 CXCK 240800Z AUTO 12004KT 02/M05 RMK AO1 SOG 18 1010 SLP122 T00181047 NZDN 240800Z 24010KT 37KM SCT028 SCT034 BKN044 11/08 Q1016 RMK SWAMPY 25014KT AU KBHM 240753Z 27007KT 10SM SCT050 13/12 A2991 RMK AO2 SLP125 T01330122 KBID 240756Z AUTO 20010KT 10SM CLR 06/03 A3044 RMK AO2 SLP311 T00610033 CWLM 240800Z AUTO 05003KT 09/04 RMK AO1 SLP245 T00890038 52000 KBIE 240755Z AUTO 00000KT 10SM CLR 06/01 A3012 RMK AO2 T00560009 CXBW 240700Z AUTO 19007KT 02/M02 RMK AO1 T00151024 CWME 240700Z AUTO 09001KT 08/05 RMK AO1 SLP268 T00780049 50000 CXDE 240700Z AUTO 25002KT M05/M09 RMK AO1 SLP129 T10501088 58010 KBIF 240658Z AUTO 00000KT 9SM CLR 20/M04 A3001 RMK AO2 SLP103 T01981044 402960094 $ CWKW 240800Z AUTO ///// A2966 EDVE 240750Z 25011KT 9999 SCT042 BKN048 OVC061 12/07 Q1014 KAQO 240755Z AUTO 00000KT 10SM CLR 16/09 A3007 RMK AO2 CWKX 240800Z AUTO 21008KT 01/M00 RMK AO1 SLP226 T00101002 53000 KAQP 240751Z AUTO 00000KT 10SM CLR 07/05 A3015 RMK AO2 KD95 240755Z AUTO 00000KT 10SM SCT075 OVC110 13/06 A3015 RMK AO2 T01250062 KARG 240756Z AUTO 34008KT 7SM CLR 12/12 A2994 RMK AO2 SLP139 T01220117 KAPY 240715Z AUTO 00000KT 10SM CLR 20/13 A3001 RMK AO2 T02070139 OPNH 240800Z 13506KT 6000 NSC 44/05 Q1007 NOSIG CXCP 240700Z AUTO 11003KT 01/M02 RMK AO1 T00051015 CWLP 240800Z AUTO 27010KT 09/06 RMK AO1 SLP259 T00880063 58000 EDTY 240750Z 24009KT 210V270 9999 FEW020 16/11 Q1019 KBIH 240756Z AUTO 35011KT 10SM CLR 16/M07 A3008 RMK AO2 SLP142 T01611067 402940078 UNBB 240800Z VRB01MPS CAVOK 15/06 Q1016 R06/CLRD66 NOSIG RMK QFE739 KAQR 240755Z AUTO 00000KT 10SM CLR 08/08 A3004 RMK AO2 CXDI 240800Z AUTO 04001KT 09/03 RMK AO1 SLP213 T00890028 56000 OPMT 240755Z 18006KT 3500 HZ FEW120 39/06 Q1006 NOSIG KBIJ 240755Z AUTO 00000KT 10SM CLR 15/12 A2992 RMK AO2 CXCS 240700Z AUTO 22008KT 01/M03 RMK AO1 T00121029 CXEA 240800Z AUTO 26003KT M00/M02 RMK AO1 SLP239 T10021021 50000 CWMJ 240800Z AUTO 00000KT 02/M07 RMK AO1 SLP225 T00211066 56010 CWLS 240800Z AUTO 20001KT 06/M02 RMK AO1 SLP222 T00641024 55000 EDVK 240750Z 22009KT CAVOK 12/07 Q1016 CXDK 240700Z AUTO 09/M02 RMK AO1 SLP116 T00851019 56000 KBIL 240753Z 22008KT 10SM SCT110 02/01 A3049 RMK AO2 SLP354 T00170011 KBJC 240752Z AUTO 03007KT 3SM -RA SCT014 OVC024 02/00 A3033 RMK AO2 KE11 240755Z AUTO 16005KT 10SM CLR 14/03 A3004 RMK AO2 T01410032 CXEC 240800Z AUTO 21006KT 06/M01 RMK AO1 SOG 01 8000 SLP256 T00601010 CWNC 240800Z AUTO 06001KT 06/M01 RMK AO1 SLP222 T00601008 55000 KAQV 240756Z AUTO 00000KT 10SM CLR 12/11 A2998 RMK AO2 SLP152 T01220111 KASD 240753Z AUTO 00000KT 10SM CLR 12/11 A2997 RMK AO2 SLP150 T01170106 KCAD 240755Z AUTO 31003KT 10SM CLR 03/00 A3010 RMK AO2 T00380002 KARM 240755Z AUTO 00000KT 10SM CLR 14/13 A3004 RMK AO2 T01380126 CWND 242017Z M01/M01 RMK SOG 07 6010 T10071007 DNMM 240700Z 21004KT 9999 SCT011 28/26 Q1013 NOSIG CWMM 240800Z AUTO 12001KT 07/04 RMK AO1 SLP249 T00670044 53000 KASE 240805Z AUTO 02005KT 9SM -RA BKN022 OVC031 05/02 A3029 RMK AO2 P0001 T00500017 KAQW 240752Z AUTO 11010KT 10SM CLR 05/M04 A3037 RMK AO2 SLP286 T00501044 KCAE 240807Z 08009KT 1SM +TSRA BR OVC005CB 18/18 A2988 RMK AO2 ONCL LTGIC OHD MOV E TS OHD MOV E P0019 T01780178 RVRNO DNMN 231500Z 21011KT 9999 SCT014 36/22 Q1004 CWNE 240800Z AUTO 23018KT 04/M02 RMK AO1 PK WND 23020/0748 SLP228 T00421023 58010 KAQX 240755Z AUTO 00000KT 6SM BR BKN007 20/20 A2985 RMK AO2 KASG 240148Z 03006KT 10SM BKN070 18/07 A3001 VEBI 240630Z 32004KT 5000 HZ FEW020 26/15 Q1014 KCAG 240753Z AUTO 24010KT 10SM CLR 04/00 A3027 RMK AO2 SLP210 T00390000 KASH 240756Z AUTO 00000KT 10SM CLR 03/M03 A3039 RMK AO2 SLP303 T00281033 CXDP 240700Z AUTO 15004KT 04/M00 RMK AO1 T00401001 CXEG 240700Z AUTO 02/00 RMK AO1 T00170000 CWLY 240800Z AUTO 14002KT 9SM CLR 07/00 A3034 RMK SLP277 KE16 240755Z AUTO 13006KT 9SM OVC005 10/09 A3006 RMK AO2 UMKK 240800Z 26008MPS 9999 SCT019 11/06 Q1011 R24/CLRD60 NOSIG RMK QFE757/1009 CWMQ 240800Z AUTO 20002KT 01/M05 RMK AO1 SLP320 T00101052 58000 CWNH 240800Z AUTO 18005KT 05/M07 RMK AO1 SOG 25 6010 SLP219 T00531068 VEAT 240800Z 00000KT 6000 FEW020 SCT100 34/24 Q1007 NOSIG ZSHC 240800Z 01006MPS 330V030 9999 BKN030 18/13 Q1015 NOSIG KARR 240752Z AUTO 05004KT 10SM OVC060 11/01 A3005 RMK AO2 SLP175 T01060011 PFWS 240756Z AUTO 13021G27KT 10SM FEW020 OVC060 04/02 A2934 RMK AO2 PK WND 14028/0737 SLP942 T00390017 KBJI 240755Z AUTO 32005KT 10SM BKN110 03/M02 A3019 RMK AO2 T00311016 KBIS 240752Z AUTO 01018G23KT 8SM RA OVC027 05/02 A3034 RMK AO2 PK WND 02027/0741 SLP281 P0010 T00500022 KBJJ 240756Z AUTO 12008KT 10SM OVC050 12/07 A3013 RMK AO2 SLP201 T01220067 KASJ 240755Z AUTO 07005KT 10SM SCT095 OVC110 14/09 A3017 RMK AO2 T01360094 VECC 240800Z 30003KT 4000 HZ FEW020 38/20 Q1006 NOSIG KCAK 240751Z 11009KT 10SM BKN050 OVC065 13/05 A3014 RMK AO2 SLP204 T01330050 KART 240756Z AUTO 19006KT 10SM CLR 13/00 A3023 RMK AO2 SLP235 T01330000 KBKB 240754Z AUTO 00000KT 10SM CLR 12/12 A2997 RMK AO2 SLP178 T01220117 VEBN 240800Z 30109KT 6000 NSC 39/07 Q1006 NOSIG CWNK 240800Z AUTO 31006KT 02/M01 RMK AO1 T00231014 CWMT 240800Z AUTO 10006KT M01/M05 RMK AO1 SLP111 T10051046 58020 CWOB 240800Z AUTO 02004KT ////SM //// NCD ///// A//// KASL 240755Z AUTO 00000KT 10SM CLR 12/10 A3002 RMK AO1 T01150098 CWNL 240700Z AUTO 08006KT 07/M05 RMK AO1 SLP207 T00741050 56010 CWOC 240800Z AUTO 30003KT M01/M04 RMK AO1 SLP221 T10131041 58010 KBIV 240753Z AUTO 12003KT 10SM FEW026 BKN095 BKN120 12/08 A3010 RMK AO2 SLP191 T01220078 KBKD 240755Z AUTO 14006KT 10SM CLR 15/08 A3005 RMK AO2 T01470080 KARV 240755Z AUTO 00000KT 10SM CLR 00/M03 A3012 RMK AO2 T00041029 CWOD 240800Z AUTO 14002KT 04/M03 RMK AO1 SOG 03 8000 SLP176 T00351031 CWNM 240800Z AUTO 21001KT 03/M00 RMK AO1 SLP316 T00331002 51010 ZSFZ 240800Z 04005MPS 9999 BKN015 OVC050 21/18 Q1011 BECMG TL0900 BKN010 KCBE 240756Z AUTO 13006KT 10SM SCT090 12/01 A3030 RMK AO1 KBKE 240753Z AUTO 13003KT 10SM CLR 02/M03 A3033 RMK AO2 SLP275 T00221033 401780011 TSNO KARW 240755Z AUTO 22005KT 7SM OVC005 19/18 A2986 RMK AO2 KASN 240800Z AUTO 00000KT 10SM SCT065 14/13 A2988 RMK AO2 T01400129 KBKF 240738Z 01012KT 10SM SCT012 BKN033 02/01 A3033 RMK AO2A CXDW 240800Z AUTO 32008KT 02/M02 RMK AO1 SLP281 T00151015 53010 CWOE 240700Z AUTO 23003KT 04/M05 RMK AO1 SLP316 T00361046 55000 KCBF 240755Z AUTO 04007KT 10SM CLR 09/04 A3012 RMK AO2 KCAO 240755Z AUTO 22007KT 10SM CLR 08/05 A3005 RMK AO2 SLP135 T00830050 $ KBIX 240756Z AUTO 31003KT 10SM CLR 13/12 A2996 RMK AO2 SLP148 T01330115 KCBG 240755Z AUTO 36003KT 10SM CLR 06/00 A3013 RMK AO2 VEBS 240800Z 20013KT 6000 NSC 38/23 Q1006 NOSIG CWNP 240800Z AUTO 13001KT 02/M01 RMK AO1 SLP319 T00181014 52010 CWMZ 240700Z AUTO 16008KT 09/M03 RMK AO1 SLP207 T00871032 56000 CWNQ 240800Z AUTO 14003KT 03/M02 RMK AO1 SLP232 T00281022 56000 KCAR 240754Z AUTO 23005KT 10SM CLR 02/M08 A3023 RMK AO2 SLP243 T00171083 KCCA 240815Z AUTO 00000KT 3/4SM BR BKN001 09/08 A2998 RMK AO2 KAST 240755Z AUTO 11006KT 10SM CLR 13/01 A3013 RMK AO2 SLP201 T01330011 402280033 $ KCBK 240755Z AUTO 00000KT 10SM SCT100 09/06 A3016 RMK AO2 KCCB 240755Z AUTO 00000KT 10SM CLR 17/07 A3001 RMK AO2 CXET 240800Z AUTO 17003KT 06/M04 RMK AO1 SLP214 T00581036 58000 KBKL 240753Z 06005KT 10SM OVC060 10/07 A3014 RMK AO2 SLP206 T01000067 KATL 240758Z 24004KT 1SM R09R/P6000FT BR OVC003 16/16 A2983 RMK AO2 SFC VIS 4 TWRINC T01560156 $ EFET 240750Z AUTO 18009KT 130V220 9999 BKN011 03/01 Q0994 CWPC 240800Z AUTO 25009KT 11/03 RMK AO1 SLP227 T01120029 53000 KCBM 240801Z AUTO 24006KT 10SM BKN013 OVC020 15/15 A2989 RMK AO2 CIG 013V017 CIG 010 RWY13C SLP124 $ KCAV 240755Z AUTO 36004KT 10SM OVC032 07/04 A3012 RMK AO2 PWINO CXFM 240700Z AUTO 17008KT 01/M02 RMK AO1 T00111021 CWPD 240800Z AUTO 12001KT M04/M06 RMK AO1 SLP221 T10381063 56010 UMMG 240800Z 27005G08MPS 9999 BKN020 BKN200 13/08 Q1010 R35/CLRD// NOSIG KBKN 240755Z AUTO 33004KT 10SM FEW041 BKN050 OVC055 10/10 A3009 RMK AO2 KASW 240755Z AUTO 09006KT 10SM SCT028 SCT040 OVC047 10/08 A3005 RMK AO2 CWPE 240800Z AUTO 17003KT 03/02 RMK AO1 SLP278 T00330016 57000 KASX 240753Z AUTO 29003KT 10SM CLR 05/M01 A3013 RMK AO2 SLP206 T00501011 KBLF 240752Z AUTO 10017G35KT 060V140 10SM OVC009 08/06 A3004 RMK AO2 PK WND 10035/0752 RAE48 CIG 008V013 SLP165 P0001 T00780056 KAUG 240753Z AUTO 19003KT 10SM CLR 03/M01 A3034 RMK AO2 SLP277 T00281011 CWPF 240800Z AUTO 02002KT 08/04 RMK AO1 SLP242 T00750040 53000 KATP 240755Z AUTO 31012KT 10SM FEW029 22/15 A3000 RMK A01 PHHI 240801Z AUTO 06006KT 10SM -DZ SCT032 BKN040 21/19 A3012 RMK AO2 RAE0758DZB01 SLP191 $ KBLH 240752Z AUTO 17009KT 10SM CLR 25/03 A2987 RMK AO2 SLP108 T02500028 403670172 KAUH 240755Z AUTO 00000KT 10SM OVC090 12/02 A3013 RMK AO2 T01220017 NZGS 240800Z 34004KT 20KM NCD 13/08 Q1017 RMK AUTO VATSIM USE ONLY CXGH 240800Z AUTO 32002KT M00/M03 RMK AO1 T10021034 CWNZ 240800Z AUTO 26002KT 01/M03 RMK AO1 SOG 41 1010 SLP198 T00071028 KBLI 240753Z AUTO 00000KT 10SM CLR 07/06 A3026 RMK AO2 SLP254 T00720056 401890011 OPPS 240800Z 13006KT 5000 HZ SCT200 33/11 Q1009 NZHK 240800Z 10002KT 20KM SCT016 BKN021 OVC032 11/10 Q1020 RMK AUTO VATSIM USE O ULWC 240800Z 25002MPS CAVOK 05/M09 Q1012 R03/150060 NOSIG RMK QFE749/0999 CXFR 240700Z AUTO 22007KT 05/M05 RMK AO1 T00531050 KATS 240755Z AUTO VRB04KT 10SM CLR 15/M02 A3001 RMK AO2 KE38 240755Z AUTO 24003KT 10SM CLR 17/04 A3015 RMK AO2 T01700042 KBKS 240755Z AUTO 00000KT 10SM CLR 17/13 A3000 RMK AO1 T01650128 KCDA 240755Z AUTO 00000KT 10SM CLR 04/M07 A3033 RMK AO2 T00351068 UMMM 240800Z 20002MPS 9999 FEW020 BKN100 09/05 Q1009 RMK QFE736 CXHA 240800Z AUTO 08002KT 11/07 RMK AO1 SLP194 T01060067 58010 EFHA 240750Z 13009KT 9999 FEW012 BKN044 04/02 Q0999 KATT 240751Z AUTO 00000KT 10SM CLR 18/11 A3006 RMK AO2 SLP167 T01780106 PFYU 240756Z AUTO 03005KT 10SM OVC110 M03/M08 RMK AO2 SLPNO T10281083 FZRANO $ KBKT 240755Z AUTO 06006KT 10SM BKN080 OVC110 12/08 A3020 RMK AO1 T01220075 UNEE 240800Z 12003MPS 080V180 CAVOK 08/03 Q1017 R23/CLRD60 NOSIG RMK QFE740 CWPK 240800Z AUTO 21003KT 04/M07 RMK AO1 SOG 56 6000 SLP213 T00381073 KCDC 240753Z AUTO 13003KT 10SM CLR 07/02 A3017 RMK AO2 SLP164 T00720017 KAVC 240755Z AUTO 00000KT 10SM SCT043 BKN049 OVC065 12/09 A3023 RMK AO2 P0002 T01170092 KBMC 240755Z AUTO 23005KT 10SM CLR 07/00 A3025 RMK AO1 T00690002 NZHN 240800Z 25006KT 49KM BKN060 13/10 Q1020 RMK AUTO VATSIM USE ONLY KBKV 240803Z AUTO 25005KT 10SM SCT023 19/18 A2995 RMK AO2 T01940183 $ KCDD 240751Z AUTO 00000KT 10SM CLR M03/M04 A3020 RMK AO2 KAUM 240755Z AUTO 00000KT 7SM CLR 05/03 A3012 RMK AO2 KBLM 240756Z AUTO 10004KT 10SM CLR 04/03 RMK AO2 RAB22E37 SLPNO P0000 T00440033 $ CXHD 240800Z AUTO 20009KT 02/M00 RMK AO1 T00241001 KBKW 240751Z AUTO 12021G33KT 10SM BKN019 OVC033 09/07 A3005 RMK AO2 PK WND 12033/0747 RAE15 SLP174 P0000 T00940067 TSNO KAUN 240755Z AUTO 11005KT 10SM CLR 17/08 A3000 RMK AO1 KATW 240755Z AUTO 01005KT 10SM CLR 07/M03 A3010 RMK AO2 EDXW 240750Z 24018KT 9999 BKN041 09/07 Q1008 KAUO 240756Z AUTO 25004KT 10SM CLR 13/12 A2989 RMK AO2 SLP138 T01280117 KBKX 240756Z AUTO 05003KT 10SM OVC100 09/05 A3015 RMK AO2 SLP225 T00940050 KCCO 240755Z AUTO 00000KT 10SM OVC012 16/14 A2985 RMK AO2 T01550135 DNPO 240700Z 00000KT 8000 SCT009 24/23 Q1011 NOSIG CXHF 240800Z AUTO 00/M02 RMK AO1 T00001023 CWPO 240800Z AUTO 33003KT 01/M03 RMK AO1 SLP292 T00061028 53010 KBMG 240753Z AUTO 09007KT 10SM FEW024 OVC029 12/10 A2996 RMK AO2 SLP143 T01170100 KATY 240753Z AUTO 19003KT 10SM OVC100 09/05 A3015 RMK AO2 SLP210 T00940050 CWOY 240800Z AUTO 23005KT 02/M03 RMK AO1 SLP306 T00201032 51000 UMMS 240800Z 15002MPS CAVOK 08/06 Q1009 R13/290055 NOSIG KCDH 240755Z AUTO 00000KT 7SM CLR 12/11 A2998 RMK AO2 NZHS 240800Z 28007KT 20KM BKN230 13/05 Q1017 RMK AUTO NZNR VATSIM USE ONLY CWQH 240800Z AUTO 05005KT M00/M03 RMK AO1 T10041026 KCCR 240753Z AUTO 17004KT 10SM CLR 14/09 A2999 RMK AO2 SLP142 T01390094 403060122 KBMI 240756Z AUTO 04010KT 1/4SM R20/1400FT FG OVC002 11/10 A3003 RMK AO2 SLP189 T01060100 $ KCDI 240755Z AUTO 06006KT 10SM -DZ SCT055 SCT075 OVC090 13/09 A3012 RMK AO2 T01270085 NZHT 240800Z 23004KT 170V290 50KM NCD 11/01 Q1017 RMK AUTO NZQN VATSIM USE ONLY CWPR 240800Z AUTO 32005KT 03/M04 RMK AO1 SLP292 T00271035 51010 KBNA 240753Z 03004KT 10SM FEW003 OVC013 14/13 A2988 RMK AO2 SLP115 T01390128 $ KAUS 240753Z 00000KT 10SM CLR 12/11 A3004 RMK AO2 SLP168 T01220111 $ KCDJ 240752Z AUTO 34003KT 09/M01 A3006 RMK AO1 SLP176 T00891011 CWPS 240700Z AUTO 16011KT 11/02 RMK AO1 PK WND 15018/0609 SLP215 T01100015 56000 CWRA 240800Z AUTO 26014KT RMK AO1 PK WND 25017/0743 50000 KAVK 240755Z AUTO 25005KT 10SM FEW042 SCT050 OVC060 11/08 A3007 RMK AO2 CXIB 240800Z AUTO 25006KT 06/M08 RMK AO1 SLP253 T00551082 57000 CWQK 240800Z AUTO 08011KT 11/04 RMK AO1 SLP243 T01080037 51000 KBML 240752Z AUTO 00000KT 10SM CLR M04/M06 A3032 RMK AO2 SLP277 I1000 T10391056 KBLU 240752Z AUTO 05003KT 10SM CLR 13/M05 A3016 RMK AO2 SLP146 T01281050 401940094 EFHK 240750Z 18005KT 9000 SCT003 BKN006 07/06 Q1001 TEMPO BKN003 KAVL 240754Z AUTO 25005KT 3SM +RA BR BKN015 OVC021 11/10 A2995 RMK AO2 SLP131 P0007 T01110100 KCEC 240756Z AUTO 17004KT 10SM CLR 12/09 A2998 RMK AO2 SLP153 T01170094 402280078 KBLV 240801Z 35006KT 6SM -RA BR OVC004 13/12 A2995 RMK AO2 CIG 003 RWY32R SLP144 $ EEPU 240750Z 20008KT 170V230 3600 BR BKN004 OVC009 07/06 Q1004 OPRN 240800Z 18006KT CAVOK 33/11 Q1010 NOSIG RMK A2984 CXHM 240800Z AUTO 00000KT 05/01 RMK AO1 SLP217 T00540013 55000 PGRO 240750Z 10009KT 7SM SCT012 SCT100 27/24 A2976 KAUW 240754Z AUTO 00000KT 10SM CLR 02/M02 A3010 RMK AO2 SLP203 T00171022 KCDN 240755Z AUTO 00000KT 4SM -DZ FEW005 BKN012 OVC031 17/16 A2993 RMK AO2 P0001 KCEF 240656Z AUTO 00000KT 10SM CLR 02/M02 A3039 RMK AO2 SLP298 T00201020 PHJH 240350Z 04012G20KT 7SM RA SCT020 SCT035 BKN050 22/21 A3004 RMK LAST CWQO 240800Z AUTO 22018KT 05/M02 RMK AO1 PK WND 22021/0734 T00541021 CWPX 240800Z AUTO ///// ////SM //// NCD M23/M26 A2996 CWRF 240800Z AUTO 28015KT M22/ A2976 RMK SLP130 KCCY 240755Z AUTO 00000KT 10SM BKN120 07/02 A3012 RMK AO2 KAVP 240754Z 00000KT 10SM CLR 09/M04 A3034 RMK AO2 SLP273 T00941044 KAWG 240755Z AUTO 03006KT 10SM CLR 08/M00 A3008 RMK AO2 CWQP 240800Z AUTO 17012KT 06/03 RMK AO1 SLP235 T00550028 53000 KBMQ 240753Z AUTO 11004KT 10SM CLR 17/09 A3007 RMK AO2 SLP168 T01720094 $ KAVQ 240755Z AUTO 13003KT 10SM CLR 20/M06 A2998 RMK AO2 T01981056 CWPZ 240800Z AUTO 00000KT 01/M02 RMK AO1 SOG 12 6000 SLP262 T00091023 CWRH 240800Z AUTO ///// M13/ A2971 RMK SLP105 KCDR 240753Z AUTO 31019G26KT 10SM OVC033 03/01 A3031 RMK AO2 PK WND 31027/0736 SLP266 T00330011 CXHR 240700Z AUTO 21011KT 04/M03 RMK AO1 T00431033 CWQR 240800Z AUTO 21014KT 02/ RMK AO1 T0023 KCDS 240753Z AUTO 13007KT 10SM CLR 13/06 A3005 RMK AO2 SLP158 T01330061 KAXA 240755Z AUTO 33005KT 10SM CLR 07/04 A3014 RMK AO2 PWINO OPSK 240800Z 23004KT 5000 HZ NSC 43/07 Q1006 NOSIG CWQS 240700Z AUTO 00000KT 08/08 RMK AO1 SLP254 T00770075 51010 CWRJ 240800Z AUTO 23007KT 03/M03 RMK AO1 SOG 02 0000 SLP299 T00261033 CWSA 240800Z AUTO 22007KT 9SM CLR 04/03 A3041 RMK TS/LTNG TEMPO UNAVBL SLP300 EGAA 240750Z 22010KT 9999 FEW009 09/07 Q1009 KBMT 240755Z AUTO 00000KT 10SM CLR 14/13 A3003 RMK AO2 T01370126 CYAB 232200Z 24008KT 220V300 10SM FEW004 FEW016 BKN025 BKN090 M20/M24 A2980 RMK ST1SC1SC4AC1 -20.2/-23.6/0.1/SNW CVR/MUCH LOOSE/LAST STFD OBS/NEXT 241100Z/ CIG ESTD SLP095 CWRK 240800Z AUTO 00000KT M02/M04 RMK AO1 SOG 01 7010 SLP228 T10211035 KBNL 240755Z AUTO 00000KT 8SM OVC004 19/19 A2986 RMK AO2 ORBD 240755Z VRB05KT 9999 CLR 25/11 A3003 RMK WND DATA ALSTG ESTMD UMOO 240800Z 15005MPS 9000 -SHRA SCT050CB OVC/// 08/03 Q1009 R13/CLRD// NOSIG KAWM 240753Z AUTO 00000KT 5SM BR BKN003 BKN009 OVC021 13/13 A2992 RMK AO2 SLP131 T01280128 $ EGAC 240750Z AUTO 23009KT 9999 BKN016/// 10/07 Q1009 PGSN 240754Z 10010KT 10SM FEW014 SCT022 28/26 A2976 RMK AO2 SLP098 T02830256 KCFD 240755Z AUTO 19003KT 10SM CLR 14/14 A3007 RMK AO2 T01380138 CWSD 240700Z AUTO 22011KT 02/M00 RMK AO1 SLP255 T00241002 57000 CWQV 240800Z AUTO 09002KT M00/ RMK AO1 T1002 CWRM 240800Z AUTO 00000KT M02/M02 RMK AO1 SLP280 T10181015 55000 KCDW 240753Z AUTO 00000KT 10SM CLR 04/02 A3041 RMK AO2 SLP302 T00440017 KCFE 240755Z AUTO 00000KT 10SM CLR 05/03 A3013 RMK AO2 T00530030 CWRN 240800Z AUTO 25007KT 02/01 RMK AO1 SLP281 T00220005 55000 KBNO 240753Z AUTO 28005KT 10SM CLR M01/M06 A3030 RMK AO2 SLP265 T10111056 401671072 KAVX 240751Z AUTO 02003KT 10SM CLR 18/04 A3003 RMK AO2 SLP144 T01780039 402390156 KAWO 240756Z AUTO 00000KT 10SM CLR 06/03 A3026 RMK AO2 SLP253 T00560033 401890000 EGAE 240750Z 23011KT 9999 FEW017 SCT037 11/07 Q1008 CWRO 240800Z AUTO 17011KT 08/07 RMK AO1 3010 PK WND 17017/0712 SLP254 T00780072 50002 CWSF 240800Z AUTO 22007KT 12/M09 RMK AO1 SOG 12 6020 PK WND 19019/0702 SLP178 T01191091 NZKI 240800Z 00000KT 20KM NCD 07/06 Q1017 RMK AUTO NZWB VATSIM USE ONLY ORBI 240800Z 33006KT 270V010 9999 R33R/0450N NSC 26/10 Q1017 NOSIG CWSG 240800Z AUTO 19009KT 07/M07 RMK AO1 SLP192 T00681072 56010 PHJR 240753Z 06007KT 10SM BKN049 23/19 A3011 RMK AO2 SLP203 T02330189 KAXH 240755Z AUTO 00000KT 10SM CLR 12/12 A3004 RMK AO2 T01230120 CYAH 240800Z AUTO 26013G21KT 9SM OVC012 03/02 A2979 RMK ICG MISG SLP105 KBOI 240753Z 13010KT 10SM CLR 09/03 A3028 RMK AO2 SLP247 T00940033 PGUA 240756Z 09011KT 10SM SCT009 BKN014 27/24 A2977 RMK AO2A CIG 007 RWY24L SLP071 T02730243 $ NZKK 240800Z 21003KT 20KM BKN060 OVC160 15/09 Q1022 RMK AUTO VATSIM USE ONLY OPST 240800Z 23010KT 7000 NSC 36/11 Q1007 NOSIG RH22 KCFJ 240755Z AUTO 05005KT 10SM SCT011 BKN033 OVC039 10/10 A2999 RMK AO2 T00950095 CXKA 240800Z AUTO 22005KT 01/M04 RMK AO1 SOG 38 0010 SLP181 T00101044 KBOK 240756Z AUTO 14003KT 10SM CLR 14/06 A2998 RMK AO2 SLP163 T01440061 402720133 CYBB 240800Z 23014KT 2 1/4SM -SN SKC M20/M23 A2993 RMK SN3 SLP138 CWSK 240800Z AUTO 02001KT 07/03 RMK AO1 SLP262 T00710026 51000 CWRT 240800Z AUTO 00000KT M04/M05 RMK AO1 T10411049 EGBB 240750Z 24007KT 180V270 9999 -DZ NSC 10/07 Q1014 KCEU 240754Z AUTO 06007KT 4SM BR OVC004 13/13 A2990 RMK AO2 SLP120 T01330133 KCGC 240755Z AUTO 27007KT 10SM BKN018 BKN026 21/18 A2993 RMK AO2 KBPC 240755Z AUTO 15007KT 10SM CLR 12/06 A3005 RMK AO2 CWRU 240700Z AUTO 01018KT 09/06 RMK AO1 PK WND 35020/0629 SLP243 T00890055 58000 CWSL 240800Z AUTO 16001KT 04/M00 RMK AO1 SLP302 T00381003 52010 CYBC 240800Z AUTO 24006KT 9SM OVC140 02/M02 A3009 RMK SLP193 CYBD 240100Z 27015G22KT 15SM BKN190 OVC220 17/01 A3027 RMK AS5CS3 HZ HALO LAST STFD OBS/NEXT 241300UTC/ SLP253 VDPP 240800Z 18015G26KT 9999 SCT015 FEW017CB 32/24 Q1004 CB CYAM 240800Z 08004KT 15SM SCT230 01/M05 A3013 RMK CI4 SLP209 KCGE 240755Z AUTO 10008KT 10SM FEW030 BKN042 11/03 A3032 RMK A01 KCEW 240753Z AUTO 00000KT 10SM CLR 11/10 A2995 RMK AO2 SLP140 T01110100 KAXN 240753Z AUTO 02004KT 10SM CLR 08/01 A3016 RMK AO2 SLP217 T00830006 PHKO 240753Z 14006KT 10SM FEW050 SCT065 26/17 A3003 RMK AO2 SLP168 T02560167 EFIV 240750Z AUTO 19012KT 9999 SCT021 BKN041 BKN096 05/01 Q0996 KBNW 240755Z AUTO 34007KT 10SM CLR 07/04 A3011 RMK AO2 KCGF 240245Z 24005KT 10SM BKN070 OVC100 13/07 A3021 CXKE 240800Z AUTO 19004KT 09/M04 RMK AO1 SLP225 T00891035 56010 EFKE 240750Z AUTO 15013KT 110V190 9999 BKN043 05/M04 Q0998 CWRX 240800Z AUTO VRB03KT ////SM //// ////// M22/M24 A2991 EFJO 240750Z 13009KT 100V170 CAVOK 04/M06 Q1005 KBPG 240755Z AUTO 12011KT 10SM CLR 18/04 A3004 RMK AO2 T01810040 KCEY 240755Z AUTO 31003KT 1 3/4SM 12/12 A2991 RMK AO1 CWTG 240800Z AUTO 25018KT 01/M01 RMK AO1 PK WND 25019/0753 SLP191 T00141010 57010 CWRY 240800Z AUTO 21009KT 02/M03 RMK AO1 SOG 02 6000 SLP314 T00151031 CYBG 240800Z 09004KT 25SM SCT240 03/M04 A3013 RMK CI3 SLP209 ZSNB 240800Z 33005MPS 300V010 8000 BKN020 17/12 Q1014 NOSIG KCEZ 240753Z AUTO 11004KT 10SM CLR 09/M07 A3012 RMK AO2 SLP138 T00891072 PHLI 240753Z 06016KT 10SM SCT020 23/20 A3015 RMK AO2 SLP206 LAST T02330200 VEGT 240800Z 36010KT 5000 HZ FEW020 SCT100 31/25 Q1007 NOSIG CWRZ 240800Z AUTO 26009KT 01/M04 RMK AO1 SLP202 T00121042 58010 KBPI 240753Z AUTO 21012KT 10SM OVC049 M02/M05 A3033 RMK AO2 SLP242 T10171050 KCGI 240753Z AUTO 01006KT 8SM FEW008 OVC016 14/13 A2992 RMK AO2 SLP131 T01390128 CXKI 240800Z AUTO 03/M07 RMK AO1 SOG 12 8000 SLP199 T00291071 CWSR 240800Z AUTO 23006KT 04/M05 RMK AO1 SLP273 T00361050 53000 KCHA 240753Z AUTO 03004KT 10SM OVC004 14/13 A2986 RMK AO2 RAE0657 SLP107 P0000 T01390128 $ EFKI 240750Z AUTO 14010KT 100V180 CAVOK 06/M07 Q1001 KAXS 240755Z AUTO 09005KT 10SM CLR 13/08 A3007 RMK AO2 T01300084 KBOS 240754Z 23006KT 10SM CLR 06/M01 A3041 RMK AO2 SLP296 T00611011 KCFS 240755Z AUTO 22004KT 10SM OVC080 13/06 A3014 RMK AO2 T01300061 NZMC 240800Z 22004KT 1800 HZ SCT250 08/07 Q1017 RMK AUTO NZTU VATSIM USE ONLY CYAS 232100Z 06008KT 15SM OVC120 M09/M13 A2992 RMK AS8 SN COV/HARD PACK LAST STFD OBS/NEXT 241200UTC SLP148 EGBJ 240750Z 22007KT 7000 -RA SCT012 BKN040 11/10 Q1015 CWSS 240800Z AUTO 00000KT M03/M04 RMK AO1 SLP271 T10291040 56010 KBPK 240753Z AUTO 33004KT 10SM CLR 09/09 A2997 RMK AO2 SLP144 T00940094 KE80 240755Z AUTO 25008KT 10SM CLR 13/M11 A3008 RMK AO2 T01271110 CXLB 240800Z AUTO 27006KT 05/M03 RMK AO1 SLP288 T00461030 53000 CWST 240800Z AUTO 08004KT 05/M06 RMK AO1 SLP220 T00521057 56010 CYCB 240800Z 26008KT 10SM -SN SCT100 M22/M25 A3003 RMK AC3 FROIN SLP176 CYAT 240800Z AUTO /////KT 9SM OVC075 01/M02 A3001 RMK WND MISG SLP163 CYBK 240500Z 22006KT 4SM -SN OVC021 M11/M13 A3009 RMK SN1SC7 SLP194 EFKK 240750Z 13012KT 090V190 9999 BKN010 03/02 Q0996 PGUM 240754Z 08010KT 10SM SCT016 BKN023 29/26 A2977 RMK AO2 SLP072 T02940261 KAZC 240755Z AUTO 00000KT 10SM CLR 07/M03 A3012 RMK AO2 CYBL 240400Z 30003KT 30SM BKN240 09/04 A3026 RMK CS7 LAST OBS/NEXT 241300 UTC SLP251 KCHD 240347Z 30003KT 10SM BKN250 29/M05 A2987 RMK LAST KAXV 240659Z AUTO 11009KT 10SM OVC060 12/11 A3006 RMK AO2 CXLC 240700Z AUTO 08005KT M02/M06 RMK AO1 SOG 30 8020 SLP150 T10181057 EGCC 240750Z AUTO 23010KT 9999 NCD 10/06 Q1013 NOSIG KCFV 240752Z AUTO 32003KT 10SM CLR 08/07 A3005 RMK AO2 SLP172 T00830072 NZMF 240800Z 23004KT 170V290 50KM NCD 11/01 Q1017 RMK AUTO NZQN VATSIM USE ONLY CYCD 240400Z 26007KT 30SM SCT250 11/01 A3026 RMK CI4 LAST OBS/NEXT 241300UTC SLP247 KBOW 240435Z AUTO 23003KT 10SM CLR 22/ A2998 RMK AO2 CXKM 240800Z AUTO 19007KT 01/M02 RMK AO1 T00071017 VEGY 240800Z 24012KT 6000 NSC 39/05 Q1006 NOSIG KAZE 240750Z AUTO 24003KT 10SM CLR 18/14 A2986 RMK AO2 T01830141 CWSW 240100Z 20005KT 170V240 20SM SKC 13/M08 A3040 RMK LAST STFD OBS/NEXT 241300Z SLP323 DENSITY ALT 4000FT CYAW 231900Z 19011KT 15SM FEW250 14/M05 A3034 RMK CI1 DA-422FT LAST OBS/NEXT 240900 UTC CI TR SLP275 CWTN 240800Z AUTO 27004KT 03/M02 RMK AO1 SLP231 T00301018 56000 CYBN 240800Z AUTO 00000KT 9SM CLR 01/M03 A3015 RMK SLP216 EETN 240750Z 23010KT 9999 VCSH FEW020CB BKN036 10/06 Q1002 TEMPO 5000 SHRA KAXX 240755Z AUTO 00000KT 10SM CLR M04/M08 A3025 RMK AO2 T10381082 ZSNJ 240800Z 02003MPS 340V060 6000 SCT030 OVC040 18/12 Q1016 NOSIG CYCG 240400Z 02004KT 340V050 15SM SKC 09/M01 A3037 RMK LAST STFD OBS/NEXT 241300Z SLP297 TVSA 240100Z 07013KT 9999 SCT016 BKN034 26/23 Q1015 CYAY 240800Z AUTO 22006KT 9SM FEW160 M00/M03 A3005 RMK SLP180 EFJY 240750Z 16014KT 9999 BKN017 02/M01 Q1000 CYAZ 240100Z 19006KT 15SM SCT200 13/05 A3026 RMK CC4 LAST STFD OBS/NEXT 241300UTC SLP250 CYBQ 240800Z AUTO 24005KT 9SM OVC050 M10/M14 A3024 RMK SLP267 CYBR 240800Z 30009KT 15SM FEW250 M02/M03 A3036 RMK CI1 SLP300 KCGS 240757Z AUTO 09004KT 10SM CLR 11/03 A3032 RMK AO1 T01120026 PHMK 240801Z AUTO 05009G26KT 10SM FEW007 BKN014 BKN018 22/20 A3010 RMK AO2 PK WND 05026/0758 T02220200 TSNO $ KAYS 240755Z AUTO 24008KT 10SM CLR 18/16 A2989 RMK AO2 T01750160 CYDA 232300Z 22007KT 15SM -RA FEW005 OVC050 05/03 A2969 RMK SF1SC8 SF TR SUN DMLY VISBL SLP075 KBPT 240753Z AUTO 00000KT 5SM BR CLR 13/12 A3001 RMK AO2 SLP163 T01280122 EFKS 240750Z AUTO 13011KT CAVOK 04/M04 Q1001 EFMA 240750Z 19011KT 9999 OVC020 06/05 Q0999 KBQK 240755Z AUTO 23007KT 10SM CLR 18/17 A2988 RMK AO2 KF00 240755Z AUTO 31003KT 10SM CLR 11/10 A3003 RMK AO2 T01120099 VEIM 240800Z 33006KT 4000 HZ SCT018 BKN100 29/16 Q1011 NOSIG KCHK 240755Z AUTO 29005KT 10SM CLR 10/09 A3003 RMK AO2 T00980087 CWTT 240800Z AUTO 24001KT M01/M03 RMK AO1 T10051026 CXKT 240800Z AUTO 24001KT 02/M06 RMK AO1 SLP283 T00201064 58000 CYCK 240800Z AUTO 11005KT 9SM OVC070 10/05 A3015 RMK SLP211 CYDB 240800Z AUTO 13014G21KT 9SM SCT140 OVC160 03/M05 A2975 RMK SLP110 ZSOF 240800Z 33004MPS 310V010 5000 HZ BKN026 19/13 Q1017 NOSIG EGCK 240750Z AUTO 21011KT 9999 BKN046/// 10/08 Q1013 EFKT 240750Z AUTO 18008KT 9999 BKN009 BKN056 03/02 Q0997 KCIC 240755Z AUTO 36005KT 10SM CLR 15/07 A2995 RMK AO1 CYDC 240100Z VRB04KT 25SM FEW280 19/M08 A3028 RMK CI1 CI TR LAST STFD OBS/NEXT 24 1300UTC SLP266 DENSITY ALT 3000FT CXLL 240700Z AUTO 22003KT 06/M02 RMK AO1 SOG 45 8010 SLP117 T00611019 CWTU 240800Z AUTO ///// A2981 CYBU 240800Z AUTO 13005KT 9SM CLR 00/M02 A3038 RMK SLP307 KBRD 240753Z AUTO 02004KT 10SM CLR 07/M02 A3015 RMK AO2 SLP213 T00671017 KCID 240752Z AUTO 06008KT 10SM CLR 09/M02 A3007 RMK AO2 SLP182 T00891017 EFKU 240750Z 14011KT 9999 SCT033 OVC080 04/M07 Q1002 EETU 240750Z 25006KT 9999 BKN008 09/07 Q1003 CYBV 232100Z 32009G15KT 15SM FEW020 BKN040 02/M03 A3019 RMK SC1SC6 SNW CVR/NIL/LAST STFD OBS/NEXT 241200UTC SLP236 CXMD 240800Z AUTO 32007KT 05/M02 RMK AO1 SOG 01 2010 SLP276 T00451019 CWVD 240800Z AUTO 34004KT M17/ A2956 RMK SLP074 CYBW 240800Z AUTO 31006KT 9SM CLR M01/M04 A3032 RMK SLP302 KCHO 240753Z AUTO 07005KT 10SM FEW036 OVC085 13/05 A3025 RMK AO2 SLP241 T01330050 KAZO 240753Z AUTO 09003KT 10SM SCT035 OVC100 12/08 A3009 RMK AO2 SLP188 T01220078 EGCN 240750Z 26009KT 9999 BKN031 12/06 Q1013 PHNG 240757Z 06011G18KT 10SM BKN025 BKN033 24/20 A3010 RMK AO2 SLP186 T02390200 $ CYCO 240800Z 36002KT 15SM FEW220 M21/M23 A3014 RMK CS1 CS TR SLP213 CYDF 240800Z 21006KT 15SM SCT170 M00/M04 A3021 RMK AC4 SLP232 CYBX 240800Z 00000KT 15SM SCT093 M02/M02 A3006 RMK AC3 SLP185 CWVF 240800Z AUTO 32010KT 12/08 RMK AO1 T01210076 KF05 240755Z AUTO 09003KT 10SM CLR 12/08 A3005 RMK AO1 T01210080 KBQP 240755Z AUTO 30003KT 10SM BKN012 14/13 A2997 RMK AO2 T01360133 CYCP 240100Z VRB02KT 15SM FEW300 15/M07 A3034 RMK CC2 LAST OBS/NEXT 241300Z SLP299 DENSITY ALT 2400FT CWTY 240800Z AUTO 26003KT 01/M03 RMK AO1 SLP232 T00081027 56000 CWUP 240800Z AUTO ///// M19/ A2960 RMK SLP072 EFLP 240750Z AUTO 13006KT 070V190 9999 SCT044 OVC074 ///// Q//// KCGZ 240756Z AUTO 25005KT 10SM CLR 22/M04 A2994 RMK AO2 SLP123 T02221039 $ CYCQ 240100Z 22009G16KT 35SM FEW050 BKN130 BKN160 OVC190 13/M08 A3016 RMK SC1AC4AS2CS1 VIRGA E LAST STFD OBS/NEXT 241300Z SLP240 CWVH 240800Z AUTO 09011KT M10/ A2988 RMK SLP150 KDAA 240656Z AUTO 00000KT 10SM SCT050 OVC140 12/03 A3031 RMK AO2 SLP267 T01150028 $ CWVI 240700Z AUTO 20006KT 04/01 RMK AO1 SLP263 T00390007 58000 CXMI 240800Z AUTO 30002KT 04/M06 RMK AO1 SLP294 T00391059 57000 ZSPD 240800Z 33009MPS 9999 BKN020 14/10 Q1015 NOSIG EFMI 240750Z 12008KT 9999 FEW047 BKN062 04/M04 Q1002 KCHS 240806Z 08004KT 4SM BR OVC009 20/19 A2987 RMK AO2 CIG 008V011 T02000194 CYCS 232200Z 32014KT 15SM SCT240 M13/M18 A3023 RMK CS4 -13.0/-21.0/NIL/56 HARD PACK LAST STFD OBS NXT 241200Z SLP238 TVSM 232000Z 12006KT 9999 SCT022 30/22 Q1012 CWWA 240800Z AUTO 00000KT 10/01 RMK AO1 SLP247 T01010010 53000 CWUS 240800Z AUTO 29008KT 06/M03 RMK AO1 SLP297 T00581029 53000 KDAB 240753Z 21003KT 8SM BKN012 20/20 A2992 RMK AO2 SLP130 T02000200 $ PHNL 240753Z 05011KT 10SM FEW025 SCT036 BKN048 24/18 A3010 RMK AO2 RAB0657E06 SLP194 P0000 T02440183 CWWB 240800Z AUTO 06/M00 RMK AO1 SLP222 T00601003 55000 KBRL 240753Z AUTO 36004KT 10SM FEW014 10/07 A3004 RMK AO2 SLP171 T01000067 EGEC 240750Z 25011KT 9999 VCSH BKN020 BKN028 09/06 Q1008 CYDL 240800Z AUTO 20009KT 9SM -RA OVC038 01/00 A3010 RMK SLP211 EGDM 240750Z 27008KT 9999 FEW014 BKN070 11/08 Q1016 BLU NOSIG CXMM 240800Z AUTO 22005KT 06/M06 RMK AO1 SOG 06 8000 SLP210 T00571057 CYED 240800Z AUTO 21008KT 9SM CLR 07/M04 A3023 RMK SLP255 KCIN 240755Z AUTO 32004KT 10SM FEW048 SCT060 BKN070 07/04 A3013 RMK AO2 NZNP 240800Z 21005KT 150V260 20KM FEW033 BKN055 BKN070 14/10 Q1020 RMK AUTO VATS CWVN 240800Z AUTO 02003KT M04/M05 RMK AO1 SOG 01 1010 SLP333 T10371054 CWWE 240800Z AUTO 23006KT 03/M04 RMK AO1 SLP299 T00281040 50000 CWUW 240800Z AUTO 31008KT ////SM //// NCD M27/M30 A2967 CYDN 240800Z AUTO 36005KT 9SM CLR M01/M03 A3039 RMK SLP305 KBRO 240753Z AUTO 20006KT 10SM OVC090 21/19 A3002 RMK AO2 SLP163 T02110189 PHOG 240754Z 05016KT 10SM FEW025 FEW055 22/21 A3009 RMK AO2 SLP192 T02220206 KBQX 240755Z AUTO 27007KT 10SM OVC043 M40/ A3003 RMK A01 NZOH 240800Z 33008KT 25KM SCT030 BKN040 13/10 Q1018 RMK VATSIM USE ONLY CXMO 240700Z AUTO 18007KT 02/M03 RMK AO1 T00241034 VDSR 240800Z 22005KT 9999 FEW017 37/21 Q1004 CWWF 240800Z AUTO 29003KT M02/M06 RMK AO1 SLP319 T10161057 51010 CWUX 240800Z AUTO 07001KT M02/M06 RMK AO1 SLP203 T10171062 56010 CYCX 240800Z 23005KT 15SM FEW220 04/M06 A3030 RMK CI1 DA-1527FT SLP262 KDAG 240750Z AUTO 27009KT 10SM CLR 23/M01 A2996 RMK AO2 SLP120 T02281011 403440189 NZNR 240800Z 28007KT 20KM BKN230 13/05 Q1017 RMK AUTO VATSIM USE ONLY CYDP 240800Z 00000KT 12SM -SN OVC020 M03/M03 A2979 RMK SC8 SLP090 ORER 240800Z VRB04KT 9000 FEW030 23/09 Q1019 NOSIG CWVP 240800Z AUTO 25002KT 02/M08 RMK AO1 SLP316 T00161081 51000 CYEG 240800Z 18008KT 15SM SCT250 02/M01 A3025 RMK CI3 SLP266 VEJS 240800Z 23003KT 3500 HZ NSC 38/15 Q1006 CYCY 240800Z AUTO 29006KT 260V010 9SM BKN025 M18/M22 A2976 RMK SLP081 NZNS 240800Z 25007KT 20KM NCD 13/07 Q1017 RMK AUTO VATSIM USE ONLY CWVQ 240800Z AUTO 00000KT 05/M03 RMK AO1 SLP237 T00461026 58000 CYDQ 240800Z AUTO 22008KT 9SM CLR 09/M06 A3016 RMK SLP231 KCIR 240755Z AUTO 34006KT 10SM BKN006 OVC013 13/13 A2992 RMK AO2 T01260125 KF17 240755Z AUTO 00000KT 10SM CLR 10/10 A3002 RMK AO2 T01040096 UNKL 240800Z 28009G14MPS 9999 SCT021CB 07/01 Q1016 R29/CLRD65 TEMPO 28011G18MPS RMK QFE736 ZSQD 240800Z 36011MPS CAVOK 19/01 Q1014 NOSIG PGWT 240754Z 09005KT 7SM SCT016 BKN100 27/24 A2975 EGDR 240750Z 21010KT 0050 -RADZ VV/// 11/10 Q1016 RED NOSIG KBTA 240755Z AUTO 03006KT 10SM BKN110 11/03 A3013 RMK AO2 T01070031 CWXA 240700Z AUTO 25007KT 06/M09 RMK AO1 PK WND 22017/0618 T00591094 53000 KCKB 240753Z 04004KT 7SM -RA BKN075 OVC100 11/08 A3015 RMK AO2 RAB28 SLP201 P0002 T01110083 NZNV 240800Z 26012KT 34KM BKN055 11/09 Q1016 RMK AUTO VATSIM USE ONLY CWWK 240700Z AUTO 02002KT 09/02 RMK AO1 SLP249 T00850023 53000 CWVT 240800Z AUTO 18005KT 04/M05 RMK AO1 SOG 02 8000 SLP262 T00381052 CYFB 240800Z 33008KT 20SM SKC M22/M26 A2994 RMK SLP145 CYEK 240800Z AUTO 21013KT 9SM -SN OVC038 M11/M13 A3021 RMK SLP231 KDAL 240753Z 00000KT 10SM CLR 16/12 A3002 RMK AO2 SLP162 T01560117 KCIU 240756Z AUTO 10003KT 10SM CLR 03/M05 A3013 RMK AO2 SLP235 T00281050 KCKC 240755Z AUTO 36011KT 10SM CLR 04/M04 A3014 RMK AO2 VEKO 240600Z 27004KT 6000 NSC 39/M02 Q1009 CWWL 240700Z AUTO 15015KT 08/ RMK AO1 6PAST HR M PK WND 15021/0601 P0002 T0078 50006 CWXC 240700Z AUTO 19004KT 01/M06 RMK AO1 SLP195 T00111062 58010 CWVU 240800Z AUTO 18008KT 05/02 RMK AO1 SLP305 T00480015 58000 CYFC 240800Z AUTO 00000KT 9SM CLR M01/M04 A3030 RMK SLP263 CXNM 240800Z AUTO 24011KT 04/M08 RMK AO1 SOG 130 PK WND 25017/0734 T00371082 KDAN 240803Z AUTO 07010KT 7SM RA SCT007 BKN013 OVC025 10/10 A3012 RMK AO2 P0002 T01000100 CYEN 240800Z 25005KT 15SM FEW220 M03/M06 A3041 RMK CS1 SLP323 PHNY 240756Z AUTO 07015G22KT 10SM BKN033 20/17 A3013 RMK AO2 SLP185 T02000172 KCKF 240755Z AUTO 26006KT 10SM BKN040 OVC050 19/13 A2989 RMK AO2 T01850131 EGEO 240750Z 24011KT 9999 FEW020 SCT027 09/07 Q1007 EGDX 240750Z 27009KT 9999 BKN002 BKN050 11/10 Q1015 AMB EGFF 240750Z AUTO 28009KT 9999 OVC004 10/10 Q1016 KBRY 240755Z AUTO 00000KT 10SM CLR 11/11 A2990 RMK AO1 CXMY 240800Z AUTO M04/M05 RMK AO1 T10421045 CXNP 240700Z AUTO 17008KT 03/M03 RMK AO1 SLP276 T00261030 55000 EGDY 240750Z 22006KT 9999 FEW012 BKN060 12/10 Q1016 BLU NOSIG KCKI 240755Z AUTO 08006KT 10SM SCT013 BKN032 OVC041 17/17 A2992 RMK AO2 P0001 KCJR 240755Z AUTO 00000KT 10SM BKN044 BKN050 OVC110 13/04 A3029 RMK AO2 T01280041 CWXI 240800Z AUTO 21024KT 01/M02 RMK AO1 PK WND 22032/0710 SLP169 T00051021 53000 CYER 240800Z AUTO 33013G19KT 3SM -FZUP BR OVC012 M06/M08 A3014 RMK ICG SLP208 KDCA 240752Z 11007KT 10SM BKN050 OVC130 13/03 A3031 RMK AO2 SLP264 T01330033 CXPA 240700Z AUTO 22003KT 04/M06 RMK AO1 T00391058 CWWS 240700Z AUTO 35019KT M04/M07 RMK AO1 SOG 57 3020 PK WND 35024/0650 SLP287 T10431072 NZPM 240800Z 01006KT 40KM BKN028 13/09 Q1018 RMK AUTO VATSIM USE ONLY CYET 240800Z AUTO 27005KT 9SM CLR 01/M07 A3025 RMK SLP271 KBTL 240753Z AUTO 09004KT 10SM OVC100 11/08 A3009 RMK AO2 RAB0656E06 SLP189 P0000 T01110083 CWWU 240800Z 20005KT 15SM FEW100 00/M04 A3025 RMK AC1 SLP244 CXOL 240700Z AUTO 23011KT 03/M02 RMK AO1 T00301021 CXPC 240800Z AUTO 05/M02 RMK AO1 SLP207 T00521017 55000 CWXL 240800Z AUTO 18007KT 02/M02 RMK AO1 T00231022 KCKM 240755Z AUTO 00000KT 9SM FEW014 SCT021 OVC027 14/14 A2994 RMK A01 KBTM 240753Z AUTO 16005KT 10SM CLR M03/M05 A3046 RMK AO2 SLP345 T10281050 VELP 240800Z 20004KT 6000 FEW018 SCT100 28/20 Q1007 NOSIG CYEV 240800Z 06006KT 15SM FEW070 SCT250 M07/M13 A2990 RMK AC1CI2 SLP134 EGGD 240750Z AUTO 24010KT 9999 BKN003 10/09 Q1016 KCLE 240751Z 08007KT 10SM OVC055 14/06 A3016 RMK AO2 SLP211 T01390061 KDAW 240751Z AUTO 00000KT 10SM CLR 03/M04 A3037 RMK AO2 SLP281 T00331039 KCKN 240755Z AUTO 36012KT 10SM SCT080 SCT100 07/03 A3025 RMK AO2 KDBN 240755Z AUTO 00000KT 10SM CLR 15/13 A2987 RMK AO2 NZPP 240800Z 02010KT 9999 NCD 13/09 Q1017 NOSIG RMK KAUKAU 36016KT AUTO NZWN VAT CYGE 240000Z 35005KT 20SM SKC 16/M08 A3037 RMK LAST STFD OBS/NEXT 241200Z SLP304 DENSITY ALT 2800FT KBUF 240754Z 19008KT 10SM OVC230 13/05 A3020 RMK AO2 SLP225 T01330050 $ CYFO 232300Z 34012G22KT 15SM BKN037 03/M06 A3025 RMK SC6 LAST OBS/NEXT 241100UTC SLP264 CWWX 240700Z AUTO 23008KT 08/02 RMK AO1 SLP208 T00770018 58000 VELR 240800Z 07002KT 4000 HZ FEW020 SCT100 30/22 Q1009 KBTP 240756Z AUTO 11010KT 10SM OVC060 11/07 A3020 RMK AO2 RAE34 SLP230 P0000 T01110067 KDAY 240756Z 10010KT 10SM BKN050 OVC060 11/09 A3003 RMK AO2 SLP170 T01110094 KCKP 240755Z AUTO 00000KT 10SM SCT110 05/04 A3015 RMK AO2 T00500042 KDBQ 240753Z AUTO 03007KT 10SM CLR 07/00 A3009 RMK AO2 SLP191 T00670000 CYGH 232300Z 06007KT 20SM BKN150 BKN250 00/M10 A2995 RMK AS6CI1 0.3/-14.8/0.0/49 SNW CVR/MUCH LOOSE/LAST STFD OBS/NXT 241300UTC SLP150 KBTR 240753Z AUTO 00000KT 10SM CLR 13/12 A2999 RMK AO2 SLP155 T01330122 KCLI 240755Z AUTO 00000KT 10SM CLR 02/M02 A3012 RMK AO2 T00171016 CYFR 232200Z 17007KT 15SM FEW180 06/M05 A3016 RMK AC1 AC TR /0/46/ SNW CVR/MUCH LOOSE LAST STFD OBS/NEXT241400Z SLP228 CWXR 240800Z AUTO 12006KT M19/ A3010 RMK SLP207 KCMA 240755Z AUTO 21005KT 5SM HZ OVC005 14/11 A3001 RMK AO2 SLP170 T01390111 402060133 NZRC 240800Z 26012KT 34KM BKN055 11/09 Q1016 RMK AUTO NZNV VATSIM USE ONLY CYHA 232100Z 34009KT 15SM FEW013 OVC250 M10/M14 A2996 RMK SF1CI8 SF TR SN COV/NIL LAST STFD OBS/NEXT 241200 UTC SLP149 CWZA 240800Z AUTO 04012KT 13/M00 RMK AO1 PK WND 03017/0703 SLP252 T01301003 53010 CWYJ 240800Z AUTO 03004KT 10/03 RMK AO1 SLP245 T01020030 51000 CYFS 240800Z 21006KT 15SM FEW170 SCT180 BKN200 BKN230 06/M02 A2981 RMK AC1AC2CI2CI2 SLP104 CYFT 232000Z 32009KT 15SM FEW025 FEW240 00/M06 A2998 RMK CU1CI1 TR CU LAST OBS/NEXT240900 UTC SLP159 CYGK 240300Z 04004KT 15SM SCT240 10/M05 A3023 RMK CI3 LAST STFD OBS/NEXT 241000 UTC SLP241 VEMN 240800Z 03008KT 5000 HZ FEW020 BKN100 30/22 Q1008 NOSIG KCLL 240753Z AUTO 00000KT 10SM CLR 16/13 A3005 RMK AO2 SLP172 T01560128 KDDC 240752Z AUTO 14006KT 10SM CLR 08/06 A3010 RMK AO2 SLP182 T00830056 NZQN 240800Z 23004KT 170V290 50KM NCD 11/01 Q1017 RMK AUTO VATSIM USE ONLY EGHC 240750Z 21014KT 0050 FG VV/// 11/11 Q1015 CXPL 240700Z AUTO 22003KT M01/M02 RMK AO1 T10081022 CWYL 240800Z AUTO 08003KT M04/M07 RMK AO1 SOG 131 2000 SLP320 T10371068 CYGL 240800Z 26011G17KT 10SM -DZ OVC006 01/M01 A2987 RMK SF8 SLP127 KDCM 240755Z AUTO 08013G16KT 5SM -RA OVC003 14/14 A2993 RMK AO2 KCLM 240753Z AUTO 23007KT 10SM CLR 08/02 A3026 RMK AO2 SLP249 T00830022 401610006 KCKV 240752Z AUTO 01003KT 10SM OVC015 13/11 A2989 RMK AO2 SLP118 T01330111 EFOU 240750Z AUTO 14014KT 9999 FEW029/// OVC044/// 05/M03 Q0998 KBTV 240754Z AUTO 19012G20KT 10SM CLR 12/M06 A3028 RMK AO2 SLP254 T01171056 KCMD 240755Z AUTO 32003KT 10SM BKN008 BKN060 OVC070 13/13 A2990 RMK AO2 T01310125 CWYM 240800Z AUTO ///// M17/ A2955 RMK SLP075 CYHD 240800Z AUTO 32005KT 9SM SCT049 OVC060 02/M02 A3019 RMK SLP239 KBVE 240751Z AUTO 33003KT 7SM OVC055 18/14 A3000 RMK AO2 SLP157 T01830144 EGHE 240750Z 21019KT 0050 DZ FG VV/// 11/11 Q1015 CYHE 240800Z AUTO /////KT 9SM CLR 10/02 A3032 RMK SLP269 KF44 240755Z AUTO 00000KT 10SM CLR 10/10 A3001 RMK AO2 DNYO 240700Z 00000KT CAOK 31/23 Q1011 CXOX 240800Z AUTO 17005KT M01/M04 RMK AO1 SOG 02 8000 SLP286 T10111038 EFPO 240750Z AUTO 18007KT 9999 OVC008/// 07/06 Q0998 KF45 240755Z AUTO 22003KT 10SM FEW015 FEW033 23/23 A2995 RMK AO2 LTG DSNT NE CXOY 240700Z AUTO 22008KT 03/M03 RMK AO1 T00311028 CWZG 240800Z AUTO 23004KT M00/M07 RMK AO1 SLP319 T10011066 51000 CYGP 240800Z 00000KT 15SM SCT180 M02/M05 A3012 RMK AC3 SLP203 EGGP 240750Z 24009KT 9999 FEW015 SCT045 11/07 Q1013 KCMH 240751Z 10010KT 10SM -RA BKN100 12/09 A3006 RMK AO2 RAB48 SLP180 P0000 T01220089 KDDH 240754Z AUTO 15006KT 10SM CLR 04/M06 A3035 RMK AO2 SLP278 T00441061 KF46 240755Z AUTO 7SM CLR 14/12 A3003 RMK AO2 T01400115 KCKZ 240755Z AUTO 00000KT 10SM BKN044 02/M03 A3038 RMK AO2 KBVI 240047Z 16010KT 10SM SCT120 17/02 A3021 RMK LAST CYGQ 240800Z 25004KT 15SM SCT250 00/M02 A3011 RMK CI3 SLP212 KCMI 240753Z AUTO 04010KT 7SM BKN025 OVC033 12/11 A2999 RMK AO2 SLP156 T01170111 KBUR 240753Z 11004KT 9SM CLR 14/12 A3001 RMK AO2 SLP150 T01440122 402720139 EGHH 240750Z 28009KT 200V280 9999 SCT014 13/10 Q1017 CYHI 240000Z 31009KT 15SM BKN034 BKN210 M14/M17 A3016 RMK SC5CS1 CS TR -13.7/-14.2/32/TR/TR LOOSE/LST STFD OBS/NXT 241400Z SLP221 CYGR 240200Z 19011KT 15SM BKN220 03/M02 A3028 RMK CI5 LAST STFD OBS/NEXT 240900 UTC SLP255 KCLS 240755Z AUTO 04005KT 10SM 08/04 A3020 RMK AO2 EGHI 240750Z 26004KT 200V310 9999 SCT015 12/08 Q1017 KCLT 240752Z 08013G21KT 4SM BR OVC008 14/14 A2994 RMK AO2 RAE32 SLP136 P0000 T01440139 KCNB 240755Z AUTO 22003KT 10SM CLR 06/04 A3016 RMK AO2 T00640038 CYGT 232100Z 27011KT 15SM FEW030 M18/M23 A2995 RMK SC2 -18.4/-25.2/0.0/LAST STFD OBS/NEXT 241000Z SLP151 CXRB 240800Z AUTO 32011KT M23/M25 RMK AO1 SOG 04 6000 SLP063 T12311252 KDCU 240753Z AUTO 31006KT 10SM OVC018 14/13 A2988 RMK AO2 SLP116 T01390133 KCNC 240755Z AUTO 36008KT 10SM BKN036 08/M01 A3008 RMK AO2 CYHK 240800Z AUTO 30010KT 9SM -SN BKN060 BKN075 M24/M26 A2994 RMK SLP149 KDEC 240754Z AUTO 04008KT 2 1/2SM -RA BR FEW007 BKN013 OVC018 12/12 A2999 RMK AO2 RAE0659B31 SLP154 P0002 T01170117 KBUU 240750Z AUTO 32003KT 10SM CLR 07/00 A3008 RMK AO2 T00710004 CWZL 240700Z AUTO 15010KT 08/07 RMK AO1 SLP259 T00790069 51010 KDED 240755Z AUTO 00000KT 10SM BKN006 OVC010 20/20 A2992 RMK AO2 KBWD 240755Z AUTO 00000KT 10SM SCT046 13/08 A3007 RMK AO2 NZRO 240800Z 23009KT 47KM NCD 12/09 Q1019 RMK AUTO VATSIM USE ONLY CYHM 240800Z 17007KT 15SM FEW100 OVC200 08/02 A3017 RMK AC2CC6 SLP221 CYGV 240800Z AUTO 00000KT 9SM BKN240 M01/M03 A3006 RMK SLP183 KCLW 240755Z AUTO 00000KT 10SM BKN015 21/20 A2994 RMK AO2 PHSF 240756Z AUTO 14006KT 10SM FEW014 12/09 A3036 RMK AO2 SLP164 WND DATA ESTMD T01160092 $ KBVN 240755Z AUTO 00000KT 10SM OVC090 12/03 A3013 RMK AO2 T01230025 CYGW 240700Z AUTO 24014G19KT 1/2SM -RA FG VV003 00/00 A2978 RMK SLP085 KBVO 240753Z AUTO 00000KT 4SM BR CLR 06/06 A3006 RMK AO2 SLP174 T00610056 EGGW 240750Z AUTO 24011KT 9999 NCD 11/08 Q1015 CWZO 240800Z AUTO 00004KT RMK AO1 CYGX 240800Z 33006KT 15SM -SN OVC022 M09/M11 A3032 RMK NS8 SLP282 ZSSS 240800Z 34008MPS 9999 BKN020 15/10 Q1015 NOSIG KBWG 240753Z AUTO 00000KT 10SM BKN011 OVC085 13/13 A2990 RMK AO2 SLP120 T01280128 KBUY 240754Z AUTO 07010KT 7SM -RA BKN011 BKN026 OVC036 12/11 A3006 RMK AO2 SLP177 P0009 T01220111 KDCY 240755Z AUTO 00000KT 10SM SCT015 BKN028 OVC034 12/11 A2994 RMK AO2 T01170106 CWYY 240800Z AUTO 03002KT 05/M00 RMK AO1 SLP295 T00461003 51010 KDEH 240755Z AUTO 00000KT 10SM CLR 06/01 A3011 RMK AO2 EGHQ 240720Z 17007KT 3000 -RADZ BR OVC003 10/10 Q1016 UNNT 240800Z 13005MPS 9999 SCT013 09/06 Q1016 R16/090070 R25/090070 NOSIG RMK QFE752/1003 CWZQ 240800Z AUTO 16008KT 01/M08 RMK AO1 SLP261 T00131075 56000 CXRH 240800Z AUTO 04006KT M02/ RMK AO1 T1018 KBWI 240754Z 09006KT 10SM SCT180 BKN240 10/03 A3033 RMK AO2 SLP270 T01000028 KCMR 240755Z AUTO 16005KT 10SM CLR 08/M10 A3020 RMK AO2 KCNI 240755Z AUTO 29003KT 4SM DZ BKN007 OVC015 15/14 A2986 RMK AO2 KBXA 240755Z AUTO 26003KT 10SM CLR 12/11 A2998 RMK AO2 T01220106 KBVS 240755Z AUTO 00000KT 10SM CLR 08/04 A3026 RMK A01 EGJA 240750Z 22011KT 0200 R26/0325 FG VV/// 10/// Q1018 CWZS 240800Z AUTO 18003KT M01/M06 RMK AO1 SLP211 T10051063 56010 EFSA 240750Z AUTO 12011KT CAVOK 05/M03 Q1004 KCNK 240755Z AUTO 32003KT 10SM CLR 09/02 A3011 RMK AO2 SLP191 T00940022 CYIK 232100Z 03013KT 15SM -SN FEW011 SCT170 SCT200 M12/M15 A2999 RMK CF2AS1CS1 SN CVR TR LOOSE LAST STFD OBS/NEXT 241200UTC SLP161 CXQT 242300Z AUTO 26002KT 01/M01 RMK AO1 T00111011 EGJB 240750Z 22012KT 0100 R27/0150 FG OVC000 10/10 Q1018 KBVU 240755Z AUTO 00000KT 10SM FEW044 FEW050 20/M01 A2992 RMK AO2 CXSC 240700Z AUTO 23009KT 03/M03 RMK AO1 T00311032 UNOO 240800Z 18006MPS 9999 SCT033CB 19/03 Q1004 R25/CLRD60 NOSIG RMK QFE745 CXRL 240700Z AUTO 17007KT 07/M03 RMK AO1 T00661026 CYHU 240800Z AUTO 00000KT 9SM CLR 06/M05 A3024 RMK SLP241 KCNM 240753Z AUTO 21004KT 10SM CLR 14/M01 A2998 RMK AO2 SLP107 T01441006 KCOD 240756Z AUTO 30004KT 10SM CLR M01/M03 A3047 RMK AO2 RAE0657 SLP352 T10061028 FZRANO CWZV 240700Z AUTO 22009KT 07/ RMK AO1 SLP258 T0072 51000 KDEN 240753Z 01011KT 9SM SCT018 OVC037 03/M01 A3032 RMK AO2 SLP231 RAB0657E11B29E44 P0000 T00281006 KCOE 240756Z AUTO 00000KT 10SM CLR 03/M01 A3040 RMK AO2 SLP319 T00281011 401780006 NZTG 240800Z 27010KT 45KM SCT065 15/09 Q1019 RMK AUTO VATSIM USE ONLY NZSP 240550Z 10005KT 8000 IC BKN060 M60/ A2850 RMK CLN AIR 10005KT ALL WNDS GRID CXSE 240700Z AUTO 31010KT M18/M20 RMK AO1 SOG 49 3000 SLP138 T11781198 CWZW 240800Z AUTO 20003KT 03/M02 RMK AO1 SOG 21 3000 SLP186 T00291020 CYIN 240800Z AUTO 14008KT 9SM SCT240 06/M07 A3028 RMK SLP264 KCNO 240753Z AUTO 27004KT 7SM CLR 15/09 A3002 RMK AO2 SLP158 T01500094 403110117 KCMX 240753Z AUTO 33010KT 10SM OVC075 08/M02 A3010 RMK AO2 SLP198 T00781022 KBVX 240756Z AUTO 28004KT 9SM OVC014 12/12 A2996 RMK AO2 SLP147 T01220117 KCOF 240756Z AUTO 23007KT 10SM BKN017 22/22 A2992 RMK AO2 SLP136 T02220222 $ CYJF 232200Z 23011G17KT 15SM SCT100 BKN210 BKN240 14/M03 A3001 RMK AC3CI2CI2 13.9/-3.4/0/32/SNW CVR/MUCH LOOSE LAST STFD OBS/NEXT 241400UTC SLP171 KBVY 240753Z AUTO 20003KT 10SM CLR 06/M04 A3039 RMK AO2 SLP288 T00611039 EFRO 240750Z 15008KT 110V190 9999 FEW042 BKN075 04/M04 Q0998 KCMY 240755Z AUTO 00000KT 10SM CLR 00/M02 A3013 RMK AO2 T10011019 CYIO 240800Z AUTO 18005KT 9SM CLR M27/M29 A2980 RMK SLP104 KBWP 240750Z AUTO 01008KT 10SM OVC100 10/02 A3019 RMK AO1 CYHY 240800Z 19008KT 15SM SCT089 BKN200 06/M04 A2989 RMK AS3CS3 SLP130 ZUCK 240800Z 06005MPS 8000 FEW006 SCT026 OVC040 19/17 Q1013 NOSIG KDEQ 240758Z AUTO 09003KT 1 3/4SM BR CLR 10/10 A2998 RMK AO2 VIS 1/2V5 T01000100 CXSH 240800Z AUTO 30002KT M00/M04 RMK AO1 SLP232 T10011044 55000 CWZZ 240800Z AUTO ///// ////SM //// OVC055 M07/M10 A2968 CYHZ 240800Z 26008KT 15SM FEW130 05/M08 A3036 RMK AC1 SLP287 KDFI 240753Z AUTO 00000KT 10SM BKN048 OVC055 11/09 A3009 RMK AO2 RAB04E37 SLP187 P0001 T01060094 EFSI 240750Z AUTO 16009KT 130V200 9999 -SHRA ////// ///// Q//// EGKA 240750Z 24010KT 9999 4000E BKN003 11/10 Q1017 CYKA 240800Z 08005KT 40SM SKC 07/M02 A3036 RMK SLP291 KDET 240753Z 12003KT 10SM FEW045 OVC070 12/07 A3014 RMK AO2 SLP205 T01170067 EGJJ 240750Z 23010KT 9999 BKN006 11/09 Q1019 KF70 240755Z AUTO 00000KT 10SM CLR 14/08 A3002 RMK AO1 KBXK 240755Z AUTO 03003KT 10SM FEW120 20/M07 A2991 RMK AO1 EGKB 240750Z 25009KT 210V280 9999 FEW015 12/08 Q1016 KCNU 240752Z AUTO 31003KT 10SM CLR 07/05 A3006 RMK AO2 SLP174 T00720050 EHAK 240755Z AUTO 24029KT 9999 NCD 08/05 Q1007 W///H/// KCPC 240755Z AUTO 10012G24KT 10SM -RA BKN013 BKN019 OVC039 17/16 A2998 RMK AO2 P0001 T01720158 CXSL 240800Z AUTO 15004KT 04/M03 RMK AO1 T00411027 KCOM 240755Z AUTO 00000KT 10SM CLR 13/05 A3006 RMK AO2 T01250051 CYKD 232300Z 15006KT 15SM FEW250 M05/M13 A3001 RMK CI1 0.0/SNW CVR/MEDIUM PACK/LAST STFD OBS/NXT 241300Z SLP166 KCNW 240355Z 00000KT 10SM SKC 14/12 A3005 CXTD 240800Z AUTO 21010KT 05/M07 RMK AO1 SLP277 T00471066 58000 CYIV 240700Z 35014KT 15SM -SN OVC025 M05/M08 A3026 RMK SC8 SLP265 KDEW 240753Z AUTO 00000KT 10SM CLR 01/M02 A3039 RMK AO2 SLP297 T00111022 401891033 PHTO 240753Z AUTO 00000KT 10SM FEW027 FEW033 OVC070 22/21 A3012 RMK AO2 SLP198 T02220206 TSNO KCON 240751Z AUTO 00000KT 10SM CLR 04/M04 A3038 RMK AO2 SLP289 T00441044 KBWW 240815Z AUTO 02016KT 2 1/2SM -SN OVC003 01/01 A3028 RMK AO2 EHAM 240755Z 24013KT 210V270 9999 FEW008 12/10 Q1015 NOSIG CZBF 240800Z 18003KT 15SM SKC M01/M08 A3018 RMK SLP225 CYKF 240800Z AUTO VRB02KT 9SM FEW130 BKN180 OVC200 05/01 A3017 RMK SLP220 KCNY 240753Z AUTO 12008G17KT 10SM BKN120 18/M02 A3005 RMK AO2 SLP120 T01781022 KBYG 240753Z AUTO 35012KT 9SM -SN SCT014 OVC034 00/M01 A3045 RMK AO2 SNB31E40B42 SLP335 P0000 T00001011 CYKG 232100Z 34008KT 15SM SCT170 OVC240 M11/M16 A2991 RMK AC4CI4 SN COV / HARD PACK LAST STFD OBS / NXT 241200UTC SLP148 KBYH 232150Z 00000KT 8SM BKN018 OVC029 14/12 A2988 RMK LAST CXSP 240800Z AUTO 16004KT 03/M03 RMK AO1 T00341028 KCOQ 240755Z AUTO 35007KT 10SM CLR 07/M03 A3013 RMK AO2 CXTH 240700Z AUTO 17007KT 04/M01 RMK AO1 T00381006 VEPT 240800Z 30006KT 5000 HZ NSC 39/07 Q1005 NOSIG KBYI 240753Z AUTO VRB06KT 10SM BKN060 04/01 A3031 RMK AO2 SLP258 T00440006 VERC 240800Z 30008KT 6000 HZ NSC 36/M01 Q1010 NOSIG KCOS 240754Z 32022G37KT 10SM OVC014 05/02 A3022 RMK AO2 PK WND 32038/0742 SLP195 T00500017 NZTU 240800Z 22004KT 1800 HZ SCT250 08/07 Q1017 RMK AUTO VATSIM USE ONLY CYLA 232100Z 09008KT 15SM SCT012 OVC110 M06/M09 A2992 RMK SC4AC4 LAST STFD OBS/NEXT 241200UTC SLP139 CYKJ 240800Z AUTO 19006KT 9SM OVC150 M02/M04 A3022 RMK SLP266 KCOT 240753Z AUTO 14004KT 10SM CLR 18/11 A3000 RMK AO2 SLP152 T01780111 KCQB 240755Z AUTO 32003KT 10SM CLR 13/09 A3005 RMK AO2 T01260094 KCPK 240755Z AUTO 08007KT 7SM OVC120 14/10 A3022 RMK AO2 T01370095 CYJT 240800Z 06004KT 15SM FEW023 FEW100 FEW200 M03/M04 A3026 RMK SC1AC1CI1 CI TR SLP248 KBYL 240755Z AUTO 00000KT 3SM FEW025 FEW037 OVC047 11/11 A2991 RMK AO1 P0005 EGKK 240750Z 23006KT 9999 BKN013 12/10 Q1016 KCOU 240754Z AUTO 36005KT 10SM CLR 11/09 A3001 RMK AO2 SLP159 T01110089 EHBK 240755Z AUTO 23010KT 200V270 9999 FEW013 OVC016 11/07 Q1017 NOSIG KCQC 240753Z AUTO 22014KT 10SM CLR 11/M05 A3017 RMK AO2 SLP133 T01111050 CYLC 231900Z 33008G15KT 15SM FEW120 SCT350 M10/M17 A2994 RMK AC1CI2 -10.7/-14.0/0.0/1 MEDIUM PACK LASTSTFD OBS/NEXT 241200Z SLP147 CYKL 240800Z AUTO 23009KT 9SM BKN015 OVC110 02/01 A2973 RMK SLP088 EGLC 240750Z AUTO 25012KT 9999 NCD 14/09 Q1016 CYLD 240100Z 25003KT 15SM SCT260 05/M04 A3014 RMK CI4 LAST STFD OBS/NEXT 241000UTC SLP225 KDFW 240753Z 00000KT 10SM CLR 15/11 A3001 RMK AO2 SLP157 T01500111 $ CXTN 240400Z AUTO 13001KT RMK AO1 58000 KCQF 240755Z AUTO 29003KT 10SM CLR 14/12 A2996 RMK AO2 CYKO 232100Z 03018KT 10SM OVC180 M08/M12 A2990 RMK AS8 SN CVR MUCH LOOSE LAST STFD OBS/NXT 241200UTC SLP130 EGLF 240750Z 26009KT 9999 VCSH SCT016 12/08 Q1016 CXTO 240800Z AUTO 10/M02 RMK AO1 SLP219 T00951015 56000 CXTP 240800Z AUTO 23005KT M01/M06 RMK AO1 SLP215 T10101060 51000 CYKP 240800Z AUTO 29003KT 9SM OVC040 03/M02 A3007 RMK SLP189 OSDI 240800Z 09004KT CAVOK 23/03 Q1018 EFTP 240750Z 17007KT 140V210 9999 BKN007 06/04 Q0999 CYKQ 232100Z 19009KT 15SM FEW056 SCT081 14/02 A2992 RMK SC2AC1 LAST STFD OBS/NEXT 241300UTC SLP135 CYLH 240806Z AUTO 31004KT 290V360 9SM SCT020 BKN025 OVC041 01/M03 A3009 RMK SLP203 KCPR 240753Z AUTO 03012KT 10SM OVC015 00/M02 A3042 RMK AO2 SLP302 T00001022 NZWB 240800Z 00000KT 20KM NCD 07/06 Q1017 RMK AUTO VATSIM USE ONLY KCPS 240753Z AUTO 36007KT 10SM OVC008 13/12 A2997 RMK AO2 SLP147 T01330117 TSNO KBYS 240756Z AUTO 17007KT 10SM CLR 23/M02 A2997 RMK AO2 SLPNO WND DATA ESTMD T02271022 403400158 CYLJ 240000Z 30012KT 15SM FEW080 13/M04 A3028 RMK AC1 LAST STFD OB/NXT 24 1200UTC SLP274 CYMA 240800Z 26003KT 240V330 20SM FEW050 SCT130 01/M02 A2974 RMK SC1AS2 SLP098 EFVA 240750Z AUTO 16011KT 7000 -RA OVC006/// 05/04 Q0994 KCPT 240755Z AUTO 00000KT 10SM CLR 14/12 A3005 RMK AO2 CYLK 240000Z 30003KT 270V340 25SM FEW090 FEW220 M00/M06 A3016 RMK AC1CI1 -0.1/-8.5/0/20.2 SNW CVR/HARD PACK LAST STFD OBS/NEXT 241400 UTC SLP230 CZDB 240700Z AUTO 00000KT M03/M05 RMK AO1 SLP289 T10301046 55000 ORMM 240800Z 31010KT CAVOK 30/03 Q1016 NOSIG KCPU 240750Z AUTO 00000KT 10SM CLR A3000 RMK AO2 CYLL 240800Z AUTO 22008KT 9SM SCT210 SCT230 03/M02 A3029 RMK SLP280 EFTU 240750Z AUTO 19004KT 120V230 9999 OVC005/// 06/05 Q1000 EGLL 240750Z AUTO 24011KT 9999 SCT019 13/09 Q1016 EGMC 240750Z 25009KT 9999 FEW023 13/09 Q1015 KCQM 240755Z AUTO 00000KT 10SM CLR M01/M03 A3016 RMK AO2 VERP 240430Z 01006KT 5000 HZ NSC 34/11 Q1011 NOSIG CXTV 240700Z AUTO 02006KT M14/M16 RMK AO1 SOG 50 6000 SLP139 T11411159 KDHN 240753Z AUTO 28010KT 10SM CLR 14/10 A2994 RMK AO2 SLP135 T01440100 KDGW 240753Z AUTO 34015KT 10SM BKN018 OVC023 01/M02 A3040 RMK AO2 SLP285 T00111022 $ KCRE 240803Z AUTO 12024G34KT 1 3/4SM +RA BR BKN005 OVC031 18/17 A2994 RMK AO1 PK WND 11034/0802 LTG DSNT S P0012 T01780172 EGMD 240750Z 23016KT 9999 SCT002 BKN007 BKN011 11/10 Q1017 KCPW 240748Z AUTO 22009KT 10SM CLR 01/M12 A3042 RMK AO2 KBZN 240756Z AUTO 00000KT 10SM CLR 01/M02 A3048 RMK AO2 SLP347 T00111022 KCRG 240753Z AUTO 25008KT 10SM CLR 21/20 A2989 RMK AO2 SLP122 T02110200 KBYY 240755Z AUTO 00000KT 10SM CLR 16/15 A3003 RMK AO2 T01640152 CZCP 240800Z AUTO 09014KT ////SM //// NCD M18/M21 A3006 CYKY 240800Z 22006KT 15SM SKC 00/M03 A3036 RMK SLP302 ORNI 240800Z 00000KT CAVOK 27/07 Q1017 NOSIG CYKZ 240800Z 01002KT 15SM BKN210 07/M02 A3017 RMK CI5 SLP221 NZWK 240800Z 26003KT 20KM NCD 12/08 Q1019 RMK AUTO VATSIM USE ONLY CZCR 240800Z AUTO 28005KT 01/M08 RMK AO1 SOG 76 8010 SLP222 T00111075 50003 KDIJ 240756Z AUTO 17005KT 10SM FEW022 M02/M03 A3035 RMK AO2 SLP301 T10171028 TSNO CYMJ 240036Z 33011G18KT 15SM FEW080 BKN220 12/M05 A3034 RMK AC2CI4 LAST OBS / NXT 241000 UTC SLP294 CYNA 240800Z AUTO 23005KT 9SM BKN150 BKN170 02/M03 A3008 RMK SLP188 KDHT 240753Z AUTO 15009KT 10SM CLR 11/06 A3005 RMK AO2 SLP138 T01060061 KDIK 240756Z AUTO 35005KT 10SM OVC060 03/00 A3036 RMK AO2 SLP295 T00330000 KCQT 240747Z AUTO 00000KT 4SM BR CLR 13/11 A3002 RMK AO2 SLP163 T01280111 402440128 CXWB 240700Z AUTO 24001KT M18/M20 RMK AO1 SLP180 T11801204 58010 CYLT 240800Z 30006KT 12SM FEW005 BKN013 M23/M27 A2983 RMK ST2ST5 SLP108 EFUT 240750Z 15009KT 120V190 9999 -RA BKN016 04/M01 Q1002 CYNC 232000Z 21013G23KT 15SM SCT081 SCT093 09/M03 A2985 RMK AC3ACC1 LAST STFD OBS/NEXT 241300Z SLP110 CYLU 232100Z 12003KT 15SM FEW060 SCT120 OVC230 M05/M09 A2995 RMK SC1AS2CS5 LAST STFD OBS/NEXT 241300UTC SLP150 EGNC 240750Z 26015KT 9999 BKN018 09/07 Q1009 NZWN 240800Z AUTO 02010KT 9999 NCD 13/09 Q1017 NOSIG TXKF 240755Z 07011KT 9999 FEW040 FEW055 17/08 Q1026 EHDL 240755Z AUTO 23011KT 190V280 9999 OVC014 11/08 Q1015 GRN CYND 240100Z 32002KT 15SM FEW250 09/M05 A3026 RMK CI1 LAST STFD OBS/NEXT 241100 UTC SLP250 CXVM 240700Z AUTO 18003KT 01/M01 RMK AO1 T00081014 CYMM 240800Z AUTO 22005KT 9SM FEW150 SCT170 06/M05 A3013 RMK SLP218 KCQW 240755Z AUTO 06007KT 3SM -RA BKN005 OVC009 15/15 A2996 RMK AO2 P0001 NZWP 240600Z 21003KT 20KM FEW030 SCT060 BKN240 15/10 Q1020 RMK VATSIM USE ONLY CXVN 240800Z AUTO 09002KT 06/02 RMK AO1 SLP214 T00580018 56000 CYLW 240800Z AUTO 34002KT 9SM CLR 02/M01 A3038 RMK SLP300 KCQX 240752Z AUTO 24003KT 10SM CLR 06/03 A3045 RMK AO2 SLP311 T00560033 CYNE 240800Z AUTO 36007KT 330V040 9SM OVC017 M06/M08 A3036 RMK SLP299 CYMO 240800Z AUTO 27005KT 9SM CLR 01/M01 A3003 RMK SLP173 KCSG 240751Z AUTO 27005KT 10SM CLR 14/11 A2987 RMK AO2 SLP112 T01440111 KCRP 240751Z 00000KT 10SM FEW250 14/12 A3001 RMK AO2 SLP159 T01390117 $ NZWR 240800Z 31002KT 20KM OVC190 15/11 Q1021 RMK AUTO VATSIM USE ONLY KCRQ 240753Z AUTO 15005KT 7SM OVC006 14/13 A3001 RMK AO2 SLP159 T01390128 401940128 NZWS 240800Z 10002KT 20KM SCT016 BKN021 OVC032 11/10 Q1020 RMK AUTO NZHK VATSIM EGNH 240750Z 24013KT 9999 FEW035 10/08 Q1012 EHEH 240755Z AUTO 23013KT 190V270 9999 OVC014 11/07 Q1016 GRN 23012KT 9999 BKN015 BKN020 KCRS 240753Z AUTO 00000KT 10SM CLR 13/12 A3003 RMK AO2 SLP167 T01330117 KEBA 240755Z AUTO 06003KT 10SM OVC003 17/16 A2988 RMK AO2 T01710160 NZWU 240800Z 28013KT 19KM SCT028 BKN036 BKN050 15/11 Q1018 RMK AUTO VATSIM USE O CZFA 232200Z 14010KT 30SM SCT053 BKN075 OVC090 08/M03 A2979 RMK SC3AC3AC2 CLIMAT 7.9/1.8/0.0 LAST STFD OBS/NXT 241400Z SLP118 CYOA 232300Z 27005KT 15SM FEW230 M09/M11 A3008 EGNJ 240750Z 21012KT 9999 SCT025 BKN032 11/07 Q1012 KDKB 240755Z AUTO 01004KT 10SM SCT009 OVC070 10/M01 A3007 RMK AO2 T01001007 KCTB 240756Z AUTO 22005KT 10SM CLR 02/M06 A3042 RMK AO2 SLP317 T00171061 CYMT 240800Z AUTO 23006KT 9SM FEW080 OVC100 05/M07 A3001 RMK SLP176 CYMU 232100Z 21015G21KT 15SM FEW035 BKN065 BKN090 04/M01 A2969 RMK SC1SC6AC1 SC TR LAST STFD OBS/NEXT 24 1200Z SLP062 CYOC 240100Z 04009G16KT 35SM FEW035 FEW070 FEW110 FEW220 M04/M14 A2982 RMK SF1AC1AC1CI1 SF TR AC TR AC TR CI TR -4.6/-19.4/0 CM/LAST STFD OBS/NEXT 241300Z SLP125 CZEL 240800Z AUTO 14001KT 06/M02 RMK AO1 SLP220 T00641016 55000 KCSM 240753Z AUTO 12007KT 10SM CLR 13/08 A3007 RMK AO2 SLP169 T01280078 CXWM 240700Z AUTO 18008KT 02/M03 RMK AO1 T00181029 CYOD 240800Z 18005KT 15SM FEW170 BKN240 06/M04 A3026 RMK AC2CI3 SLP266 CYNM 240800Z AUTO 24006KT 9SM CLR 07/M05 A3002 RMK SLP174 EGNM 240750Z 26008G24KT 180V330 9999 SCT011 BKN014 09/05 Q1011 KCRW 240754Z 10010KT 7SM RA SCT040 OVC080 12/09 A3002 RMK AO2 RAB11 SLP165 P0004 T01220094 KEAN 240755Z AUTO 30014G21KT 10SM OVC017 02/M01 A3035 RMK AO2 T00211011 EHDV 240755Z AUTO 26020KT 9999 NSC 08/06 Q1010 W///H/// EHFD 240755Z AUTO 25026KT 9999 NSC 08/06 Q1008 W///H/// CXWN 240800Z AUTO 36002KT 01/M03 RMK AO1 SLP273 T00061028 51010 CXVW 240800Z AUTO 18005KT 02/M05 RMK AO1 T00231047 KCRX 240755Z AUTO 00000KT 10SM OVC006 14/14 A2990 RMK AO2 EGNO 240750Z 26016KT 9999 FEW015 10/07 Q1012 CYMX 240800Z 07002KT 25SM FEW250 03/M04 A3022 RMK CI1 SLP238 KEBG 240755Z AUTO 00000KT 10SM CLR 18/16 A3003 RMK AO2 T01810156 KCSQ 240755Z AUTO 36009KT 10SM CLR 09/M00 A3012 RMK AO2 UNTT 240800Z 15002MPS 120V200 9999 BKN012 05/02 Q1017 R21/290050 NOSIG RMK QFE748 KEAR 240756Z AUTO 00000KT 10SM CLR 08/04 A3013 RMK AO2 SLP198 T00830039 EGNR 240750Z 24009KT 9999 FEW038 11/07 Q1013 KCTJ 240755Z AUTO 00000KT 10SM SCT011 BKN017 OVC050 15/15 A2988 RMK AO2 T01460145 CYPA 240800Z 07005KT 15SM SKC M01/M05 A3037 RMK SLP305 CYOJ 240800Z AUTO 17003KT 9SM FEW160 BKN250 02/M04 A2996 RMK SLP161 KDKK 240753Z AUTO 16015G26KT 10SM CLR 14/05 A3018 RMK AO2 PK WND 16026/0748 SLP219 T01390050 KCUB 240804Z AUTO 10004KT 3/4SM +TSRA BR BKN009 OVC012 18/17 A2991 RMK AO2 TSB0759 P0029 T01780172 EGPA 240750Z 25021KT 9999 VCSH SCT015 SCT040 09/06 Q0999 EGNS 240750Z 23011KT 9999 FEW012 BKN017 10/08 Q1011 NOSIG KEAT 240755Z AUTO 30003KT 10SM CLR 09/M02 A3037 RMK AO2 SLP285 T00891017 401940028 EGPB 240750Z 26012KT 9999 FEW008 07/06 Q0997 EGNT 240750Z 26016KT 9999 SCT020 10/05 Q1008 KEAU 240756Z AUTO 00000KT 10SM CLR 04/01 A3011 RMK AO2 SLP201 T00390006 CYPC 232300Z 05005KT 15SM SKC M13/M16 A3019 RMK -12.6/-23.1/0/16 MEDIUM PACK LAST STFD OBS/NEXT 241300 SLP225 ZUGY 240800Z 02004MPS 9999 FEW008 BKN016 OVC040 15/13 Q1016 NOSIG KCSV 240753Z AUTO 09006KT 10SM BKN006 OVC065 12/11 A2988 RMK AO2 RAE49 SLP110 P0004 T01170106 EGPC 240750Z 28019KT 9999 FEW016 09/05 Q1000 CZFM 232300Z VRB02KT 35SM FEW180 M04/M14 A3000 RMK AC2 -4.0/-18.8/0/SN CVR/MUCH LOOSE LAST OBS/NXT 241300Z SLP164 CZEV 240800Z AUTO 09010KT M06/M13 RMK AO1 SOG 51 8000 SLP133 T10631128 EGOM 240750Z AUTO 26019KT 9999 BKN006/// BKN015/// 07/06 Q1007 CYPD 240800Z AUTO 27005KT 240V310 9SM CLR 05/M08 A3032 RMK SLP274 EGNV 240750Z 18004KT 140V250 9999 FEW034 11/05 Q1010 EGPD 240750Z AUTO 24013KT 9999 SCT037 10/02 Q1003 CZFN 232300Z 06011KT 20SM BKN160 01/M07 A2994 RMK AS7 0.8 / -12.6 / TR / SNOW CVR / MEDIUM PACK / LAST STFD OBS/NEXT SLP150 CYPE 240800Z 24008KT 15SM FEW210 04/M04 A3013 RMK CI2 SLP225 EGPE 240750Z 23018KT 9999 -SHRA FEW021 BKN035 09/06 Q1003 KDLF 240755Z 14005KT 10SM FEW250 19/11 A3000 RMK AO2A SLP149 T01870113 CYOO 240800Z AUTO 02002KT 9SM BKN230 OVC250 05/M00 A3018 RMK SLP225 EGNX 240750Z 24016KT CAVOK 10/05 Q1013 EGPF 240750Z AUTO 25014KT 9999 SCT018 SCT026 10/06 Q1007 KECG 240754Z AUTO 10012KT 10SM OVC110 17/12 A3020 RMK AO2 SLP226 T01670117 CYPG 232200Z 31009G16KT 280V350 15SM FEW050 SCT170 BKN250 14/02 A3017 RMK CF2AC2CI4 LAST OBS/NEXT 241100 UTC SLP225 EGOP 240750Z 21009KT 9999 -RA FEW004 BKN060 10/10 Q1015 BLU EHGG 240755Z AUTO 25012KT 9999 SCT014 OVC016 12/09 Q1012 NOSIG KDLH 240755Z 36009KT 10SM CLR 08/M02 A3013 RMK AO2 SLP207 T00831017 KCUH 240755Z AUTO 00000KT 10SM CLR 11/09 A3004 RMK AO2 T01100090 CXYH 240700Z AUTO 03/M02 RMK AO1 SOG 21 7000 SLP106 T00341020 EGPH 240750Z 24017KT 9999 SCT023 10/05 Q1006 CYPH 240805Z AUTO 02021KT 3SM -SN CLR M10/M12 A2981 RMK SLP099 KDKR 240755Z AUTO 00000KT 10SM CLR 10/10 A3005 RMK AO2 KDMA 240658Z AUTO 22004KT 10SM CLR 19/M05 A3001 RMK AO2 SLP123 T01891046 403450135 $ EGPI 240750Z 23010KT 9999 FEW014 BKN048 08/07 Q1007 KEBS 240755Z AUTO 35006KT 10SM FEW120 06/05 A3011 RMK AO2 EGQA 231050Z 23015KT 9999 FEW012 SCT035 09/// Q1003 BLU CZFS 240800Z AUTO 20004KT 07/M02 RMK AO1 SOG 15 7010 SLP104 T00661018 CYQA 240800Z AUTO 12002KT 9SM FEW240 04/M07 A3015 RMK SLP216 EGOS 240750Z 22006KT 9999 SCT020 OVC080 10/07 Q1013 WHT NOSIG KCVB 240755Z AUTO 00000KT 10SM CLR 15/09 A3004 RMK AO2 T01510087 EHFS 240755Z AUTO 24016KT 9000 SCT010/// OVC013/// 11/10 Q1016 REDZ W///H/// CYQB 240800Z VRB02KT 15SM SKC M01/M04 A3023 RMK SLP240 EGPK 240750Z 23014KT 9999 FEW015 SCT025 09/07 Q1009 KEDC 240755Z AUTO 00000KT 10SM CLR 17/11 A3006 RMK AO2 KCUL 240755Z AUTO 07003KT 10SM SCT037 OVC100 13/13 A2992 RMK AO2 T01280126 KCVC 240755Z AUTO 00000KT 10SM BKN004 OVC019 18/17 A2982 RMK AO2 PNO KDLL 240755Z AUTO 00000KT 10SM CLR 02/M01 A3011 RMK AO2 T00191015 CYPL 240200Z 28014G23KT 15SM OVC035 05/M02 A3008 RMK SC8 LAST STFD OBS/NEXT 241100Z SLP204 CXZC 240800Z AUTO 25004KT 01/M02 RMK AO1 SOG 33 3010 SLP173 T00131016 EGPL 240750Z 26014KT 9999 VCSH FEW018TCU SCT024 09/06 Q1004 EGOV 240750Z 20016KT 9999 -RA FEW010 BKN045 OVC080 09/08 Q1012 BLU TEMPO 6000 RA SCT003 YLO2 CYQD 240800Z 10003KT 15SM SKC M04/M06 A3038 RMK SLP306 VGEG 240800Z 27011KT 5000 HZ SCT018 BKN100 32/24 Q1006 NOSIG KDLN 240753Z AUTO 08005KT 10SM CLR M01/M03 A3044 RMK AO2 SLP322 T10111028 EGPM 240750Z 25010KT 9999 FEW015 08/06 Q0996 KEDE 240755Z AUTO 11009KT 10SM -RA OVC090 17/12 A3019 RMK AO2 T01710124 EGOW 240750Z 23009KT 9999 FEW015 BKN050 10/08 Q1013 BLU EGPN 240750Z 26020KT 9999 FEW028 10/06 Q1005 CYOW 240800Z 14005KT 15SM SKC 05/M05 A3020 RMK SLP230 KDLO 240755Z AUTO 00000KT 10SM CLR 18/M01 A2995 RMK AO2 T01801009 403120113 KDKX 240755Z AUTO 00000KT 10SM 13/12 A2986 RMK A01 CYQF 240700Z 20003KT 15SM SCT250 02/M02 A3029 RMK CI3 SLP288 KECP 240753Z AUTO 28005KT 10SM CLR 14/12 A2993 RMK AO2 SLP146 T01440122 KCVG 240752Z 06008KT 8SM -RA SCT055 OVC070 11/09 A2998 RMK AO2 SLP148 P0002 T01110094 EGPO 240750Z 26014KT 9999 FEW012 FEW018CB 09/05 Q1002 CYPO 240800Z AUTO 33009KT 9SM -SN SCT013 OVC020 M05/M06 A3004 RMK SLP176 KCTY 240755Z AUTO 23004KT 10SM CLR 17/ A2993 RMK AO2 T0166//// KDLP 240755Z AUTO 10006KT 10SM OVC022 21/16 A2998 RMK A01 CYQG 240800Z 06006KT 15SM OVC055 10/08 A3012 RMK CU8 SLP202 CYOY 240800Z AUTO 00000KT 9SM FEW083 M04/M07 A3022 RMK SLP240 KDMH 240754Z AUTO 13/03 A3035 RMK AO1 SLP276 T01280033 KCVH 240755Z AUTO 23004KT 6SM BR OVC007 11/10 A3004 RMK A01 KCTZ 240755Z AUTO 09004KT 4SM BKN004 OVC012 16/16 A3006 RMK AO2 P0006 T01560156 CYPQ 240800Z AUTO 18002KT 9SM CLR 02/00 A3018 RMK SLP226 CYQH 240800Z 20004KT 15SM SCT050 OVC110 04/M01 A2997 RMK SC3AC5 SLP179 EHFZ 240755Z AUTO 25021KT 9999 NSC 09/06 Q1010 W///H/// CYPR 240800Z AUTO 20006KT 170V270 9SM -RA OVC048 07/06 A3031 RMK SLP266 CYQI 240800Z 21007KT 15SM SKC 04/00 A3041 RMK SLP301 KDLS 240753Z AUTO 11006KT 10SM CLR 07/M01 A3034 RMK AO2 SLP273 T00671006 402220011 KDNA 240755Z AUTO 00000KT 10SM CLR 16/M07 A3005 RMK AO2 EHGR 240758Z AUTO 22008KT 180V260 9999 OVC014 12/08 Q1016 GRN 23008KT 9999 SCT017 BKN029 OVC140 BECMG BKN014 OVC020 KCWA 240755Z AUTO 00000KT 10SM CLR 03/M03 A3013 RMK AO2 KECS 240755Z AUTO 32013G22KT 10SM SCT014 OVC020 00/M02 A3037 RMK AO2 KEDJ 240755Z AUTO 13007G15KT 10SM BKN060 10/09 A3005 RMK AO1 CYRA 240000Z 13007KT 15SM FEW220 03/M07 A3003 RMK CI1 CI TR 3.4/ -16.1/ 0.0/ SNW CVR/ MUCH LOOSE/ LAST STFD OBS/ NXT 241400Z SLP192 KCUT 240753Z AUTO 34009KT 10SM OVC018 00/M04 A3026 RMK AO2 SLP232 T00001039 EGQK 240750Z AUTO 24015KT 9999 BKN042/// 09/05 Q1003 CYRB 240800Z 33013KT 6SM -SN SCT015 BKN038 OVC084 M23/M26 A2972 RMK SC4SC2AC2 PCPN VRY LGT SLP076 CYQK 240800Z 35004KT 20SM SCT063 BKN120 03/M02 A3022 RMK SC3AC2 SLP249 KECU 240755Z AUTO 16008KT 10SM CLR 17/09 A3010 RMK AO2 KCWC 240755Z AUTO 09005KT 10SM CLR 13/10 A3006 RMK AO2 T01320097 CYQL 240800Z AUTO 20012G18KT 9SM CLR 03/M05 A3037 RMK SLP306 EGPU 240750Z 24010KT 9999 FEW026 SCT030 09/07 Q1006 EGQL 240650Z 24016KT CAVOK 09/05 Q1005 BLU KEED 240756Z AUTO 29007KT 270V330 10SM CLR 31/M06 A2987 RMK AO2 SLP079 T03061056 403830206 CYQM 240800Z 22008KT 15SM SKC 01/M04 A3028 RMK SLP258 KDMN 240753Z AUTO 28005KT 10SM CLR 13/M05 A3006 RMK AO2 SLP113 T01281050 KCVN 240756Z AUTO 15004KT 10SM CLR 11/02 A3007 RMK AO2 SLP156 T01110022 KEDN 240755Z AUTO 00000KT 10SM CLR 13/12 A2992 RMK AO2 T01250115 EGQM 240750Z AUTO 25013KT 9999 FEW030/// SCT034/// 10/04 Q1008 CYPW 240200Z 26003KT 240V300 30SM FEW240 SCT250 SCT260 15/M01 A3027 RMK CS1CI3CC1 CC TR LAST STFD OBS NEXT OBS 241300 UTC SLP256 KDMO 240753Z AUTO 01006KT 10SM CLR 12/02 A3003 RMK AO2 SLP165 T01170017 KCVO 240756Z AUTO 29004KT 10SM CLR 09/03 A3011 RMK AO2 SLP198 T00940028 402390039 KCWF 240755Z AUTO 00000KT 10SM CLR 13/12 A3001 RMK AO2 T01300122 CYPX 240800Z AUTO 01010KT 9SM CLR M17/M19 A2990 RMK SLP128 CYPY 240800Z AUTO 13006KT 9SM BKN240 03/M04 A3005 RMK SLP189 KDLZ 240757Z AUTO 10008KT 10SM OVC070 11/08 A3007 RMK AO2 CYQQ 240800Z 30004KT 20SM BKN240 07/03 A3028 RMK CS6 SLP255 KCWI 240756Z AUTO 03005KT 10SM CLR 08/02 A3008 RMK AO2 SLP210 T00830017 KCVS 240658Z AUTO 14006KT 10SM CLR 11/05 A3008 RMK AO2 SLP147 T01130045 402680033 $ CYQR 240800Z 21004KT 15SM SKC M01/M05 A3040 RMK SLP321 CYRJ 240800Z 23013KT 25SM FEW210 08/M07 A3009 RMK CC2 SLP196 EGQS 240750Z 24017KT 9999 FEW020 BKN040 09/05 Q1002 BLU TEMPO 7000 SHRA SCT020 EHJA 240755Z AUTO 24030KT 9999 NCD 09/07 Q1011 W///H/// OTBD 240700Z 35019KT CAVOK 31/16 Q1012 NOSIG CYQT 240800Z 32003KT 250V330 15SM SKC 02/M02 A3016 RMK SLP221 CYSB 240700Z 29003KT 15SM BKN250 07/M06 A3014 RMK CI5 SLP215 KDNL 240753Z AUTO 12004KT 10SM FEW012 BKN022 OVC065 19/18 A2986 RMK AO2 SLP106 P0001 T01890178 KEDU 240800Z AUTO 18004KT 10SM CLR 13/10 A2995 RMK AO1 CYRL 240200Z 27003KT 15SM SCT070 SCT220 05/M02 A3016 RMK AC3CI1 LAST STFD OBS/NEXT 240900 UTC WND ESTD SLP230 EGSC 240750Z 25009KT 9999 FEW018 12/08 Q1015 CYSC 240800Z AUTO 08004KT 9SM CLR M01/M05 A3026 RMK SLP254 CYQU 240800Z 22004KT 25SM FEW180 04/M05 A3020 RMK AC2 SLP250 KEFD 240750Z 24002KT 10SM CLR 16/13 A3004 KDMW 240755Z AUTO 14005KT 10SM CLR A3033 RMK AO2 KEDW 240758Z AUTO 22012KT 10SM CLR 18/02 A2998 RMK AO2 SLP131 T01830022 403210143 KCWN 240753Z AUTO 33016G28KT 10SM SCT011 BKN024 BKN110 05/02 A3015 RMK AO2 CIG 011V024 SLP073 $ CXZV 240800Z AUTO 06002KT 01/M04 RMK AO1 SOG 109 6010 SLP174 T00071036 CYQV 240800Z AUTO 26005KT 9SM CLR 00/M03 A3037 RMK SLP307 KDNN 240755Z AUTO 01004KT 5SM RA BKN004 OVC010 13/13 A2987 RMK AO2 KEEN 240756Z AUTO 00000KT 10SM CLR 00/M03 A3039 RMK AO2 SLP314 T00001028 FZRANO KCVW 240755Z AUTO 00000KT 10SM FEW037 16/14 A3001 RMK A01 KCXE 240755Z AUTO 05006KT 7SM SCT034 BKN041 OVC050 10/10 A3017 RMK AO1 P0010 T01020102 CYQW 240800Z AUTO 15003KT 9SM CLR M00/M04 A3035 RMK SLP301 KEEO 240753Z AUTO 03007KT 10SM FEW120 06/M01 A3024 RMK AO2 SLP182 T00611006 KCVX 240755Z AUTO 00000KT 10SM CLR 04/M02 A3014 RMK AO2 T00411018 EHHW 240755Z AUTO 28017KT 9999 FEW011/// 10/07 Q1011 W///H/// CYQX 240800Z 24012KT 20SM FEW180 SCT240 01/M07 A3015 RMK AC1CI2 SLP218 CYSF 240800Z AUTO 14002KT 9SM CLR M07/M07 A3020 RMK SLP246 OTBH 240756Z 36017G23KT 5000 BLDU FEW150 SCT200 34/06 A2991 RMK AO2A SLP129 T03410064 $ CZHY 240800Z AUTO 19009KT 06/M04 RMK AO1 SOG 02 8020 SLP123 T00611037 CYQY 240800Z 24009KT 15SM FEW250 00/M05 A3031 RMK CI1 SLP266 CYRQ 240800Z AUTO 00000KT 9SM BKN240 M01/M04 A3021 RMK SLP235 CYQZ 240800Z AUTO VRB02KT 9SM CLR 03/M01 A3026 RMK SLP265 EGSH 240750Z 25011KT 220V290 9999 SCT017 12/09 Q1014 NOSIG KDPA 240752Z 36006KT 10SM FEW011 OVC075 10/01 A3005 RMK AO2 SLP175 T01000011 KDNS 240755Z AUTO 03003KT 10SM CLR 07/04 A3015 RMK AO2 CYSJ 240800Z 00000KT 15SM FEW260 M02/M02 A3035 RMK CI1 SLP281 KEET 240753Z AUTO 25003KT 10SM CLR 13/12 A2990 RMK AO2 SLP120 T01280122 OSKL 240800Z 09010KT CAVOK 24/08 Q1017 ORSU 240800Z VRB02KT 9999 SCT040 20/07 Q1020 KEFK 240755Z AUTO 17006KT 10SM CLR 07/M07 A3029 RMK AO2 T00701075 CYSK 232200Z 22018KT 12SM -DZ FEW014 OVC030 01/00 A2962 RMK SC2SC6 LAST OBS/NEXT 241200UTC SLP035 CYRT 240800Z 22008KT 10SM -SN BKN050 M15/M17 A3014 RMK SC7 SLP211 KCWV 240755Z AUTO 00000KT 10SM BKN013 OVC018 21/19 A2986 RMK AO2 T02100191 EGTC 240750Z 25010KT 9999 FEW013 11/09 Q1014 KDNV 240755Z AUTO 06006KT 10SM SCT029 OVC055 11/11 A2998 RMK AO2 T01080105 CZKD 240800Z AUTO 26002KT M13/M14 RMK AO1 SOG 05 1010 SLP285 T11251136 CYRV 240800Z AUTO 00000KT 9SM CLR 02/M00 A3046 RMK SLP328 CYSM 240800Z 15008KT 15SM SCT140 02/M04 A3001 RMK AC3 SLP175 EHKD 240755Z AUTO 24017KT 9999 FEW022 OVC095 11/09 Q1013 BLU 23015G25KT 9999 SCT020 BKN030 KEGE 240756Z AUTO 25005KT 10SM OVC095 11/M01 A3022 RMK AO2 SLP185 T01111011 CYSN 240100Z 23003KT 15SM BKN260 07/02 A3020 RMK CI7 LAST STFD OBS/NEXT 241100 UTC SLP230 EGTE 240750Z VRB03KT 9999 FEW010 12/10 Q1016 KCXO 240753Z AUTO 00000KT 10SM CLR 11/11 A3004 RMK AO2 SLP169 T01110111 CYTE 240800Z AUTO VRB02KT 9SM CLR M19/M22 A2998 RMK SLP161 KDPG 232330Z 32010G16KT 40SM SCT180 BKN210 20/M09 A3012 RMK SLP163 T02031086 LAST KCXP 240755Z AUTO 21004KT 10SM CLR 10/M07 A3021 RMK AO2 CYSP 232100Z VRB02KT 15SM FEW070 BKN085 BKN090 OVC260 06/M03 A3012 RMK AC2AC3AC2CI1 LAST STFD OBS/NEXT 241200UTC SLP217 CYTH 240800Z 27002KT 15SM SKC M12/M13 A3036 RMK SLP302 KEGI 240756Z AUTO 00000KT 10SM CLR 12/10 A2994 RMK AO2 SLP139 T01170101 $ OSLK 240800Z 35006KT CAVOK 24/14 Q1015 KEHA 240755Z AUTO 14007KT 10SM CLR 09/08 A3005 RMK AO2 T00930075 EHJR 240755Z AUTO 25024KT //// // ///////// 09/08 Q1012 RE// W07/H14 CYUA 240800Z AUTO 24004KT ////SM //// NCD M18/M21 A2992 EGSS 240750Z AUTO 25008KT 9999 NCD 12/08 Q1015 KEFT 240755Z AUTO 02004KT 10SM CLR 08/M01 A3008 RMK AO2 EGUB 240750Z 23009KT 9999 FEW017 OVC080 11/08 Q1016 BLU TEMPO SCT015 WHT CYUB 240500Z 07013KT 15SM FEW080 FEW250 M14/M17 A3000 RMK AC1CI1 AC TR CI TR MEDIUM PACK LAST OBS/NEXT 241300UTC SLP160 EGTK 240750Z 24010KT 9999 RA BKN030 10/08 Q1015 KCXU 240755Z AUTO 00000KT 10SM SCT043 OVC050 16/14 A2992 RMK AO1 T01560136 KEHC 240750Z AUTO 28013KT 10SM CLR 21/14 A3001 RMK A01 KDPL 240755Z AUTO 11006KT 5SM -RA BR BKN012 OVC017 16/15 A3008 RMK AO2 P0004 KDOV 240756Z AUTO 12006KT 10SM CLR 10/05 A3036 RMK AO2 SLP284 T00970049 $ CYTL 240800Z AUTO 32010G15KT 9SM FEW036 OVC048 M04/M07 A3014 RMK SLP223 KCXW 240755Z AUTO 00000KT 2 1/2SM BR FEW025 SCT033 BKN040 10/10 A2997 RMK A01 KCXY 240756Z AUTO 11003KT 10SM CLR 10/01 A3033 RMK AO2 SLP272 T01000011 CYSY 232300Z 33005KT 10SM -SN OVC008 M15/M18 A3018 RMK ST8 LAST OBS/NEXT 241300Z SLP233 KDQH 240755Z AUTO 24007KT 10SM CLR 15/12 A2990 RMK AO2 VGHS 240800Z 11007KTKT 4000 HZ SCT015 BKN100 33/23 Q1008 NOSIG CYTQ 232100Z 05011KT 15SM FEW030 BKN087 OVC200 M05/M07 A2989 RMK SC1AC6CI2 SC TR LAST STFD OBS/NEXT 241200UTC SLP128 CYTR 240800Z 18004KT 15SM BKN250 08/02 A3020 RMK CS6 SLP228 KCYS 240753Z AUTO 10SM BKN009 BKN060 OVC075 M01/M02 A3030 RMK AO2 SLP235 T10061022 $ KDRA 240755Z AUTO 00000KT 10SM CLR 16/M08 A2998 RMK AO2 SLP112 T01611083 403110122 CYTS 240800Z 19006KT 15SM FEW090 SCT250 04/M06 A3006 RMK AC2CI2 SLP190 EGVA 240805Z AUTO 25013G18KT 4400 BR OVC065 11/08 A2998 RMK AO2 VIS 1400V4400 DZE0759 SLP156 $ EHMA 240755Z AUTO 27023KT 9999 FEW013 BKN017 BKN021 11/09 Q1012 W///H/// EICK 240800Z 18005KT 140V210 1600 -RA SCT002 BKN013 08/08 Q1011 BECMG 8000 KCZL 240755Z AUTO 04004KT 10SM -RA OVC014 15/15 A2987 RMK AO2 T01520152 CYUL 240800Z VRB02KT 15SM FEW240 06/M03 A3023 RMK CI1 SLP238 CYVC 240800Z 16006KT 15SM SKC M01/M04 A3033 RMK SLP292 KEGV 240755Z AUTO 00000KT 10SM CLR M01/M04 A3012 RMK AO2 T10111042 EGUL 240756Z AUTO 26011KT 9999 CLR 12/08 A2995 RMK AO2 SLP145 T01190076 $ CZMD 240800Z AUTO 29006KT 270V340 9SM FEW016 BKN023 OVC031 M03/M06 A3017 RMK SLP234 EHKV 240755Z AUTO 25024KT 9999 NSC 09/08 Q1012 W///H/// EGUN 240756Z AUTO 26012KT 9999 CLR 12/12 A2995 RMK AO2 SLP145 T01200120 $ KEHO 240800Z AUTO 09009KT 3SM -RA OVC007 13/13 A2994 RMK AO2 P0002 T01320128 EHMG 240755Z AUTO 25023KT 9999 NCD 09/08 Q1011 W///H/// CYTZ 240800Z AUTO 09004KT 9SM CLR 07/00 A3018 RMK SLP223 KDRI 240755Z AUTO 00000KT 10SM CLR 12/11 A3002 RMK AO2 T01170110 KEHR 240756Z AUTO 06006KT 10SM OVC020 14/12 A2992 RMK AO2 SLP142 T01390122 CZMJ 240800Z AUTO 21006KT M02/M05 RMK AO1 SOG 04 2000 SLP326 T10181052 CYUS 240800Z AUTO 09005KT ////SM //// FEW070 FEW085 OVC140 M24/M28 A2990 KEIK 240800Z AUTO 00000KT 3SM -SN BKN009 BKN014 OVC020 01/00 A3039 RMK AO2 T00130003 CYWA 240800Z AUTO 27002KT 5SM CLR M00/M05 A3018 RMK SLP225 KCZT 240755Z AUTO 16004KT 10SM CLR 17/11 A2999 RMK AO2 CYUT 232200Z 30005KT 250V330 25SM FEW018 FEW220 M16/M22 A3011 RMK SF1CS1 SF TR -16.3/-23.2/0.0/8.0 SNW CVR/MEDIUM PACK LAST STFD OBS/NXT 241200Z SLP201 EIDL 240800Z 23015KT CAVOK 10/08 Q1008 EGWC 240750Z 22006KT 9999 BKN020 10/06 Q1014 WHT CYVL 240800Z AUTO 03004KT 9SM FEW210 M09/M13 A2988 RMK SLP146 KDRM 240755Z AUTO 00000KT 10SM CLR 01/M03 A3013 RMK AO2 T00051026 CYVM 240800Z AUTO 11002KT 9SM OVC023 M15/M20 A2977 RMK SLP083 KFAF 240656Z AUTO 10008KT 10SM FEW042 BKN110 14/08 A3023 RMK AO2 SLP240 T01390083 $ EGUW 240750Z 27011KT 9999 FEW013 OVC100 12/07 Q1014 BLU NOSIG CYWE 240800Z AUTO /////KT 9SM BKN065 OVC081 M06/M09 A2990 RMK ICG WND MISG SLP157 KDRO 240753Z AUTO 36003KT 10SM CLR 06/M09 A3013 RMK AO2 SLP142 T00561094 EHLW 240803Z AUTO 26018KT 220V290 9999 BKN015 OVC018 12/09 Q1012 WHT 26016KT 9999 SCT044 TEMPO FEW012 BKN015 EGVN 240750Z 26007KT 9999 -RA FEW009 OVC070 10/08 Q1015 BLU TEMPO SCT009 GRN KDSF 240800Z AUTO VRB03G11KT 10SM FEW024 BKN038 BKN043 22/15 A2998 RMK A01 CYVO 240800Z AUTO 22006KT 9SM CLR 04/M06 A3011 RMK SLP208 CYUX 240800Z AUTO 23007KT 8SM -SN M26/M29 A2992 RMK CLD MISG SLP134 EGVO 240750Z 26012KT 9999 FEW014 BKN070 11/08 Q1016 BLU TEMPO SCT014 GRN KEHY 240755Z AUTO 03005KT 10SM OVC010 M01/M03 A3032 RMK AO2 EGVP 240750Z 27007KT 9999 FEW015 BKN065 12/08 Q1016 BLU NOSIG CYUY 240800Z 16003KT 15SM FEW220 01/M05 A3011 RMK CI1 CI TR SLP207 CYWG 240800Z 03002KT 15SM SCT210 M01/M03 A3032 RMK CI3 SLP277 KCZZ 240752Z AUTO 04006KT 09/03 A3002 RMK AO1 SLP137 T00890033 403000044 CYVP 240800Z 02010KT 9SM -SN BKN007 OVC023 M04/M05 A2970 RMK SF6SC2 SLP061 CYWH 240400Z 03003KT 350V070 15SM SCT240 15/01 A3022 RMK CI4 LAST STFD OBS/NEXT 241300 UTC SLP236 CYVQ 240800Z 11003KT 30SM FEW025 SCT050 BKN078 BKN110 M01/M07 A2986 RMK SC2SC2AC1AC2 SLP118 KEIR 240755Z AUTO 32016KT 10SM FEW026 OVC035 21/16 A3001 RMK A01 CYVR 240800Z VRB02KT 20SM SCT250 09/04 A3026 RMK CS3 SLP247 KDTA 240755Z AUTO 03009KT 10SM CLR 08/M07 A3019 RMK AO1 CYWJ 232300Z 10009G16KT 50SM BKN160 M01/M09 A2998 RMK AS6 -0.9/-16.6/0/37 SNW CVR/MUCH LOOSE LAST STFD OBS/NXT 241300 UTC SLP172 KDRT 240753Z AUTO 12007KT 10SM CLR 20/12 A2999 RMK AO2 SLP140 T02000117 $ CZMT 240100Z 16014G20KT 10SM -DZ FEW008 BKN015TCU BKN030 OVC060 09/07 A3020 RMK CF2TCU3SC2SC1 LAST STFD OBS/NEXT 241400 UTC SLP228 CYVT 240400Z 15005KT 15SM FEW140 FEW250 04/M04 A3024 RMK AC1CI1 AC TR CI TR LAST STFD OBS/NXT 241200 UTC SLP264 CYWK 240800Z AUTO 19004KT 9SM SCT045 BKN055 OVC080 03/00 A2985 RMK SLP128 CZMU 240700Z AUTO 18005KT 04/M00 RMK AO1 T00351002 CYXC 240800Z 20003KT 180V260 25SM SKC 03/M05 A3043 RMK SLP324 CYWL 240800Z 11008KT 15SM BKN240 06/M06 A3027 RMK CI7 SLP271 KFAM 240756Z AUTO 33006KT 1/2SM -RA FG OVC002 12/12 A2997 RMK AO2 RAB54 SLP144 P0000 T01220122 KDSM 240754Z 03004KT 10SM CLR 12/00 A3010 RMK AO2 SLP191 T01170000 EGXC 240750Z 24015KT CAVOK 11/05 Q1013 BLU NOSIG CYVV 240800Z VRB03KT 15SM OVC250 07/M00 A3015 RMK CS8 SLP215 EIDW 240800Z 22008KT 190V250 9999 FEW017 SCT022 BKN040 10/07 Q1011 NOSIG CYXE 240800Z 22007KT 15SM SKC M00/M04 A3038 RMK SLP310 EGXE 240750Z 27010KT 9999 BKN028 BKN038 10/04 Q1010 BLU TEMPO SCT024 WHT KFBG 240800Z AUTO 10011KT 6SM -RA BR BKN005 OVC010 15/15 A3002 RMK AO2 SLP168 $ CYXH 240800Z AUTO 21006KT 9SM CLR 01/M02 A3038 RMK SLP306 KFAR 240753Z 01016KT 10SM OVC060 09/03 A3020 RMK AO2 SLP229 T00940033 KDUA 240755Z AUTO 31004KT 10SM CLR 13/10 A3004 RMK AO2 KELA 240755Z AUTO 28003KT 10SM CLR 17/15 A3004 RMK AO2 T01660146 CYXJ 240800Z 25006KT 35SM BKN180 07/M06 A3014 RMK AC7 SLP229 KFAT 240753Z 30005KT 10SM CLR 21/12 A2995 RMK AO2 SLP137 T02060122 403330161 KDUB 240755Z AUTO 13013KT 10SM SCT027 OVC035 M03/M04 A3036 RMK AO2 KFBL 240727Z AUTO 00000KT 10SM CLR 05/04 A3013 RMK AO2 CYYB 240800Z AUTO VRB02KT 9SM BKN240 07/M06 A3014 RMK SLP216 KDTL 240755Z AUTO 36003KT 10SM CLR 08/01 A3020 RMK AO2 KDUC 240755Z AUTO 00000KT 10SM CLR 12/09 A3006 RMK AO2 T01220092 KEKM 240052Z 11005KT 10SM FEW025 14/10 A3011 RMK AO2 LAST CZOL 240700Z AUTO 21002KT 06/M01 RMK AO1 T00601014 CZPC 240800Z AUTO 28009KT 9SM CLR 03/M06 A3037 RMK SLP311 CYXL 240800Z 32002KT 15SM SCT200 M03/M04 A3017 RMK CI3 SLP236 CYYC 240800Z 22003KT 15SM SKC 03/M04 A3031 RMK SLP296 EGWU 240750Z 25010KT 9999 FEW018 BKN085 13/09 Q1015 TEMPO SCT020 KELD 240753Z AUTO 00000KT 8SM CLR 12/12 A2998 RMK AO2 SLP150 T01220122 KDSV 240754Z AUTO 16006KT 10SM CLR 11/02 A3025 RMK AO2 SLP249 T01060022 EGYD 240750Z 24013KT 9999 FEW043 OVC130 10/05 Q1013 BLU NOSIG CYYD 240800Z AUTO 27005KT 260V020 9SM BKN100 BKN120 BKN140 03/M01 A3023 RMK SLP254 KDTN 240753Z AUTO 26004KT 10SM CLR 14/12 A2998 RMK AO2 SLP152 T01390117 KEKN 240751Z AUTO 14014G24KT 10SM -RA OVC090 10/04 A3014 RMK AO2 SLP207 P0003 T01000044 TSNO CYXN 232200Z 35011KT 15SM FEW230 M13/M18 A3026 RMK CI2 -13.0/-17.5/0.0MM/LAST STFD OBS/NEXT 241300Z SLP249 EGYE 240650Z 24011KT CAVOK ///// Q1013 BLU CYYE 240800Z 00000KT 15SM BKN130 OVC180 05/M03 A2996 RMK AC6CI2 SLP161 KDTO 240753Z AUTO 32004KT 10SM CLR 11/11 A3003 RMK AO2 SLP164 T01110106 KEKO 240756Z AUTO 05007KT 10SM CLR 07/M08 A3025 RMK AO2 SLP224 T00721078 401780000 OTHH 240700Z 01015KT CAVOK 29/18 Q1012 NOSIG CYYF 240800Z 00000KT 15SM SKC 04/M01 A3039 RMK SLP300 KFAY 240753Z 09012G22KT 4SM RA BR FEW009 SCT021 OVC032 16/14 A3002 RMK AO2 PK WND 12026/0737 SLP159 P0011 T01560139 KDUG 240756Z AUTO 01007KT 10SM CLR 17/M07 A3009 RMK AO2 SLP125 T01721067 CYWY 232200Z 15010KT 15SM SCT220 09/M04 A2994 RMK CI4 9.5/-7.3/0/36 LAST OBS/NXT 241400Z SLP150 CYXP 232200Z 25014KT 15SM IC FEW020 M14/M19 A2980 RMK SC2 -13.7/-15.9/T/7 SNW CVR/MUCH LOOSE LAST STFD OBS/NEXT 241100Z SLP096 EGXP 240750Z 23013KT 9999 FEW040 BKN100 10/07 Q1012 BLU CYYG 240800Z 23006KT 15SM BKN240 04/M04 A3029 RMK CI5 SLP261 KDUH 240755Z AUTO 10004KT 10SM SCT050 OVC060 14/07 A3011 RMK AO2 T01430067 KEKQ 240756Z AUTO 31005KT 10SM RA FEW010 OVC080 12/12 A2992 RMK AO2 SLP153 T01220117 PNO $ KFCH 240755Z AUTO RMK A01 EHPG 240755Z AUTO 22022KT 9999 NSC 10/09 Q1014 W///H/// CYXQ 232200Z 03004KT 290V040 30SM FEW045 SCT170 BKN210 08/M07 A2962 RMK CU1AC3CS3 CLIMAT 7.9/-0.6/0.0/LAST STFD OBS/NXT 251600Z SLP058 DENSITY ALT 2200FT EGYH 240750Z 25014KT 9999 FEW015 BKN050 12/07 Q1014 BLU CYYH 240800Z 22004KT 8SM -SN VCFG FEW045 SCT075 SCT200 M24/M27 A2989 RMK SC1AC3CS1 SC TR SLP129 KFBR 240759Z AUTO 11009KT 10SM CLR M01/M03 A3033 RMK AO2 KFCI 240756Z AUTO 07005KT 10SM FEW043 OVC095 13/06 A3024 RMK AO2 RAE11 SLP257 P0000 T01280061 $ CYXR 240800Z AUTO 13005KT 9SM BKN220 OVC240 04/M04 A3011 RMK SLP206 KDUJ 240753Z AUTO 13010KT 10SM FEW055 BKN120 11/03 A3023 RMK AO2 SLP233 T01060033 TSNO KDTS 240753Z AUTO 31003KT 10SM CLR 17/11 A2995 RMK AO2 SLP140 T01720106 $ KEKS 240755Z AUTO 03009KT 10SM CLR M01/M03 A3047 RMK AO2 EGXS 240750Z 22011KT 9999 BKN036 BKN140 11/06 Q1012 BLU CYYJ 240800Z 28005KT 30SM BKN250 08/03 A3026 RMK CI5 SLP248 CYXS 240800Z AUTO 08004KT 040V140 9SM CLR 03/M04 A3024 RMK SLP261 KELK 240755Z AUTO 13003KT 10SM CLR 13/08 A3006 RMK AO2 T01300081 EGXT 240750Z 24011KT CAVOK 11/06 Q1013 BLU CYXT 240800Z 17005KT 150V300 15SM OVC089 09/01 A3030 RMK AS8 SLP266 EGXU 240750Z AUTO 25007KT 9999 // BKN023/// SCT030/// 10/06 Q1011 CYXU 240800Z 00000KT 15SM OVC120 08/02 A3016 RMK AC8 SLP218 CYYL 240800Z AUTO 22004KT 9SM CLR M11/M11 A3030 RMK SLP292 KFCM 240753Z AUTO 27003KT 10SM CLR 09/03 A3012 RMK AO2 SLP200 T00940033 KELM 240753Z AUTO 00000KT 10SM CLR 12/02 A3029 RMK AO2 SLP254 T01170022 KELN 240753Z AUTO 03004KT 10SM CLR 06/M02 A3036 RMK AO2 SLP282 T00611017 402061011 KDTW 240753Z 03003KT 10SM BKN035 OVC060 13/07 A3014 RMK AO2 SLP203 T01280067 EGXV 240750Z AUTO 24008KT 9999 BKN025/// BKN032/// 10/06 Q1011 EGYM 240750Z 25011KT 9999 FEW010 BKN100 13/09 Q1014 BLU NOSIG EGXW 240750Z 24009KT 9999 SCT035 OVC250 11/05 Q1013 BLU NOSIG CYZE 240800Z AUTO 18002KT 9SM BKN240 00/M01 A3013 RMK SLP210 CYYN 240800Z AUTO 20010KT 9SM CLR 01/M06 A3039 RMK SLP317 KEKX 240755Z AUTO 04005KT 10SM OVC006 12/12 A2991 RMK AO2 T01150115 KELO 240755Z AUTO 00000KT 10SM CLR 00/M03 A3016 RMK AO2 EHQE 240755Z AUTO 20022KT //// // NSC 10/08 Q1013 RE// W///H/// CYZF 240800Z 16008KT 15SM OVC100 01/M03 A2989 RMK AC8 SLP137 CYXX 240800Z 34003KT 15SM FEW220 09/04 A3027 RMK CS1 SLP252 KELP 240751Z 15003KT 10SM FEW250 20/M03 A3001 RMK AO2 SLP091 T02001033 $ KEKY 240756Z AUTO 25005KT 10SM CLR 12/11 A2991 RMK AO2 SLP144 T01170111 CYZG 232100Z 04012KT 12SM SCT010 BKN030 BKN210 M13/M15 A2991 RMK ST4SC1CS2 SN CVR/TRACE LOOSE/LAST STFD OBS/NEXT OBS 241200UTC SLP159 CYXY 240800Z 15016KT 15SM BKN120 02/M03 A2991 RMK AC6 SLP160 EGYP 240750Z 28014KT CAVOK 05/M01 Q1011 BLU CYXZ 240000Z 21003KT 190V330 15SM SCT230 08/M05 A3015 RMK CI3 CONTRAILS LAST OBS/NEXT 241100 UTC SLP222 EGXZ 240750Z AUTO 25011KT 9999 BKN033/// 11/06 Q1010 CYYQ 240800Z 26005KT 15SM FEW012 SCT100 M11/M13 A3031 RMK SC1AC2 SLP268 CYZH 240800Z AUTO 17002KT 9SM CLR 01/M04 A3018 RMK SLP245 CYYR 240800Z 25009KT 15SM FEW075 BKN088 OVC110 05/M04 A2990 RMK AC2AC4AC2 SLP127 KFCS 240756Z AUTO 35029G39KT 10SM FEW120 06/03 A3015 RMK AO2 PK WND 36043/43 SLP193 T00640025 $ CZPS 240700Z AUTO 21011KT 06/M03 RMK AO1 T00621034 KFDK 240755Z AUTO 00000KT 10SM CLR 12/M01 A3035 RMK AO2 KEMK 240750Z AUTO 24005KT 9SM CLR 23/16 A3003 RMK A01 KDVK 240755Z AUTO 09005KT 10SM -RA OVC090 11/10 A2993 RMK AO2 CYYT 240800Z 26013KT 15SM FEW080 01/M04 A3020 RMK AC1 SLP235 KDVL 240756Z AUTO 34007KT 10SM OVC090 04/00 A3032 RMK AO2 SLP291 T00440000 CYYU 240800Z 26007KT 15SM SCT230 04/M05 A3006 RMK CI3 SLP188 KEMM 240755Z AUTO 08004KT 10SM SCT012 M01/M04 A3033 RMK AO2 KEND 240756Z AUTO 00000KT M M CLR 11/09 A3004 RMK AO2 SLP169 T01130089 RVRNO $ KDVN 240752Z AUTO 02005KT 10SM CLR 08/01 A3009 RMK AO2 SLP186 T00830006 EHRD 240755Z AUTO 25012KT 210V270 9999 SCT010 SCT016 OVC022 12/10 Q1015 TEMPO BKN014 CYYW 240800Z AUTO VRB02KT 9SM OVC140 01/M02 A3012 RMK SLP209 KDUX 240755Z AUTO 12011KT 10SM CLR 10/05 A3005 RMK AO2 T01020052 KDVO 240755Z AUTO 33004KT 10SM CLR 11/10 A3001 RMK AO2 KDVP 240803Z AUTO 27003KT 10SM CLR 04/02 A3016 RMK AO2 T00400018 KEMP 240753Z AUTO 31004KT 10SM CLR 09/04 A3007 RMK AO2 SLP183 T00940044 KELY 240753Z AUTO 04012KT 10SM CLR 05/M08 A3024 RMK AO2 SLP183 T00501083 401890000 CYYY 240800Z 21014KT 30SM SCT220 08/M07 A3011 RMK CI3 SLP201 CYZP 240800Z AUTO /////KT 07/07 A3028 RMK WND MISG CLD MISG WX MISG VIS MISG PCPN MISG ICG MISG SLP257 KDWH 240753Z AUTO 00000KT 10SM CLR 14/13 A3004 RMK AO2 SLP172 T01390133 KELZ 240756Z AUTO 17005KT 10SM CLR 11/03 A3026 RMK AO2 SLP245 T01060033 CYYZ 240800Z 13002KT 15SM FEW150 BKN220 08/M03 A3017 RMK AC2CS4 SLP219 KFDR 240753Z AUTO 06008KT 10SM CLR 12/08 A3002 RMK AO2 SLP154 T01220078 CYZR 240800Z AUTO 15004KT 9SM OVC085 10/07 A3014 RMK SLP209 KFFA 240750Z AUTO 12008G14KT 10SM CLR 15/10 A3020 RMK AO2 T01450098 KEMT 240250Z 21006KT 10SM CLR 17/11 A2997 CYZS 240800Z VRB02KT 15SM FEW070 FEW210 M23/M27 A3004 RMK AC2CI1 CI TR SLP185 KDVT 240753Z AUTO 11005KT 10SM CLR 21/M05 A2991 RMK AO2 SLP107 T02061050 EHSA 240755Z AUTO 22021KT 9999 ///////// 10/09 Q1015 W08/H14 CYZT 240800Z 22004KT 15SM BKN210 05/04 A3030 RMK CI7 SLP262 KFFC 240805Z AUTO 00000KT 10SM SCT006 OVC014 17/16 A2984 RMK AO2 T01670161 KENL 240755Z AUTO 00000KT 7SM OVC006 14/13 A2994 RMK AO2 T01360133 CYZU 240400Z 15004KT 15SM SCT240 10/M08 A3022 RMK CI3 LAST OBS/NEXT 241200Z SLP258 KEOD 231758Z AUTO 11007KT 6SM -RA FEW020 SCT070 BKN095 17/15 A2990 RMK AO2 LTG DSNT SE RAB48 SLP126 P0001 60018 T01740147 10179 20145 58002 EHSC 240755Z AUTO 24020KT 7000 ///////// 10/08 Q1015 W09/H15 KEMV 240755Z AUTO 04009KT 10SM SCT090 OVC110 13/07 A3020 RMK AO2 CYZV 240800Z VRB02KT 15SM BKN100 01/M05 A3004 RMK AC7 SLP176 KEOE 240755Z AUTO 00000KT 5SM -DZ OVC004 16/16 A2992 RMK AO2 KFDW 240755Z AUTO 11009KT 10SM -RA OVC005 16/16 A2991 RMK AO1 LTG DSNT S CYZW 240000Z 18013G18KT 130V210 30SM OVC049 06/M02 A2993 RMK SC8 CLIMAT 6.3/2.7/0.0/44023/LAST STFD OBS/NXT 241600Z SLP166 CYZX 240800Z 20002KT 15SM SKC 01/M04 A3039 RMK SLP292 KFDY 240753Z AUTO 12009KT 10SM OVC070 13/07 A3007 RMK AO2 SLP177 T01330072 $ KFEP 240755Z AUTO 36003KT 10SM BKN110 07/00 A3010 RMK AO2 T00730001 CYZY 240800Z AUTO 16002KT 9SM OVC170 01/M05 A3022 RMK SLP262 KDYA 240755Z AUTO 00000KT 10SM SCT050 SCT055 OVC075 12/11 A2993 RMK AO2 T01180106 KDYB 240755Z AUTO 00000KT 10SM BKN011 OVC021 18/18 A2988 RMK AO1 CZSJ 240800Z AUTO 33011KT 9SM -SN SCT013 OVC023 M04/M05 A3020 RMK SLP244 KEOK 240755Z AUTO 03005KT 10SM CLR 12/10 A3004 RMK AO2 KFET 240755Z AUTO 00000KT 10SM BKN095 08/01 A3014 RMK AO2 T00820011 CZTB 240800Z AUTO 31002KT 03/M03 RMK AO1 SLP220 T00331030 51010 KFFL 240755Z AUTO 03006KT 10SM CLR 08/M01 A3006 RMK AO2 PWINO KDWU 240756Z AUTO VRB03KT 10SM OVC090 12/09 A3000 RMK AO2 RAE01 SLP158 P0000 T01220094 KFFM 240755Z AUTO 05003KT 10SM SCT090 120 09/02 A3015 RMK AO2 KENV 240756Z AUTO 03013G22KT 10SM CLR 10/M02 A3026 RMK AO2 SLP233 T01001017 CZSM 240800Z AUTO 13004KT 03/M05 RMK AO1 SOG 17 8020 SLP173 T00311048 KFEW 240758Z AUTO M 10SM -SN BKN009 M01/M02 A3033 RMK AO2 PK WND 02028/02 SNB44 SLP253 T10071021 $ KENW 240753Z AUTO 36003KT 10SM OVC100 08/M01 A3007 RMK AO2 SLP182 T00831006 VHHH 240800Z 32005KT 9999 FEW012 SCT040 27/23 Q1008 NOSIG KDWX 240755Z AUTO 02014G18KT 10SM CLR 02/M03 A3029 RMK AO2 T00221027 KFFO 240756Z 07006KT 10SM OVC055 12/09 A3002 RMK AO2A SLP169 T01150085 PLCH 240800Z 10004KT 9999 FEW020 27/24 Q1009 CZSP 240800Z AUTO 20011KT 04/M04 RMK AO1 SLP261 T00411037 58000 KEPH 240753Z AUTO 33008KT 10SM CLR 11/M02 A3035 RMK AO2 SLP277 T01111022 402000017 ZUUU 240800Z 05008MPS 010V080 9999 -SHRA SCT010 BKN050 19/15 Q1015 NOSIG KDXR 240753Z AUTO 24003KT 10SM CLR 01/M01 A3041 RMK AO2 SLP300 T00061011 $ KH78 231936Z 28010KT 12SM FEW030 22/13 A3002 RMK SEAS 4-6 KEQA 240755Z AUTO 03005KT 10SM CLR 10/07 A3007 RMK AO2 KFFT 240753Z AUTO 06008KT 9SM -RA SCT045 BKN055 OVC070 12/09 A2993 RMK AO2 SLP132 P0005 T01170094 KDZB 240755Z AUTO 12003KT CLR 17/10 A3004 RMK AO2 T01710103 PWINO KFHB 240755Z AUTO 25004KT 10SM CLR 20/19 A2988 RMK AO2 T01960186 CZST 240100Z VRB02KT 15SM FEW006 SCT035 BKN055 OVC080 08/06 A3028 RMK SC1SC3SC2AS2 LAST STFD OBS/NEXT241300Z SLP255 KDYL 240754Z AUTO 00000KT 10SM CLR 04/M02 A3037 RMK AO2 SLP286 T00391022 FABL 240800Z 03005KT 360V060 CAVOK 19/09 Q1024 NOSIG FABM 240537Z 05001KT 9999 FEW018 10/06 Q1026 KFGN 240755Z AUTO 36009KT 10SM SCT065 03/M01 A3023 RMK AO2 EIKN 240800Z 19006KT 150V230 9999 FEW015 BKN140 08/06 Q1009 NOSIG KDXX 240755Z AUTO 35004KT 10SM CLR 07/05 A3015 RMK AO2 KFFX 240757Z AUTO 00000KT 10SM BKN120 13/06 A3009 RMK AO2 T01300055 KFFZ 240247Z 28005KT 40SM BKN200 30/M03 A2987 PKMJ 232351Z 13008KT 15SM FEW015 SCT050 BKN300 30/25 A2980 RMK LAST KDYR 240756Z AUTO 00000KT 1/4SM FG OVC001 12/12 A2992 RMK AO2 SLP146 T01170117 PNO $ KDYS 240756Z AUTO 13008KT 10SM CLR 15/06 A3005 RMK AO2 SLP147 T01470060 $ KDZJ 240755Z AUTO 00000KT 7SM RA BR SCT021 BKN047 OVC080 13/12 A2986 RMK AO2 P0008 T01340120 KDYT 240755Z AUTO 11005KT 10SM CLR 08/01 A3015 RMK AO2 CZUM 240804Z AUTO 22008KT 170V310 9SM OVC029 04/M00 A2983 RMK SLP119 EIME 240800Z 22012KT 9999 FEW018 BKN025 BKN090 10/08 Q1011 KFGX 240755Z AUTO 08006KT 10SM OVC060 11/09 A2999 RMK AO2 T01070092 KFIG 240754Z AUTO VRB03KT 10SM FEW080 11/01 A3027 RMK AO2 SLP248 T01060011 EIKY 240800Z 26008KT 6000 RA BKN016 BKN027 OVC034 09/08 Q1012 PKMR 240753Z 11006KT 15SM FEW014 SCT045 BKN110 OVC300 26/24 A2979 RMK SLP090 T02640238 KFHR 240753Z AUTO 00000KT 10SM CLR 07/00 A3027 RMK AO2 SLP250 T00670000 401830022 TSNO KERI 240751Z AUTO 17004KT 10SM OVC100 15/06 A3019 RMK AO2 SLP221 T01500056 FACT 240800Z 34009KT 310V020 9999 SCT025 FEW040TCU 18/14 Q1018 NOSIG KESC 240756Z AUTO 00000KT 10SM CLR M02/M04 A3012 RMK AO2 SLP225 T10221039 FZRANO EHVK 240755Z AUTO 23013KT 200V270 9999 OVC016 11/07 Q1016 WHT 23012KT 9999 SCT015 BKN017 KFHU 240758Z AUTO 26009KT 10SM CLR 18/M09 A3013 RMK AO2 SLP132 T01791095 CZVL 240800Z AUTO 22005KT 9SM CLR 05/M01 A3023 RMK SLP255 KGAD 240756Z AUTO 28005KT 10SM OVC013 15/15 A2987 RMK AO2 SLP117 T01500150 EHVL 240758Z AUTO 25021KT 9999 FEW016 SCT028 BKN046 11/09 Q1012 BLU KFIN 240755Z AUTO 26004KT 3/4SM BR OVC002 20/20 A2991 RMK AO2 T02030200 KESF 240753Z AUTO 00000KT 5SM BR CLR 11/11 A2998 RMK AO2 SLP151 T01060106 KGAF 240755Z AUTO 34010KT 10SM SCT100 06/01 A3030 RMK AO2 PWINO VIAR 240800Z 27006G16KT 210V340 6000 NSC 37/05 Q1007 NOSIG KEQY 240753Z AUTO 06008KT 10SM -RA OVC004 14/14 A2995 RMK AO2 RAE04B20 SLP151 P0000 T01440144 KGAG 240753Z AUTO 16005KT 10SM CLR 11/08 A3007 RMK AO2 SLP168 T01060078 KI16 240755Z AUTO 10SM BKN024 OVC030 12/08 A3007 RMK AO2 T01210076 KGAI 240756Z AUTO 11005KT 10SM FEW049 11/01 A3032 RMK AO2 SLP297 T01110011 KFKA 240755Z AUTO 00000KT 10SM CLR 09/00 A3013 RMK AO2 T00860004 KFIT 240752Z AUTO 29006KT 10SM CLR 08/M01 A3039 RMK AO2 SLP291 T00781011 KI19 240755Z AUTO 11006KT 10SM -RA OVC060 11/09 A3004 RMK AO2 T01090086 KETB 240755Z AUTO 00000KT 10SM CLR 07/M02 A3008 RMK AO2 KGBD 240756Z AUTO 33005KT 10SM CLR 08/06 A3011 RMK AO2 SLP193 T00780061 FAEL 240800Z 25015KT 9999 FEW023 21/15 Q1017 KERV 240755Z AUTO 00000KT 10SM CLR 14/10 A3005 RMK AO2 T01350101 KESN 240809Z AUTO 12006KT 10SM CLR 11/02 A3036 RMK AO2 T01090016 KI23 240755Z AUTO 09011KT 10SM CLR 10/09 A3003 RMK AO1 EINN 240800Z 19007KT 8000 -RA FEW008 BKN045 09/08 Q1011 TEMPO 4000 BKN008 KGAO 240755Z AUTO 00000KT 10SM SCT024 OVC050 17/15 A2999 RMK AO2 T01660145 FAEO 240743Z 24011KT CAVOK 18/04 Q1027 KERY 240755Z AUTO 00000KT 10SM CLR 03/M04 A3011 RMK AO2 T00331038 EHWO 240801Z AUTO 23012KT 200V260 9999 OVC012 11/09 Q1016 GRN 23010KT 9999 OVC013 KGBG 240750Z AUTO 05007KT 10SM SCT009 BKN026 OVC085 13/09 A3006 RMK AO2 T01320089 FADY 240641Z 29002KT CAVOK 14/02 Q1022 KETH 240751Z AUTO 00000KT 10SM OVC090 09/06 A3020 RMK AO2 KEST 240752Z AUTO 31005KT 10SM CLR 04/03 A3014 RMK AO2 SLP211 T00390028 KGBK 240755Z AUTO 31010KT 10SM CLR 22/13 A3003 RMK A01 KGCC 240804Z AUTO 34014KT 2SM -SN BR BKN007 BKN019 OVC039 00/M01 A3043 RMK AO2 CIG 005V010 P0000 T00001006 KFKL 240756Z AUTO 13008KT 10SM -RA SCT049 OVC060 10/07 A3021 RMK AO2 SLP231 P0002 T01000067 KFLD 240753Z AUTO 00000KT 10SM CLR 04/01 A3009 RMK AO2 SLP194 T00440011 KGCD 240755Z AUTO 00000KT 10SM CLR 06/M02 A3032 RMK AO2 T00561022 401691015 KETN 240755Z AUTO 00000KT 10SM CLR 08/07 A3006 RMK AO2 T00840069 KFKN 240755Z AUTO 10009KT 10SM OVC100 15/09 A3021 RMK AO2 T01460089 KEUF 240758Z AUTO 26003KT 10SM SCT042 14/12 A2989 RMK AO2 SLP118 T01390117 KEUG 240754Z AUTO 36009KT 10SM CLR 09/03 A3009 RMK AO2 SLP190 T00890028 402280022 KI35 240755Z AUTO 13004KT 10SM SCT050 SCT075 OVC100 14/09 A2990 RMK AO2 T01360090 KFLG 240757Z AUTO 19003KT 10SM CLR 05/M09 A3023 RMK AO2 SLP157 T00501089 FAGG 240800Z 27009KT 9999 FEW035 SCT048 20/10 Q1017 KFKR 240755Z AUTO 10007KT 10SM SCT022 OVC036 12/10 A3002 RMK AO2 T01160103 KFKS 240755Z AUTO 00000KT 10SM CLR 04/00 A3011 RMK AO2 T00351003 KEVB 240147Z 00000KT 10SM SCT044 BKN065 22/20 A2998 RMK LAST KGCK 240754Z AUTO 10007KT 10SM CLR 09/05 A3009 RMK AO2 SLP177 T00890050 KGDB 240755Z AUTO 00000KT 7SM CLR 07/06 A3016 RMK AO2 T00650055 KFLL 240753Z 22005KT 10SM FEW020 24/24 A2995 RMK AO2 SLP140 OCNL LTGIC CB DSNT NE SE MOV NE T02390239 KEUL 240756Z AUTO 11004KT 10SM FEW100 06/M02 A3028 RMK AO2 SLP254 T00561017 KGCM 240755Z AUTO 00000KT 7SM CLR 07/06 A3005 RMK AO2 FAGM 231400Z 26007KT CAVOK 23/M01 Q1025 KFME 240757Z AUTO 10004KT 10SM CLR 10/02 A3035 RMK AO1 KGCN 240754Z 00000KT 10SM CLR 01/M10 A3021 RMK AO2 SLP169 T00111100 VIDP 240800Z 31008G18KT 3500 BLDU NSC 39/05 Q1008 NOSIG KFLO 240804Z AUTO 15007KT 3SM -RA BR FEW004 BKN021 OVC037 18/17 A2994 RMK AO2 P0004 T01780167 KFLP 240756Z AUTO 33003KT 10SM BKN055 13/11 A2999 RMK AO2 SLP151 T01280106 KFMH 240755Z AUTO 00000KT 10SM 01/M01 A3044 RMK AO2 KGDJ 240755Z AUTO 00000KT 10SM CLR 11/10 A3005 RMK AO2 T01120095 CZZJ 240800Z AUTO 28004KT 03/M08 RMK AO1 SOG 01 1000 SLP272 T00311079 KEWB 240753Z AUTO 00000KT 10SM CLR 01/00 A3043 RMK AO2 SLP303 T00060000 $ KFNB 240753Z AUTO 32005KT 10SM CLR 08/M01 A3010 RMK AO2 SLP189 T00831006 KGED 240754Z AUTO 10005KT 10SM CLR 09/03 A3035 RMK AO2 SLP275 T00940033 KEVM 240755Z AUTO 00000KT 10SM CLR 01/M02 A3016 RMK AO2 T00101025 KFMM 240755Z AUTO 36020G31KT 10SM -RA OVC038 03/M01 A3028 RMK AO2 T00321007 KFMN 240753Z AUTO 03006KT 10SM CLR 08/M12 A3006 RMK AO2 SLP138 T00781117 KGEG 240753Z 07004KT 10SM CLR 09/M02 A3038 RMK AO2 SLPNO T00891022 401780011 KGDP 240751Z AUTO 18007KT 10SM CLR 20/M01 A3014 RMK AO2 SLP119 T02001006 $ KFLY 240755Z AUTO 36027G35KT 7SM OVC004 02/01 A3023 RMK AO2 T00210014 KGCY 240755Z AUTO 05008G16KT 10SM BKN049 15/09 A2989 RMK A01 KFOA 240755Z AUTO 02005KT 7SM SCT009 OVC019 13/12 A2995 RMK AO2 T01300123 KGFA 240658Z AUTO 17008KT 10SM CLR 00/M04 A3046 RMK AO2 SLP344 T10031036 401071016 $ FAHS 240600Z AUTO 02001KT //// // ////// 09/03 Q1020 KEWK 240756Z AUTO 35006KT 10SM CLR 10/04 A3009 RMK AO2 SLP181 T01000039 FAJB 240800Z AUTO 23002KT //// // ////// 24/02 Q1026 KFNL 240756Z AUTO 03012KT 10SM -RA SCT025 BKN044 OVC055 04/M01 A3031 RMK AO2 RAB55 SLP241 P0000 T00441006 KEVU 240755Z AUTO 03003KT 10SM CLR 10/M12 A3009 RMK AO2 KEVV 240754Z AUTO 07005KT 10SM SCT028 SCT070 OVC080 13/12 A2993 RMK AO2 SLP132 T01330122 KFOD 240756Z AUTO 35004KT 10SM CLR 08/05 A3013 RMK AO2 SLP231 T00830050 KGDV 240756Z AUTO 33011KT 10SM CLR 02/M01 A3045 RMK AO2 SLP334 T00171006 FZRANO DRRM 240700Z 18006KT CAVOK 30/11 Q1012 KFOE 240753Z AUTO 32005KT 10SM CLR 08/02 A3007 RMK AO2 SLP180 T00830022 KEVW 240753Z AUTO 36008KT 10SM CLR 00/M03 A3028 RMK AO2 SLP218 T00001028 KEWN 240754Z AUTO 13007KT 6SM -RA BR FEW033 BKN050 OVC080 16/15 A3013 RMK AO2 SLP201 P0002 T01610150 KI63 240755Z AUTO 03005KT 10SM BKN010 OVC018 13/11 A3003 RMK AO2 T01260113 DRRN 240700Z 26007KT 8000 NSC 31/09 Q1009 NOSIG KFMY 240753Z AUTO 24005KT 7SM CLR 24/23 A2994 RMK AO2 SLP139 T02440233 EISG 240800Z 20006KT 170V240 CAVOK 10/06 Q1009 EKAH 240750Z AUTO 22007KT 160V270 7000NDV -SHRA BKN004/// OVC012/// 10/09 Q1004 KEWR 240751Z 00000KT 10SM FEW250 08/04 A3040 RMK AO2 SLP294 T00830044 KI67 240755Z AUTO 04004KT 10SM BKN041 OVC050 10/08 A2999 RMK AO1 P0002 KI68 240755Z AUTO 08006KT 10SM -DZ SCT048 BKN060 OVC090 10/10 A3001 RMK AO2 KGFK 240753Z AUTO 35011KT 10SM OVC080 06/02 A3026 RMK AO2 SLP253 T00610022 KFOK 240753Z AUTO 00000KT 10SM FEW002 M03/M06 A3044 RMK AO2 SLP307 T10331056 KFNT 240753Z AUTO 15003KT 10SM BKN080 BKN110 11/07 A3013 RMK AO2 SLP203 T01110067 KI69 240757Z AUTO 09005KT 10SM BKN065 OVC085 11/09 A3000 RMK AO2 T01120090 KGEU 240258Z 00000KT 10SM BKN180 33/M06 A2986 RMK LAST DRRT 240700Z 12004KT CAVOK 30/M01 Q1010 KGFL 240753Z AUTO 00000KT 10SM CLR 01/M02 A3034 RMK AO2 SLP279 T00111022 KGEV 240800Z AUTO 11015G25KT 7SM -RA OVC005 08/07 A3003 RMK AO2 T00750071 KGGE 240755Z AUTO 10011G29KT 10SM SCT007 BKN039 OVC047 18/17 A2990 RMK AO2 LTG DSNT E KEYE 240753Z AUTO 07006KT 10SM FEW014 BKN025 OVC035 11/09 A2999 RMK AO2 SLP154 T01110089 KEYF 240755Z AUTO 7SM -RA BR OVC008 15/15 A3002 RMK AO2 P0006 T01540146 VIGR 240600Z 00000 4000 HZ NSC 38/06 Q1009 KGGG 240753Z AUTO 28004KT 10SM CLR 12/12 A3000 RMK AO2 SLP156 T01220117 KGEY 240753Z AUTO VRB04KT 10SM 02/M02 A3044 RMK AO2 SLP332 T00221017 $ KI75 240755Z AUTO 33006KT 10SM CLR 09/00 A3009 RMK AO2 T00881002 KGEZ 240753Z AUTO 07008KT 10SM OVC050 12/09 A2998 RMK AO2 SLP150 T01170089 KGGI 240815Z AUTO 34004KT 10SM CLR 05/M01 A3011 RMK AO2 T00531012 EKBI 240750Z AUTO 24015KT 9999NDV OVC007/// 09/07 Q1005 FALA 240749Z 00000KT CAVOK 21/08 Q1026 NOSIG KFPK 240755Z AUTO 00000KT 10SM OVC040 12/08 A3009 RMK AO2 T01170080 KGHB 240755Z AUTO 28012KT 10SM CLR 22/14 A3003 RMK A01 KFOT 240755Z AUTO 11003KT 10SM CLR 10/09 A2999 RMK AO1 KFQD 240755Z AUTO 09005KT 3SM -RA OVC006 13/13 A2996 RMK AO2 P0002 T01280128 FAKM 240800Z 35004KT CAVOK 23/07 Q1022 FALE 240800Z VRB02KT CAVOK 27/15 Q1014 NOSIG FAKN 240800Z AUTO 01002KT //// // ////// 22/16 Q1022 KEZF 240755Z AUTO 08006KT 10SM BKN048 OVC110 13/07 A3028 RMK AO2 T01260065 KEXX 240755Z AUTO 07008G15KT 10SM BKN009 OVC017 12/12 A3003 RMK AO2 P0009 T01200120 KGHG 240755Z AUTO 22004KT 10SM CLR 05/M01 A3041 RMK AO2 KGGP 240755Z AUTO 08008KT 10SM SCT024 SCT043 OVC050 10/08 A3003 RMK AO2 KFOZ 240753Z AUTO 00000KT 10SM CLR M01/M03 A3017 RMK AO2 WAAA 240800Z 02008KT 350V060 9999 FEW019 31/25 Q1006 NOSIG KFPR 240753Z AUTO 21006KT 10SM CLR 22/21 A2993 RMK AO2 SLP135 T02170211 EKCH 240750Z 20011KT 9999 BKN019 10/08 Q1007 NOSIG TEMPO BKN010 PKWA 240800Z AUTO 35003KT 10SM SCT070 28/24 A2980 RMK AO2 T02810244 KGIC 240755Z AUTO 09005KT 10SM CLR 05/M02 A3036 RMK AO1 KEZM 240755Z AUTO 22004KT 10SM CLR 16/09 A2989 RMK AO2 T01550093 KGGW 240753Z AUTO 10003KT 10SM CLR 01/M04 A3043 RMK AO2 SLP326 T00111044 KEYW 240753Z AUTO 19003KT 10SM CLR 26/22 A2997 RMK AO2 SLP148 T02560222 KGIF 240804Z AUTO 23006KT 8SM BKN010 BKN015 23/22 A2995 RMK AO2 T02280222 KFRG 240753Z AUTO 00000KT 9SM CLR 04/03 A3041 RMK AO2 SLP299 T00440033 URKA 240800Z 24006MPS CAVOK 16/12 Q1019 R22/010070 NOSIG RMK QFE760/1013 KFRH 240755Z AUTO 00000KT 10SM BKN008 OVC016 11/ A2994 RMK AO1 KFRI 240756Z AUTO 00000KT 10SM CLR 06/04 A3008 RMK AO2 SLP183 T00590039 KEZS 240755Z AUTO 00000KT 10SM CLR 02/M01 A3012 RMK AO2 T00161010 EKEB 240750Z AUTO 25019KT 9999NDV SCT008/// BKN048/// 09/07 Q1006 KFRM 240756Z AUTO 31003KT 10SM CLR 06/02 A3015 RMK AO2 SLP216 T00560022 KFSD 240756Z AUTO 00000KT 10SM BKN085 OVC110 08/05 A3014 RMK AO2 SLP209 T00830050 KHAE 240755Z AUTO 01003KT 10SM OVC013 13/10 A3003 RMK AO2 VIJP 240730Z 33010KT 5000 HZ NSC 38/M05 Q1010 NOSIG FAMM 240800Z 35004KT CAVOK 26/04 Q1025 NOSIG KFSE 240755Z AUTO 34007KT 10SM OVC085 05/01 A3021 RMK AO2 KGHW 240755Z AUTO 02006KT 10SM CLR 07/02 A3016 RMK AO2 FALW 240700Z 02008KT 3000 BR OVC010 15/// Q1018 KHAF 240800Z AUTO 15004KT 5SM BR OVC010 12/10 A3005 RMK AO2 PMDY 240756Z AUTO 11007KT 10SM CLR 22/19 A3024 RMK AO2 SLP240 T02170194 EIWF 240800Z 23011KT 9000 RA SCT004 BKN033 09/09 Q1012 REDZ R21/2///// URKK 240800Z 15003MPS 120V200 CAVOK 16/10 Q1020 R23L/CLRD70 NOSIG RMK QFE761 KHAI 240756Z AUTO 10003KT 10SM BKN095 12/09 A3008 RMK AO2 T01150085 KFRR 240755Z AUTO 12003KT 10SM OVC045 12/03 A3028 RMK AO1 KFSI 240756Z AUTO 02004KT 10SM CLR 13/10 A3003 RMK AO2 SLP165 T01270102 USCC 240800Z 28005MPS 9999 BKN020CB 02/M02 Q1002 R27/000060 TEMPO 27015MPS 0500 +SHSNRA VV003 RMK QFE732 FAOB 240800Z AUTO 34011KT //// // ////// 21/08 Q1017 KFSM 240753Z AUTO 22004KT 10SM CLR 12/09 A3000 RMK AO2 SLP156 T01220094 KHAO 240753Z AUTO 05004KT 10SM -RA BKN047 OVC100 11/09 A3001 RMK AO2 RAB04 SLP163 P0001 T01110094 KFSO 240755Z AUTO 19007KT 10SM CLR 10/M04 A3025 RMK AO2 T01001045 KHBG 240753Z AUTO 24003KT 10SM CLR 13/12 A2996 RMK AO2 SLP145 T01280117 KFTG 240754Z AUTO 36017KT 10SM -RA SCT018 OVC036 03/01 A3033 RMK AO2 T00300008 VILK 240800Z 32009KT 4000 HZ NSC 39/09 Q1006 NOSIG KHBI 240800Z AUTO 08009G17KT 050V140 10SM RA OVC008 12/12 A3004 RMK AO2 T01220121 KGKJ 240753Z AUTO 13006KT 10SM OVC070 13/06 A3019 RMK AO2 SLP218 T01330056 USCM 240800Z 27004MPS 230V300 9999 OVC038CB 02/M07 Q1003 R18/090060 TEMPO 26013MPS 1000 SHSNRA VV005 RMK QFE715 KGJT 240753Z AUTO 30009KT 10SM BKN085 OVC110 16/M03 A3013 RMK AO2 WSHFT 0651 SLP142 T01611033 KFST 240753Z AUTO 16012KT 10SM CLR 19/09 A3001 RMK AO2 SLP118 T01890094 KFTK 240756Z AUTO 02005KT 10SM -RA OVC007 12/12 A2992 RMK AO2 RAB04E47DZB47E48RAB48 CIG 007V009 SLP133 P0002 T01200120 $ KGLD 240753Z AUTO 00000KT 10SM BKN070 OVC100 09/06 A3015 RMK AO2 LTG DSNT W RAB0655E11 SLP190 P0000 T00940061 KHCD 240755Z AUTO 00000KT 5SM BR CLR 05/05 A3014 RMK AO2 T00540051 URMG 240800Z 28005MPS 250V310 9999 BKN039 14/06 Q1021 R26/000070 NOSIG RMK QFE751/1001 KFSW 240755Z AUTO 02004KT 10SM CLR 11/08 A3006 RMK AO2 KGLE 240755Z AUTO 00000KT 10SM CLR 11/09 A3006 RMK AO2 T01060090 KFTN 240755Z AUTO 15006KT 10SM CLR 21/13 A3000 RMK A01 FAPE 240800Z 24019KT CAVOK 21/11 Q1017 NOSIG KGLH 240753Z AUTO 27005KT 8SM SCT041 12/12 A2994 RMK AO2 SLP145 T01220117 KHBR 240753Z AUTO 08007KT 10SM CLR 11/09 A3006 RMK AO2 SLP171 T01110089 URML 240800Z 34005MPS 9999 SCT065CB 15/06 Q1020 R32/01//70 NOSIG RMK QFE764/1019 FAOR 240800Z 20006KT 150V250 CAVOK 22/05 Q1027 NOSIG WADL 240800Z 15007KT 120V190 9999 FEW016 32/23 Q1007 NOSIG DRZA 240700Z 06006KT CAVOK 32/M01 Q1011 URMM 240800Z 30006MPS 9999 BKN055 15/M01 Q1019 R30/090070 NOSIG RMK QFE736/0982 KGKT 240755Z AUTO VRB04KT 10SM FEW055 BKN090 BKN120 16/10 A2984 RMK A01 FBFT 240800Z VRB02KT CAVOK 24/11 Q1023 URMN 240800Z 35002MPS 9999 SCT/// BKN/// 14/01 Q1019 R24/210155 NOSIG RMK QFE727 KFUL 240753Z AUTO 19004KT 8SM CLR 14/11 A3001 RMK AO2 SLP161 T01390111 402500139 KHDC 240755Z AUTO 00000KT 10SM CLR 12/12 A2999 RMK AO2 URMO 240800Z VRB01MPS 9999 SCT030 12/04 Q1020 R09/290150 NOSIG RMK QFE721/0962 KHBV 240755Z AUTO 00000KT 10SM CLR 16/12 A3001 RMK AO2 T01630117 ZWSH 240800Z VRB04MPS 8000 NSC 26/M06 Q1019 NOSIG KFVE 240753Z AUTO 19007KT 10SM CLR 03/M09 A3019 RMK AO2 SLP228 T00281094 KFTW 240753Z VRB03KT 10SM CLR 16/11 A3002 RMK AO2 SLP160 T01560106 KHDE 240755Z AUTO 00000KT 10SM CLR 08/04 A3012 RMK AO2 T00760041 FAPN 240700Z AUTO 00000KT //// // ////// 21/11 Q1023 KHCO 240755Z AUTO 36007KT 10SM SCT120 06/01 A3028 RMK AO2 KGKY 240753Z AUTO 00000KT 10SM CLR 11/11 A3003 RMK AO2 SLP164 T01110111 KFTY 240753Z 26004KT 10SM OVC007 15/15 A2983 RMK AO2 CIG 004V009 SLP095 T01500150 FAPP 240800Z 28001KT CAVOK 24/11 Q1023 NOSIG URMT 240800Z 32004MPS 290V020 9999 BKN033 12/01 Q1019 R25/010070 NOSIG RMK QFE726 KGLR 240753Z AUTO 00000KT 10SM CLR 07/M02 A3011 RMK AO2 SLP202 T00671017 KHCR 240755Z AUTO 09005KT 10SM CLR 01/M07 A3023 RMK AO2 FAPR 240656Z 16002KT CAVOK 22/05 Q1025 KGLS 240752Z AUTO 00000KT 10SM CLR 18/17 A3003 RMK AO2 SLP168 T01830167 KFWA 240754Z 08006KT 10SM -DZ FEW024 OVC033 11/10 A3006 RMK AO2 RAE04DZB43 SLP180 P0000 T01060100 KGMJ 240755Z AUTO 00000KT 10SM CLR 08/06 A3003 RMK AO2 KGNA 240756Z AUTO 35014G26KT 09/M02 A3009 RMK AO1 PK WND 36027/0711 SLP195 T00941022 KGNB 240800Z AUTO 00000KT 10SM BKN040 OVC046 05/01 A3026 RMK AO2 T00460014 KFWB 240755Z AUTO 00000KT 10SM FEW045 10/07 A3001 RMK AO2 KGNC 240755Z AUTO 18004KT 10SM CLR 14/03 A3005 RMK AO2 T01350025 KFWC 240755Z AUTO 34004KT 5SM BR BKN060 BKN095 12/12 A2992 RMK AO1 T01200120 KHDN 240756Z AUTO 29010KT 10SM FEW120 04/M01 A3026 RMK AO2 SLP208 T00391006 KGLW 240750Z AUTO 03003KT 10SM SCT007 BKN035 OVC043 12/12 A2989 RMK AO2 T01200115 KHDO 240751Z AUTO 03005KT 10SM CLR 14/10 A3003 RMK AO2 SLP156 T01440100 KHEF 240756Z AUTO 10004KT 10SM OVC110 12/04 A3030 RMK AO2 SLP273 T01220039 PNO $ KGLY 240755Z AUTO 02005KT 10SM CLR 10/02 A3003 RMK AO2 KHEG 240755Z AUTO 25004KT 6SM BR FEW010 19/18 A2992 RMK AO2 ZYCC 240800Z 04004MPS CAVOK 21/M12 Q1014 NOSIG KHEI 240753Z AUTO 36017KT 4SM UP BR OVC005 01/M01 A3036 RMK AO2 UPB49SNB0653E49 SLP291 P0004 T00061006 400060000 $ DRZR 240700Z 18008KT 8000 NSC 29/M03 Q1012 FASB 240231Z 26006KT 3000 -DZ OVC008 13/11 Q1018 KGMU 240753Z AUTO 06010KT 4SM BR OVC004 14/14 A2992 RMK AO2 RAE22B39E52 SLP126 P0000 T01440139 KHFD 240753Z AUTO 18004KT 10SM CLR 05/01 A3041 RMK AO2 SLP299 T00500006 KFXE 240753Z 19004KT 10SM CLR 24/23 A2995 RMK AO2 SLP144 T02390233 KFWN 240753Z AUTO 26003KT 10SM CLR 02/00 A3039 RMK AO2 RAB17E33 SLP290 P0000 T00220000 KFVX 240755Z AUTO 04008KT 10SM -RA BKN044 BKN065 OVC085 12/11 A3020 RMK AO2 T01180110 KHFF 240756Z AUTO 11009KT 5SM RA BKN006 15/14 A3000 RMK AO2 SLP174 P0020 T01510144 $ KHEQ 240750Z AUTO 34018G26KT 10SM SCT003 BKN022 OVC028 05/02 A3024 RMK AO2 KGNR 240756Z AUTO 15003KT 05/M07 A3025 RMK AO1 SLP251 T00501067 KFWS 240755Z AUTO 00000KT 10SM CLR 11/10 A3005 RMK AO2 T01110098 KHFJ 240750Z AUTO 00000KT 10SM CLR 09/06 A3002 RMK AO2 DTKA 240800Z 07006KT CAVOK 25/12 Q1016 NOSIG KGOK 240753Z AUTO 07004KT 10SM CLR 12/09 A3005 RMK AO2 SLP172 T01170094 KGNT 240755Z AUTO 30005KT 10SM CLR 08/M15 A3019 RMK AO2 T00761151 EKKA 240750Z 24013KT 9999 BKN007 09/08 Q1004 BECMG 25018G30KT BKN020 FCBB 240700Z 26005KT 230V300 9999 FEW015 26/22 Q1014 NOSIG KGPC 240755Z AUTO 08005KT 10SM BKN031 OVC037 10/09 A2998 RMK AO2 KGNV 240753Z AUTO 26005KT 10SM CLR 18/17 A2994 RMK AO2 SLP135 T01830167 KFYE 240515Z AUTO 00000KT 10SM 13/12 A2991 RMK A01 KGON 240805Z AUTO 00000KT 1 3/4SM BR CLR 02/02 A3043 RMK AO2 T00220022 FBKE 240800Z 11009KT CAVOK 26/15 Q1022 USHH 240800Z 07002MPS 4300 -SHRA BKN003CB 03/02 Q0995 R06/290050 TEMPO 1000 SHRA BR OVC002CB RMK QFE743 KGOO 240755Z AUTO 07003KT 10SM CLR 16/03 A3005 RMK AO1 KFYG 240735Z AUTO 00000KT 10SM OVC010 14/13 A2998 RMK AO2 KGOP 240755Z AUTO 00000KT 10SM CLR 13/10 A3008 RMK AO2 KHEY 240758Z AUTO 30004KT 10SM CLR 13/11 A2991 RMK AO2 SLP129 T01340112 KGPH 240755Z AUTO 00000KT 10SM CLR 05/02 A3007 RMK AO2 KFWZ 240755Z AUTO 36016G25KT 1/2SM FZFG OVC001 M05/M05 RMK AO2 KHEZ 240756Z AUTO 22004KT 10SM CLR 13/12 A2997 RMK AO2 SLP153 T01280117 KGPI 240755Z AUTO 00000KT 10SM CLR M02/M04 A3044 RMK AO2 SLP325 T10171044 KFYJ 240755Z AUTO 08004KT 10SM BKN042 BKN047 OVC120 13/07 A3028 RMK AO2 T01280072 KGOV 231758Z AUTO 12004KT 10SM CLR 18/M06 A3021 RMK AO2 SLP243 T01761057 10176 21014 57024 $ KFYM 240335Z AUTO 00000KT 8SM SCT003 BKN090 14/14 A2989 RMK A01 KGPM 240755Z AUTO 22003KT 10SM CLR 16/11 A3005 RMK AO2 T01600109 KHHF 240755Z AUTO 00000KT 10SM CLR 11/08 A3006 RMK AO2 T01130075 KFXY 240755Z AUTO 35003KT 10SM CLR 05/05 A3013 RMK AO2 KHFY 240755Z AUTO 07006KT 10SM BKN033 BKN044 OVC080 10/09 A2998 RMK AO2 T01020093 KHHG 240755Z AUTO 10005KT 7SM OVC028 10/09 A3004 RMK AO2 T00980092 KFZG 240755Z AUTO 23005KT 10SM CLR 16/13 A2991 RMK AO2 T01560125 UTAA 240800Z 29004KT 9999 FEW030CB BKN030 17/10 Q1018 R88/CLRD70 NOSIG KHGR 240753Z AUTO 20003KT 10SM BKN075 OVC090 13/M01 A3031 RMK AO2 SLP272 T01281006 KHIB 240753Z AUTO 33003KT 10SM CLR 00/M03 A3014 RMK AO2 SLP216 T00001033 KGRB 240753Z AUTO 00000KT 10SM CLR 05/01 A3011 RMK AO2 SLP200 T00500006 KGPT 240753Z AUTO 00000KT 9SM CLR 13/12 A2996 RMK AO2 SLP146 T01280117 DTMB 240800Z 13005KT 080V170 8000 NSC 22/13 Q1020 KFYV 240753Z AUTO 00000KT 10SM CLR 08/07 A3002 RMK AO2 SLP159 T00780072 KGRD 240756Z AUTO 05005KT 10SM OVC004 15/15 A2989 RMK AO2 SLP117 T01500150 URRP 240800Z 21003MPS CAVOK 13/M02 Q1019 R23/CLRD70 NOSIG RMK QFE756/1008 KHIE 240752Z AUTO 00000KT 10SM CLR M03/M05 A3033 RMK AO2 SLP277 T10331050 KHIF 240758Z AUTO 03011KT 10SM CLR 07/00 A3023 RMK AO2 SLP212 T00741001 KGRF 240756Z AUTO 14004KT 10SM CLR 06/04 A3020 RMK AO2 SLPNO T00620039 402140003 RVRNO $ FAUP 240800Z 11002KT CAVOK 20/01 Q1020 NOSIG WAJJ 240800Z 00000KT 9000 SCT014 28/24 Q1005 NOSIG KGPZ 240756Z AUTO 00000KT 10SM CLR 02/M02 A3017 RMK AO2 SLP225 T00221017 FZRANO UTAK 240800Z 32014KT 9999 OVC003 12/10 Q1019 R34L/CLRD70 TEMPO BKN003 KHHR 240753Z AUTO 00000KT 5SM BR OVC005 13/12 A3003 RMK AO2 SLP166 T01280117 402170122 $ KGRI 240753Z AUTO 00000KT 10SM SCT095 09/05 A3013 RMK AO2 SLP205 T00940050 KHII 240755Z AUTO 13003KT 10SM CLR 28/M04 A2987 RMK AO2 ZWWW 240800Z 05004MPS 360V090 CAVOK 30/02 Q1013 NOSIG UTAM 240800Z 32008G18KT 9999 BKN033 OVC230 19/10 Q1018 NOSIG KGSB 240756Z AUTO 10014G19KT 10SM -RA FEW017 SCT045 16/14 A3008 RMK AO2 RAE0658RAB0659 SLP189 P0000 T01560140 $ KIAB 240756Z AUTO 02004KT 10SM CLR 11/06 A3007 RMK AO2 SLP181 T01100059 KGRK 240755Z 00000KT 10SM CLR 15/10 A3006 RMK AO2A SLP169 T01500101 $ FAWB 240800Z AUTO 00000KT //// // ////// 25/04 Q1024 FAUT 240800Z 13008KT 9999 ////// 23/10 Q1019 KIAD 240752Z 12008KT 10SM SCT049 BKN110 OVC150 12/03 A3030 RMK AO2 SLP260 T01220028 $ KGRN 240755Z AUTO 32014G22KT 10SM OVC010 04/02 A3026 RMK AO2 T00370019 KHHW 240755Z AUTO 28004KT 10SM CLR 14/10 A3001 RMK AO2 T01370100 FBMN 240800Z 08004KT CAVOK 27/11 Q1022 KHIO 240753Z AUTO 09009KT 10SM CLR 16/M02 A3017 RMK AO2 SLP215 T01561022 402280022 KIAG 240753Z AUTO 19008KT 10SM CLR 14/04 A3019 RMK AO2 SLP221 T01390039 KFZY 240754Z AUTO 17009KT 10SM CLR 12/01 A3026 RMK AO2 SLP245 T01220011 URSS 240800Z 28004MPS 9999 FEW040 17/08 Q1020 R06/090070 R02/////// RMK R02/26004MPS MT OBSC QFE764 ZYHB 240800Z 30003MPS 230V040 CAVOK 23/M07 Q1013 NOSIG KGSH 240753Z AUTO 08008KT 10SM OVC032 11/08 A3006 RMK AO2 RAB13E22 SLP178 P0000 T01110083 KIAH 240753Z 00000KT 10SM CLR 16/13 A3004 RMK AO2 SLP170 T01560133 KHJH 240755Z AUTO 00000KT 10SM CLR 06/02 A3013 RMK AO2 T00600015 DTNH 240800Z 23003KT 190V270 CAVOK 21/11 Q1019 UTAT 240800Z 28008KT 9999 BKN044 OVC100 16/10 Q1016 R26/29//60 NOSIG KGRR 240753Z AUTO 12005KT 10SM SCT085 12/07 A3010 RMK AO2 SLP193 T01220072 KHKA 240753Z AUTO 33005KT 9SM BKN013 12/11 A2991 RMK AO2 SLP129 T01220111 KGTB 240656Z 16008KT 10SM CLR 09/M04 A3023 RMK SLPNO UTAV 240800Z 27014KT CAVOK 21/11 Q1016 FAWK 240800Z AUTO 20005KT //// // ////// ///// Q1027 EKOD 240750Z 22014KT 2900 -RA SCT006 BKN008 OVC010 09/08 Q1006 FAVV 240800Z AUTO /////KT //// // ////// 23/06 Q1025 KHJO 240753Z AUTO 33011KT 10SM CLR 21/08 A2994 RMK AO2 SLP138 T02110083 403330117 KGTF 240753Z 20009KT 10SM CLR M01/M04 A3045 RMK AO2 SLP342 T10111044 KGSO 240806Z 08013KT 3SM RA BR BKN009 OVC016 11/11 A3006 RMK AO2 CIG 006V013 P0004 T01110106 KGSP 240753Z AUTO 05007KT 4SM BR OVC004 14/14 A2992 RMK AO2 RAE47 SLP128 P0003 T01390139 UTDD 240800Z VRB02G09MPS 9999 FEW066CB BKN120 25/11 Q1012 R09/CLRD// TEMPO 27007MPS RMK QFE691/0921 KHLB 240755Z AUTO 10SM BKN041 OVC046 11/11 A2998 RMK A01 KHLC 240753Z AUTO 28003KT 10SM CLR 06/04 A3013 RMK AO2 SLP198 T00610044 $ KGUC 240756Z AUTO 34006KT 10SM BKN100 07/M01 A3025 RMK AO2 SLP188 T00721011 KIBM 240755Z AUTO 34018G27KT 10SM OVC012 02/00 A3030 RMK AO2 T00160000 KHLG 240753Z AUTO 09012KT 10SM OVC060 12/07 A3015 RMK AO2 RAE0656 SLP209 P0000 T01220067 URWA 240800Z 28005G10MPS 240V330 9999 SCT040 12/M08 Q1019 R27/010070 NOSIG RMK QFE766/1021 UTDK 240800Z VRB01MPS 9999 FEW060CB 29/11 Q1011 R01/09//70 RMK QFE701/0935 KGTR 240756Z AUTO 26005KT 10SM SCT012 OVC022 14/13 A2991 RMK AO2 SLP130 T01440128 UTDL 240800Z 09007MPS 9999 FEW070CB SCT086 27/06 Q1006 R08/CLRD70 NOSIG RMK QFE716/0955 KHKS 240753Z AUTO 26007KT 10SM FEW041 BKN050 OVC070 15/13 A2994 RMK AO2 SLP132 T01500133 KIDA 240753Z AUTO 36009KT 10SM CLR 01/M02 A3036 RMK AO2 SLP297 T00061017 WAMM 240800Z 36005KT 9000 SCT021 30/24 Q1007 NOSIG KICL 240755Z AUTO 03006KT 06/01 A3013 RMK AO2 KGTU 240656Z AUTO 00000KT 10SM CLR 14/11 A3008 RMK AO2 SLP181 T01440106 KGUL 240755Z AUTO 00000KT 10SM CLR 24/15 A3004 RMK A01 KHME 240750Z 26008KT 9999 SCT030 FEW030TCU 20/10 Q1017 KHLN 240753Z 00000KT 10SM CLR 01/M02 A3048 RMK AO2 SLP361 T00061022 KGVE 240755Z AUTO 00000KT 10SM BKN110 11/08 A3027 RMK AO1 T01050076 URWI 240800Z 30006MPS 260V330 9999 FEW/// 10/M02 Q1019 R27/010065 NOSIG KHKY 240753Z AUTO 06009KT 5SM -RA BR OVC005 12/12 A2998 RMK AO2 SLP139 P0010 T01220117 KGUP 240753Z AUTO 07004KT 10SM CLR 03/M14 A3018 RMK AO2 SLP116 T00331139 UTDT 240800Z 22003MPS 9999 OVC150 30/12 Q1009 35CLRD70 RMK QFE718/0957 KHLR 240758Z AUTO 06003KT 10SM CLR 15/10 A3002 RMK AO2 SLP158 T01540104 KICR 240805Z AUTO 26013KT 10SM SCT012 BKN070 OVC085 09/06 A3016 RMK AO2 RAE0756 P0000 T00890056 KIDI 240755Z AUTO 13008KT 10SM FEW048 BKN060 OVC075 10/06 A3026 RMK A01 KGUS 240721Z 07008KT 10SM BKN026 BKN039 OVC047 11/11 A3002 RMK AO2 CIG 026V038 BKN026 V FEW CIG 024 RWY23 SLP169 KHNB 240803Z AUTO 02003KT 7SM -RA BKN013 OVC018 12/11 A2993 RMK AO2 P0000 KICT 240753Z 35004KT 10SM FEW250 12/07 A3007 RMK AO2 SLP177 T01170067 KGWB 240755Z AUTO 10006KT 7SM OVC013 10/09 A3008 RMK AO2 USNN 240800Z 11009MPS CAVOK 02/M03 Q1005 R03/0///65 NOSIG RMK QFE750 KGVL 240753Z AUTO 10011KT 5SM -RA BR OVC004 14/14 A2985 RMK AO2 SLP102 P0008 T01440144 UTFF 240730Z 33006KT 290V360 9999 NSC 27/07 Q1007 R18/CLRD70 KHND 240756Z AUTO 18006KT 10SM CLR 22/M07 A2995 RMK AO2 SLP116 T02221067 403390194 $ KHMN 240758Z AUTO 12005KT 10SM CLR 16/M06 A3005 RMK AO2 SLP111 T01611056 $ KHLX 240755Z AUTO 09015G21KT 5SM RA OVC009 08/08 A3004 RMK AO2 P0014 T00830077 KGUY 240753Z AUTO 15007KT 10SM CLR 10/07 A3004 RMK AO2 SLP148 T01000072 KHMP 240755Z AUTO 26006KT 10SM OVC005 15/14 A2984 RMK AO2 T01500142 KIDP 240755Z AUTO 35003KT 10SM CLR 08/07 A3005 RMK AO2 T00820067 WBGB 240800Z 30007KT 250V360 9999 TS FEW015CB BKN150 31/26 Q1006 KGXA 240755Z AUTO 17003KT 10SM CLR 16/M05 A3002 RMK AO2 SLP108 WND DATA ESTMD T01641052 KIFA 240755Z AUTO 00000KT 10SM CLR 06/03 A3012 RMK AO2 T00560028 KHOB 240755Z AUTO 20007KT 10SM CLR 14/01 A3004 RMK AO2 KGVT 240750Z AUTO 00000KT 10SM CLR 13/12 A3004 RMK AO2 UTFN 240730Z VRB02KT 9999 NSC 28/08 Q1006 R28/CLRD70 NOSIG URWW 240800Z 28009MPS 250V310 CAVOK 10/M07 Q1017 R24/010070 NOSIG EKSB 240750Z 24009KT 200V270 9999 SCT008 BKN012 11/09 Q1007 EKRK 240750Z AUTO 22016KT 9999NDV SCT015/// BKN018/// BKN021/// 11/08 Q1006 WBGG 240800Z 05004KT 010V100 9999 FEW020 BKN150 30/26 Q1006 NOSIG KIEN 240752Z AUTO 33013G24KT 10SM OVC018 04/02 A3028 RMK AO2 SLP249 T00390022 KHOE 240755Z AUTO 24006KT 10SM CLR 16/13 A2991 RMK AO2 KGXF 240658Z AUTO 14008KT 10SM CLR 23/M06 A2989 RMK AO2 SLP110 T02321058 403580171 KGWO 240753Z AUTO 00000KT 10SM OVC035 14/13 A2993 RMK AO2 SLP134 T01390128 EKRN 240750Z AUTO 21007KT 180V240 9999NDV FEW032/// OVC067/// 08/06 Q1009 KHMZ 240755Z AUTO 13006KT 10SM OVC090 09/02 A3027 RMK AO2 T00910022 KGWR 240755Z AUTO 01010KT 10SM 09/05 A3021 RMK A01 KHNR 240755Z AUTO 01006KT 10SM BKN110 09/05 A3016 RMK AO2 KIER 240755Z AUTO 00000KT 10SM CLR 13/12 A2999 RMK AO2 T01300118 DTTA 240800Z 11007KT 070V140 CAVOK 23/12 Q1018 NOSIG KGYB 240755Z AUTO 00000KT 10SM CLR 13/12 A3006 RMK AO2 T01320118 DTTB 240800Z 13006KT CAVOK 21/15 Q1018 FBSK 240800Z VRB02KT CAVOK 23/08 Q1023 NOSIG DTTD 240800Z 09004KT CAVOK 21/09 Q1020 USPP 240800Z 00000MPS 9999 BKN031 03/M04 Q1002 R21/090060 NOSIG RMK QFE741 KHON 240755Z AUTO 21006KT 10SM -RA SCT065 OVC085 12/06 A3014 RMK AO2 RAB55 SLP205 P0000 T01220061 KGWW 240800Z AUTO 10004G14KT 10SM -RA SCT017 BKN030 OVC048 15/14 A3010 RMK AO2 T01490141 EKSN 240750Z 18007KT 3000 BR SCT004 BKN007 08/07 Q1001 WBGR 240800Z 28006KT 210V330 9999 FEW015CB BKN150 30/25 Q1006 DTTF 240800Z 03007KT 360V060 8000 NSC 21/08 Q1018 NOSIG KIFP 240755Z AUTO 12003KT 10SM CLR 26/M05 A2986 RMK AO2 KHOP 240756Z AUTO 01005KT 10SM FEW006 OVC014 13/13 A2988 RMK AO2 SLP119 T01330133 $ KGYH 240047Z 04014KT 5SM -RABR OVC004 14/14 A3000 RMK LAST FBSP 240700Z 00000KT CAVOK 25/15 Q1022 WBGS 240800Z VRB04KT 9999 FEW015CB SCT018 BKN150 32/25 Q1005 DTTG 240800Z 09013KT 9999 FEW030 22/12 Q1019 NOSIG EKSP 240750Z 24019KT 9999 BKN012 10/08 Q1006 NOSIG KHNZ 240755Z AUTO 05006KT 7SM RA SCT009 BKN013 OVC027 10/09 A3014 RMK AO2 P0008 T00970090 KGYI 240755Z AUTO 00000KT 10SM CLR 12/10 A3005 RMK AO2 T01160100 DTTJ 240800Z 10010KT CAVOK 23/07 Q1018 NOSIG KHOT 240753Z AUTO 00000KT 8SM CLR 12/12 A2999 RMK AO2 SLP150 T01220122 DTTK 240800Z 16002KT CAVOK 23/10 Q1020 KHOU 240753Z 25003KT 10SM CLR 16/14 A3003 RMK AO2 SLP172 T01560139 KGYL 240756Z AUTO 00000KT 7SM CLR 07/07 A3012 RMK AO2 T00680070 DTTL 240800Z 18005KT 100V250 CAVOK 20/16 Q1020 KIGM 240751Z AUTO 18010KT 10SM CLR 20/M05 A3002 RMK AO2 SLP096 T02001050 WBGY 240800Z VRB02KT 9999 SCT022 SCT150 BKN300 31/26 Q1005 KHPN 240756Z 00000KT 7SM CLR 03/02 A3039 RMK AO2 SLP294 T00330017 $ DTTN 240800Z VRB01KT CAVOK 19/12 Q1018 KGXY 240756Z AUTO 36017KT 10SM -RA OVC044 04/M01 A3031 RMK AO2 PK WND 36031/0659 RAB07 SLP258 P0000 T00391011 KHQG 240755Z AUTO 14008KT 10SM CLR 10/06 A3006 RMK AO2 T01030060 KGZH 240753Z AUTO 00000KT 6SM BR CLR 11/09 A2994 RMK AO2 SLP136 T01110094 KIGQ 240755Z AUTO 00000KT 7SM -RA SCT055 OVC085 07/07 A3007 RMK AO2 T00730067 KGYR 240347Z 22007KT 10SM FEW200 SCT250 29/00 A2986 RMK LAST KHQI 240755Z AUTO 25010KT 10SM CLR A3002 RMK A01 DTTR 240700Z 09014KT 050V120 CAVOK 24/05 Q1018 KK88 240755Z AUTO 00000KT 10SM CLR 08/04 A3007 RMK AO1 T00760038 KIIB 240755Z AUTO 36005KT 10SM CLR 04/02 A3011 RMK AO2 T00430015 KGZL 240755Z AUTO 00000KT 10SM CLR 09/08 A3002 RMK AO2 KHQM 240753Z AUTO 06007KT 10SM CLR 13/03 A3018 RMK AO2 SLP223 T01330028 402330033 KGZN 240740Z AUTO 15006KT 10SM CLR 13/08 A3007 RMK AO2 EKVD 240750Z 26016G26KT 9999 BKN010 10/08 Q1006 KIGX 240806Z AUTO 05008KT 6SM -RA BR BKN008 BKN012 OVC019 12/11 A3008 RMK AO2 CIG 005V012 P0002 T01220111 USRR 240800Z 16006G11MPS 130V190 7000 SCT030CB 05/M00 Q1000 R07/250255 NOSIG RMK QFE745 DTTX 240800Z 10006KT 070V140 8000 NSC 22/13 Q1019 NOSIG KGYY 240755Z AUTO 00000KT 10SM -DZ OVC080 07/04 A3007 RMK AO2 T00670040 EKVG 240750Z AUTO 33009KT 9999NDV BKN016/// 04/01 Q0997 DTTZ 240800Z 08017KT CAVOK 24/08 Q1018 NOSIG KHRI 240753Z AUTO 16005KT 10SM CLR 05/01 A3031 RMK AO2 SLP265 T00500006 402061011 KHSA 240150Z 00000KT 7SM SKC 14/12 A2999 UUBC 240800Z 23004MPS 180V280 CAVOK 10/M05 Q1013 R13/CLRD60 NOSIG RMK QFE741/0989 KL08 240755Z AUTO 32007KT 290V350 10SM CLR 25/M00 A2989 RMK AO2 KGZS 240755Z AUTO 31003KT 10SM FEW014 FEW055 OVC090 13/13 A2988 RMK A01 KHRJ 240755Z AUTO 07009G14KT 7SM -RA OVC016 14/12 A3005 RMK AO2 P0007 T01400122 EKVJ 240750Z 25020KT 9999 FEW005 SCT180 09/09 Q1005 KHSB 240755Z AUTO 00000KT 7SM SCT033 BKN070 OVC095 13/13 A2993 RMK AO2 T01300130 KHRL 240752Z AUTO 00000KT 10SM CLR 18/17 A3001 RMK AO2 SLP163 T01780167 KJAC 240756Z AUTO 02014KT 10SM BKN041 00/M05 A3033 RMK AO2 SLP284 T00001050 FZRANO KHQU 240755Z AUTO 00000KT 10SM SCT018 16/16 A2989 RMK AO2 T01650161 KIJD 240752Z AUTO 00000KT 10SM CLR 01/M02 A3043 RMK AO2 SLP304 T00111022 $ KHSD 240800Z AUTO 00000KT 10SM CLR 10/09 A3004 RMK A01 KHSE 240751Z AUTO 12018G27KT 10SM -RA FEW031 BKN055 OVC110 18/15 A3017 RMK AO2 PK WND 13028/0659 SLP215 P0000 T01830150 KHRO 240753Z AUTO 30004KT 10SM CLR 11/09 A3000 RMK AO2 SLP153 T01110094 ELLX 240750Z 26011KT 9999 FEW018 11/06 Q1020 NOSIG KHSG 240755Z AUTO 31005KT 10SM SCT120 00/M03 A3045 RMK AO2 T10011035 USSS 240800Z 26006MPS 1000 0800W R26R/1000U +SHSN SCT006 OVC023CB M00/M00 Q1000 R26R/290037 TEMPO 0500 +SHSN VV004 RMK QFE730/0973 KHQZ 240755Z AUTO 00000KT 10SM CLR 12/11 A3003 RMK AO1 T01200105 WBKK 240800Z 22005KT 180V340 9999 FEW014 FEW016CB BKN270 30/26 Q1006 NOSIG KHSI 240753Z AUTO 00000KT 10SM CLR 08/03 A3014 RMK AO2 SLP203 T00780033 WBKL 240800Z 27007KT 210V010 9999 FEW014 BKN290 30/25 Q1006 KL18 240755Z AUTO 00000KT 3/4SM BR OVC003 11/11 A3002 RMK AO2 KHRT 240759Z 28004KT 10SM CLR 14/11 A2994 RMK SLP140 T01440106 $ UUBP 240800Z 24002MPS CAVOK 11/M01 Q1012 R16/CLRD70 NOSIG RMK QFE741/0988 KJAN 240754Z AUTO 24004KT 10SM SCT038 OVC070 15/13 A2992 RMK AO2 SLP130 T01500128 KHRX 240755Z AUTO 16007KT 10SM CLR 12/05 A3007 RMK AO2 T01220049 USTR 240800Z 23007MPS 9999 -SHRA BKN022CB OVC033 08/06 Q0997 R21/290060 TEMPO 1200 SHRA VV004 RMK QFE738/0984 KIIY 240755Z AUTO 07006KT 7SM OVC003 17/17 A2985 RMK AO2 TSNO KIKG 240755Z AUTO 00000KT 1/4SM VV002 14/14 A3001 RMK AO2 T01420142 KHSP 240755Z AUTO 09014G20KT M1/4SM DZ OVC002 05/05 A3018 RMK AO2 T00530053 WBKS 240800Z 03007KT 350V070 9999 FEW017 BKN300 32/26 Q1005 KJAQ 240755Z AUTO 11006KT 10SM CLR 19/08 A3000 RMK AO1 T01860079 402560139 KHTH 240755Z AUTO 29004KT 10SM CLR 13/M06 A3015 RMK A01 WBKT 240800Z 28006KT 210V010 9999 FEW014 BKN280 32/26 Q1006 KJCA 240755Z AUTO 09008KT 3SM -RA BR OVC005 15/15 A2986 RMK AO2 P0007 T01510147 KJAS 240755Z AUTO 00000KT 10SM CLR 12/11 A3004 RMK AO2 T01170114 KHUA 240758Z AUTO 00000KT 10SM OVC003 13/13 A2986 RMK AO2 SLP110 T01320127 UUDD 240800Z 30004MPS 270V340 CAVOK 08/M09 Q1013 R88/010095 NOSIG KIKK 240755Z AUTO 08007KT 10SM OVC023 11/10 A3005 RMK AO2 T01060103 KHST 240756Z AUTO 21004KT 10SM CLR 22/21 A2995 RMK AO2 SLP145 T02230213 UUBW 240800Z 35003MPS 290V060 CAVOK 09/M08 Q1013 R30/010060 NOSIG WBKW 240800Z 12005KT 070V160 9999 FEW017 BKN300 31/26 Q1006 KHTL 240753Z AUTO 00000KT 10SM CLR 06/02 A3012 RMK AO2 SLP202 T00560017 KJAU 240755Z AUTO 00000KT 5SM BR OVC040 12/12 A2992 RMK A01 P0012 KHSV 240753Z AUTO 00000KT 10SM OVC007 14/14 A2987 RMK AO2 SLP110 T01440144 $ KILE 240756Z AUTO 00000KT 10SM CLR 13/11 A3006 RMK AO2 SLP191 T01330106 KHUF 240753Z 05005KT 10SM FEW034 OVC050 12/11 A2997 RMK AO2 SLP147 T01170106 KIJX 240755Z AUTO 02006KT 5SM BR OVC005 12/12 A3001 RMK AO2 T01220115 KJAX 240756Z 24008KT 10SM FEW250 19/18 A2989 RMK AO2 SLP121 T01940183 $ KHTO 240755Z AUTO 00000KT 10SM CLR M02/M03 A3043 RMK AO2 T10211029 KILG 240751Z AUTO 11005KT 10SM CLR 08/02 A3038 RMK AO2 SLP285 T00830017 KL35 240755Z AUTO 00000KT 10SM CLR 03/M05 A3022 RMK AO2 KJBR 240753Z AUTO 35005KT 9SM FEW007 OVC031 14/14 A2993 RMK AO2 SLP133 T01390139 UUDL 240800Z 32003MPS 260V350 CAVOK 06/M09 Q1013 R23/010060 NOSIG RMK QFE751 KHTS 240751Z 05007KT 10SM OVC100 12/08 A2999 RMK AO2 SLP152 T01220083 KIKT 240755Z AUTO VRB06KT 10SM SCT025 SCT031 SCT045 21/15 A2999 RMK A01 UUEE 240800Z VRB03MPS CAVOK 08/M07 Q1013 R24L/CLRD62 NOSIG KHUL 240753Z AUTO 19007KT 10SM CLR 03/M06 A3027 RMK AO2 SLP253 T00281056 KILM 240753Z AUTO 12014G19KT 4SM RA BR SCT016 BKN026 OVC035 17/16 A3005 RMK AO2 SLP175 P0012 T01670156 KIKV 240755Z AUTO 01005KT 10SM CLR 06/01 A3011 RMK AO2 KHUM 240755Z AUTO 00000KT 10SM BKN050 17/15 A2999 RMK AO2 T01680150 KJDD 240755Z AUTO 26003KT 10SM CLR 11/10 A3003 RMK AO2 KILN 240754Z AUTO 08009KT 10SM OVC060 11/09 A3001 RMK AO2 SLP168 T01060094 KHVE 240755Z AUTO 08005KT 10SM CLR 16/M04 A3009 RMK AO2 KIKW 240755Z AUTO 00000KT 10SM BKN090 08/04 A3013 RMK AO2 T00770037 FCPP 240700Z 08005KT 8000 TS FEW015 FEW030CB SCT033 28/24 Q1011 BECMG NSW KHUT 240752Z AUTO 00000KT 10SM CLR 07/06 A3008 RMK AO2 SLP176 T00720056 KJCT 240751Z AUTO 00000KT 10SM CLR 14/07 A3004 RMK AO2 SLP141 T01440072 UTNN 240730Z 25010KT 9999 SCT040 18/09 Q1015 R33/CLRD60 NOSIG EKYT 240804Z 21013KT 4500 -RA SCT005 BKN012 10/09 Q1001 KIML 240805Z AUTO 32016G27KT 10SM -RA SCT011 OVC060 07/06 A3020 RMK AO2 PK WND 32028/0755 RAB0756 P0001 T00670061 KHWD 240754Z 33006KT 8SM CLR 12/08 A3002 RMK AO2 SLP173 T01220083 402500117 KIND 240754Z 07008KT 10SM FEW011 BKN030 OVC038 11/10 A2998 RMK AO2 RAB16E30 SLP153 P0000 T01110100 KIMM 240755Z AUTO 19004KT 5SM BR FEW015 FEW021 SCT035 23/22 A2996 RMK AO2 KJDN 240748Z AUTO 28005KT 02/00 A3045 RMK AO1 SLP337 T00170000 KHVN 240753Z AUTO 00000KT 10SM CLR 03/01 A3042 RMK AO2 SLP301 T00280011 KJEF 240753Z AUTO 31004KT 10SM CLR 11/08 A3001 RMK AO2 SLP151 T01110083 KINF 240755Z AUTO 00000KT 1/2SM FG VV005 19/19 A2994 RMK AO2 ZYTL 240800Z 33006MPS CAVOK 18/04 Q1013 NOSIG KHVR 240753Z AUTO 23004KT 10SM CLR 00/M03 A3044 RMK AO2 SLP326 T00001033 UTNU 240730Z 32008KT 9999 BKN033CB 15/09 Q1016 R31/19//55 NOSIG KHVS 240755Z AUTO 10009G16KT 5SM BR BKN010 BKN027 OVC060 16/15 A2994 RMK AO2 KINJ 240755Z AUTO 19008KT 10SM CLR 14/12 A3003 RMK AO2 T01410124 KIMS 240755Z AUTO 06006KT 10SM BKN039 BKN047 OVC080 11/10 A2997 RMK AO1 KINK 240753Z AUTO 14008KT 10SM CLR 18/08 A2999 RMK AO2 SLP113 T01830078 KIMT 240754Z AUTO 00000KT 10SM CLR 01/M03 A3010 RMK AO2 SLP200 T00111033 KIOB 240755Z AUTO 03005KT 10SM SCT034 BKN050 OVC070 10/10 A2997 RMK AO2 P0011 KINL 240755Z AUTO 05004KT 10SM CLR M01/M03 A3018 RMK AO2 SLP228 T10061028 KHXD 240815Z AUTO 19007KT 5SM BR OVC003 19/19 A2988 RMK AO2 KHWO 240753Z AUTO 19004KT 10SM FEW021 24/23 A2997 RMK AO2 SLP148 T02440228 KJER 240753Z AUTO 06016KT 10SM OVC070 08/M02 A3031 RMK AO2 SLP258 T00781017 KINS 240658Z AUTO 15003KT 10SM CLR 20/M09 A2996 RMK AO2 SLP102 T01971086 $ KHYA 240756Z AUTO 04003KT 10SM CLR 01/00 A3042 RMK AO2 SLP302 T00110000 KJES 240717Z AUTO 00000KT 10SM CLR 19/17 A2988 RMK AO2 KJFK 240751Z 12003KT 10SM BKN250 06/06 A3042 RMK AO2 SLP299 T00610056 KINT 240805Z AUTO 07012KT 4SM -RA BR BKN010 OVC014 11/11 A3007 RMK AO2 P0002 T01110106 ZYTX 240800Z 35005MPS CAVOK 22/M02 Q1013 NOSIG ENAL 240750Z 22017KT 9999 VCSH FEW025 BKN035 08/05 Q0992 KHWV 240756Z AUTO 00000KT 8SM CLR 02/01 A3042 RMK AO2 SLP301 T00170011 KINW 240756Z AUTO VRB04KT 10SM CLR 16/M08 A3011 RMK AO2 SLP133 T01561078 ENAN 240750Z 17005KT 9999 -RA FEW010 BKN029 04/04 Q0991 KHWY 240755Z AUTO 08005KT 10SM SCT047 SCT055 OVC110 13/04 A3029 RMK AO2 T01260040 KJGG 240755Z AUTO 08006KT 10SM SCT044 SCT110 14/09 A3025 RMK AO1 KHYI 240756Z AUTO 05003KT 10SM CLR 14/10 A3004 RMK AO2 SLP166 T01440100 $ FDJR 240800Z AUTO 19004G15KT //// // ////// ///// Q1020 KIPJ 240815Z AUTO 08008G16KT 4SM -RA BKN006 OVC009 13/13 A2996 RMK AO2 P0001 T01280125 FDLB 240700Z AUTO 22001KT //// // ////// 25/15 Q1020 KIPL 240753Z AUTO 27004KT 10SM CLR 21/04 A2985 RMK AO2 SLP108 T02110039 403670172 ENAT 240750Z 03004KT CAVOK 05/01 Q0992 RMK WIND 700FT VRB02KT KHZD 240755Z AUTO 00000KT 1/2SM BR OVC004 11/11 A2990 RMK A01 VIS 1/4V1 3/4 ENBL 240750Z 20005KT 9999 -RA FEW004 SCT010 BKN013 04/03 Q0994 KIOW 240752Z AUTO 04007KT 10SM CLR 10/M02 A3009 RMK AO2 SLP188 T01001022 KHZE 240755Z AUTO 02006KT 10SM OVC070 05/01 A3039 RMK AO2 TSNO ENBN 240750Z 17010KT 9999 -DZRA FEW005 BKN015 06/04 Q0991 KJFX 240755Z AUTO 00000KT 10SM 13/13 A2990 RMK AO2 PWINO ENBO 240750Z 08012KT 9999 -RA FEW025 BKN035 06/03 Q0990 NOSIG UTSA 240730Z 31010KT 9999 BKN026 17/13 Q1014 R25/29//57 NOSIG KJFZ 240755Z AUTO 12013G23KT 10SM OVC018 11/M08 A3001 RMK AO2 T01051084 UTSB 240730Z 30014G24KT 9999 BKN037 20/10 Q1014 R01/CLRD70 NOSIG WBSB 240800Z 29007KT 9999 SCT015 FEW016CB SCT140 BKN300 30/25 Q1006 NOSIG KHYR 240753Z AUTO 00000KT 10SM CLR 00/M03 A3013 RMK AO2 SLP209 T00001028 ENBR 240750Z 19010KT 9000 5000NE -RA VV004 06/06 Q0996 TEMPO 3000 RADZ BR RMK WIND 1200FT 21011KT KHYS 240756Z AUTO 34005KT 10SM CLR 08/05 A3013 RMK AO2 SLP201 T00780050 ENBS 240750Z 23016KT 9999 -SHRA FEW012 BKN016 02/00 Q0993 KIPT 240754Z AUTO 05003KT 10SM CLR 08/02 A3032 RMK AO2 SLP266 T00830017 KHZL 240755Z AUTO 00000KT 10SM CLR 06/M05 A3037 RMK AO2 PNO ENBV 240750Z 22017KT 9999 -RA FEW026 BKN050 03/01 Q0993 KHYW 240755Z AUTO 10009G21KT 7SM RA OVC007 17/17 A2994 RMK AO2 LTG DSNT SE P0002 KJHN 240755Z AUTO 11006KT 10SM CLR 08/05 A3006 RMK AO2 T00760050 ENCN 240750Z 19005KT 160V230 5000 BKN003 06/06 Q0999 KHYX 240755Z AUTO 21007KT 10SM OVC080 12/07 A3013 RMK AO2 KM04 240755Z AUTO 00000KT 3SM BR CLR 12/12 A2992 RMK A01 UTSK 240730Z 20002KT 7000 -SHRA OVC060CB 17/13 Q1016 R16/CLRD70 KHZR 240755Z AUTO 00000KT 10SM CLR 12/11 A3000 RMK AO2 T01180105 KM08 240755Z AUTO 00000KT 2SM BR OVC003 13/13 A2991 RMK A01 KIRK 240755Z AUTO 03006KT 10SM CLR 09/00 A3005 RMK AO2 SLP176 T00890000 KJHW 240756Z AUTO 17010KT 10SM OVC120 12/04 A3022 RMK AO2 SLP236 T01170039 KHZX 240757Z AUTO 00000KT 10SM CLR 05/00 A3015 RMK AO2 KHZY 240753Z AUTO 08006KT 10SM OVC090 12/08 A3019 RMK AO2 SLP221 T01170083 UTSS 240730Z 23012KT 190V280 7000 BKN063CB 21/08 Q1013 R27/CLRD70 NOSIG UTST 240730Z 24022KT 1700 DS BKN066CB 25/08 Q1012 R88/CLRD70 TEMPO 23027G37KT 1000 DS VLLB 240800Z 24004KT 9999 SCT020 SCT060 37/25 Q1004 NOSIG KIRS 240755Z AUTO 09006KT 10SM OVC028 11/09 A3007 RMK AO2 T01100090 KJKA 240755Z AUTO 00000KT 10SM CLR 11/11 A2996 RMK AO2 T01090109 FDMS 240800Z 30005KT CAVOK 24/11 Q1019 NOSIG KM19 240806Z AUTO 29006KT 7SM BKN016 12/12 A2995 RMK AO2 ENFB 240750Z AUTO 25021KT //// BKN036/// 07/05 Q0994 W///S5 KM21 240755Z AUTO 00000KT 10SM OVC013 13/13 A2990 RMK AO2 T01250125 ENDU 240750Z 00000KT 9999 -RA FEW003 SCT035 BKN060 05/02 Q0991 NOSIG RMK WIND 1100FT 10004KT WIND 2200FT 09006KT KISM 240756Z AUTO 26006KT 4SM BR BKN003 22/22 A2994 RMK AO2 SLP140 T02170217 KISN 240752Z AUTO 00000KT 10SM CLR M02/M06 A3044 RMK AO2 SLP328 T10171056 TSNO KISO 240755Z AUTO 10007KT 7SM -RA SCT020 BKN032 OVC050 16/15 A3012 RMK AO2 P0001 T01570146 FEFF 240700Z 18004KT 8000 TS SCT013 FEW033CB 28/24 Q1013 BECMG NSW KM25 240755Z AUTO 00000KT 1/4SM OVC003 11/11 A2991 RMK AO2 PWINO KISP 240756Z AUTO 00000KT 9SM CLR 03/03 A3041 RMK AO2 SLP299 T00330033 LBBG 240800Z 24005KT 190V270 CAVOK 21/12 Q1016 NOSIG FDMY 240700Z AUTO 00000KT //// // ////// 24/18 Q1028 KITH 240756Z AUTO 14010KT 10SM CLR 09/00 A3028 RMK AO2 SLP254 T00940000 KISQ 240755Z AUTO 00000KT 10SM CLR 00/M03 A3011 RMK AO2 T10031027 UTTT 240730Z 22006KT 170V240 7000 SCT066CB 30/14 Q1005 R08L/CLRD70 NOSIG KJKJ 240755Z AUTO 01012KT 10SM OVC075 08/04 A3021 RMK AO2 KM30 240755Z AUTO 00000KT 7SM OVC011 12/12 A2992 RMK AO2 T01240122 VLLN 240800Z 20004KT 5000 FU SCT020 BKN100 33/24 Q1007 NOSIG KJKL 240753Z AUTO 07003KT 10SM OVC095 13/08 A2993 RMK AO2 RAB24E52 SLP130 P0000 T01330083 ENGC 240750Z 27022KT 9999 VCSH SCT012CB BKN030 06/04 Q0994 W06/S4 ENFL 240750Z 22015KT 9999 VCSH FEW006 SCT008 BKN030 06/06 Q0994 ENEV 240750Z VRB02KT 9999 BKN044 05/03 Q0991 RMK WIND 1400FT 16006KT KISW 240754Z AUTO 00000KT 10SM CLR 02/M02 A3012 RMK AO2 SLP206 T00221022 TSNO KM33 240755Z AUTO 00000KT 10SM OVC028 12/12 A2991 RMK A01 KITR 240805Z AUTO 01009KT 3SM +RA BR BKN043 OVC050 09/08 A3021 RMK AO2 LTG DSNT S P0005 T00890078 KM40 240755Z AUTO 00000KT 10SM 15/15 A2991 RMK AO2 ENGK 240750Z 18006KT 140V210 9999 -RA SCT002 BKN005 06/06 Q0998 FEFT 240700Z 32006KT 9999 FEW007 25/22 Q1011 UUMO 240800Z 35003MPS 300V030 CAVOK 09/M08 Q1014 R26/090060 NOSIG RMK QFE745/0993 KJLN 240753Z AUTO 00000KT 10SM CLR 10/07 A3003 RMK AO2 SLP166 T01000067 ENGM 240750Z 20010KT CAVOK 09/01 Q0996 NOSIG ENHD 240750Z 19008KT 3000 -RA BR OVC002 07/06 Q0997 ENHE 240750Z 19024KT 9999 -SHRA BKN014 07/05 Q0985 W///S4 ENHF 240750Z 00000KT CAVOK 04/01 Q0992 RMK WIND 1254FT 33004KT FDPP 240800Z AUTO 24005KT //// // ////// 22/09 Q1024 UUOB 240800Z 30003MPS 230V330 CAVOK 12/M03 Q1016 R29/090060 NOSIG KIWA 240755Z AUTO 12005KT 10SM CLR 20/M03 A2993 RMK AO2 T02041035 ENHK 240750Z VRB02KT CAVOK 06/00 Q0992 KIWD 240756Z AUTO 00000KT 10SM CLR 01/M02 A3012 RMK AO2 SLP208 T00111017 FZRANO